Фактическая погода NOWCAST (расчётный прогноз на ближайшие 2 часа) AUTOTAF (расчётный прогноз на 9 часов) TAF (официальный синоптический прогноз)
Алматы
METAR UAAA 211230Z 22003MPS 180V240 9999 SCT050CB BKN200 31/18 Q1002 NOSIG


NOWCAST.SU UAAA 211600Z 25005G11MPS 9999 SCT101CB 25/15 Q1005 TEMPO TL1800 VCSH
RMK TURB: MOD FL120/FL130
AUTOTAF.ME UAAA 211300Z 2114/2123 25005G10MPS 9999 SCT110CB TX28/2114Z TN22/2118Z
TEMPO 2114/2116 -TSGRRA
TEMPO 2116/2118 VCTS
BECMG 2117/2118 -SHRA HZ
FM211900 19004MPS 9999 -SHRA BKN130CB
BECMG 2121/2122 VCSH
TAF UAAA 211106Z 2112/2212 22003MPS 9999 SCT050CB BKN100 TX30/2210Z TN20/2201Z
TEMPO 2112/2118 28005G15MPS -TSRA
TEMPO 2118/2124 16003G08MPS
BECMG 2200/2201 34003G08MPS
TEMPO 2200/2212 28005G15MPS -TSRA=
Балхаш
METAR UAAH 211230Z 23006MPS CAVOK 33/01 Q1002 NOSIG RMK QFE715/0953


NOWCAST.SU UAAH 211600Z 24003MPS 9999 SCT300 27/01 Q1003 NOSIG
RMK TURB: MOD FL50/FL90
AUTOTAF.ME UAAH 211300Z 2114/2123 VRB02MPS CAVOK TX30/2114Z TN22/2122Z
TAF UAAH 211100Z 2112/2121 23008MPS CAVOK=
Алматы (Боралдай)
SYNAR 36870 Алматы (Алма-Ата) 211500Z 26001MPS 9999 FEW020CB 27/21 Q1007 RMK QFE681/0908 CLD:6CBACCI
(160/14KM)


NOWCAST.SU UAAR 211600Z 25007G13MPS 9999 SCT100CB 25/15 Q1005 TEMPO TL1800 VCSH
RMK TURB: MOD FL120/FL130
AUTOTAF.ME UAAR 211300Z 2114/2123 25005G11MPS 9999 SCT100CB TX29/2114Z TN22/2118Z
TEMPO 2114/2116 -TSGRRA
TEMPO 2116/2118 VCTS
BECMG 2117/2118 -SHRA HZ
FM211900 19004MPS 9999 -SHRA BKN130CB
BECMG 2121/2122 VCSH
 
Талды-Корган
METAR UAAT 211230Z 06003MPS 010V090 9999 NSC 34/12 Q1001 NOSIG RMK QFE700/0934


NOWCAST.SU UAAT 211600Z 09003MPS 9999 SKC 23/05 Q1005 NOSIG
RMK TURB: MOD FL110/FL120
AUTOTAF.ME UAAT 211300Z 2114/2123 04004MPS CAVOK TX28/2114Z TN20/2119Z
FM212100 VRB02MPS 9999 VCSH SCT230CB
TAF UAAT 211101Z 2112/2121 VRB02MPS 9999 FEW050 SCT100=
Аягуз
SYNAR 36622 Аягоз 211500Z 07005MPS CAVOK 28/08 Q1005 RMK QFE696/0929 CLD:2CI


NOWCAST.SU UAAY 211600Z 11005MPS 9999 SKC 22/06 Q1006 NOSIG
RMK TURB: MOD FL90/FL100
AUTOTAF.ME UAAY 211300Z 2114/2123 10003MPS CAVOK TX27/2114Z TN16/2122Z
 
Нур-Султан
METAR UACC 211230Z 27003MPS 240V310 9999 SCT036CB 26/14 Q1000 NOSIG RMK QFE719/0959


NOWCAST.SU UACC 211600Z VRB02MPS 9999 -SHRA BKN070CB 22/16 Q1002 NOSIG
RMK TURB: MOD FL70/FL80
AUTOTAF.ME UACC 211300Z 2114/2123 VRB02MPS 9999 -TSGRRA SCT060CB TX25/2114Z TN17/2122Z
TEMPO 2114/2115 5000 SHRA
BECMG 2114/2115 NSW
TEMPO 2115/2116 5000 -TSGRRA
BECMG 2115/2116 -SHRA
FM211700 VRB02MPS CAVOK
TAF AMD UACC 211224Z 2112/2212 28006MPS 9999 SCT040CB BKN100 TX28/2209Z TN17/2124Z
TEMPO 2112/2115 24009G14MPS
PROB40 TEMPO 2112/2115 3100 -TSRA BKN030CB
BECMG 2115/2117 25003MPS SCT050 BKN100
TEMPO 2115/2124 VRB01MPS SCT030CB
TEMPO 2203/2212 27007MPS SCT040CB=
Кокшетау
METAR UACK 211230Z 24008MPS 2000 R20/2000 TSRA BKN033CB 17/15 Q0998 NOSIG RMK QFE725/0967


TSAR UACK 211600Z LAST HOUR TS OBS: 330/161-185KM, 340/156-180KM, 350/168KM
NEAREST TS 340/156KM
NOWCAST.SU UACK 211600Z 26004MPS 5000 HZ FEW180 20/16 Q0999 NOSIG
AUTOTAF.ME UACK 211300Z 2114/2123 27005G11MPS 5000 BKN040CB TX22/2114Z TN17/2122Z
TEMPO 2114/2115 VRB14G19MPS VCTS
BECMG 2114/2115 -SHRA HZ
FM211600 26004MPS 5000 HZ NSC
FM211700 26004MPS 9999 -SHRA BKN015CB
BECMG 2117/2118 VCSH
TAF AMD UACK 211242Z 2112/2121 CNL=
Петропавловск
METAR UACP 211230Z 29004MPS 260V320 9999 SCT026CB 24/18 Q0995 NOSIG RMK QFE734/0979


TSAR UACP 211600Z LAST HOUR TS OBS: 240/37KM, 250/48KM, 270/57KM, 280/21-45KM, 290/9-97KM, 300/52-104KM, 310/41-73KM, 320/33-64KM
NEAREST TS 290/9KM
NOWCAST.SU UACP 211600Z 27003MPS 9999 BKN016CB 19/17 Q0997 TEMPO 5000 -TSRA TEMPO TL1800 5000 -TSRA
AUTOTAF.ME UACP 211300Z 2114/2123 28004MPS 9999 BKN025CB TX21/2114Z TN18/2117Z
TEMPO 2114/2115 VRB11G16MPS 3000 -TSRA
TEMPO 2115/2116 3000 -TSRA
BECMG 2115/2116 BKN015CB
TEMPO 2116/2117 5000 -TSRA
BECMG 2116/2117 BKN008CB
TEMPO 2117/2118 -TSRA
BECMG 2117/2118 -SHRA
FM212000 28004MPS 9999 VCSH BKN008CB
FM212100 29004MPS 9999 VCSH BKN015CB
FM212300 29004MPS 9999 -SHRA BKN015CB
TAF AMD UACP 211403Z 2112/2121 CNL=
Тараз (Аулие-Ата)
METAR UADD 211600Z 13007MPS 9999 SCT050CB OVC100 24/13 Q1006 NOSIG RMK QFE698/0930


NOWCAST.SU UADD 211600Z 17005MPS 9999 FEW140 25/13 Q1005 NOSIG
RMK TURB: MOD FL70/FL80
AUTOTAF.ME UADD 211300Z 2114/2123 18005MPS CAVOK TX28/2114Z TN20/2123Z
FM211700 16004MPS 9999 VCSH BKN130CB
FM212000 17003MPS CAVOK
TAF UADD 211100Z 2112/2212 26005G10MPS 9999 SCT050 BKN100 TX35/2209Z TN22/2124Z
TEMPO 2112/2115 22010G16MPS -TSRA BKN040CB
TEMPO 2115/2204 18005MPS
TEMPO 2206/2212 01005G10MPS=
Толе-Би
SYNAR 38222 Толе Би 211500Z 28003MPS 9999 OVC020 27/13 Q1005 RMK QFE713/0951 CLD:8SC


NOWCAST.SU UADO 211600Z 24004MPS 9999 -SHRA SCT129CB 27/12 Q1005 NOSIG
RMK TURB: MOD FL90/FL120
AUTOTAF.ME UADO 211300Z 2114/2123 24006MPS 9999 -SHRA BKN130CB TX30/2114Z TN23/2123Z
BECMG 2114/2115 -SHRA HZ
BECMG 2115/2116 -SHRA
BECMG 2116/2117 VCSH
FM211800 16003MPS CAVOK
FM212300 VRB02MPS 8000 HZ NSC
 
 


NOSIG
 
Чимкент
METAR UAII 211230Z 14006MPS 9999 VCTS BKN050CB 31/11 Q1002 RETS NOSIG RMK QFE715/0953


NOWCAST.SU UAII 211600Z 11004MPS 9999 FEW360 28/10 Q1003 NOSIG
RMK TURB: MOD FL70/FL110
AUTOTAF.ME UAII 211300Z 2114/2123 11005MPS 9999 VCSH SCT130CB TX31/2114Z TN21/2122Z
FM211500 11004MPS CAVOK
TAF UAII 211101Z 2112/2212 20005G10MPS 6000 BKN040CB TX37/2210Z TN22/2201Z
TEMPO 2112/2115 VRB16MPS 3100 -TSRAGR SQ SCT011 BKN020CB
TEMPO 2115/2118 28004G09MPS -TSRAGR SCT011 BKN020CB
TEMPO 2118/2124 13003G08MPS 3100 -TSRAGR BR BKN033CB=
Туркестан
METAR UAIT 211600Z 08005MPS CAVOK 29/M00 Q1002 NOSIG RMK QFE725/0967


NOWCAST.SU UAIT 211600Z 04004MPS 9999 SKC 30/01 Q1004 NOSIG
RMK TURB: MOD FL40/FL150
AUTOTAF.ME UAIT 211300Z 2114/2123 03004MPS CAVOK TX33/2114Z TN22/2123Z
TAF UAIT 211100Z 2112/2212 06003G08MPS CAVOK TX39/2210Z TN25/2201Z
TEMPO 2112/2124 11003G08MPS=
Жезказган
METAR UAKD 211600Z 31004MPS CAVOK 25/02 Q1003 NOSIG RMK QFE719/0959


NOWCAST.SU UAKD 211600Z 32007MPS 9999 FEW320 28/05 Q1003 NOSIG
RMK TURB: MOD FL40/FL90
AUTOTAF.ME UAKD 211300Z 2114/2123 30010G15MPS CAVOK TX31/2114Z TN20/2123Z
BECMG 2116/2117 33005G10MPS
BECMG 2120/2121 03004MPS
TAF UAKD 211400Z 2115/2124 29007MPS CAVOK
TEMPO 2115/2117 33011MPS
BECMG 2117/2119 34005MPS
TEMPO 2117/2124 02009MPS=
Караганда (Сары-Арка)
METAR UAKK 211230Z 22004MPS CAVOK 30/09 Q1001 NOSIG RMK QFE704/0939


NOWCAST.SU UAKK 211600Z 36003MPS 9999 SCT110 22/11 Q1005 NOSIG
RMK TURB: MOD FL110/FL120
AUTOTAF.ME UAKK 211300Z 2114/2123 32003MPS CAVOK TX27/2114Z TN17/2122Z
FM211800 VRB02MPS 9999 VCSH BKN110CB
FM211900 VRB02MPS CAVOK
FM212100 VRB02MPS 9999 VCSH BKN230CB
TAF COR UAKK 211100Z 2112/2212 20008MPS 9999 BKN030CB BKN100 TX25/2209Z TN17/2124Z
TEMPO 2112/2118 VRB15MPS 3100 -TSRA SQ BKN020CB
BECMG 2118/2120 VRB02MPS
TEMPO 2118/2201 18005MPS 5000 -SHRA BKN020CB
BECMG 2206/2208 27005MPS=
Байконур (Крайний)
SYNAR 35952 Байконур (Акай) 211500Z 35004MPS //// //// 35/07 Q1002 RMK QFE742/0990 CLD:NO_OBSERVATIONS


TSAR UAOL 211600Z LAST HOUR TS OBS: 120/122-134KM, 130/138-149KM
NEAREST TS 120/122KM
NOWCAST.SU UAOL 211600Z 32005MPS 9999 SKC 34/07 Q1002 NOSIG
RMK TURB: MOD SFC/FL110
AUTOTAF.ME UAOL 211300Z 2114/2123 32006MPS CAVOK TX36/2114Z TN25/2123Z
BECMG 2120/2121 04003MPS
 
Байконур (Юбилейный)
SYNAR 35952 Байконур (Акай) 211500Z 35004MPS //// //// 35/07 Q1002 RMK QFE742/0990 CLD:NO_OBSERVATIONS
(180/49KM)


TSAR UAON 211600Z LAST HOUR TS OBS: 140/152-181KM, 150/172KM
NEAREST TS 140/152KM
NOWCAST.SU UAON 211600Z 35005MPS 9999 SKC 33/05 Q1002 NOSIG
RMK TURB: MOD SFC/FL90
AUTOTAF.ME UAON 211300Z 2114/2123 33006MPS CAVOK TX35/2114Z TN25/2123Z
BECMG 2118/2119 03004MPS
 
Кызылорда
METAR UAOO 211600Z 21002MPS CAVOK 31/14 Q1002 NOSIG RMK QFE740/0987


TSAR UAOO 211600Z LAST HOUR TS OBS: 280/72-87KM, 290/79-93KM
NEAREST TS 280/72KM
NOWCAST.SU UAOO 211600Z VRB02MPS 9999 VCSH SCT119CB 33/10 Q1001 NOSIG
RMK TURB: MOD SFC/FL120
AUTOTAF.ME UAOO 211300Z 2114/2123 32003MPS 9999 VCSH SCT120CB TX36/2114Z TN26/2122Z
FM211700 32003MPS CAVOK
TAF UAOO 211400Z 2115/2124 35005MPS CAVOK
TEMPO 2115/2118 30005G13MPS -TSRA BKN040CB=
Уральск (Ак-Жол)
METAR UARR 211600Z 21004MPS 9999 SCT050CB 23/16 Q1000 NOSIG RMK QFE746/0995


NOWCAST.SU UARR 211600Z 22005G12MPS 9999 -RA SCT039 24/15 Q1001 NOSIG
RMK TURB: MOD FL30/FL40
AUTOTAF.ME UARR 211300Z 2114/2123 24009G14MPS 9999 -SHRA SCT040CB TX26/2114Z TN17/2123Z
TEMPO 2114/2115 5000 SHRA
BECMG 2114/2115 -SHRA DRDU
BECMG 2115/2116 -RA
BECMG 2116/2117 22004MPS
FM211800 21003MPS CAVOK
TAF UARR 211403Z 2115/2124 22006G13MPS 9999 BKN033CB
TEMPO 2115/2121 3100 -SHRA
PROB40 TEMPO 2115/2121 TS
BECMG 2121/2122 VRB02MPS
TEMPO 2121/2124 BKN011 BKN030CB=
Семипалатинск-2
SYNAR 36026 Новониколаевка 211500Z 13002MPS 9999 //// 27/07 Q1002 RMK QFE729/0972 CLD:NO_OBSERVATIONS
(10/54KM)


NOWCAST.SU UASD 211600Z 16004MPS 9999 VCSH SCT095CB 27/08 Q1001 NOSIG
RMK TURB: MOD FL40/FL110
AUTOTAF.ME UASD 211300Z 2114/2123 15004MPS CAVOK TX30/2114Z TN21/2123Z
FM211500 15004MPS 9999 VCSH SCT095CB
FM211700 19004MPS CAVOK
 
Усть-Каменогорск
METAR UASK 211600Z VRB01MPS 9999 NSC 19/13 Q1004 NOSIG RMK QFE728/0970


NOWCAST.SU UASK 211600Z 11003MPS 9999 FEW350 20/14 Q1005 NOSIG
AUTOTAF.ME UASK 211300Z 2114/2123 VRB02MPS CAVOK TX24/2114Z TN15/2120Z
TAF UASK 211101Z 2112/2121 05003MPS 9999 NSC
TEMPO 2112/2118 11004G09MPS SCT100=
Павлодар
METAR UASP 211600Z 01004MPS 9999 VCTS SCT037CB 21/18 Q0999 NOSIG RMK QFE738/0985


NOWCAST.SU UASP 211600Z 29004MPS 9999 -SHRA BKN097CB 23/15 Q1001 TEMPO FM1800 VCSH
RMK TURB: MOD SFC/FL110
AUTOTAF.ME UASP 211300Z 2114/2123 29009G17MPS 9999 BKN080CB TX27/2114Z TN19/2119Z
TEMPO 2114/2115 5000 -TSGRRA
FM211500 30009G17MPS 5000 TS BKN090CB
FM211600 29004MPS 9999 -TSRA BKN097CB
TEMPO 2118/2119 VCTS
BECMG 2118/2119 NSW
TEMPO 2119/2121 -TSRA
TEMPO 2121/2123 VCTS
BECMG 2122/2123 -SHRA
TAF UASP 211401Z 2115/2124 27007G13MPS 9999 BKN011 BKN020CB
TEMPO 2115/2118 VRB17MPS 2000 TSRA SQ
TEMPO 2118/2124 3100 -SHRA FU=
Семей
METAR UASS 211600Z 17001MPS CAVOK 21/08 Q1002 NOSIG RMK QFE733/0978


NOWCAST.SU UASS 211600Z 14004MPS 9999 FEW360 25/08 Q1002 NOSIG
RMK TURB: MOD FL40/FL90
AUTOTAF.ME UASS 211300Z 2114/2123 16004MPS CAVOK TX29/2114Z TN19/2123Z
TAF UASS 211400Z 2115/2124 15005MPS CAVOK
TEMPO 2115/2121 10005MPS=
Урджар
SYNAR 36639 Урджар 211500Z 00000MPS CAVOK 23/15 Q1003 RMK QFE709/0946 CLD:SKC


NOWCAST.SU UASU 211600Z VRB02MPS 9999 SKC 22/09 Q1004 NOSIG
AUTOTAF.ME UASU 211300Z 2114/2123 VRB02MPS CAVOK TX26/2114Z TN20/2120Z
 
Аральск
SYNAR 35746 Аральск 211500Z 36002MPS CAVOK 34/04 Q1003 RMK QFE746/0995 CLD:2CI


NOWCAST.SU UATA 211600Z 32003MPS 9999 OVC330 30/10 Q1003 NOSIG
RMK TURB: MOD SFC/FL90
AUTOTAF.ME UATA 211300Z 2114/2123 32004MPS CAVOK TX32/2114Z TN23/2123Z
 
Актау
METAR UATE 211230Z 30009MPS CAVOK 29/20 Q1007 NOSIG RMK QFE753/1004


NOWCAST.SU UATE 211600Z 29008G13MPS 9999 BKN083CB 26/19 Q1008 TEMPO VCSH TEMPO TL1700 VCSH
AUTOTAF.ME UATE 211300Z 2114/2123 28008G13MPS CAVOK TX26/2114Z TN24/2120Z
FM211500 29008G13MPS 9999 SCT025CB
TEMPO 2115/2116 VRB11G16MPS 1000 -TSGRRA
TEMPO 2116/2117 VCTS
FM211700 29008MPS CAVOK
TAF UATE 211103Z 2112/2212 31006G12MPS 9999 SCT033CB TX29/2210Z TN20/2203Z
TEMPO 2206/2212 28010G16MPS=
Форт-Шевченко
SYNAR 38001 Форт-Шевченко 211500Z 32006MPS CAVOK 26/16 Q1007 RMK QFE757/1010 CLD:6CI


NOWCAST.SU UATF 211600Z 31009G14MPS 9999 FEW260 25/16 Q1008 NOSIG
RMK TURB: MOD FL30/FL40
AUTOTAF.ME UATF 211300Z 2114/2123 31009G14MPS 9999 SCT025CB TX27/2114Z TN24/2118Z
TEMPO 2114/2115 VRB11G16MPS 5000 VCTS
BECMG 2114/2115 VCSH
FM211600 31009G14MPS CAVOK
BECMG 2119/2120 26004MPS
BECMG 2122/2123 27009G14MPS
 
Атырау
METAR UATG 211230Z 29009G14MPS 9999 SCT033CB 29/17 Q1004 NOSIG RMK QFE755/1006


NOWCAST.SU UATG 211600Z 28010G15MPS 9999 VCSH DRDU SCT065CB 29/10 Q1004 NOSIG
RMK TURB: MOD SFC/FL40
AUTOTAF.ME UATG 211300Z 2114/2123 28009G14MPS 9999 VCSH SCT040CB TX31/2114Z TN22/2122Z
TEMPO 2114/2115 3000 SHRA
BECMG 2115/2116 VCSH DRDU
FM211700 29010G15MPS 9999 DRDU NSC
BECMG 2119/2120 27003MPS
BECMG 2122/2123 26008MPS
TAF UATG 211102Z 2112/2212 26011MPS 9999 SCT033CB TX25/2209Z TN18/2203Z
TEMPO 2112/2115 VRB16MPS TS SQ BKN030CB
BECMG 2202/2204 23011G16MPS=
Актобе
METAR UATT 211230Z 27003MPS 200V320 CAVOK 30/09 Q1003 NOSIG RMK QFE732/0977


NOWCAST.SU UATT 211600Z VRB02MPS 9999 VCSH BKN075CB 27/12 Q1004 NOSIG
RMK TURB: MOD SFC/FL90
AUTOTAF.ME UATT 211300Z 2114/2123 VRB02MPS 9999 VCSH BKN060CB TX29/2114Z TN20/2122Z
FM211700 17003MPS CAVOK
FM212000 18004MPS 9999 VCSH SCT093CB
FM212300 25003MPS CAVOK
TAF UATT 211100Z 2112/2212 28006MPS 9999 BKN033CB TX28/2211Z TN17/2200Z
TEMPO 2112/2116 32009MPS
BECMG 2116/2117 08006MPS
BECMG 2119/2120 VRB01MPS
BECMG 2202/2203 15006MPS
TEMPO 2206/2212 16011MPS 3100 -TSRA BKN015CB=
Тенгиз
SYNAR 35715 Кульсары 211500Z 27008MPS 9999 FEW033 33/14 Q1006 RMK QFE753/1004 CLD:2CU
(30/67KM)


TSAR UATZ 211600Z LAST HOUR TS OBS: 040/159KM, 140/179-179KM, 150/164-171KM, 160/152-157KM
NEAREST TS 160/152KM
NOWCAST.SU UATZ 211600Z 26009G14MPS 9999 SKC 29/17 Q1004 NOSIG
RMK TURB: MOD SFC/FL20
AUTOTAF.ME UATZ 211300Z 2114/2123 26010G15MPS CAVOK TX31/2114Z TN24/2123Z
FM211900 28007MPS 9999 VCSH BKN110CB
FM212100 29008MPS 9999 -RA NSC
FM212200 29005MPS CAVOK
 
Аркалык (Северный)
SYNAR 35363 Аркалык 211500Z 27004MPS CAVOK 27/09 Q1002 RMK QFE720/0961 CLD:3CI
(220/14KM)


NOWCAST.SU UAUR 211600Z VRB02MPS 9999 SKC 24/12 Q1003 NOSIG
RMK TURB: MOD FL70/FL80
AUTOTAF.ME UAUR 211300Z 2114/2123 31005MPS CAVOK TX26/2114Z TN17/2123Z
BECMG 2117/2118 VRB02MPS
 
Костанай (Наримановка)
METAR UAUU 211600Z 33002MPS 290V350 CAVOK 23/14 Q1000 NOSIG RMK QFE735/0980


NOWCAST.SU UAUU 211600Z 28003MPS 9999 FEW170 23/12 Q1001 NOSIG
RMK TURB: MOD FL30/FL70
AUTOTAF.ME UAUU 211300Z 2114/2123 29004MPS CAVOK TX25/2114Z TN18/2123Z
FM211700 27003MPS 9999 -SHRA SCT080CB
BECMG 2117/2118 VCSH
TAF UAUU 211402Z 2115/2124 28005MPS 9999 SCT040
TEMPO 2115/2118 30003G08MPS BKN030CB
TEMPO 2118/2124 30003G08MPS=
Baku Bine Arpt
METAR UBBB 211600Z 33014KT 9999 FEW030CB SCT030 27/21 Q1009 NOSIG


NOWCAST.SU UBBB 211600Z 35014KT 9999 BKN280 25/21 Q1010 NOSIG
AUTOTAF.ME UBBB 211300Z 2114/2123 36014KT CAVOK TX25/2114Z TN24/2118Z
FM212300 34010G22KT 9999 VCSH BKN080CB
TAF UBBB 211050Z 2112/2212 36016KT 9999 FEW050 TX30/2112Z TN22/2202Z
TEMPO 2112/2118 03012KT FEW040CB
TEMPO 2118/2206 34024KT -SHRA SCT040CB
PROB40 TEMPO 2120/2205 33018G28KT 6000 -TSRA SCT010 SCT033CB
BECMG 2207/2209 04010KT=
Gyandzha
METAR UBBG 211600Z 27016KT 9999 VCTS SCT040CB BKN100 29/16 Q1009 NOSIG


TSAR UBBG 211600Z LAST HOUR TS OBS: 020/157KM, 030/164-171KM, 110/80-95KM, 120/65-119KM, 130/52-133KM, 140/69-110KM, 150/91KM, 220/139-181KM, 230/50-162KM, 240/63KM, 260/39-55KM
NEAREST TS 260/39KM
NOWCAST.SU UBBG 211600Z VRB02KT 9999 -TSGRRA BKN055CB 27/16 Q1015 TEMPO 2000 SHRA TEMPO 2000 TSRA
AUTOTAF.ME UBBG 211300Z 2114/2123 36006KT 9999 -TSGRRA BKN060CB TX30/2114Z TN19/2122Z
TEMPO 2114/2118 2000 SHRA
BECMG 2115/2116 VRB02KT
BECMG 2117/2118 16006KT
TEMPO 2118/2119 5000 SHRA
BECMG 2118/2119 NSW
TEMPO 2119/2120 5000 -TSGRRA
TEMPO 2120/2121 -TSGRRA
FM212100 VRB02KT 9999 BKN040CB
TEMPO 2121/2122 5000 -TSGRRA
TEMPO 2122/2123 2000 -TSGRRA
TAF UBBG 211100Z 2112/2212 28018KT 9999 FEW040 SCT080 TX33/2112Z TN21/2202Z
TEMPO 2112/2120 VRB24KT -TSRA SCT030CB BKN050
BECMG 2200/2202 28010KT=
Lenkoran
METAR UBBL 211600Z 13007KT 9999 NSC 28/20 Q1008 NOSIG


TSAR UBBL 211600Z LAST HOUR TS OBS: 320/176-206KM, 330/196KM
NEAREST TS 320/176KM
NOWCAST.SU UBBL 211600Z 07012KT 9999 SKC 26/21 Q1009 NOSIG
AUTOTAF.ME UBBL 211300Z 2114/2123 10014KT 9999 BKN080CB TX28/2114Z TN24/2121Z
TEMPO 2114/2115 3000 VCTS
FM211500 07014KT CAVOK
BECMG 2118/2119 08008KT
TAF UBBL 211047Z 2112/2212 13008KT 9000 SCT060 TX32/2112Z TN22/2201Z
BECMG 2117/2119 VRB04KT
TEMPO 2119/2206 34010KT -SHRA SCT012 SCT040CB
PROB40 TEMPO 2119/2202 31014KT 6000 -TSRA SCT010 SCT033CB BKN060
BECMG 2205/2207 06008KT=
Nakhchivan
METAR UBBN 211600Z 26006KT 9999 FEW046 SCT100 31/08 Q1007 NOSIG RMK QFE681


TSAR UBBN 211600Z LAST HOUR TS OBS: 010/142-170KM, 040/165-183KM, 050/148KM, 170/122-151KM, 180/120-147KM, 190/147KM, 310/61KM, 320/48-80KM, 340/71-96KM, 350/66KM
NEAREST TS 320/48KM
NOWCAST.SU UBBN 211600Z VRB02KT 9999 VCSH SCT117CB 29/09 Q1013 NOSIG
AUTOTAF.ME UBBN 211300Z 2114/2123 29004KT CAVOK TX32/2114Z TN20/2123Z
FM211600 VRB02KT 9999 VCSH SCT120CB
FM211700 12004KT CAVOK
BECMG 2117/2118 12008KT
BECMG 2121/2122 VRB02KT
TAF UBBN 211056Z 2112/2212 VRB04KT 9999 FEW043CB SCT043 BKN093 TX34/2112Z TN19/2202Z
TEMPO 2113/2121 27014G24KT -TSRA SCT037CB OVC073
BECMG 2121/2123 03008KT=
METAR UCFL 211600Z 26005MPS 9999 BKN030CB 20/12 Q1013


NOSIG
TAF UCFL 211048Z 2112/2212 34003G08MPS 9999 BKN030CB OVC100
TEMPO 2112/2120 VRB09G14MPS 2000 TSRA BKN015CB
TEMPO 2120/2202 25003G08MPS 3000 -SHRA BKN020CB
BECMG 2202/2204 18003G08MPS=
Bishkek Manas
METAR UCFM 211600Z 17003MPS 9999 SCT066CB 24/16 Q1005 NOSIG


NOWCAST.SU UCFM 211600Z 10004MPS 9999 VCSH BKN142CB 24/12 Q1007 NOSIG
RMK TURB: MOD FL70/FL120
AUTOTAF.ME UCFM 211300Z 2114/2123 16003MPS CAVOK TX26/2114Z TN21/2122Z
FM211500 10004MPS 9999 VCSH OVC095CB
FM211700 12005MPS CAVOK
FM212000 13005MPS 9999 VCSH BKN170CB
TAF UCFM 211058Z 2112/2212 25003G08MPS 9999 SCT050CB BKN100
TEMPO 2112/2118 VRB12G17MPS 2100 -TSRA DU FEW004 BKN020CB
BECMG 2118/2120 12003G08MPS
TEMPO 2118/2204 3000 -SHRA BKN020CB
BECMG 2204/2206 32003G08MPS
TEMPO 2204/2212 VRB07G12MPS 3000 -TSRA BKN030CB=
Osh
METAR UCFO 211600Z 15007MPS 9999 VCTS -SHRA FEW010 SCT036CB 22/14 Q1008 TEMPO VRB12G17MPS 1500 TSRAGR BR BKN020CB


NOWCAST.SU UCFO 211600Z 14005MPS 9999 -SHRA OVC115CB 20/13 Q1014 NOSIG
RMK TURB: MOD FL90/FL120
AUTOTAF.ME UCFO 211300Z 2114/2123 14005MPS 9999 -SHRA BKN120CB TX21/2114Z TN18/2123Z
BECMG 2122/2123 VCSH
TAF UCFO 211042Z 2112/2212 18005MPS 9999 SCT050CB BKN100
TEMPO 2112/2120 VRB09G15MPS 2100 -TSRA DS FEW003 BKN030CB
TEMPO 2120/2203 12003G08MPS 3000 BR FU FEW008 SCT030CB
PROB40 TEMPO 2120/2203 -TSRA SCT030CB
BECMG 2203/2205 27003MPS=
Shirak
METAR UDSG 211600Z 36010KT 9999 SCT049 20/10 Q1017 NOSIG


TSAR UDSG 211600Z LAST HOUR TS OBS: 130/133-163KM, 140/141-172KM, 150/162KM, 320/89-118KM, 330/79-132KM, 340/72-155KM, 350/97-147KM, 360/119-145KM
NEAREST TS 340/72KM
NOWCAST.SU UDSG 211600Z 34006KT 9999 SKC 17/10 Q1028 NOSIG
AUTOTAF.ME UDSG 211300Z 2114/2123 34006KT 9999 SCT060CB TX20/2114Z TN08/2123Z
TEMPO 2114/2116 -TSGRRA
FM211600 34006KT CAVOK
TAF UDSG 211058Z 2112/2212 35006KT 9999 SCT050
TEMPO 2112/2120 VRB16G26KT BKN040CB=
Zvartnots
METAR UDYZ 211600Z 03011KT 9999 SCT043CB 30/11 Q1009 TEMPO 04016G26KT -TSRA


TSAR UDYZ 211600Z LAST HOUR TS OBS: 060/123-137KM, 070/113-128KM, 110/62KM, 120/87KM, 130/74KM, 140/61-92KM, 150/82KM, 320/169-199KM, 330/152-190KM, 340/175KM
NEAREST TS 140/61KM
NOWCAST.SU UDYZ 211600Z 28010KT 9999 SKC 28/12 Q1010 NOSIG
RMK TURB: MOD FL90/FL120
AUTOTAF.ME UDYZ 211300Z 2114/2123 29010KT CAVOK TX32/2114Z TN18/2123Z
FM211500 28010KT 9999 -SHRA SCT095CB
FM211600 28010KT CAVOK
BECMG 2120/2121 27004KT
TAF UDYZ 211100Z 2112/2212 16006KT 9999 FEW040
TEMPO 2114/2121 04016G26KT=
Батагай
SYNAR 24266 Верхоянск 211500Z 00000MPS CAVOK 16/11 Q1012 RMK QFE746/0995 CLD:5CS
(260/55KM)


NOWCAST.SU UEBB 211600Z VRB02MPS 9999 BKN170 16/10 Q1013 NOSIG
RMK TURB: MOD FL40/FL50
AUTOTAF.ME UEBB 211300Z 2114/2123 VRB02MPS CAVOK TX22/2123Z TN16/2115Z
 
Саккырыр
SYNAR 24261 Батагай-Алыта 211500Z 30003MPS //// //// 12/08 Q//// RMK CLD:NO_OBSERVATIONS


NOWCAST.SU UEBS 211600Z VRB02MPS 9999 OVC230 13/07 Q1015 NOSIG
AUTOTAF.ME UEBS 211300Z 2114/2123 VRB02MPS CAVOK TX19/2123Z TN13/2116Z
 
Талакан
SYNAR 24928 Комака 211500Z 00000MPS CAVOK 10/09 Q1013 RMK QFE733/0977 CLD:8AC
(40/56KM)


NOWCAST.SU UECT 211600Z VRB02MPS 9999 -RA BKN070 10/05 Q1014 NOSIG
AUTOTAF.ME UECT 211300Z 2114/2123 VRB02MPS 9999 -RA NSC TX11/2114Z TN09/2120Z
BECMG 2118/2119 OVC040
BECMG 2119/2120 -RA BR
BECMG 2120/2121 5000
FM212200 VRB02MPS 2500 -RA BR OVC025
 
Алдан
SYNAR 31004 Алдан 211500Z 17002MPS CAVOK 18/06 Q1011 RMK QFE698/0931 CLD:1CI


NOWCAST.SU UEEA 211600Z 17004MPS 9999 SKC 14/08 Q1013 NOSIG
AUTOTAF.ME UEEA 211300Z 2114/2123 15003MPS CAVOK TX19/2123Z TN13/2117Z
 
Себян-Кюель
SYNAR 24462 Себян-Кюель 211500Z 30002MPS CAVOK 06/05 Q1014 RMK QFE692/0923 CLD:SKC


NOWCAST.SU UEED 211600Z VRB02MPS 9999 BKN221 11/03 Q1017 NOSIG
RMK TURB: MOD FL90/FL100
AUTOTAF.ME UEED 211300Z 2114/2123 VRB02MPS CAVOK TX17/2123Z TN09/2118Z
 
Якутск
METAR UEEE 211600Z 32001MPS CAVOK 15/11 Q1010 R23/09//60 NOSIG RMK QFE749


NOWCAST.SU UEEE 211600Z VRB02MPS 9999 SCT250 13/10 Q1012 NOSIG
RMK TURB: MOD FL40/FL50
AUTOTAF.ME UEEE 211300Z 2114/2123 VRB02MPS CAVOK TX20/2123Z TN12/2117Z
TAF UEEE 211400Z 2115/2221 30003G08MPS CAVOK TX28/2206Z TN12/2118Z
TEMPO 2118/2122 VRB01MPS 0300 FG VV003=
Покровск
SYNAR 24856 Покровск 211500Z 24002MPS CAVOK 13/12 Q1011 RMK QFE747/0996 CLD:8CI


NOWCAST.SU UEEP 211600Z VRB02MPS 9999 FEW270 13/10 Q1012 NOSIG
RMK TURB: MOD FL40/FL50
AUTOTAF.ME UEEP 211300Z 2114/2123 VRB02MPS CAVOK TX19/2123Z TN12/2117Z
 
Чульман
SYNAR 30393 Нерюнгри 211500Z 18004MPS CAVOK 15/08 Q1013 RMK QFE684/0913 CLD:3CI


NOWCAST.SU UELD 211600Z VRB02MPS 9999 SKC 10/08 Q1014 NOSIG
AUTOTAF.ME UELD 211300Z 2114/2123 VRB02MPS CAVOK TX16/2123Z TN09/2118Z
 
Нерюнгри (Чульман)
SYNAR 30393 Нерюнгри 211500Z 18004MPS CAVOK 15/08 Q1013 RMK QFE684/0913 CLD:3CI


NOWCAST.SU UELL 211600Z VRB02MPS 9999 SKC 10/09 Q1014 NOSIG
AUTOTAF.ME UELL 211300Z 2114/2123 VRB02MPS CAVOK TX16/2123Z TN09/2118Z
 
Оймякон
SYNAR 24688 Оймякон 211500Z 02003MPS 9999 -SHRA BKN033CB 12/10 Q1013 RMK QFE694/0926 CLD:8CBAS


NOWCAST.SU UEMJ 211600Z VRB02MPS 9999 BKN058CB 12/10 Q1013 TEMPO TS
RMK TURB: MOD FL90/FL110
AUTOTAF.ME UEMJ 211300Z 2114/2123 VRB02MPS 9999 BKN080CB TX17/2123Z TN12/2116Z
TEMPO 2114/2117 TS
FM211700 VRB02MPS 5000 SCT060CB
TEMPO 2117/2120 -TSRA
FM211800 VRB02MPS 2500 BKN004 BKN010CB
FM211900 VRB02MPS 5000 OVC060CB
FM212000 VRB02MPS 9000 BKN040CB
TEMPO 2120/2121 VCTS
BECMG 2120/2121 -SHRA
FM212300 11005G10MPS CAVOK
 
Маган
SYNAR 24959 Якутск 211500Z 00000MPS CAVOK 14/12 Q1011 RMK QFE748/0998 CLD:8CI
(170/12KM)


NOWCAST.SU UEMM 211600Z VRB02MPS 9999 SCT250 14/11 Q1012 NOSIG
RMK TURB: MOD FL40/FL50
AUTOTAF.ME UEMM 211300Z 2114/2123 VRB02MPS CAVOK TX21/2123Z TN13/2118Z
 
Олёкминск
SYNAR 24944 Олекминск 211500Z 04002MPS CAVOK 20/09 Q1007 RMK QFE734/0979 CLD:8CI


NOWCAST.SU UEMO 211600Z VRB02MPS 9999 SKC 16/11 Q1009 NOSIG
RMK TURB: MOD SFC/FL70
AUTOTAF.ME UEMO 211300Z 2114/2123 VRB02MPS CAVOK TX19/2114Z TN15/2117Z
FM212000 VRB02MPS 9999 VCSH BKN008CB
BECMG 2121/2122 BKN015CB
 
Усть-Мая
SYNAR 24966 Усть-Мая 211500Z 23002MPS 9999 FU NSC 15/13 Q1010 RMK QFE742/0989 CLD:8CI


NOWCAST.SU UEMU 211600Z VRB02MPS 9999 SCT060 13/10 Q1011 NOSIG
RMK TURB: MOD FL50/FL70
AUTOTAF.ME UEMU 211300Z 2114/2123 VRB02MPS CAVOK TX19/2123Z TN13/2116Z
FM212300 VRB02MPS 9999 VCSH OVC160CB
 
Верхневилюйск
SYNAR 24644 Верхневилюйск 211500Z 26001MPS //// //// 19/12 Q1008 RMK QFE745/0993 CLD:NO_OBSERVATIONS


NOWCAST.SU UENI 211600Z VRB02MPS 9999 SKC 17/11 Q1009 NOSIG
RMK TURB: MOD FL70/FL80
AUTOTAF.ME UENI 211300Z 2114/2123 VRB02MPS CAVOK TX19/2114Z TN16/2117Z
BECMG 2120/2121 BKN025
BECMG 2121/2122 NSC
 
Нюрба
SYNAR 24639 Нюрба 211500Z 27001MPS //// //// 17/15 Q1009 RMK QFE745/0994 CLD:NO_OBSERVATIONS


NOWCAST.SU UENN 211600Z VRB02MPS 9999 VCSH BKN028CB 18/13 Q1010 NOSIG
AUTOTAF.ME UENN 211300Z 2114/2123 VRB02MPS 9999 VCSH BKN025CB TX19/2114Z TN16/2118Z
BECMG 2120/2121 NSC
BECMG 2122/2123 SCT025
 
Айхал
SYNAR 24322 Полярный 211500Z 00000MPS //// //// 09/03 Q1011 RMK QFE714/0952 CLD:NO_OBSERVATIONS
(20/94KM)


NOWCAST.SU UERA 211600Z VRB02MPS 9999 -SHRA BKN041CB 10/07 Q1010 NOSIG
RMK TURB: MOD FL70/FL80
AUTOTAF.ME UERA 211300Z 2114/2123 12003MPS 9999 -SHRA BKN025CB TX11/2114Z TN09/2117Z
FM211500 VRB02MPS 5000 -SHRA BR BKN025CB
FM211600 VRB02MPS 9999 -SHRA BKN040CB
BECMG 2118/2119 NSC
FM212300 24005MPS 9999 BKN040TCU
 
Ленск
SYNAR 24923 Ленск 211500Z 32001MPS 9999 TSRA BKN032CB 13/12 Q1012 RMK QFE737/0983 CLD:8CBAC


NOWCAST.SU UERL 211600Z VRB02MPS 8000 -RA BR BKN029 13/10 Q1013 NOSIG
AUTOTAF.ME UERL 211300Z 2114/2123 VRB02MPS 8000 -RA HZ BKN040 TX14/2114Z TN11/2118Z
BECMG 2115/2116 -RA BR
BECMG 2117/2118 -RA
BECMG 2121/2122 NSC
 
Полярный
METAR UERP 210900Z 30003MPS 9999 BKN020 OVC100 12/07 Q1009 R35/290255 NOSIG RMK QFE712


NOWCAST.SU UERP 211600Z 13003MPS 5000 -RA BR BKN046 11/07 Q1010 NOSIG
AUTOTAF.ME UERP 211300Z 2114/2123 13003MPS 5000 -RA HZ NSC TX13/2123Z TN10/2117Z
BECMG 2114/2115 BKN040
BECMG 2115/2116 -RA BR
FM211700 13003MPS 9999 -RA BKN040
FM211800 VRB02MPS CAVOK
FM212300 26005MPS 9999 SCT025TCU
TAF AMD UERP 210900Z 2106/2206 CNL=
Мирный
METAR UERR 211600Z 28002MPS CAVOK 12/08 Q1012 R25/CLRD60 NOSIG RMK QFE728/0971


NOWCAST.SU UERR 211600Z VRB02MPS 9999 -RA OVC109 12/06 Q1013 NOSIG
AUTOTAF.ME UERR 211300Z 2114/2123 28003MPS 9999 -RA NSC TX13/2114Z TN11/2117Z
TAF UERR 211400Z 2115/2215 27003MPS 9999 SCT023CB
TEMPO 2121/2203 2100 -SHRA BR SCT007 BKN023CB=
Саскылах
SYNAR 21802 Саскылах 211500Z 34004MPS 9999 SCT024 13/09 Q1007 RMK QFE753/1004 CLD:8SCAC


NOWCAST.SU UERS 211600Z VRB02MPS 9999 SCT140 13/04 Q1005 NOSIG
RMK TURB: MOD FL50/FL70
AUTOTAF.ME UERS 211300Z 2114/2123 20004MPS CAVOK TX15/2114Z TN10/2119Z
BECMG 2117/2118 34005MPS
BECMG 2121/2122 VRB02MPS
 
Оленегорск
SYNAR 21946 Чокурдах 211500Z 05003MPS CAVOK 11/10 Q1014 RMK QFE754/1006 CLD:SKC
(10/91KM)


NOWCAST.SU UESN 211600Z VRB02MPS 9999 BKN310 16/07 Q1012 NOSIG
AUTOTAF.ME UESN 211300Z 2114/2123 VRB02MPS CAVOK TX21/2123Z TN16/2115Z
 
Чокурдах
SYNAR 21946 Чокурдах 211500Z 05003MPS CAVOK 11/10 Q1014 RMK QFE754/1006 CLD:SKC


NOWCAST.SU UESO 211600Z VRB02MPS 9999 OVC310 13/06 Q1013 NOSIG
AUTOTAF.ME UESO 211300Z 2114/2123 06003MPS CAVOK TX19/2123Z TN13/2115Z
 
Черский
SYNAR 25123 Черский 211500Z 12006MPS CAVOK 14/02 Q1013 RMK QFE757/1009 CLD:2CI


NOWCAST.SU UESS 211600Z 15007MPS 9999 SKC 14/00 Q1014 NOSIG
AUTOTAF.ME UESS 211300Z 2114/2123 15005G12MPS CAVOK TX20/2123Z TN14/2115Z
 
Тикси
SYNAR 21824 Тикси 211500Z 17002MPS CAVOK 16/07 Q1011 RMK QFE757/1010 CLD:8AC
(180/13KM)


NOWCAST.SU UEST 211600Z 14003MPS 9999 SCT110 12/05 Q1011 NOSIG
RMK TURB: MOD FL40/FL70
AUTOTAF.ME UEST 211300Z 2114/2123 13003MPS CAVOK TX16/2123Z TN12/2115Z
BECMG 2114/2115 -RA
 
Kopitnari
METAR UGKO 211600Z VRB02KT 9999 VCTS SCT013CB BKN045 21/20 Q1012 NOSIG


TSAR UGKO 211600Z LAST HOUR TS OBS: 020/37KM, 040/45KM, 050/15KM, 060/68-82KM, 070/29-126KM, 080/59-121KM, 100/60-122KM, 110/99-113KM, 120/71-84KM, 130/99-128KM, 140/88-118KM, 150/78-109KM
NEAREST TS 50/15KM
NOWCAST.SU UGKO 211600Z 27004KT 5000 -TSRA BR BKN029CB 20/18 Q1017 TEMPO FM1700 2000 +TSRA
AUTOTAF.ME UGKO 211300Z 2114/2123 30006KT 5000 BKN040CB TX21/2114Z TN16/2123Z
TEMPO 2114/2115 2000 -TSGRRA
TEMPO 2115/2116 -TSRA
BECMG 2115/2116 -SHRA BR
FM211700 22004KT 9999 -SHRA BKN025CB
TEMPO 2117/2118 2000 +SHRA
TEMPO 2118/2119 2000 SHRA
TEMPO 2119/2120 5000 SHRA
TAF AMD UGKO 211112Z 2112/2212 26007KT 9999 SCT023 OVC050 TX28/2211Z TN19/2202Z
TEMPO 2112/2115 25017KT 4000 TSRA BKN017CB
TEMPO 2115/2118 5000 SHRA BKN020CB
TEMPO 2200/2204 BKN017
BECMG 2204/2207 CAVOK=
Batumi
METAR UGSB 211600Z 22008KT 9999 FEW030 BKN070 25/21 Q1014 NOSIG


TSAR UGSB 211600Z LAST HOUR TS OBS: 040/129KM, 050/111-140KM, 090/116KM
NEAREST TS 50/111KM
NOWCAST.SU UGSB 211600Z 21008KT 9999 -SHRA BKN024CB 22/20 Q1015 TEMPO 1500 +SHRA TEMPO 1500 +SHRA
AUTOTAF.ME UGSB 211300Z 2114/2123 23008KT 9999 -SHRA BKN025CB TX22/2114Z TN21/2117Z
TEMPO 2114/2115 1500 +SHRA
TEMPO 2115/2116 1000 +SHRA
TEMPO 2116/2117 1500 +SHRA
TEMPO 2117/2118 2000 SHRA
TEMPO 2118/2120 2000 +SHRA
BECMG 2118/2119 17008KT
TEMPO 2120/2121 2000 SHRA
TEMPO 2121/2122 3000 SHRA
BECMG 2122/2123 -SHRA BR
TAF UGSB 211100Z 2112/2212 22012KT 9999 SCT025 BKN055 TX25/2212Z TN21/2202Z
TEMPO 2112/2118 VRB015KT 4500 TSRA SCT012 BKN023CB
TEMPO 2118/2204 13010KT SHRA SCT013 BKN025CB
BECMG 2206/2207 28007KT FEW033=
Tbilisi Novo-al
METAR UGTB 211600Z 31027G37KT CAVOK 24/16 Q1010 NOSIG


TSAR UGTB 211600Z LAST HOUR TS OBS: 010/93-121KM, 020/96-154KM, 030/102-161KM, 040/119-159KM, 050/113-153KM, 060/126-139KM, 150/125-156KM, 160/148KM, 250/120KM, 270/115KM, 280/100-116KM, 290/107-122KM, 300/93-132KM, 310/106-147KM, 320/84-124KM, 330/106KM, 340/70-128KM, 350/94-147KM, 360/92-143KM
NEAREST TS 340/70KM
NOWCAST.SU UGTB 211600Z 35022KT 9999 VCSH SCT068CB 25/15 Q1009 NOSIG
RMK TURB: MOD SFC/FL90
AUTOTAF.ME UGTB 211300Z 2114/2123 35026KT 9999 -SHRA SCT080CB TX28/2114Z TN19/2123Z
TEMPO 2114/2116 5000 SHRA
BECMG 2115/2116 VCSH
BECMG 2116/2117 34018G30KT
BECMG 2118/2119 34010G24KT
FM212000 33010G22KT CAVOK
TAF UGTB 211100Z 2112/2212 31026KT CAVOK TX29/2212Z TN19/2202Z
TEMPO 2112/2116 32031G41KT SCT055CB
BECMG 2122/2124 30016KT
BECMG 2207/2209 SCT050CB=
Благовещенск (Игнатьево)
METAR UHBB 211600Z 07002MPS CAVOK 13/11 Q1007 R36R/090058 NOSIG RMK QFE738/0984


NOWCAST.SU UHBB 211600Z VRB02MPS 9999 SCT057 12/10 Q1007 NOSIG
RMK TURB: MOD FL70/FL90
AUTOTAF.ME UHBB 211300Z 2114/2123 VRB02MPS CAVOK TX16/2123Z TN12/2115Z
FM211700 VRB02MPS 5000 BR NSC
FM211800 VRB02MPS CAVOK
FM211900 VRB02MPS 2500 BR BKN004
FM212000 VRB02MPS 5000 BR BKN008
FM212100 VRB02MPS 9999 BKN008
BECMG 2121/2122 BKN015
BECMG 2122/2123 BKN025TCU
TAF UHBB 211335Z 2115/2215 06003MPS 9999 FEW030
BECMG 2116/2120 0300 FG VV002
BECMG 2121/2123 9999 NSW SCT030CB
TEMPO 2200/2209 11005G11MPS=
Зея
SYNAR 31300 Зея 211500Z 00000MPS //// //// 13/08 Q1011 RMK QFE737/0983 CLD:NO_OBSERVATIONS


NOWCAST.SU UHBE 211600Z VRB02MPS 9999 SKC 11/06 Q1011 NOSIG
AUTOTAF.ME UHBE 211300Z 2114/2123 VRB02MPS CAVOK TX17/2123Z TN10/2117Z
 
Февральск
SYNAR 31397 Февральск 211500Z 06001MPS CAVOK 10/10 Q1011 RMK QFE734/0979 CLD:2AC


NOWCAST.SU UHBF 211600Z VRB02MPS 9999 BKN073 12/07 Q1010 NOSIG
AUTOTAF.ME UHBF 211300Z 2114/2123 VRB02MPS CAVOK TX17/2123Z TN12/2114Z
BECMG 2114/2115 -RA
 
Свободный
SYNAR 31443 Мазаново 211500Z 01002MPS CAVOK 12/11 Q1009 RMK QFE742/0989 CLD:1CI
(70/52KM)


NOWCAST.SU UHBS 211600Z 06004MPS 9999 BKN018 14/12 Q1009 NOSIG
RMK TURB: MOD FL90/FL100
AUTOTAF.ME UHBS 211300Z 2114/2123 06005G10MPS CAVOK TX16/2114Z TN12/2118Z
BECMG 2115/2116 BKN015
BECMG 2117/2118 BKN008
BECMG 2120/2121 BKN015
FM212200 08003MPS 9999 BKN025
 
Тында
SYNAR 30499 Тында 211500Z 00000MPS CAVOK 10/07 Q1013 RMK QFE713/0951 CLD:3CI
(220/16KM)


NOWCAST.SU UHBW 211600Z VRB02MPS 9999 SKC 10/08 Q1014 NOSIG
AUTOTAF.ME UHBW 211300Z 2114/2123 VRB02MPS 9999 SCT040 TX15/2123Z TN09/2117Z
BECMG 2114/2115 NSC
 
Билибино (Купол-1)
 


NOWCAST.SU UHED 211600Z VRB02MPS 9999 BKN048 04/M02 Q1018 NOSIG
RMK TURB: MOD FL40/FL50
AUTOTAF.ME UHED 211300Z 2114/2123 VRB02MPS 9999 BKN040 TX11/2123Z TN03/2114Z
BECMG 2114/2115 HZ
 
Купол
 


NOWCAST.SU UHEK 211600Z VRB02MPS 9999 BKN043 04/M02 Q1018 NOSIG
RMK TURB: MOD FL40/FL50
AUTOTAF.ME UHEK 211300Z 2114/2123 VRB02MPS 9999 BKN040 TX11/2123Z TN03/2114Z
 
Новая Кубака
SYNAR 25526 Кегали 211500Z 12003MPS 9999 OVC020CB 10/05 Q1012 RMK QFE725/0967 CLD:8CB
(40/77KM)


NOWCAST.SU UHGK 211600Z VRB02MPS 9999 -RA OVC016 07/05 Q1013 NOSIG
AUTOTAF.ME UHGK 211300Z 2114/2123 10003MPS 9000 -SHRA BR BKN015CB TX09/2114Z TN07/2116Z
BECMG 2114/2115 -SHRA
BECMG 2115/2116 -RA
BECMG 2116/2117 -RA BR
FM212100 VRB02MPS 9999 OVC025
FM212300 VRB02MPS CAVOK
 
Глухариное
SYNAR 25503 Коркодон 211500Z 35001MPS 9999 BCFG BKN033 10/10 Q1008 RMK QFE747/0996 CLD:5SC
(130/47KM)


NOWCAST.SU UHGL 211600Z VRB02MPS 9999 -SHRA SCT072CB 16/08 Q1010 NOSIG
RMK TURB: MOD FL70/FL80
AUTOTAF.ME UHGL 211300Z 2114/2123 VRB02MPS 9999 VCSH BKN160CB TX22/2123Z TN16/2114Z
TEMPO 2115/2116 VCTS
BECMG 2115/2116 -SHRA
FM212000 VRB02MPS CAVOK
FM212200 VRB02MPS 9999 VCSH SCT060CB
 
Биробиджан (Желтый Яр)
SYNAR 31713 Биробиджан 211500Z 04001MPS CAVOK 13/08 Q1009 RMK QFE750/1000 CLD:2ACCC
(330/20KM)


NOWCAST.SU UHHB 211600Z 04003MPS 9999 BKN016 12/08 Q1009 NOSIG
AUTOTAF.ME UHHB 211300Z 2114/2123 05003MPS 9999 BKN015 TX14/2123Z TN11/2117Z
BECMG 2117/2118 BKN025
BECMG 2118/2119 BKN015
BECMG 2119/2120 BKN025
FM212300 07009G14MPS 9999 BKN025TCU
 
Бриакан
SYNAR 31418 Веселая Горка 211500Z 00000MPS 9999 OVC020 10/08 Q1014 RMK QFE742/0990 CLD:8SC


NOWCAST.SU UHHE 211600Z VRB02MPS 9999 OVC013 08/07 Q1014 NOSIG
AUTOTAF.ME UHHE 211300Z 2114/2123 VRB02MPS 9999 OVC015 TX12/2123Z TN07/2118Z
BECMG 2116/2117 OVC025
FM211800 VRB02MPS 2500 BR OVC004
FM212000 VRB02MPS 9999 OVC025
 
Хабаровск (Новый)
METAR UHHH 211600Z 03007MPS CAVOK 13/09 Q1008 R88/090060 NOSIG RMK QFE750/1000


NOWCAST.SU UHHH 211600Z 05009G17MPS 9999 BKN028TCU 13/09 Q1009 NOSIG
RMK TURB: MOD SFC/FL20
AUTOTAF.ME UHHH 211300Z 2114/2123 05010G17MPS 9999 BKN025TCU TX14/2123Z TN12/2117Z
BECMG 2119/2120 05005G13MPS
FM212100 05005G13MPS 9999 VCSH BKN025CB
TAF UHHH 211346Z 2115/2221 04005MPS 9999 SCT020
TEMPO 2115/2206 06010MPS SCT013 BKN020CB=
Чумикан
SYNAR 31286 Чумикан 211500Z 00000MPS 9999 FEW020 07/06 Q1015 RMK QFE760/1013 CLD:6SCACCI


NOWCAST.SU UHHY 211600Z VRB02MPS 0200 FG VV001 03/03 Q1014 NOSIG
AUTOTAF.ME UHHY 211300Z 2114/2123 VRB02MPS 0200 FG VV002 TX10/2123Z TN03/2114Z
FM212200 VRB02MPS 5000 BR NSC
FM212300 VRB02MPS 2500 HZ NSC
 
Комсомольск-н/А (Дземги)
SYNAR 31561 Комсомольск-на-Амуре 211500Z 03002MPS 9999 //// 11/09 Q1012 RMK QFE757/1009 CLD:NO_OBSERVATIONS


NOWCAST.SU UHKD 211600Z 02004MPS 9999 BKN180 10/07 Q1012 NOSIG
AUTOTAF.ME UHKD 211300Z 2114/2123 03004MPS CAVOK TX12/2123Z TN10/2115Z
BECMG 2119/2120 BKN015
BECMG 2120/2121 BKN025
 
Комсомольск-на-Амуре (Хурба)
SYNAR 31561 Комсомольск-на-Амуре 211500Z 03002MPS 9999 //// 11/09 Q1012 RMK QFE757/1009 CLD:NO_OBSERVATIONS
(20/14KM)


NOWCAST.SU UHKK 211600Z 02004MPS 9999 BKN018 11/07 Q1012 NOSIG
AUTOTAF.ME UHKK 211300Z 2114/2123 03004MPS 9999 BKN025 TX12/2122Z TN10/2117Z
BECMG 2114/2115 BKN015
BECMG 2116/2117 NSC
BECMG 2119/2120 BKN025
 
Советская Гавань (Май-Гатка)
SYNAR 31770 Советская Гавань 211500Z 07002MPS 9999 DZ FEW020 09/08 Q1014 RMK QFE758/1010 CLD:8SCAS
(70/21KM)


NOWCAST.SU UHKM 211600Z VRB02MPS 6000 BR OVC012 08/07 Q1013 NOSIG
AUTOTAF.ME UHKM 211300Z 2114/2123 VRB02MPS 5000 BR NSC TX08/2114Z TN08/2114Z
BECMG 2114/2115 OVC008
BECMG 2115/2116 OVC015
FM211700 VRB02MPS 5000 -DZ BR NSC
FM211800 VRB02MPS 5000 -RA BR OVC008
FM211900 VRB02MPS 5000 BR OVC015
BECMG 2119/2120 1200
FM212100 VRB02MPS 0500 FG BKN015
FM212200 VRB02MPS 2500 BR BKN015
FM212300 VRB02MPS 5000 BR BKN015
 
Анадырь (Угольный)
METAR UHMA 211600Z 11002MPS 080V150 9999 SCT015 BKN031 OVC041 04/03 Q1017 R02/////// NOSIG RMK MID 08004MPS END R02/07004MPS MT OBSC QFE759/1012


NOWCAST.SU UHMA 211600Z VRB02MPS 0500 RA FG VV003 02/02 Q1017 NOSIG
AUTOTAF.ME UHMA 211300Z 2114/2123 VRB02MPS 0500 RA FG VV004 TX03/2120Z TN02/2114Z
BECMG 2114/2115 DZ FG
BECMG 2115/2116 RA FG
BECMG 2119/2120 RA FG
FM212300 VRB02MPS 0500 RA FG VV004
TAF UHMA 211353Z 2115/2215 14003G08MPS 6000 -RA SCT006 BKN015
TEMPO 2115/2215 08008G13MPS 0400 -SHRASN FG BKN002 BKN010CB=
Бухта Провидения
METAR UHMD 210500Z 36004MPS 9999 OVC016 06/03 Q1018 RMK QBB500 MT OBSC QFE763/1017


NOWCAST.SU UHMD 211600Z 08005MPS 0100 RA FG VV001 03/02 Q1018 NOSIG
AUTOTAF.ME UHMD 211300Z 2114/2123 08004MPS 0500 RA FG VV004 TX03/2114Z TN03/2114Z
BECMG 2115/2116 OVC002
FM211800 09005MPS 1200 BR OVC025
BECMG 2118/2119 8000
FM212000 09004MPS 9999 OVC015
BECMG 2120/2121 OVC008
TAF UHMD 202251Z 2100/2106 01003G08MPS 9999 SCT010 BKN020
TEMPO 2100/2106 03008MPS 1100 -SHRA BR BKN003 BKN015CB
2024/06/20 00:12=
Залив Креста
 


NOWCAST.SU UHME 211600Z 05003MPS 9999 -RA OVC018 03/03 Q1019 NOSIG
AUTOTAF.ME UHME 211300Z 2114/2123 05004MPS 9999 -RA OVC025 TX06/2123Z TN03/2114Z
BECMG 2114/2115 OVC015
FM211800 04003MPS 1200 DZ BR BKN004
 
Омсукчан
SYNAR 25715 Омсукчан 211500Z 21001MPS 9999 BKN006CB 11/10 Q1009 RMK QFE712/0950 CLD:8CBACCI


NOWCAST.SU UHMF 211600Z VRB02MPS 9000 BKN046CB 11/09 Q1010 TEMPO VCSH TEMPO VCSH
AUTOTAF.ME UHMF 211300Z 2114/2123 VRB02MPS 9999 BKN040CB TX17/2123Z TN10/2115Z
TEMPO 2114/2117 VCTS
BECMG 2116/2117 NSW
TEMPO 2117/2120 -TSRA
TEMPO 2120/2121 5000 -TSRA
TEMPO 2121/2122 TS
BECMG 2121/2122 -SHRA
FM212300 11003MPS CAVOK
 
Мыс Шмидта
 


NOWCAST.SU UHMI 211600Z VRB02MPS 9999 FEW260 01/00 Q1019 NOSIG
AUTOTAF.ME UHMI 211300Z 2114/2123 VRB02MPS CAVOK TX05/2122Z TN00/2114Z
FM211900 VRB02MPS 0500 FG BKN004
BECMG 2119/2120 BKN002
FM212200 VRB02MPS 9999 BKN015
BECMG 2122/2123 BKN008
 
Кепервеем
SYNAR 25147 Билибино 211500Z 10002MPS CAVOK 10/00 Q1016 RMK QFE736/0982 CLD:SKC
(30/25KM)


NOWCAST.SU UHMK 211600Z VRB02MPS 9999 SKC 10/M01 Q1016 NOSIG
AUTOTAF.ME UHMK 211300Z 2114/2123 VRB02MPS CAVOK TX16/2123Z TN09/2115Z
 
Залив Лаврентия
 


NOWCAST.SU UHML 211600Z 34003MPS 0100 RA FG VV003 03/02 Q1018 NOSIG
AUTOTAF.ME UHML 211300Z 2114/2123 34003MPS 0200 RA FG BKN004 TX04/2120Z TN03/2114Z
FM211700 VRB02MPS 0200 DZ FG NSC
BECMG 2117/2118 FG
FM212000 VRB02MPS 0200 DZ FG VV002
BECMG 2120/2121 RA FG
BECMG 2121/2122 DZ FG
 
Магадан (Сокол)
METAR UHMM 211600Z 29001MPS 9999 BKN040CB 10/10 Q1008 RMK QFE741 R28/00000MPS


NOWCAST.SU UHMM 211600Z VRB02MPS 3000 -SHRA BR BKN005 BKN010CB 13/12 Q1008 TEMPO FM1800 -SHRA
AUTOTAF.ME UHMM 211300Z 2114/2123 VRB02MPS 5000 BKN008CB TX16/2122Z TN13/2116Z
TEMPO 2114/2115 -TSRA
FM211500 VRB02MPS 2500 -SHRA BR BKN004 BKN010CB
FM211700 VRB02MPS 9999 -SHRA BR OVC060CB
FM211800 VRB02MPS 5000 NSC
TEMPO 2118/2122 -TSRA
BECMG 2118/2119 OVC060CB
BECMG 2119/2120 BKN008CB
BECMG 2120/2121 SCT015CB
FM212200 VRB02MPS 5000 VCSH HZ BKN015CB
FM212300 VRB02MPS 2500 -SHRA HZ OVC015CB
TAF UHMM 211352Z 2115/2221 34003G08MPS 9999 BKN030CB
TEMPO 2200/2210 5000 -SHRA BKN020CB=
Омолон
SYNAR 25428 Омолон 211500Z 11002MPS 9999 SCT033 09/04 Q1011 RMK QFE735/0980 CLD:4SCCI


NOWCAST.SU UHMN 211600Z 12005G13MPS 9999 DRDU SCT039 11/04 Q1012 NOSIG
AUTOTAF.ME UHMN 211300Z 2114/2123 13004MPS 9999 BKN040 TX16/2123Z TN11/2115Z
BECMG 2114/2115 DRDU
BECMG 2118/2119 NSC
 
Марково
SYNAR 25551 Марково 211500Z 04002MPS 9999 RESHRA OVC010CB 06/05 Q1016 RMK QFE759/1013 CLD:8CB


NOWCAST.SU UHMO 211600Z 04005MPS 5000 -RA BR BKN014 05/04 Q1016 NOSIG
AUTOTAF.ME UHMO 211300Z 2114/2123 05005G10MPS 2500 -DZ BR OVC004 TX10/2123Z TN05/2114Z
FM211500 04004MPS 1200 RA BR OVC008
FM211600 04005MPS 5000 -RA BR BKN015
BECMG 2116/2117 2500
FM211900 04005MPS 8000 -RA HZ BKN025
 
Певек
SYNAR 25051 Певек 211500Z 15010MPS CAVOK 12/02 Q1017 RMK QFE761/1015 CLD:SKC
(240/18KM)


NOWCAST.SU UHMP 211600Z 17004MPS 9999 SKC 06/01 Q1017 NOSIG
AUTOTAF.ME UHMP 211300Z 2114/2123 15003MPS CAVOK TX07/2122Z TN06/2114Z
 
Беринговский
 


NOWCAST.SU UHMR 211600Z 35003MPS 1000 RA BR OVC003 02/02 Q1016 NOSIG
AUTOTAF.ME UHMR 211300Z 2114/2123 35003MPS 0200 RA FG VV004 TX03/2122Z TN02/2114Z
FM211500 35004MPS 1200 RA BR OVC004
BECMG 2117/2118 BR
BECMG 2120/2121 2500
BECMG 2121/2122 OVC008
FM212300 36003MPS 2500 BR OVC004
 
Сеймчан
SYNAR 25703 Сеймчан 211500Z 21001MPS 2000 BR SCT033CB 11/11 Q1009 RMK QFE737/0983 CLD:7CBAC


NOWCAST.SU UHMS 211600Z VRB02MPS 9999 BKN009 SCT010CB 11/09 Q1009 TEMPO -SHRA TEMPO TL1800 -SHRA
AUTOTAF.ME UHMS 211300Z 2114/2123 VRB02MPS 9999 BKN060CB TX20/2123Z TN11/2115Z
TEMPO 2114/2115 -TSRA
BECMG 2114/2115 BKN008 SCT010CB
TEMPO 2115/2116 5000 -TSRA
TEMPO 2116/2118 -TSRA
FM211800 VRB02MPS 9999 -SHRA BKN015CB
BECMG 2118/2119 BKN025CB
BECMG 2119/2120 VCSH
FM212100 36005MPS 9999 VCSH SCT080CB
 
Магадан-13
SYNAR 25913 Магадан 211500Z 07004MPS //// //// 09/08 Q1009 RMK QFE746/0994 CLD:NO_OBSERVATIONS
(240/15KM)


NOWCAST.SU UHMT 211600Z VRB02MPS 4000 BKN007 BKN010CB 08/07 Q1009 TEMPO -SHRA TEMPO -SHRA
AUTOTAF.ME UHMT 211300Z 2114/2123 VRB02MPS 2500 BKN008 BKN010CB TX09/2122Z TN08/2114Z
TEMPO 2114/2116 TS
FM211600 VRB02MPS 5000 BKN008 BKN010CB
TEMPO 2116/2124 -TSRA
BECMG 2118/2119 BKN002 BKN010CB
BECMG 2119/2120 9000
BECMG 2120/2121 BKN008 BKN010CB
FM212300 VRB02MPS 5000 BKN008 BKN010CB
 
Усть-Омчуг
SYNAR 24898 Усть-Омчуг 211500Z 00000MPS 9999 SCT033CB 12/11 Q1010 RMK QFE707/0942 CLD:7CBACCI


NOWCAST.SU UHMV 211600Z VRB02MPS 2000 BKN005 OVC010CB 12/10 Q1011 TEMPO SHRA TEMPO TL1800 SHRA
AUTOTAF.ME UHMV 211300Z 2114/2123 01003MPS 9000 OVC015CB TX14/2121Z TN12/2114Z
TEMPO 2114/2116 -TSRA
FM211500 VRB02MPS 2500 BKN004 OVC010CB
TEMPO 2116/2117 TSRA
BECMG 2116/2117 NSW
TEMPO 2117/2118 -TSRA
FM211800 36003MPS 5000 -RA BR BKN004
BECMG 2118/2119 BKN015
FM212100 01003MPS 9000 VCSH HZ OVC015CB
FM212200 VRB02MPS 9999 VCSH BKN080CB
BECMG 2122/2123 BKN015CB
 
Северо-Эвенск
SYNAR 25820 Эвенск 211500Z 03005MPS 4000 BR OVC020 11/08 Q1011 RMK QFE756/1009 CLD:8SC


NOWCAST.SU UHMW 211600Z 03004MPS 9999 -RA OVC021 10/07 Q1012 NOSIG
RMK TURB: MOD SFC/FL30
AUTOTAF.ME UHMW 211300Z 2114/2123 VRB02MPS 9999 -RA BKN025 TX11/2123Z TN09/2118Z
 
Богородское
SYNAR 31439 Богородское 211500Z 03001MPS 9999 OVC020 09/07 Q1015 RMK QFE758/1010 CLD:8SC


NOWCAST.SU UHNB 211600Z VRB02MPS 0500 FG VV012 07/05 Q1014 NOSIG
AUTOTAF.ME UHNB 211300Z 2114/2123 VRB02MPS 5000 BR OVC015 TX07/2114Z TN06/2118Z
BECMG 2114/2115 2500
FM211600 VRB02MPS 0500 FG VV015
FM211700 VRB02MPS 0500 +DZ FG NSC
FM211800 VRB02MPS 1200 RA BR BKN040
FM211900 VRB02MPS 1200 +DZ FG VV004
FM212000 VRB02MPS 0500 FG NSC
BECMG 2121/2122 OVC002
BECMG 2122/2123 OVC008
 
Херпучи
SYNAR 31423 Удинск 211500Z 13001MPS //// //// 09/08 Q1015 RMK QFE760/1013 CLD:NO_OBSERVATIONS


NOWCAST.SU UHNH 211600Z VRB02MPS 2000 BR OVC005 07/07 Q1015 NOSIG
AUTOTAF.ME UHNH 211300Z 2114/2123 VRB02MPS 2500 BR OVC004 TX09/2123Z TN07/2114Z
FM212100 VRB02MPS 5000 BR OVC008
 
Николаевск-на-Амуре
SYNAR 31369 Николаевск-на-Амуре 211500Z 09002MPS 9999 OVC020 09/07 Q1016 RMK QFE757/1010 CLD:8ST


NOWCAST.SU UHNN 211600Z VRB02MPS 0500 FG BKN021 07/06 Q1015 NOSIG
AUTOTAF.ME UHNN 211300Z 2114/2123 VRB02MPS 0500 FG BKN025 TX08/2123Z TN06/2118Z
BECMG 2116/2117 RA FG
FM211800 VRB02MPS 0500 +DZ FG NSC
BECMG 2118/2119 BKN002
BECMG 2119/2120 FG
FM212100 VRB02MPS 0500 FG NSC
FM212200 VRB02MPS 7000 BR OVC040
 
Ургалан
SYNAR 31152 Нелькан 211500Z 23001MPS CAVOK 14/10 Q1011 RMK QFE729/0973 CLD:3CI
(90/99KM)


NOWCAST.SU UHNU 211600Z VRB02MPS 9999 FEW310 09/07 Q1014 NOSIG
AUTOTAF.ME UHNU 211300Z 2114/2123 VRB02MPS CAVOK TX16/2123Z TN08/2117Z
 
Нелькан
SYNAR 31152 Нелькан 211500Z 23001MPS CAVOK 14/10 Q1011 RMK QFE729/0973 CLD:3CI


NOWCAST.SU UHNX 211600Z VRB02MPS 9999 SCT055 09/08 Q1013 NOSIG
AUTOTAF.ME UHNX 211300Z 2114/2123 VRB02MPS CAVOK TX16/2123Z TN08/2118Z
BECMG 2118/2119 OVC002
BECMG 2119/2120 NSC
 
Охотск
SYNAR 31088 Охотск 211500Z 15004MPS 9999 BKN020CB 08/08 Q1012 RMK QFE758/1010 CLD:8CBACCI


NOWCAST.SU UHOO 211600Z VRB02MPS 3000 BKN002 BKN010CB 08/07 Q1010 TEMPO TS TEMPO TL1700 TS
AUTOTAF.ME UHOO 211300Z 2114/2123 VRB02MPS 2500 BKN004 BKN010CB TX10/2121Z TN08/2114Z
TEMPO 2114/2117 TS
BECMG 2114/2115 1200
BECMG 2115/2116 2500
BECMG 2116/2117 VCSH BR
TEMPO 2119/2120 TS
FM212000 VRB02MPS 1200 BKN002 BKN010CB
TEMPO 2120/2121 TSRA
FM212100 VRB02MPS 5000 -SHRA BR SCT060CB
FM212300 16003MPS 2500 -SHRA BR BKN040CB
 
Оссора
SYNAR 32246 Оссора 211500Z 04002MPS 9999 OVC003 08/07 Q1011 RMK QFE757/1010 CLD:8ST


NOWCAST.SU UHPD 211600Z VRB02MPS 0500 RA FG VV002 05/05 Q1011 NOSIG
AUTOTAF.ME UHPD 211300Z 2114/2123 VRB02MPS 0500 DZ FG VV004 TX06/2120Z TN05/2114Z
BECMG 2114/2115 RA FG
FM211900 04003MPS 1200 RA BR OVC004
FM212000 04005MPS 2500 -RA BR OVC008
FM212200 03006MPS 5000 -RA BR OVC008
BECMG 2122/2123 OVC025
 
Тигиль
SYNAR 32293 Тигиль 211500Z 36002MPS CAVOK 07/05 Q1010 RMK QFE756/1008 CLD:8CS


NOWCAST.SU UHPG 211600Z 23004MPS 9999 BKN011 08/07 Q1011 NOSIG
AUTOTAF.ME UHPG 211300Z 2114/2123 VRB02MPS 2500 BR BKN004 TX13/2123Z TN08/2116Z
FM211500 24003MPS 5000 BR BKN008
FM211600 23004MPS 9999 BKN008
BECMG 2116/2117 BKN015
BECMG 2118/2119 22009G14MPS
BECMG 2119/2120 BKN025TCU
FM212300 23005MPS 9999 BKN015 BKN020TCU
 
Халактырка
SYNAR 32540 Петропавловск-Камч. 2 211500Z 00000MPS 2000 -DZ OVC010 06/06 Q1015 RMK QFE753/1005 CLD:8ST
(290/16KM)


NOWCAST.SU UHPH 211600Z VRB02MPS 8000 -RA BR OVC004 06/06 Q1015 NOSIG
AUTOTAF.ME UHPH 211300Z 2114/2123 VRB02MPS 5000 -RA BR OVC004 TX09/2123Z TN06/2114Z
FM211700 VRB02MPS 1200 RA BR OVC004
BECMG 2117/2118 BR
BECMG 2118/2119 OVC002
BECMG 2119/2120 2500
FM212100 VRB02MPS 2500 BR OVC004
FM212200 VRB02MPS CAVOK
FM212300 15003MPS 8000 BR NSC
 
Палана
SYNAR 32227 Палана 211500Z 15002MPS 9999 -SHRA OVC020CB 08/06 Q1010 RMK QFE755/1007 CLD:8CB


NOWCAST.SU UHPL 211600Z VRB02MPS 3000 BR BKN013 09/07 Q1010 NOSIG
RMK TURB: MOD FL90/FL100
AUTOTAF.ME UHPL 211300Z 2114/2123 VRB02MPS CAVOK TX09/2114Z TN08/2118Z
FM211500 VRB02MPS 5000 BR NSC
FM211600 VRB02MPS 2500 BR BKN015
FM211700 VRB02MPS 7000 BR BKN008
FM211800 VRB02MPS 5000 BR BKN025
FM211900 VRB02MPS 5000 -DZ BR BKN004
BECMG 2119/2120 -RA BR
BECMG 2120/2121 2500
BECMG 2121/2122 BKN008
FM212300 VRB02MPS 2500 -RA BR OVC004
 
Мильково
SYNAR 32496 Мильково 211500Z 27001MPS CAVOK 08/07 Q1012 RMK QFE744/0992 CLD:6ACCI


NOWCAST.SU UHPM 211600Z VRB02MPS 9999 -RA BKN059 11/09 Q1012 NOSIG
AUTOTAF.ME UHPM 211300Z 2114/2123 17003MPS 9999 -RA NSC TX18/2123Z TN11/2114Z
 
Козыревск
SYNAR 32379 Козыревск 211500Z 13002MPS 9999 FEW020 12/08 Q1012 RMK QFE755/1006 CLD:2SC


NOWCAST.SU UHPO 211600Z VRB02MPS 9999 SCT330 10/06 Q1012 NOSIG
AUTOTAF.ME UHPO 211300Z 2114/2123 VRB02MPS CAVOK TX18/2123Z TN10/2116Z
BECMG 2122/2123 SCT040TCU
 
Петропавловск-Камчатский (Елизово)
METAR UHPP 211600Z 17001MPS 2200 1400SE BR OVC002 07/06 Q1015 R16R/190060 NOSIG RMK QFE758/1011


NOWCAST.SU UHPP 211600Z VRB02MPS 9999 -RA OVC006 06/06 Q1015 NOSIG
AUTOTAF.ME UHPP 211300Z 2114/2123 VRB02MPS 9999 -RA OVC008 TX08/2122Z TN06/2114Z
BECMG 2118/2119 OVC002
BECMG 2120/2121 NSC
BECMG 2122/2123 BR
TAF UHPP 211348Z 2115/2221 10003G08MPS 3000 BR OVC007
TEMPO 2115/2121 0700 DZ FG VV002
TEMPO 2121/2123 1000 BR VV004
FM212300 17005G12MPS 9999 BKN020CB
BECMG 2209/2211 01003G08MPS BKN007
TEMPO 2211/2221 1000 BR VV003=
Соболево
SYNAR 32477 Соболево 211500Z 28001MPS 9999 BKN033 08/07 Q1015 RMK QFE758/1011 CLD:5SC


NOWCAST.SU UHPS 211600Z 33003MPS 9999 BKN094 07/05 Q1014 NOSIG
AUTOTAF.ME UHPS 211300Z 2114/2123 32003MPS CAVOK TX10/2123Z TN07/2114Z
 
Тиличики
SYNAR 25950 Тиличики 211500Z 30002MPS 4000 -DZ OVC006 06/06 Q1013 RMK QFE751/1001 CLD:8ST


NOWCAST.SU UHPT 211600Z VRB02MPS 5000 -RA BR OVC010 06/04 Q1012 NOSIG
AUTOTAF.ME UHPT 211300Z 2114/2123 VRB02MPS 9999 -RA OVC008 TX10/2123Z TN06/2114Z
FM211500 VRB02MPS 5000 -RA BR OVC008
BECMG 2117/2118 -DZ BR
FM211900 VRB02MPS 9999 -RA BKN015
FM212000 VRB02MPS CAVOK
FM212100 02003MPS 9999 -RA BKN025
 
Усть-Хайрюзово
SYNAR 32287 Усть-Хайрюзово 211500Z 19005MPS 9999 OVC010 08/07 Q1012 RMK QFE758/1010 CLD:8ST


NOWCAST.SU UHPU 211600Z 21006MPS 9999 VCSH BKN009 BKN010CB 07/05 Q1012 NOSIG
AUTOTAF.ME UHPU 211300Z 2114/2123 20005MPS 9999 BKN008 TX08/2121Z TN07/2114Z
FM211600 21006MPS 9999 VCSH BKN008 BKN010CB
FM212100 24006MPS 9999 BKN008 BKN010CB
TEMPO 2121/2124 VRB11G16MPS TS
BECMG 2121/2122 BKN015CB
BECMG 2122/2123 OVC008CB
 
Авачинский
SYNAR 32547 Сосновка 211500Z 22001MPS 4000 BR OVC010 07/06 Q1015 RMK QFE757/1010 CLD:8ST
(210/11KM)


NOWCAST.SU UHQA 211600Z VRB02MPS 9999 -RA OVC006 06/06 Q1015 NOSIG
AUTOTAF.ME UHQA 211300Z 2114/2123 VRB02MPS 9999 -RA OVC008 TX08/2122Z TN06/2114Z
BECMG 2118/2119 OVC002
BECMG 2120/2121 NSC
BECMG 2122/2123 BR
 
Запорожье (Озерная)
SYNAR 32594 Озерная 211500Z 16003MPS 2000 -DZ OVC003 05/05 Q1016 RMK QFE759/1012 CLD:8ST


NOWCAST.SU UHQO 211600Z VRB02MPS 0500 DZ FG VV006 05/05 Q1015 NOSIG
AUTOTAF.ME UHQO 211300Z 2114/2123 VRB02MPS 1200 BR OVC004 TX06/2118Z TN05/2114Z
FM211500 VRB02MPS 0500 FG VV008
BECMG 2115/2116 DZ FG
BECMG 2117/2118 RA FG
FM211900 VRB02MPS 0500 DZ FG VV004
FM212000 VRB02MPS 1200 DZ BR BKN004
BECMG 2122/2123 BR
 
Буревестник
 


NOWCAST.SU UHSB 211600Z 17003MPS 5000 -RA BR OVC023 10/09 Q1007 NOSIG
AUTOTAF.ME UHSB 211300Z 2114/2123 16003MPS 5000 -DZ BR OVC008 TX11/2123Z TN09/2114Z
FM211600 17003MPS 5000 -RA BR OVC025
FM211700 VRB02MPS 2500 -DZ BR BKN004
BECMG 2117/2118 OVC008
BECMG 2118/2119 -RA BR
BECMG 2119/2120 OVC015
FM212300 VRB02MPS 5000 -RA BR OVC025
 
Оха (Новостройка)
SYNAR 31366 Байдуков 211500Z 14002MPS 9999 OVC020 08/07 Q1016 RMK QFE761/1015 CLD:8SC
(260/101KM)


NOWCAST.SU UHSH 211600Z 14003MPS 9999 -DZ OVC002 05/04 Q1017 NOSIG
RMK TURB: MOD FL70/FL80
AUTOTAF.ME UHSH 211300Z 2114/2123 14003MPS 9999 -DZ OVC008 TX08/2123Z TN05/2114Z
FM211500 14003MPS 9999 -RA OVC004
BECMG 2115/2116 -DZ
BECMG 2116/2117 -DZ BR
BECMG 2117/2118 BR
FM211900 15004MPS 9999 OVC002
FM212100 14005MPS 9999 BKN040
FM212300 15005MPS CAVOK
 
Итуруп
 


NOWCAST.SU UHSI 211600Z 15004MPS 0700 RA FG VV002 09/09 Q1007 NOSIG
AUTOTAF.ME UHSI 211300Z 2114/2123 15005MPS 0500 RA FG VV004 TX10/2121Z TN09/2114Z
BECMG 2116/2117 OVC015
BECMG 2117/2118 FG
BECMG 2118/2119 RA FG
FM212000 12003MPS 0500 DZ FG BKN004
FM212100 12003MPS 0500 RA FG BKN004
FM212200 13003MPS 0500 DZ FG VV004
 
Шахтерск
SYNAR 32098 Поронайск 211500Z 01001MPS 9999 BKN020CB 08/07 Q1015 RMK QFE760/1014 CLD:8CBACCI
(90/74KM)


NOWCAST.SU UHSK 211600Z VRB02MPS 9999 BKN047 09/07 Q1012 NOSIG
AUTOTAF.ME UHSK 211300Z 2114/2123 VRB02MPS 9999 BKN040 TX10/2121Z TN09/2114Z
 
Южно-Курильск (Менделеево)
SYNAR 32165 Южно-Курильск 211500Z 00000MPS 0200 -SHRA VV/// 10/10 Q1008 RMK QFE751/1002 CLD:OBSC
(50/11KM)


NOWCAST.SU UHSM 211600Z VRB02MPS 0500 VCSH FG BKN004 OVC010CB 12/12 Q1007 NOSIG
AUTOTAF.ME UHSM 211300Z 2114/2123 VRB02MPS 0500 VCSH FG BKN004 OVC010CB TX12/2114Z TN12/2114Z
BECMG 2116/2117 SHRA FG
BECMG 2118/2119 NSC
FM212000 VRB02MPS 1200 VCSH BR NSC
BECMG 2120/2121 BR
FM212200 VRB02MPS 2500 BR NSC
FM212300 VRB02MPS 1200 BR NSC
 
Ноглики
SYNAR 32053 Ноглики 211500Z 09003MPS 2000 BR OVC010 05/05 Q1016 RMK QFE758/1011 CLD:8ST
(350/15KM)


NOWCAST.SU UHSN 211600Z 12004MPS 8000 -DZ BR SCT120 05/05 Q1015 NOSIG
AUTOTAF.ME UHSN 211300Z 2114/2123 12004MPS 7000 -DZ BR NSC TX07/2122Z TN05/2114Z
BECMG 2114/2115 OVC004
BECMG 2115/2116 NSC
FM211700 12004MPS 8000 BR BKN004
BECMG 2117/2118 5000
FM211900 12004MPS 7000 BR OVC002
FM212000 13005G10MPS 9000 BR BKN002
FM212100 13005G10MPS 9999 BKN004
FM212200 13006MPS CAVOK
FM212300 13007MPS 9999 BKN008
 
Зональное
SYNAR 32071 Тымовское 211500Z 00000MPS 9999 FEW020 09/07 Q1014 RMK QFE751/1002 CLD:8SCAS


NOWCAST.SU UHSO 211600Z VRB02MPS 9999 BKN055 06/05 Q1013 NOSIG
AUTOTAF.ME UHSO 211300Z 2114/2123 VRB02MPS CAVOK TX11/2123Z TN06/2116Z
BECMG 2119/2120 BKN040
BECMG 2121/2122 BKN015 BKN020TCU
BECMG 2122/2123 BKN025TCU
 
Южно-Сахалинск (Хомутово)
METAR UHSS 211600Z 36010MPS 9999 SCT008 BKN020 07/06 Q1010 RMK MT OBSC QFE756/1008


NOWCAST.SU UHSS 211600Z 03003MPS 0500 FG BKN270 07/06 Q1010 NOSIG
RMK TURB: MOD SFC/FL30
AUTOTAF.ME UHSS 211300Z 2114/2123 03004MPS 0500 FG NSC TX08/2122Z TN07/2114Z
TAF UHSS 211350Z 2115/2221 01007MPS 9999 SCT004 BKN030CB
BECMG 2121/2123 BKN030CB=
Одопту
SYNAR 32053 Ноглики 211500Z 09003MPS 2000 BR OVC010 05/05 Q1016 RMK QFE758/1011 CLD:8ST
(180/138KM)


NOWCAST.SU UHSU 211600Z 12004MPS 0200 DZ FG BKN001 05/04 Q1017 NOSIG
AUTOTAF.ME UHSU 211300Z 2114/2123 12004MPS 9999 -DZ BKN002 TX05/2114Z TN05/2114Z
FM211500 12004MPS 5000 -DZ BR BKN002
FM211600 12004MPS 0200 DZ FG BKN002
BECMG 2117/2118 FG
FM212000 14005MPS 1200 BR OVC002
FM212100 14005MPS 2500 BR OVC004
FM212200 14005MPS 5000 BR OVC002
FM212300 15005MPS 9999 OVC002
 
Порт Восточный
SYNAR 31970 Находка 211500Z 15004MPS //// //// 12/10 Q1009 RMK QFE751/1001 CLD:NO_OBSERVATIONS
(280/24KM)


NOWCAST.SU UHTK 211600Z VRB02MPS 8000 BR SCT150 11/09 Q1008 NOSIG
AUTOTAF.ME UHTK 211300Z 2114/2123 VRB02MPS CAVOK TX12/2122Z TN11/2114Z
BECMG 2115/2116 BR
BECMG 2116/2117 2500
FM211800 VRB02MPS 0500 FG VV008
FM211900 VRB02MPS 7000 BR BKN002
FM212100 VRB02MPS 1200 BR BKN004
FM212200 VRB02MPS 9999 BKN025
 
Самарга
SYNAR 31825 Агзу 211500Z 17001MPS //// //// 10/08 Q1012 RMK QFE744/0992 CLD:NO_OBSERVATIONS
(320/49KM)


NOWCAST.SU UHTS 211600Z VRB02MPS 4000 BR SCT290 08/07 Q1012 NOSIG
AUTOTAF.ME UHTS 211300Z 2114/2123 VRB02MPS 2500 BR OVC015 TX09/2122Z TN08/2114Z
FM211600 VRB02MPS 5000 BR NSC
BECMG 2118/2119 OVC002
BECMG 2119/2120 2500
BECMG 2120/2121 OVC015
 
Арсеньев
SYNAR 31981 Анучино 211500Z 15001MPS 9999 -SHRA OVC020CB 15/14 Q1007 RMK QFE738/0984 CLD:8CB
(230/29KM)


NOWCAST.SU UHWA 211600Z VRB02MPS 0500 RA FG VV011 15/15 Q1006 NOSIG
AUTOTAF.ME UHWA 211300Z 2114/2123 VRB02MPS 0500 +SHRA FG VV015CB TX16/2114Z TN14/2119Z
BECMG 2114/2115 VCSH FG
FM211600 VRB02MPS 0500 RA FG VV008
BECMG 2116/2117 +DZ FG
FM211900 VRB02MPS 7000 -RA BR OVC008
BECMG 2119/2120 OVC015
FM212100 VRB02MPS 8000 BR OVC015
FM212200 VRB02MPS 9999 -RA BKN015
FM212300 VRB02MPS 9999 -SHRA OVC040CB
 
Остров Русский (Аякс)
SYNAR 31960 Владивосток 211500Z 14009MPS 9999 BKN020 11/11 Q1008 RMK QFE739/0985 CLD:7ST


NOWCAST.SU UHWH 211600Z 13011MPS 9999 -RA BKN016 13/11 Q1007 NOSIG
RMK TURB: MOD FL30/FL120
AUTOTAF.ME UHWH 211300Z 2114/2123 13010G15MPS 9999 BKN015 TX13/2114Z TN13/2114Z
BECMG 2115/2116 -RA
FM211800 14011MPS 7000 -RA BR OVC015
FM212000 13010MPS 9999 -SHRA OVC015CB
BECMG 2122/2123 -RA BR
 
Кавалерово
SYNAR 31946 Кавалерово 211500Z 00000MPS 9999 OVC010 11/10 Q1011 RMK QFE739/0986 CLD:8SC


NOWCAST.SU UHWK 211600Z VRB02MPS 0500 DZ FG VV120 08/08 Q1009 NOSIG
AUTOTAF.ME UHWK 211300Z 2114/2123 VRB02MPS 8000 BR NSC TX09/2114Z TN08/2115Z
BECMG 2114/2115 1200
FM211600 VRB02MPS 0500 DZ FG NSC
FM211700 VRB02MPS 0500 RA FG VV008
BECMG 2121/2122 OVC015
 
Озерные Ключи
SYNAR 31960 Владивосток 211500Z 14009MPS 9999 BKN020 11/11 Q1008 RMK QFE739/0985 CLD:7ST
(220/34KM)


NOWCAST.SU UHWL 211600Z 21003MPS 9999 BKN013 13/11 Q1007 NOSIG
RMK TURB: MOD FL110/FL120
AUTOTAF.ME UHWL 211300Z 2114/2123 21003MPS 9999 BKN008 TX13/2114Z TN13/2114Z
BECMG 2114/2115 BKN015
FM211900 21003MPS 9999 -DZ OVC002
FM212000 VRB02MPS 8000 -SHRA BR BKN008 OVC010CB
BECMG 2120/2121 5000
FM212300 VRB02MPS 9999 -RA OVC008
 
Уссурийск (Барановский)
SYNAR 31961 Тимирязевский 211500Z 19003MPS 9999 OVC010 14/12 Q1007 RMK QFE752/1003 CLD:8ST
(330/17KM)


NOWCAST.SU UHWU 211600Z 21003MPS 9999 BKN014 13/11 Q1007 NOSIG
RMK TURB: MOD FL110/FL120
AUTOTAF.ME UHWU 211300Z 2114/2123 21003MPS 9999 BKN008 TX14/2114Z TN13/2115Z
BECMG 2114/2115 BKN015
BECMG 2116/2117 BR
BECMG 2117/2118 7000
FM211900 21003MPS 7000 -RA BR OVC015
FM212000 VRB02MPS 7000 -SHRA BR OVC015CB
FM212100 VRB02MPS 5000 -SHRA BR OVC015CB
FM212300 VRB02MPS 7000 -RA BR OVC015
 
Владивосток (Кневичи)
METAR UHWW 211600Z 24003MPS 9999 OVC010 13/12 Q1007 R25L/0///70 NOSIG RMK QFE754


NOWCAST.SU UHWW 211600Z 21003MPS 9999 BKN013 13/11 Q1007 NOSIG
RMK TURB: MOD FL110/FL120
AUTOTAF.ME UHWW 211300Z 2114/2123 21003MPS 9999 BKN008 TX13/2114Z TN13/2114Z
BECMG 2114/2115 BKN015
FM211900 21003MPS 9999 -DZ OVC002
FM212000 VRB02MPS 8000 -SHRA BR BKN008 OVC010CB
BECMG 2120/2121 5000
FM212300 VRB02MPS 9999 -RA OVC008
TAF UHWW 211400Z 2115/2215 20003G08MPS 9999 BKN010
BECMG 2117/2119 6000 -SHRA BKN007 BKN020CB
TEMPO 2119/2215 2000 SHRA BKN005 BKN016CB=
Чита (Кадала)
METAR UIAA 211600Z 03003MPS 9999 SCT050CB 17/10 Q1003 R29/CLRD70 NOSIG RMK QFE694/0926


NOWCAST.SU UIAA 211600Z VRB02MPS 9999 FEW090 16/10 Q1004 NOSIG
RMK TURB: MOD FL90/FL100
AUTOTAF.ME UIAA 211300Z 2114/2123 VRB02MPS 9999 -RA NSC TX17/2114Z TN14/2120Z
TAF UIAA 211400Z 2115/2215 06005G10MPS 9999 SCT030CB
TEMPO 2115/2215 12003G08MPS 3100 -SHRA OVC014CB=
Красный Чикой
SYNAR 30935 Красный Чикой 211500Z 22002MPS 9999 -RA NSC 06/06 Q1008 RMK QFE688/0918 CLD:8AS


NOWCAST.SU UIAD 211600Z VRB02MPS 0500 RA FG VV005 04/04 Q1007 NOSIG
AUTOTAF.ME UIAD 211300Z 2114/2123 VRB02MPS 0500 RA FG VV004 TX06/2123Z TN04/2114Z
 
Краснокаменск
SYNAR 30978 Кайластуй 211500Z 06005MPS 9999 BKN020 17/11 Q1003 RMK QFE703/0938 CLD:6SC
(140/28KM)


NOWCAST.SU UIAE 211600Z 10012G18MPS 9999 -RA BKN028 17/11 Q1003 NOSIG
RMK TURB: MOD FL50/FL60
AUTOTAF.ME UIAE 211300Z 2114/2123 11012G18MPS 9999 OVC040 TX18/2114Z TN14/2120Z
BECMG 2114/2115 -RA
BECMG 2117/2118 NSC
 
Кыра
SYNAR 30949 Кыра 211500Z 02004MPS //// -SHRA BKN033CB 14/13 Q997 RMK CLD:8CBAC


NOWCAST.SU UIAK 211600Z 08010G16MPS 2200 -SHRA BR BKN005 OVC010CB 13/12 Q0998 NOSIG
AUTOTAF.ME UIAK 211300Z 2114/2123 07010G16MPS 2500 -SHRA BR OVC015CB TX13/2114Z TN12/2118Z
BECMG 2114/2115 BKN004 OVC010CB
FM211700 06005G13MPS 2500 SHRA BR BKN004 OVC010CB
FM212100 08010G17MPS 2500 SHRA BR OVC015CB
BECMG 2121/2122 -SHRA BR
BECMG 2122/2123 BKN004 OVC010CB
 
Могоча
SYNAR 30673 Могоча 211500Z 00000MPS CAVOK 16/07 Q1002 RMK QFE696/0929 CLD:SKC


NOWCAST.SU UIAM 211600Z 02003MPS 9999 SKC 13/07 Q1011 NOSIG
RMK TURB: MOD FL110/FL120
AUTOTAF.ME UIAM 211300Z 2114/2123 VRB02MPS CAVOK TX15/2114Z TN11/2118Z
BECMG 2121/2122 SCT040
 
Чара
SYNAR 30372 Чара 211500Z 26001MPS 9999 FU FEW033CB 13/10 Q1009 RMK QFE694/0926 CLD:5CBACCI


NOWCAST.SU UIAR 211600Z VRB02MPS 9999 VCSH SCT070CB 17/11 Q1011 NOSIG
RMK TURB: MOD FL110/FL120
AUTOTAF.ME UIAR 211300Z 2114/2123 VRB02MPS 9999 VCSH SCT080CB TX19/2123Z TN16/2117Z
FM211900 VRB02MPS CAVOK
FM212000 VRB02MPS 9999 VCSH SCT080CB
 
Газимурский завод
SYNAR 30971 Александровский Завод 211500Z 08002MPS CAVOK 11/07 Q1006 RMK QFE684/0912 CLD:2AC
(210/77KM)


NOWCAST.SU UIAS 211600Z 11004MPS 9999 SCT340 15/06 Q1007 NOSIG
RMK TURB: MOD FL110/FL120
AUTOTAF.ME UIAS 211300Z 2114/2123 12004MPS CAVOK TX17/2114Z TN12/2119Z
 
Братск
METAR UIBB 211600Z 10002MPS 9999 NSC 09/03 Q1013 R30/CLRD60 NOSIG RMK QFE717/0956


NOWCAST.SU UIBB 211600Z VRB02MPS 9999 SKC 09/04 Q1014 NOSIG
RMK TURB: MOD FL50/FL70
AUTOTAF.ME UIBB 211300Z 2114/2123 VRB02MPS CAVOK TX13/2114Z TN06/2120Z
TAF UIBB 211400Z 2115/2215 13002MPS 9999 NSC
BECMG 2200/2203 16007MPS=
Усть-Илимск
SYNAR 30210 Усть-Илимск 211500Z 30002MPS CAVOK 12/07 Q1015 RMK QFE734/0979 CLD:SKC
(170/18KM)


NOWCAST.SU UIBS 211600Z VRB02MPS 9999 FEW320 09/04 Q1014 NOSIG
RMK TURB: MOD FL50/FL70
AUTOTAF.ME UIBS 211300Z 2114/2123 VRB02MPS CAVOK TX12/2114Z TN07/2119Z
 
Железногорск-Илимский
SYNAR 30218 Новая Игирма 211500Z 22001MPS //// SKC 10/07 Q1015 RMK QFE732/0976 CLD:SKC
(350/70KM)


NOWCAST.SU UIBV 211600Z VRB02MPS 9999 SCT223 08/04 Q1015 NOSIG
RMK TURB: MOD FL70/FL80
AUTOTAF.ME UIBV 211300Z 2114/2123 VRB02MPS CAVOK TX11/2114Z TN05/2120Z
 
Хилок
SYNAR 30844 Хилок 211500Z 27004MPS 9999 -RA OVC020 07/06 Q1007 RMK QFE685/0913 CLD:8SC


NOWCAST.SU UICH 211600Z VRB02MPS 0500 RA FG VV019 07/07 Q1006 NOSIG
AUTOTAF.ME UICH 211300Z 2114/2123 VRB02MPS 0500 RA FG VV015 TX10/2123Z TN07/2114Z
BECMG 2121/2122 OVC025
 
Белая
SYNAR 30617 Черемхово 211500Z 00000MPS //// SKC 10/05 Q1016 RMK QFE708/0945 CLD:SKC
(310/48KM)


NOWCAST.SU UIIB 211600Z VRB02MPS 9999 FEW190 09/05 Q1015 NOSIG
AUTOTAF.ME UIIB 211300Z 2114/2123 VRB02MPS CAVOK TX12/2114Z TN07/2119Z
 
Хужир
SYNAR 30731 Горячинск 211500Z 25002MPS //// -RA OVC020 06/06 Q1012 RMK QFE715/0953 CLD:8NS
(120/59KM)


NOWCAST.SU UIIH 211600Z VRB02MPS 1000 RA BR OVC003 07/06 Q1012 NOSIG
AUTOTAF.ME UIIH 211300Z 2114/2123 25004MPS 9999 -RA OVC015 TX07/2114Z TN07/2114Z
FM211500 25003MPS 1200 RA BR OVC004
BECMG 2117/2118 BR
FM212000 VRB02MPS 2500 -RA BR OVC004
FM212100 VRB02MPS 1200 RA BR OVC004
FM212300 VRB02MPS 2500 -RA BR OVC015
 
Иркутск
METAR UIII 211600Z 06002MPS 9000 NSC 09/09 Q1014 R12/60D NOSIG RMK QFE718/0958


NOWCAST.SU UIII 211600Z VRB02MPS 9999 SCT140 10/07 Q1014 NOSIG
AUTOTAF.ME UIII 211300Z 2114/2123 VRB02MPS CAVOK TX11/2114Z TN07/2120Z
TAF UIII 211400Z 2115/2215 08003MPS 9999 NSC
TEMPO 2115/2118 0500 FG VV001
BECMG 2118/2120 0300 FG VV001
TEMPO 2120/2123 2000 BR SCT004
BECMG 2123/2201 9999 NSW NSC=
Кырен
SYNAR 30806 Кырен 211500Z 24001MPS //// FEW050 09/05 Q1016 RMK QFE695/0927 CLD:1SC


NOWCAST.SU UIIN 211600Z VRB02MPS 9999 SCT300 05/02 Q1022 NOSIG
AUTOTAF.ME UIIN 211300Z 2114/2123 VRB02MPS CAVOK TX07/2114Z TN03/2119Z
 
Иркутск-2 (Восточный)
SYNAR 30710 Иркутск 211500Z 00000MPS CAVOK 11/10 Q1015 RMK QFE719/0959 CLD:3CI
(140/13KM)


NOWCAST.SU UIIR 211600Z VRB02MPS 9999 BKN170 09/07 Q1015 NOSIG
RMK TURB: MOD FL70/FL80
AUTOTAF.ME UIIR 211300Z 2114/2123 VRB02MPS CAVOK TX11/2114Z TN07/2120Z
BECMG 2118/2119 OVC002
BECMG 2120/2121 NSC
 
Качуг
SYNAR 30622 Качуг 211500Z 00000MPS //// SCT020CB 09/09 Q1015 RMK QFE715/0953 CLD:8CBACCI


NOWCAST.SU UIIX 211600Z VRB02MPS 9999 -RA BKN030 08/06 Q1014 NOSIG
AUTOTAF.ME UIIX 211300Z 2114/2123 VRB02MPS 9999 -RA BKN025 TX09/2114Z TN06/2121Z
BECMG 2114/2115 BKN015
BECMG 2115/2116 BKN025
BECMG 2121/2122 OVC015
 
Бодайбо
SYNAR 30252 Мамакан 211500Z 29002MPS //// BKN033CB 16/11 Q1012 RMK QFE737/0982 CLD:8CBCS
(250/15KM)


NOWCAST.SU UIKB 211600Z VRB02MPS 9999 VCSH BKN016CB 12/09 Q1013 NOSIG
RMK TURB: MOD FL110/FL120
AUTOTAF.ME UIKB 211300Z 2114/2123 VRB02MPS 9999 VCSH BKN040CB TX13/2114Z TN11/2118Z
BECMG 2114/2115 BKN015CB
BECMG 2116/2117 -SHRA
FM211800 VRB02MPS 9999 -RA BKN025
 
Таксимо
SYNAR 30455 Уакит 211500Z 32002MPS //// //// 16/05 Q//// RMK CLD:NO_OBSERVATIONS
(220/128KM)


NOWCAST.SU UIKG 211600Z VRB02MPS 9999 SCT085 16/08 Q1010 NOSIG
RMK TURB: MOD FL70/FL120
AUTOTAF.ME UIKG 211300Z 2114/2123 VRB02MPS CAVOK TX19/2114Z TN14/2119Z
 
Киренск
SYNAR 30230 Киренск 211500Z 14001MPS //// -SHRA OVC020CB 12/11 Q1015 RMK QFE738/0984 CLD:8CB


NOWCAST.SU UIKK 211600Z VRB02MPS 8000 -RA BR BKN015 10/08 Q1015 NOSIG
RMK TURB: MOD FL70/FL80
AUTOTAF.ME UIKK 211300Z 2114/2123 VRB02MPS 9999 -RA BKN015 TX11/2114Z TN09/2118Z
BECMG 2115/2116 -RA BR
FM211700 VRB02MPS 7000 -RA BR BKN008
FM211800 VRB02MPS 5000 BR NSC
FM212000 VRB02MPS 9999 BKN040
 
Мама
SYNAR 30157 Мама 211500Z 28002MPS 9999 BKN042CB 14/10 Q1013 RMK QFE739/0986 CLD:8CBAC


NOWCAST.SU UIKM 211600Z VRB02MPS 3000 -DZ BR BKN005 10/08 Q1014 NOSIG
AUTOTAF.ME UIKM 211300Z 2114/2123 VRB02MPS 2500 -DZ BR BKN004 TX10/2114Z TN09/2119Z
BECMG 2117/2118 BR
BECMG 2122/2123 -DZ BR
 
Нижнеудинск
SYNAR 29698 Нижнеудинск 211500Z 00000MPS CAVOK 11/08 Q1013 RMK QFE723/0964 CLD:SKC


NOWCAST.SU UINN 211600Z VRB02MPS 9999 SKC 10/05 Q1013 NOSIG
RMK TURB: MOD SFC/FL40
AUTOTAF.ME UINN 211300Z 2114/2123 VRB02MPS CAVOK TX13/2114Z TN07/2120Z
 
Казачинск
SYNAR 30337 Казачинск 211500Z 00000MPS //// -SHRA OVC020CB 10/09 Q1016 RMK QFE729/0973 CLD:8CB


NOWCAST.SU UITK 211600Z VRB02MPS 3000 -RA BR OVC055 09/08 Q1015 NOSIG
AUTOTAF.ME UITK 211300Z 2114/2123 VRB02MPS 2500 -RA BR NSC TX09/2114Z TN08/2118Z
BECMG 2118/2119 BKN015
BECMG 2121/2122 7000
BECMG 2122/2123 -RA
 
Усть-Кут
SYNAR 30323 Усть-Кут 211500Z 00000MPS 9999 SCT020CB 10/08 Q1015 RMK QFE732/0976 CLD:8CBACCI


NOWCAST.SU UITT 211600Z VRB02MPS 9999 OVC130 09/03 Q1015 NOSIG
RMK TURB: MOD FL50/FL70
AUTOTAF.ME UITT 211300Z 2114/2123 VRB02MPS CAVOK TX11/2114Z TN07/2120Z
 
Бичура
SYNAR 30934 Бичура 211500Z 25003MPS //// -RA OVC010 07/07 Q1010 RMK QFE701/0934 CLD:8NS


NOWCAST.SU UIUA 211600Z VRB02MPS 2800 -RA BR OVC013 06/06 Q1009 NOSIG
AUTOTAF.ME UIUA 211300Z 2114/2123 VRB02MPS 2500 -RA BR OVC015 TX07/2120Z TN06/2114Z
BECMG 2119/2120 OVC008
BECMG 2120/2121 OVC015
BECMG 2122/2123 RA BR
 
Багдарин (Куликово Поле)
SYNAR 30554 Багдарин 211500Z 35001MPS //// SCT033 14/10 Q1009 RMK QFE678/0904 CLD:8SCACCI


NOWCAST.SU UIUB 211600Z VRB02MPS 9999 SCT060 15/07 Q1011 NOSIG
RMK TURB: MOD FL90/FL110
AUTOTAF.ME UIUB 211300Z 2114/2123 VRB02MPS CAVOK TX16/2114Z TN11/2120Z
 
Усть-Баргузин
SYNAR 30635 Усть-Баргузин 211500Z 23002MPS //// -SHRA OVC020CB 09/08 Q1010 RMK QFE716/0955 CLD:8CB


NOWCAST.SU UIUI 211600Z VRB02MPS 3000 -RA BR OVC005 06/06 Q1011 NOSIG
AUTOTAF.ME UIUI 211300Z 2114/2123 VRB02MPS 2500 -RA BR OVC004 TX07/2122Z TN06/2114Z
FM211800 VRB02MPS 0500 RA FG VV004
FM212000 VRB02MPS 0500 DZ FG NSC
BECMG 2120/2121 FG
BECMG 2121/2122 BKN004
BECMG 2122/2123 OVC002
 
Нижнеангарск
SYNAR 30433 Нижнеангарск 211500Z 03001MPS //// -SHRA OVC010CB 10/09 Q1011 RMK QFE715/0954 CLD:8CB


NOWCAST.SU UIUN 211600Z 34003MPS 9999 -RA OVC033 08/06 Q1015 NOSIG
AUTOTAF.ME UIUN 211300Z 2114/2123 34003MPS 9999 -RA OVC040 TX08/2114Z TN07/2117Z
FM211500 33003MPS 2500 -RA BR BKN040
FM211600 34003MPS 9999 -RA OVC040
 
Улан-Удэ (Байкал)
METAR UIUU 211600Z 31005MPS 9999 -SHRA BKN028CB 09/06 Q1009 R26/290250 NOSIG RMK MT OBSC QFE713/0951


NOWCAST.SU UIUU 211600Z 33004MPS 0500 RA FG VV005 07/06 Q1010 NOSIG
AUTOTAF.ME UIUU 211300Z 2114/2123 33004MPS 0500 RA FG VV025 TX07/2114Z TN07/2114Z
BECMG 2115/2116 OVC004
FM211700 33004MPS 0500 +DZ FG NSC
FM211900 33004MPS 0500 RA FG VV040
BECMG 2119/2120 OVC004
BECMG 2120/2121 OVC040
TAF UIUU 211400Z 2115/2215 33006G12MPS 9999 -SHRA OVC020CB
TEMPO 2115/2203 VRB01MPS OVC011CB=
Кабанск
SYNAR 30729 Кабанск 211500Z 26004MPS //// RERA OVC010 08/07 Q1013 RMK QFE718/0957 CLD:8NS


NOWCAST.SU UIUX 211600Z 28003MPS 6000 -SHRA BR OVC010CB 08/07 Q1012 NOSIG
AUTOTAF.ME UIUX 211300Z 2114/2123 30003MPS 5000 -SHRA BR OVC008CB TX08/2114Z TN07/2121Z
FM211700 VRB02MPS 9000 -RA BR OVC008
FM211800 VRB02MPS 5000 BR NSC
BECMG 2119/2120 2500
FM212100 24003MPS 2500 -RA BR OVC008
BECMG 2122/2123 5000
 
Александрия
SYNAR 33614 Светловодск 211500Z 31004MPS 9999 FEW033 24/15 Q1016 RMK QFE754/1005 CLD:3CUCI
(10/41KM)


NOWCAST.SU UKBA 211600Z 33004MPS 9999 -RA FEW029 23/12 Q1016 NOSIG
RMK TURB: MOD SFC/FL50
AUTOTAF.ME UKBA 211300Z 2114/2123 32007MPS 9999 -RA SCT040 TX25/2114Z TN16/2122Z
FM211700 34003MPS CAVOK
BECMG 2117/2118 VRB02MPS
BECMG 2120/2121 SCT040
BECMG 2121/2122 NSC
 
Киев (Борисполь)
SYNAR 33345 Киев 211500Z 31002MPS CAVOK 25/10 Q1017 RMK QFE747/0996 CLD:3AC
(290/24KM)


NOWCAST.SU UKBB 211600Z 30004MPS 9999 SCT046TCU 23/13 Q1016 NOSIG
RMK TURB: MOD SFC/FL70
AUTOTAF.ME UKBB 211300Z 2114/2123 31004MPS 9999 SCT040TCU TX24/2114Z TN15/2123Z
BECMG 2116/2117 NSC
 
Белая Церковь
SYNAR 33466 Мироновка 211500Z 27003MPS 9999 FEW033 24/11 Q1017 RMK QFE749/0998 CLD:1CU
(100/72KM)


NOWCAST.SU UKBC 211600Z 27003MPS 9999 FEW390 23/13 Q1017 NOSIG
RMK TURB: MOD SFC/FL50
AUTOTAF.ME UKBC 211300Z 2114/2123 27004MPS 9999 SCT040TCU TX24/2114Z TN15/2122Z
BECMG 2115/2116 NSC
 
Конотоп
SYNAR 33261 Конотоп 211500Z 27002MPS 9999 SCT020 24/13 Q1015 RMK QFE747/0997 CLD:3CU


NOWCAST.SU UKBF 211600Z 30004MPS 9999 -RA BKN063 21/14 Q1015 NOSIG
RMK TURB: MOD SFC/FL50
AUTOTAF.ME UKBF 211300Z 2114/2123 30005G11MPS 9999 -RA SCT040 TX23/2114Z TN14/2123Z
BECMG 2115/2116 NSC
BECMG 2121/2122 SCT040
 
Кировоград (Фёдоровка)
SYNAR 33711 Кропивницкий 211500Z 32004MPS CAVOK 27/12 Q1016 RMK QFE746/0995 CLD:2AC
(0/17KM)


NOWCAST.SU UKBK 211600Z 33004MPS 9999 FEW260 24/10 Q1017 NOSIG
RMK TURB: MOD SFC/FL50
AUTOTAF.ME UKBK 211300Z 2114/2123 32005MPS CAVOK TX26/2114Z TN16/2122Z
 
Киев (Наливайковка)
SYNAR 33345 Киев 211500Z 31002MPS CAVOK 25/10 Q1017 RMK QFE747/0996 CLD:3AC
(100/60KM)


NOWCAST.SU UKBN 211600Z 29003MPS 9999 BKN057 22/13 Q1016 NOSIG
RMK TURB: MOD SFC/FL50
AUTOTAF.ME UKBN 211300Z 2114/2123 29004MPS 9999 SCT040TCU TX24/2114Z TN14/2123Z
BECMG 2115/2116 NSC
 
Донецк
SYNAR 34415 Изюм 211500Z 32005MPS 9999 SCT033 25/10 Q1012 RMK QFE752/1003 CLD:3CU
(350/127KM)


NOWCAST.SU UKCC 211600Z 33010G15MPS 9999 SKC 24/10 Q1014 NOSIG
RMK TURB: MOD SFC/FL50
AUTOTAF.ME UKCC 211300Z 2114/2123 33011G16MPS CAVOK TX25/2114Z TN17/2122Z
BECMG 2116/2117 33005G13MPS
 
Новоайдар
SYNAR 34432 Чертково 211500Z 31006G12MPS 9999 FEW020CB 23/08 Q1009 RMK QFE743/0991 CLD:5CBCI
(60/90KM)


NOWCAST.SU UKCD 211600Z 32011G16MPS 9999 SKC 23/10 Q1012 NOSIG
RMK TURB: MOD SFC/FL50
AUTOTAF.ME UKCD 211300Z 2114/2123 32013G18MPS 9999 -RA NSC TX25/2114Z TN16/2123Z
BECMG 2118/2119 31005G13MPS
 
Краматорск
SYNAR 34415 Изюм 211500Z 32005MPS 9999 SCT033 25/10 Q1012 RMK QFE752/1003 CLD:3CU
(340/58KM)


NOWCAST.SU UKCK 211600Z 33010G15MPS 9999 SKC 23/10 Q1013 NOSIG
RMK TURB: MOD SFC/FL50
AUTOTAF.ME UKCK 211300Z 2114/2123 33012G17MPS CAVOK TX25/2114Z TN16/2123Z
FM211700 33005G13MPS 9999 -RA SCT040
BECMG 2119/2120 NSC
 
Мариуполь
SYNAR 34727 Ейск 211500Z 33006G10MPS CAVOK 27/11 Q1010 RMK QFE757/1010 CLD:SKC
(120/69KM)


NOWCAST.SU UKCM 211600Z 33010G15MPS 9999 SKC 26/11 Q1013 NOSIG
RMK TURB: MOD SFC/FL50
AUTOTAF.ME UKCM 211300Z 2114/2123 33011G16MPS CAVOK TX27/2114Z TN20/2123Z
BECMG 2116/2117 SCT040TCU
BECMG 2117/2118 34005G12MPS
BECMG 2119/2120 NSC
FM212200 34004MPS 9999 SCT040
FM212300 34004MPS CAVOK
 
Северодонецк
SYNAR 34415 Изюм 211500Z 32005MPS 9999 SCT033 25/10 Q1012 RMK QFE752/1003 CLD:3CU
(290/96KM)


NOWCAST.SU UKCS 211600Z 33010G15MPS 9999 SKC 23/10 Q1012 NOSIG
RMK TURB: MOD SFC/FL50
AUTOTAF.ME UKCS 211300Z 2114/2123 32012G17MPS CAVOK TX25/2114Z TN17/2122Z
FM211500 32011G16MPS 9999 -RA BKN040
FM211600 33010G15MPS CAVOK
BECMG 2117/2118 32005G13MPS
 
Луганск
SYNAR 34535 Каменск-Шахтинский 211500Z 30006G14MPS 9999 FEW020 25/05 Q1009 RMK QFE751/1002 CLD:1CU
(100/70KM)


NOWCAST.SU UKCW 211600Z 32012G17MPS 9999 -RA SCT048 23/09 Q1011 NOSIG
RMK TURB: MOD SFC/FL50
AUTOTAF.ME UKCW 211300Z 2114/2123 32013G18MPS 9999 -RA NSC TX25/2114Z TN17/2122Z
BECMG 2114/2115 SCT040
BECMG 2118/2119 NSC
BECMG 2119/2120 30005G13MPS
 
Енакиево
SYNAR 34720 Таганрог 211500Z 29098MPS //// FEW001 27/11 Q1012 RMK QFE756/1008 CLD:1
(150/121KM)


NOWCAST.SU UKCY 211600Z 33010G15MPS 9999 SKC 24/09 Q1013 NOSIG
RMK TURB: MOD SFC/FL50
AUTOTAF.ME UKCY 211300Z 2114/2123 33011G16MPS CAVOK TX25/2114Z TN17/2123Z
BECMG 2117/2118 33004MPS
BECMG 2122/2123 BKN040
 
Бердянск
SYNAR 34727 Ейск 211500Z 33006G10MPS CAVOK 27/11 Q1010 RMK QFE757/1010 CLD:SKC
(90/115KM)


NOWCAST.SU UKDB 211600Z 34009G14MPS 9999 SKC 26/10 Q1014 NOSIG
RMK TURB: MOD SFC/FL50
AUTOTAF.ME UKDB 211300Z 2114/2123 33010G15MPS CAVOK TX28/2114Z TN18/2123Z
BECMG 2116/2117 33005G11MPS
 
Днепр
SYNAR 34504 Днепропетровск 211500Z 32007MPS 9999 BKN033 24/13 Q1016 RMK QFE748/0998 CLD:5CU
(340/29KM)


NOWCAST.SU UKDD 211600Z 32005G11MPS 9999 -RA BKN045 24/11 Q1015 NOSIG
RMK TURB: MOD SFC/FL70
AUTOTAF.ME UKDD 211300Z 2114/2123 33009G14MPS 9999 -RA NSC TX26/2114Z TN17/2123Z
BECMG 2114/2115 BKN040
BECMG 2116/2117 32004MPS
BECMG 2121/2122 NSC
 
Запорожье (Мокрая)
SYNAR 34504 Днепропетровск 211500Z 32007MPS 9999 BKN033 24/13 Q1016 RMK QFE748/0998 CLD:5CU
(340/85KM)


NOWCAST.SU UKDE 211600Z 33005G10MPS 9999 -RA BKN046 24/11 Q1015 NOSIG
RMK TURB: MOD SFC/FL50
AUTOTAF.ME UKDE 211300Z 2114/2123 33009G14MPS 9999 -RA NSC TX26/2114Z TN17/2122Z
BECMG 2114/2115 BKN040
BECMG 2116/2117 33004MPS
BECMG 2122/2123 NSC
 
Мелитополь
 


NOWCAST.SU UKDM 211600Z 34008G13MPS 9999 -RA SCT065 26/10 Q1015 NOSIG
RMK TURB: MOD SFC/FL50
AUTOTAF.ME UKDM 211300Z 2114/2123 33009G14MPS CAVOK TX28/2114Z TN17/2123Z
BECMG 2114/2115 -RA
BECMG 2117/2118 33004MPS
 
Кривой Рог (Лозоватка)
SYNAR 33791 Кривой Рог 211500Z 33003MPS //// SKC 27/11 Q1019 RMK QFE752/1003 CLD:SKC


NOWCAST.SU UKDR 211600Z 34004MPS 9999 -RA FEW046 25/11 Q1016 NOSIG
RMK TURB: MOD SFC/FL50
AUTOTAF.ME UKDR 211300Z 2114/2123 33005MPS 9999 -RA BKN040 TX27/2114Z TN16/2123Z
FM211700 34003MPS CAVOK
BECMG 2120/2121 FEW040
 
Днепропетровск (Майское)
SYNAR 34504 Днепропетровск 211500Z 32007MPS 9999 BKN033 24/13 Q1016 RMK QFE748/0998 CLD:5CU
(280/50KM)


NOWCAST.SU UKEM 211600Z 33008G13MPS 9999 -RA BKN045 24/11 Q1015 NOSIG
RMK TURB: MOD SFC/FL50
AUTOTAF.ME UKEM 211300Z 2114/2123 33009G14MPS 9999 -RA BKN040 TX26/2114Z TN16/2123Z
BECMG 2116/2117 33004MPS
BECMG 2121/2122 NSC
 
Бахчисарай
SYNAR 33946 Симферополь 211500Z 31003MPS CAVOK 27/10 Q1016 RMK QFE746/0994 CLD:1CI
(20/34KM)


NOWCAST.SU UKFC 211600Z VRB02MPS 9999 SKC 20/12 Q1018 NOSIG
AUTOTAF.ME UKFC 211300Z 2114/2123 VRB02MPS CAVOK TX23/2114Z TN14/2121Z
 
Simferopol'
SYNAR 33946 Симферополь 211500Z 31003MPS CAVOK 27/10 Q1016 RMK QFE746/0994 CLD:1CI
(180/30KM)


NOWCAST.SU UKFF 211600Z 34004MPS 9999 SKC 24/11 Q1016 NOSIG
RMK TURB: MOD FL30/FL50
AUTOTAF.ME UKFF 211300Z 2114/2123 35004MPS CAVOK TX26/2114Z TN17/2123Z
 
 


NOSIG
 
Багерово
SYNAR 33983 Керчь 211500Z 31004MPS CAVOK 25/10 Q1015 RMK QFE757/1009 CLD:1AC
(110/15KM)


NOWCAST.SU UKFR 211600Z 27004MPS 9999 FEW290 24/13 Q1015 NOSIG
RMK TURB: MOD FL50/FL60
AUTOTAF.ME UKFR 211300Z 2114/2123 29004MPS CAVOK TX24/2115Z TN23/2114Z
BECMG 2120/2121 SCT040TCU
 
Севастополь (Бухта Круглая)
SYNAR 33998 Ай-Петри 211500Z 32003MPS 9999 FEW010 18/06 Q//// RMK CLD:2
(110/52KM)


NOWCAST.SU UKFS 211600Z 33005MPS 9999 SKC 22/16 Q1016 NOSIG
AUTOTAF.ME UKFS 211300Z 2114/2123 32005MPS CAVOK TX23/2114Z TN20/2121Z
BECMG 2119/2120 VRB02MPS
 
Харьков (Северный)
SYNAR 34300 Харьков 211500Z 27005MPS 9999 BKN033 24/10 Q1015 RMK QFE747/0996 CLD:5SC
(240/12KM)


NOWCAST.SU UKHD 211600Z 33005G13MPS 9999 -RA BKN035 22/12 Q1014 NOSIG
RMK TURB: MOD SFC/FL50
AUTOTAF.ME UKHD 211300Z 2114/2123 33009G14MPS CAVOK TX23/2114Z TN15/2123Z
FM211500 33009G14MPS 9999 -RA BKN040
BECMG 2116/2117 32004MPS
BECMG 2119/2120 NSC
 
Харьков (Основа)
SYNAR 34300 Харьков 211500Z 27005MPS 9999 BKN033 24/10 Q1015 RMK QFE747/0996 CLD:5SC
(290/12KM)


NOWCAST.SU UKHH 211600Z 33005G13MPS 9999 -RA BKN036 22/12 Q1014 NOSIG
RMK TURB: MOD SFC/FL50
AUTOTAF.ME UKHH 211300Z 2114/2123 33009G14MPS CAVOK TX24/2114Z TN16/2122Z
FM211500 33009G14MPS 9999 -RA BKN040
BECMG 2116/2117 32004MPS
BECMG 2119/2120 NSC
 
Кременчуг (Большая Кахновка)
SYNAR 33614 Светловодск 211500Z 31004MPS 9999 FEW033 24/15 Q1016 RMK QFE754/1005 CLD:3CUCI
(240/19KM)


NOWCAST.SU UKHK 211600Z 30005G11MPS 9999 -RA SCT064 24/12 Q1016 NOSIG
RMK TURB: MOD SFC/FL50
AUTOTAF.ME UKHK 211300Z 2114/2123 29009G14MPS CAVOK TX25/2114Z TN17/2123Z
BECMG 2115/2116 -RA
FM211700 31004MPS 9999 SCT040TCU
BECMG 2117/2118 NSC
 
Полтава-национальный (Супруновка)
SYNAR 33506 Полтава 211500Z 32005MPS 9999 FEW033 23/12 Q1015 RMK QFE747/0996 CLD:2CU
(70/12KM)


NOWCAST.SU UKHP 211600Z 32005G10MPS 9999 -RA BKN043 23/12 Q1015 NOSIG
RMK TURB: MOD SFC/FL50
AUTOTAF.ME UKHP 211300Z 2114/2123 32009G14MPS 9999 -RA BKN040 TX25/2114Z TN16/2122Z
BECMG 2114/2115 -RA DRDU
BECMG 2115/2116 -RA
FM211700 32004MPS CAVOK
 
Сумы
SYNAR 33275 Сумы 211500Z 29004MPS 9999 SCT020 25/13 Q1020 RMK QFE748/0998 CLD:3CU


NOWCAST.SU UKHS 211600Z 32004MPS 9999 -RA SCT037 21/13 Q1014 NOSIG
RMK TURB: MOD SFC/FL40
AUTOTAF.ME UKHS 211300Z 2114/2123 31005G11MPS 9999 -RA BKN040 TX23/2114Z TN15/2123Z
FM211700 32004MPS CAVOK
 
Чугуев
SYNAR 34300 Харьков 211500Z 27005MPS 9999 BKN033 24/10 Q1015 RMK QFE747/0996 CLD:5SC
(290/39KM)


NOWCAST.SU UKHW 211600Z 33005G13MPS 9999 -RA BKN038 22/13 Q1014 NOSIG
RMK TURB: MOD SFC/FL50
AUTOTAF.ME UKHW 211300Z 2114/2123 33009G14MPS CAVOK TX23/2114Z TN15/2123Z
FM211500 33009G14MPS 9999 -RA BKN040
BECMG 2116/2117 32004MPS
BECMG 2119/2120 NSC
 
Черкассы
SYNAR 33466 Мироновка 211500Z 27003MPS 9999 FEW033 24/11 Q1017 RMK QFE749/0998 CLD:1CU
(290/77KM)


NOWCAST.SU UKKE 211600Z 30004MPS 9999 SCT063TCU 23/13 Q1016 NOSIG
RMK TURB: MOD SFC/FL50
AUTOTAF.ME UKKE 211300Z 2114/2123 31005MPS CAVOK TX25/2114Z TN16/2122Z
 
Кировоград
SYNAR 33711 Кропивницкий 211500Z 32004MPS CAVOK 27/12 Q1016 RMK QFE746/0995 CLD:2AC


NOWCAST.SU UKKG 211600Z 33004MPS 9999 FEW280 24/10 Q1016 NOSIG
RMK TURB: MOD SFC/FL50
AUTOTAF.ME UKKG 211300Z 2114/2123 32005MPS CAVOK TX26/2114Z TN16/2122Z
BECMG 2119/2120 FEW040
BECMG 2121/2122 NSC
 
Киев (Жуляны им. И.И.Сикорского)
SYNAR 33345 Киев 211500Z 31002MPS CAVOK 25/10 Q1017 RMK QFE747/0996 CLD:3AC


NOWCAST.SU UKKK 211600Z 29004MPS 9999 FEW270 24/12 Q1016 NOSIG
RMK TURB: MOD SFC/FL50
AUTOTAF.ME UKKK 211300Z 2114/2123 29005MPS CAVOK TX25/2114Z TN16/2123Z
 
Киев (Киев/Антонов Международный)
SYNAR 33345 Киев 211500Z 31002MPS CAVOK 25/10 Q1017 RMK QFE747/0996 CLD:3AC
(130/35KM)


NOWCAST.SU UKKM 211600Z 28003MPS 9999 FEW280 22/13 Q1016 NOSIG
RMK TURB: MOD SFC/FL50
AUTOTAF.ME UKKM 211300Z 2114/2123 28004MPS CAVOK TX24/2114Z TN14/2123Z
 
Житомир (Смаковка)
SYNAR 33325 Житомир 211500Z 34002MPS 9999 FEW033 25/12 Q1018 RMK QFE743/0990 CLD:2CUCI


NOWCAST.SU UKKV 211600Z 28003MPS 9999 SKC 23/13 Q1017 NOSIG
RMK TURB: MOD SFC/FL40
AUTOTAF.ME UKKV 211300Z 2114/2123 29003MPS CAVOK TX24/2114Z TN15/2123Z
 
Самбор (Калинов)
SYNAR 33393 Львов 211500Z 27002MPS CAVOK 27/10 Q1018 RMK QFE734/0979 CLD:2CI
(60/53KM)


NOWCAST.SU UKLA 211600Z 10003MPS 9999 SKC 27/13 Q1015 NOSIG
AUTOTAF.ME UKLA 211300Z 2114/2123 09003MPS CAVOK TX28/2114Z TN18/2123Z
 
Ивано-Франковск
SYNAR 33526 Ивано-Франковск 211500Z 35003MPS CAVOK 29/08 Q1017 RMK QFE737/0983 CLD:SKC


NOWCAST.SU UKLI 211600Z 08003MPS 9999 SKC 26/13 Q1016 NOSIG
RMK TURB: MOD FL30/FL40
AUTOTAF.ME UKLI 211300Z 2114/2123 06003MPS CAVOK TX28/2114Z TN17/2122Z
 
Львов (Международный)
SYNAR 33393 Львов 211500Z 27002MPS CAVOK 27/10 Q1018 RMK QFE734/0979 CLD:2CI


NOWCAST.SU UKLL 211600Z VRB02MPS 9999 FEW340 27/11 Q1016 NOSIG
RMK TURB: MOD FL30/FL40
AUTOTAF.ME UKLL 211300Z 2114/2123 VRB02MPS CAVOK TX28/2114Z TN18/2122Z
FM212100 VRB02MPS 9999 VCSH BKN160CB
FM212300 VRB02MPS CAVOK
 
Черновцы
SYNAR 33658 Черновцы 211500Z 30002MPS CAVOK 29/08 Q1017 RMK QFE740/0987 CLD:SKC
(330/14KM)


NOWCAST.SU UKLN 211600Z VRB02MPS 9999 SKC 26/15 Q1016 NOSIG
RMK TURB: MOD FL30/FL40
AUTOTAF.ME UKLN 211300Z 2114/2123 VRB02MPS CAVOK TX27/2114Z TN17/2123Z
 
Ровно
SYNAR 33301 Ровно 211500Z 31003MPS CAVOK 24/10 Q1018 RMK QFE742/0990 CLD:SKC


NOWCAST.SU UKLR 211600Z VRB02MPS 9999 FEW340 24/13 Q1017 NOSIG
RMK TURB: MOD SFC/FL40
AUTOTAF.ME UKLR 211300Z 2114/2123 VRB02MPS CAVOK TX25/2114Z TN16/2123Z
 
Староконстантинов
SYNAR 33429 Хмельницкий 211500Z 26002MPS CAVOK 26/12 Q1018 RMK QFE732/0976 CLD:2CI
(210/41KM)


NOWCAST.SU UKLS 211600Z VRB02MPS 9999 FEW350 25/13 Q1017 NOSIG
RMK TURB: MOD SFC/FL50
AUTOTAF.ME UKLS 211300Z 2114/2123 28003MPS CAVOK TX26/2114Z TN16/2122Z
 
Ужгород
SYNAR 33631 Ужгород 211500Z 00000MPS CAVOK 30/17 Q1016 RMK QFE751/1001 CLD:SKC


NOWCAST.SU UKLU 211600Z VRB02MPS 9999 SKC 29/19 Q1015 NOSIG
RMK TURB: MOD SFC/FL40
AUTOTAF.ME UKLU 211300Z 2114/2123 VRB02MPS CAVOK TX29/2114Z TN22/2122Z
 
Львовский аэропорт Ягеллон
SYNAR 33393 Львов 211500Z 27002MPS CAVOK 27/10 Q1018 RMK QFE734/0979 CLD:2CI
(60/22KM)


NOWCAST.SU UKMC 211600Z 10003MPS 9999 SKC 27/12 Q1015 NOSIG
AUTOTAF.ME UKMC 211300Z 2114/2123 09003MPS CAVOK TX28/2114Z TN19/2122Z
 
Киев (Гоголев)
SYNAR 33345 Киев 211500Z 31002MPS CAVOK 25/10 Q1017 RMK QFE747/0996 CLD:3AC
(250/36KM)


NOWCAST.SU UKNG 211600Z 30004MPS 9999 SCT048TCU 23/14 Q1016 NOSIG
RMK TURB: MOD SFC/FL70
AUTOTAF.ME UKNG 211300Z 2114/2123 31004MPS 9999 SCT040TCU TX24/2114Z TN15/2122Z
BECMG 2116/2117 NSC
 
Арциз (Червоноглинская)
SYNAR 33886 Чадыр-Лунга 211500Z 23002MPS CAVOK 27/10 Q1029 RMK QFE755/1007 CLD:2CI
(300/41KM)


NOWCAST.SU UKOA 211600Z 14003MPS 9999 SKC 25/13 Q1017 NOSIG
RMK TURB: MOD FL40/FL50
AUTOTAF.ME UKOA 211300Z 2114/2123 VRB02MPS CAVOK TX27/2114Z TN17/2123Z
 
Одесса (Гидропорт)
SYNAR 33837 Одесса 211500Z 20003MPS CAVOK 23/12 Q1017 RMK QFE759/1012 CLD:3CI
(160/17KM)


NOWCAST.SU UKOE 211600Z 25003MPS 9999 SKC 25/11 Q1017 NOSIG
RMK TURB: MOD FL30/FL50
AUTOTAF.ME UKOE 211300Z 2114/2123 27003MPS CAVOK TX27/2114Z TN18/2123Z
 
Херсон (Чернобаевка)
SYNAR 33902 Херсон 211500Z 27001MPS CAVOK 27/10 Q1017 RMK QFE757/1010 CLD:SKC


NOWCAST.SU UKOH 211600Z 28006MPS 9999 FEW340 25/12 Q1016 NOSIG
RMK TURB: MOD FL40/FL50
AUTOTAF.ME UKOH 211300Z 2114/2123 29006MPS CAVOK TX27/2114Z TN19/2123Z
BECMG 2121/2122 35003MPS
 
Николаев (Международный)
SYNAR 33902 Херсон 211500Z 27001MPS CAVOK 27/10 Q1017 RMK QFE757/1010 CLD:SKC
(130/69KM)


NOWCAST.SU UKON 211600Z 33004MPS 9999 FEW380 27/09 Q1016 NOSIG
RMK TURB: MOD SFC/FL50
AUTOTAF.ME UKON 211300Z 2114/2123 33004MPS CAVOK TX28/2114Z TN19/2122Z
 
Одесса (Центральный)
SYNAR 33837 Одесса 211500Z 20003MPS CAVOK 23/12 Q1017 RMK QFE759/1012 CLD:3CI


NOWCAST.SU UKOO 211600Z 25003MPS 9999 SKC 25/12 Q1017 NOSIG
RMK TURB: MOD FL30/FL50
AUTOTAF.ME UKOO 211300Z 2114/2123 27003MPS CAVOK TX26/2114Z TN19/2122Z
 
Нежин
SYNAR 33135 Чернигов 211500Z 31004MPS 9999 FEW033 24/13 Q1019 RMK QFE751/1001 CLD:2CU
(310/60KM)


NOWCAST.SU UKRN 211600Z VRB02MPS 9999 -RA BKN046 21/13 Q1015 NOSIG
RMK TURB: MOD FL30/FL50
AUTOTAF.ME UKRN 211300Z 2114/2123 33003MPS 9999 -RA BKN025 TX23/2114Z TN14/2123Z
BECMG 2117/2118 NSC
 
Винница (Гавришовка)
SYNAR 33562 Винница 211500Z 34003MPS CAVOK 27/12 Q1024 RMK QFE741/0988 CLD:SKC


NOWCAST.SU UKWW 211600Z VRB02MPS 9999 FEW370 23/13 Q1017 NOSIG
RMK TURB: MOD SFC/FL50
AUTOTAF.ME UKWW 211300Z 2114/2123 30003MPS CAVOK TX24/2114Z TN16/2122Z
 
Архангельск (Талаги)
METAR ULAA 211600Z 33004MPS 200V010 9999 SCT013 07/07 Q0998 R26/290059 NOSIG RMK QFE747/0996


NOWCAST.SU ULAA 211600Z 32005G13MPS 9999 -RA OVC023 07/06 Q0998 NOSIG
RMK TURB: MOD SFC/FL30
AUTOTAF.ME ULAA 211300Z 2114/2123 31009G14MPS 5000 -RA BR OVC025 TX08/2114Z TN05/2121Z
FM211600 32005G13MPS 9999 -RA OVC025
FM211800 32004MPS 9999 BKN025
TAF ULAA 211400Z 2115/2215 35004G09MPS 6000 -SHRA BKN011CB
TEMPO 2115/2121 33004G11MPS 2000 SHRA BR BKN005 BKN010CB
TEMPO 2106/2215 27005G13MPS=
Северодвинск
SYNAR 22546 Северодвинск 211500Z 34004MPS 4000 -RA OVC009 08/07 Q999 RMK QFE748/0998 CLD:8NS


NOWCAST.SU ULAD 211600Z 33009G14MPS 6000 -RA BR BKN028 08/06 Q0999 NOSIG
RMK TURB: MOD SFC/FL30
AUTOTAF.ME ULAD 211300Z 2114/2123 32009G14MPS 5000 -RA BR OVC025 TX08/2114Z TN06/2123Z
FM211700 33005G13MPS 9999 -RA BKN025
BECMG 2117/2118 33004MPS
 
Мезень
SYNAR 22471 Мезень 211500Z 31008G11MPS 4000 -SHRA OVC009CB 05/04 Q992 RMK QFE741/0989 CLD:8CB


NOWCAST.SU ULAE 211600Z 35011G16MPS 1000 RASN BR OVC014 04/04 Q0992 NOSIG
RMK TURB: MOD SFC/FL30
AUTOTAF.ME ULAE 211300Z 2114/2123 35007MPS 5000 -RA BR OVC015 TX06/2114Z TN03/2119Z
FM211600 35011G16MPS 1200 RASN BR OVC015
FM211700 34012MPS 1200 RASN BR OVC004
FM211800 33012MPS 0500 RA FG VV004
FM211900 33012MPS 5000 -DZ BR OVC004
FM212000 33011G16MPS 2500 RASN BR OVC008
BECMG 2120/2121 OVC015
FM212300 32010MPS 5000 -RASN BR OVC015
 
Архангельск (Васьково)
SYNAR 22550 Архангельск 211500Z 33002MPS 4000 -RA OVC010 07/07 Q998 RMK QFE747/0996 CLD:8NS
(70/16KM)


NOWCAST.SU ULAH 211600Z 32005G13MPS 9999 -RA OVC026 07/06 Q0998 NOSIG
RMK TURB: MOD SFC/FL30
AUTOTAF.ME ULAH 211300Z 2114/2123 31009G14MPS 5000 -RA BR OVC025 TX08/2114Z TN05/2123Z
FM211600 32005G13MPS 9999 -RA OVC025
FM211800 32004MPS 9999 BKN025
 
Лешуконское
SYNAR 22573 Лешуконское 211500Z 24006MPS 9999 OVC013CB 08/06 Q991 RMK QFE736/0982 CLD:8CB


NOWCAST.SU ULAL 211600Z 27005G13MPS 9999 -RA OVC021 07/05 Q0991 NOSIG
RMK TURB: MOD SFC/FL30
AUTOTAF.ME ULAL 211300Z 2114/2123 25009G14MPS 9999 -RA OVC025 TX09/2114Z TN03/2122Z
FM211500 25009G14MPS 5000 -RA BR OVC025
FM211600 27005G13MPS 9999 -RA OVC025
FM211700 28005G13MPS 5000 -RA BR OVC025
FM211800 29005G13MPS 2500 -RA BR OVC015
BECMG 2118/2119 RASN BR
BECMG 2119/2120 -RA BR
FM212100 30005G13MPS 0500 RA FG VV008
FM212200 30005G13MPS 5000 -RA BR OVC008
FM212300 29005G12MPS 9999 -RASN NSC
 
Нарьян-Мар
SYNAR 23205 Нарьян-Мар 211500Z 13001MPS 9999 RESHRA OVC005 11/11 Q986 RMK QFE738/0984 CLD:8ST


NOWCAST.SU ULAM 211600Z 22005G11MPS 9999 -SHRA BKN017CB 13/12 Q0986 NOSIG
RMK TURB: MOD SFC/FL30
AUTOTAF.ME ULAM 211300Z 2114/2123 20004MPS 5000 -SHRA BR BKN008CB TX13/2115Z TN09/2122Z
BECMG 2114/2115 BKN015CB
FM211600 22005G11MPS 9999 -SHRA BKN015CB
BECMG 2116/2117 BKN008CB
BECMG 2117/2118 -RA BR
FM211900 19004MPS 9999 OVC015
FM212100 18004MPS 9999 -RA OVC008
FM212200 19004MPS 9999 -DZ OVC002
 
Шенкурск
SYNAR 22768 Шенкурск 211500Z 27002MPS 9999 RESHRA BKN021CB 15/11 Q999 RMK QFE745/0993 CLD:6CB


NOWCAST.SU ULAN 211600Z 28005G13MPS 9999 -SHRA BKN032CB 16/09 Q0998 NOSIG
RMK TURB: MOD SFC/FL40
AUTOTAF.ME ULAN 211300Z 2114/2123 28005G13MPS 9999 -SHRA BKN040CB TX17/2114Z TN10/2122Z
BECMG 2118/2119 BKN015CB
FM212000 29003MPS 2500 -SHRA BR BKN004 OVC010CB
BECMG 2120/2121 -DZ BR
 
Онега
SYNAR 22641 Онега 211500Z 00000MPS 9999 -SHRA OVC008CB 11/11 Q1000 RMK QFE749/0998 CLD:8CB


NOWCAST.SU ULAO 211600Z 32004MPS 3000 -RA BR OVC005 09/08 Q1001 NOSIG
AUTOTAF.ME ULAO 211300Z 2114/2123 31005G10MPS 5000 -RA BR OVC004 TX09/2114Z TN07/2123Z
BECMG 2115/2116 2500
BECMG 2116/2117 5000
BECMG 2117/2118 BR
FM212000 32005MPS 2500 -DZ BR BKN004
FM212200 33005MPS 7000 -DZ BR BKN002
FM212300 34005MPS 9999 -DZ BKN002
 
Карпогоры
SYNAR 22671 Карпогоры 211500Z 29003G10MPS 9999 RESHRA OVC020CB 12/09 Q993 RMK QFE739/0985 CLD:8CB


NOWCAST.SU ULAP 211600Z 28009G16MPS 8000 -RA BR OVC031 09/08 Q0994 NOSIG
RMK TURB: MOD SFC/FL30
AUTOTAF.ME ULAP 211300Z 2114/2123 27009G17MPS 5000 -SHRA BR OVC025CB TX11/2114Z TN04/2121Z
BECMG 2115/2116 -RA BR
FM211700 28009G14MPS 9999 -RA OVC025
BECMG 2118/2119 OVC015
FM212000 29005G13MPS 7000 -RA BR OVC015
FM212100 30004MPS 0500 RA FG VV015
FM212200 30004MPS 1200 +DZ FG VV004
FM212300 29004MPS 5000 -RASN BR OVC008
 
Каргополь
SYNAR 22845 Каргополь 211500Z 30003MPS 9999 SCT033 18/07 Q1002 RMK QFE740/0987 CLD:4SC


NOWCAST.SU ULAR 211600Z 27005G13MPS 9999 -SHRA BKN065CB 16/09 Q1002 NOSIG
RMK TURB: MOD SFC/FL40
AUTOTAF.ME ULAR 211300Z 2114/2123 28005G13MPS 9999 -SHRA BKN060CB TX17/2114Z TN11/2121Z
BECMG 2119/2120 VCSH
BECMG 2121/2122 BKN015
 
Соловки
SYNAR 22429 Соловки 211500Z 36002MPS 9999 OVC050CB 10/08 Q1001 RMK QFE750/1000 CLD:8CB


NOWCAST.SU ULAS 211600Z 35004MPS 2600 -RA BR OVC001 07/06 Q1002 NOSIG
AUTOTAF.ME ULAS 211300Z 2114/2123 36006MPS 2500 -RA BR OVC002 TX07/2114Z TN07/2114Z
BECMG 2117/2118 BKN040
FM211900 33004MPS 7000 BR NSC
FM212000 34005MPS 9999 BKN025
BECMG 2120/2121 BKN015
BECMG 2121/2122 BKN025
 
Нижняя Пеша
SYNAR 22383 Нижняя Пеша 211500Z 31003MPS 9999 OVC003 10/09 Q985 RMK QFE737/0983 CLD:8ST


NOWCAST.SU ULAV 211600Z 24005MPS 3000 -RA BR OVC005 07/07 Q0986 NOSIG
AUTOTAF.ME ULAV 211300Z 2114/2123 22006MPS 5000 -SHRA BR BKN004 BKN010CB TX11/2114Z TN01/2121Z
BECMG 2114/2115 OVC008CB
FM211600 24005MPS 2500 -RA BR OVC004
BECMG 2116/2117 29005MPS
FM211800 32005MPS 0500 RA FG VV004
BECMG 2119/2120 RA FG
FM212100 31008MPS 1200 RASN BR OVC004
FM212200 31008MPS 1200 SN BR OVC004
FM212300 31010MPS 1200 RASN BR OVC004
 
Долгощелье
SYNAR 22365 Абрамовский маяк 211500Z 34013G17MPS 4000 -RA OVC006 04/03 Q994 RMK QFE743/0991 CLD:8NS
(350/37KM)


NOWCAST.SU ULBD 211600Z 34011G17MPS 0500 +RASN FG VV005 04/04 Q0993 NOSIG
RMK TURB: MOD SFC/FL30
AUTOTAF.ME ULBD 211300Z 2114/2123 35009G14MPS 5000 -RA BR OVC015 TX05/2114Z TN03/2118Z
BECMG 2114/2115 2500
FM211600 34011G17MPS 0500 +RASN FG VV004
FM211700 33011G17MPS 1200 RASN BR OVC008
BECMG 2117/2118 OVC015
FM211900 33011G17MPS 5000 -RASN BR OVC015
BECMG 2120/2121 OVC025
 
Каменка
SYNAR 22471 Мезень 211500Z 31008G11MPS 4000 -SHRA OVC009CB 05/04 Q992 RMK QFE741/0989 CLD:8CB


NOWCAST.SU ULBK 211600Z 35011G16MPS 1000 RASN BR OVC014 04/04 Q0992 NOSIG
RMK TURB: MOD SFC/FL30
AUTOTAF.ME ULBK 211300Z 2114/2123 35007MPS 5000 -RA BR OVC015 TX05/2114Z TN03/2119Z
FM211500 35011G16MPS 2500 -RA BR OVC004
FM211600 35011G16MPS 1200 RASN BR OVC015
FM211700 34012MPS 1200 RASN BR OVC004
FM211800 33012MPS 0500 RA FG VV004
FM211900 33012MPS 5000 -DZ BR OVC004
FM212000 33011G16MPS 2500 RASN BR OVC004
BECMG 2120/2121 OVC015
FM212200 32010MPS 5000 -RASN BR OVC015
 
Шойна
SYNAR 22271 Шойна 211500Z 36010G14MPS 9999 OVC020 03/01 Q994 RMK QFE744/0992 CLD:8SC


NOWCAST.SU ULBO 211600Z 01011MPS 0500 +RASN FG VV014 03/01 Q0994 NOSIG
RMK TURB: MOD SFC/FL30
AUTOTAF.ME ULBO 211300Z 2114/2123 02010MPS 0200 +RASN FG BKN015 TX03/2114Z TN03/2114Z
FM211800 36011MPS 9999 BKN015
BECMG 2119/2120 BR
BECMG 2120/2121 -RASN BR
 
Верхняя Золотица
SYNAR 22446 Зимнегорский Маяк 211500Z 01002MPS 9999 BKN020 05/05 Q998 RMK QFE741/0989 CLD:8SCAC
(230/38KM)


NOWCAST.SU ULBW 211600Z 34005G13MPS 5000 -RA BR OVC016 05/03 Q0998 NOSIG
RMK TURB: MOD SFC/FL30
AUTOTAF.ME ULBW 211300Z 2114/2123 34009G16MPS 5000 -RA BR OVC015 TX05/2114Z TN03/2120Z
FM211500 34009G16MPS 2500 RA BR OVC015
FM211600 34005G13MPS 5000 -RA BR OVC015
FM211700 35005G13MPS 9999 -RA OVC015
FM211800 35004MPS 9999 BKN025
 
Рогачёво (Амдерма-2)
SYNAR 20744 Малые Кармакулы 211500Z 10009MPS 9999 SCT020 04/01 Q1003 RMK QFE751/1001 CLD:8SCAC
(10/83KM)


NOWCAST.SU ULDA 211600Z 07010G18MPS 9999 DRDU SCT110 02/M01 Q1000 NOSIG
AUTOTAF.ME ULDA 211300Z 2114/2123 08009G16MPS 9999 DRDU NSC TX02/2114Z TN01/2118Z
FM212000 07013G21MPS 9999 -RA SCT015
BECMG 2120/2121 SCT025
 
Амдерма
SYNAR 23022 Амдерма 211500Z 08011MPS CAVOK 01/M00 Q998 RMK QFE744/0992 CLD:7AC


NOWCAST.SU ULDD 211600Z 09007G15MPS 9999 BKN190 02/00 Q0999 NOSIG
AUTOTAF.ME ULDD 211300Z 2114/2123 09007G15MPS CAVOK TX02/2114Z TN02/2114Z
BECMG 2122/2123 -RA BR
 
МР Титова
SYNAR 23112 Варандей 211500Z 08010G14MPS 9999 -RA OVC066 03/02 Q992 RMK QFE743/0991 CLD:8NS
(340/60KM)


NOWCAST.SU ULDI 211600Z 12007G15MPS 0500 RA FG VV006 04/03 Q0992 NOSIG
RMK TURB: MOD SFC/FL30
AUTOTAF.ME ULDI 211300Z 2114/2123 11007G15MPS 2500 -RA BR OVC004 TX05/2122Z TN04/2114Z
FM211500 11007G15MPS 0500 RA FG VV004
BECMG 2115/2116 OVC008
FM211900 13006G14MPS 1200 RA BR OVC008
FM212000 13005G13MPS 0500 RA FG VV008
BECMG 2121/2122 OVC004
 
МЛСП Приразломная
SYNAR 23112 Варандей 211500Z 08010G14MPS 9999 -RA OVC066 03/02 Q992 RMK QFE743/0991 CLD:8NS
(150/57KM)


NOWCAST.SU ULDP 211600Z 09012G20MPS 3000 -RA BR OVC004 04/02 Q0994 NOSIG
RMK TURB: MOD SFC/FL30
AUTOTAF.ME ULDP 211300Z 2114/2123 09011G18MPS 2500 BR NSC TX04/2114Z TN04/2114Z
FM211500 09012G19MPS 2500 -DZ BR OVC004
BECMG 2115/2116 -RA BR
BECMG 2118/2119 OVC002
FM212100 09012G18MPS 2500 RA BR OVC004
FM212200 09011G17MPS 2500 -RA BR OVC002
 
МР Требса
SYNAR 23112 Варандей 211500Z 08010G14MPS 9999 -RA OVC066 03/02 Q992 RMK QFE743/0991 CLD:8NS
(50/17KM)


NOWCAST.SU ULDR 211600Z 12008G16MPS 2900 -RA BR OVC004 05/04 Q0990 NOSIG
RMK TURB: MOD SFC/FL30
AUTOTAF.ME ULDR 211300Z 2114/2123 11008G16MPS 2500 -DZ BR NSC TX06/2121Z TN05/2114Z
FM211600 12008G16MPS 2500 -RA BR OVC004
FM211900 14006G14MPS 5000 -RA BR OVC015
BECMG 2119/2120 OVC008
BECMG 2120/2121 OVC004
BECMG 2121/2122 2500
FM212300 15004MPS 1200 RA BR OVC002
 
Каратайка
SYNAR 23024 Мыс Белый Нос 211500Z 07010MPS CAVOK 04/01 Q998 RMK QFE747/0997 CLD:8AC
(330/104KM)


NOWCAST.SU ULDT 211600Z 10007G14MPS 9999 BKN060 04/02 Q0996 NOSIG
AUTOTAF.ME ULDT 211300Z 2114/2123 10007G13MPS 5000 BR NSC TX05/2114Z TN04/2116Z
FM211600 10007G14MPS CAVOK
FM211700 10007G15MPS 5000 BR NSC
BECMG 2117/2118 OVC040
BECMG 2118/2119 -RA BR
BECMG 2121/2122 BKN004
FM212300 11006G13MPS 2500 -RA BR BKN004
 
Варандей
SYNAR 23112 Варандей 211500Z 08010G14MPS 9999 -RA OVC066 03/02 Q992 RMK QFE743/0991 CLD:8NS


NOWCAST.SU ULDW 211600Z 10009G16MPS 3000 -RA BR OVC004 03/03 Q0993 NOSIG
AUTOTAF.ME ULDW 211300Z 2114/2123 10008G16MPS 2500 BR OVC004 TX03/2114Z TN03/2114Z
BECMG 2115/2116 -RA BR
BECMG 2121/2122 RA BR
FM212300 11005MPS 0500 RA FG VV002
 
Харьягинский
SYNAR 23215 Хорей-Вер 211500Z 10005MPS 9999 -RA OVC049 09/08 Q990 RMK QFE736/0981 CLD:8NS
(70/58KM)


NOWCAST.SU ULEG 211600Z 15007G12MPS 3000 -RA BR BKN005 13/13 Q0989 NOSIG
AUTOTAF.ME ULEG 211300Z 2114/2123 14009G16MPS 2500 -RA BR OVC004 TX13/2114Z TN12/2120Z
FM211700 16005MPS 8000 -RA BR BKN008
FM211800 18004MPS 9999 -SHRA BKN008CB
FM212000 20004MPS 9999 -RA BKN015
FM212100 20004MPS 9000 BR NSC
FM212200 19004MPS 9999 OVC002
 
Хорей-Вер
SYNAR 23215 Хорей-Вер 211500Z 10005MPS 9999 -RA OVC049 09/08 Q990 RMK QFE736/0981 CLD:8NS


NOWCAST.SU ULEH 211600Z 13007G15MPS 0500 RA FG VV002 07/07 Q0990 NOSIG
RMK TURB: MOD SFC/FL30
AUTOTAF.ME ULEH 211300Z 2114/2123 12008G16MPS 2500 -RA BR OVC008 TX11/2122Z TN07/2114Z
FM211500 12008G16MPS 0500 RA FG VV004
FM211800 14005G12MPS 1200 RA BR OVC004
FM211900 15005G11MPS 0500 RA FG VV004
FM212200 16004MPS 1200 DZ BR BKN004
FM212300 17003MPS 5000 -DZ BR BKN008
 
Индига
SYNAR 22292 Индига 211500Z 36009MPS 3900 BR OVC010 02/02 Q986 RMK QFE739/0986 CLD:8ST
(280/16KM)


NOWCAST.SU ULEI 211600Z 02004MPS 5000 -RA BR OVC009 05/05 Q0986 NOSIG
AUTOTAF.ME ULEI 211300Z 2114/2123 04005MPS 9999 -RA OVC015 TX06/2114Z TN01/2123Z
FM211500 03004MPS 5000 -RA BR OVC008
BECMG 2116/2117 OVC004
FM211800 34004MPS 0500 DZ FG VV004
BECMG 2118/2119 OVC008
FM212000 32005MPS 0500 RA FG VV004
 
Коткино
SYNAR 23205 Нарьян-Мар 211500Z 13001MPS 9999 RESHRA OVC005 11/11 Q986 RMK QFE738/0984 CLD:8ST
(50/106KM)


NOWCAST.SU ULEK 211600Z 21009MPS 9999 -RA OVC029 14/13 Q0986 NOSIG
RMK TURB: MOD SFC/FL30
AUTOTAF.ME ULEK 211300Z 2114/2123 22008MPS 9999 -SHRA BKN025CB TX15/2114Z TN07/2123Z
BECMG 2115/2116 -RA
BECMG 2118/2119 OVC002
BECMG 2119/2120 -RA BR
FM212100 21005G11MPS 5000 -RA BR OVC025
FM212200 22005G10MPS 5000 -RA BR OVC015
FM212300 22007MPS 5000 -RA BR OVC004
 
Южное Шапкино
SYNAR 23215 Хорей-Вер 211500Z 10005MPS 9999 -RA OVC049 09/08 Q990 RMK QFE736/0981 CLD:8NS
(80/145KM)


NOWCAST.SU ULEU 211600Z 22008MPS 8000 -SHRA BR BKN025CB 14/13 Q0988 NOSIG
RMK TURB: MOD SFC/FL40
AUTOTAF.ME ULEU 211300Z 2114/2123 22005G11MPS 2500 -SHRA BR BKN015CB TX15/2114Z TN11/2121Z
FM211500 22008MPS 2500 SHRA BR BKN004 BKN010CB
FM211600 22008MPS 8000 -SHRA BR BKN025CB
BECMG 2116/2117 -SHRA
BECMG 2118/2119 -RA
FM212200 17004MPS 9999 OVC002
 
Красноборск
SYNAR 22876 Красноборск 211500Z 24004MPS 9999 SCT020CB 18/12 Q998 RMK QFE743/0991 CLD:5CBAC


NOWCAST.SU ULKB 211600Z 26004MPS 9999 SKC 15/10 Q0999 NOSIG
RMK TURB: MOD SFC/FL30
AUTOTAF.ME ULKB 211300Z 2114/2123 27004MPS 9999 -SHRA BKN025CB TX17/2114Z TN10/2123Z
FM211500 26004MPS 5000 -SHRA HZ BKN015CB
FM211600 26004MPS CAVOK
FM211700 26004MPS 9999 -SHRA BKN080CB
BECMG 2117/2118 VCSH
FM211900 26003MPS CAVOK
 
Котлас
SYNAR 22887 Котлас 211500Z 26004MPS 9999 FEW033 19/11 Q998 RMK QFE743/0991 CLD:2CUAC


TSAR ULKK 211600Z LAST HOUR TS OBS: 040/107KM, 050/88-96KM, 060/88KM
NEAREST TS 50/88KM
NOWCAST.SU ULKK 211600Z 26004MPS 5000 -SHRA HZ BKN055CB 16/11 Q0999 NOSIG
RMK TURB: MOD SFC/FL30
AUTOTAF.ME ULKK 211300Z 2114/2123 27004MPS 5000 HZ NSC TX17/2114Z TN10/2123Z
FM211500 27004MPS 5000 -SHRA HZ BKN060CB
FM211700 26004MPS 9999 -SHRA BKN060CB
BECMG 2117/2118 VCSH
FM212000 25003MPS CAVOK
BECMG 2122/2123 BKN025
 
Котлас (Савватия)
SYNAR 22887 Котлас 211500Z 26004MPS 9999 FEW033 19/11 Q998 RMK QFE743/0991 CLD:2CUAC
(340/27KM)


TSAR ULKS 211600Z LAST HOUR TS OBS: 030/103-122KM, 040/97-128KM
NEAREST TS 40/97KM
NOWCAST.SU ULKS 211600Z 26004MPS 9999 -SHRA BKN023CB 15/12 Q0999 NOSIG
RMK TURB: MOD SFC/FL30
AUTOTAF.ME ULKS 211300Z 2114/2123 27004MPS 9999 -SHRA BKN025CB TX17/2114Z TN10/2123Z
FM211500 27004MPS 5000 -SHRA BR BKN025CB
FM211600 26004MPS 9999 -SHRA BKN025CB
BECMG 2116/2117 BKN015CB
BECMG 2117/2118 VCSH
FM212000 25003MPS CAVOK
BECMG 2122/2123 BKN008
 
Верхняя Тойма
SYNAR 22778 Верхняя Тойма 211500Z 29005MPS 9999 RESHRA FEW020 14/11 Q998 RMK QFE743/0991 CLD:8CUAC


NOWCAST.SU ULKT 211600Z 27004MPS 9999 -SHRA BKN027CB 14/11 Q0998 NOSIG
RMK TURB: MOD SFC/FL30
AUTOTAF.ME ULKT 211300Z 2114/2123 28005G13MPS 9999 -SHRA BKN025CB TX16/2114Z TN10/2123Z
BECMG 2119/2120 BKN015CB
BECMG 2120/2121 -RA
FM212200 29003MPS 2500 DZ BR OVC004
 
Вельск
SYNAR 22867 Вельск 211500Z 27002MPS CAVOK 17/09 Q1002 RMK QFE743/0990 CLD:4AC


NOWCAST.SU ULKW 211600Z 28005G13MPS 9999 VCSH BKN043CB 17/08 Q1001 NOSIG
RMK TURB: MOD SFC/FL50
AUTOTAF.ME ULKW 211300Z 2114/2123 28009G14MPS 9999 VCSH BKN040CB TX18/2114Z TN11/2122Z
FM211700 28005G13MPS 9999 -RA NSC
BECMG 2117/2118 28004MPS
FM212000 26003MPS 9999 BKN025
BECMG 2121/2122 NSC
 
Санкт-Петербург (НИИ НМП)
SYNAR 26063 Санкт-Петербург 211500Z 27005G10MPS 9999 FEW033 19/12 Q1009 RMK QFE756/1008 CLD:1CU
(340/11KM)


NOWCAST.SU ULLE 211600Z 27004MPS 9999 SCT063TCU 18/09 Q1007 NOSIG
RMK TURB: MOD FL50/FL70
AUTOTAF.ME ULLE 211300Z 2114/2123 27009G14MPS CAVOK TX20/2114Z TN12/2123Z
BECMG 2114/2115 SCT040TCU
FM211600 27004MPS CAVOK
 
Морской Фасад
SYNAR 26063 Санкт-Петербург 211500Z 27005G10MPS 9999 FEW033 19/12 Q1009 RMK QFE756/1008 CLD:1CU


NOWCAST.SU ULLF 211600Z 28008MPS 9999 SKC 17/11 Q1007 NOSIG
RMK TURB: MOD FL40/FL70
AUTOTAF.ME ULLF 211300Z 2114/2123 27010G15MPS CAVOK TX18/2114Z TN14/2122Z
BECMG 2117/2118 28005G11MPS
 
ГПН-5
SYNAR 26063 Санкт-Петербург 211500Z 27005G10MPS 9999 FEW033 19/12 Q1009 RMK QFE756/1008 CLD:1CU


NOWCAST.SU ULLG 211600Z 27004MPS 9999 FEW250 18/10 Q1007 NOSIG
RMK TURB: MOD FL50/FL70
AUTOTAF.ME ULLG 211300Z 2114/2123 27009G14MPS CAVOK TX19/2114Z TN12/2122Z
BECMG 2114/2115 SCT040TCU
FM211600 27004MPS CAVOK
 
Санкт-Петербург (Пулково)
METAR ULLI 211600Z 30009MPS 9999 FEW043 20/06 Q1008 R88/090060 NOSIG


NOWCAST.SU ULLI 211600Z 27004MPS 9999 SCT046TCU 18/09 Q1007 NOSIG
RMK TURB: MOD FL50/FL70
AUTOTAF.ME ULLI 211300Z 2114/2123 27009G14MPS CAVOK TX20/2114Z TN12/2123Z
BECMG 2114/2115 SCT040TCU
BECMG 2115/2116 27004MPS
BECMG 2116/2117 NSC
TAF ULLI 211353Z 2115/2215 29006G11MPS 9999 BKN016
TEMPO 2115/2119 31009G15MPS 4900 -RA BKN012
PROB40 2120/2206 2500 BR=
Великий Новгород (Кречевицы)
SYNAR 26179 Великий Новгород 211500Z 33005MPS 4000 -SHRA BKN010CB 17/13 Q1010 RMK QFE755/1006 CLD:8CBAS
(210/14KM)


NOWCAST.SU ULLK 211600Z 29004MPS 9999 BKN046TCU 21/10 Q1008 NOSIG
RMK TURB: MOD SFC/FL90
AUTOTAF.ME ULLK 211300Z 2114/2123 28004MPS 9999 BKN040TCU TX22/2114Z TN12/2122Z
BECMG 2116/2117 NSC
 
Петродворец (Марли)
SYNAR 22899 Лисий Нос 211500Z 26004MPS //// //// 18/14 Q1008 RMK QFE755/1007 CLD:NO_OBSERVATIONS
(20/15KM)


NOWCAST.SU ULLN 211600Z 28008MPS 9999 SKC 17/10 Q1007 NOSIG
RMK TURB: MOD FL40/FL70
AUTOTAF.ME ULLN 211300Z 2114/2123 27010G15MPS CAVOK TX18/2114Z TN14/2121Z
BECMG 2117/2118 28005G10MPS
 
Санкт-Петербург (Хелидрайв)
SYNAR 26063 Санкт-Петербург 211500Z 27005G10MPS 9999 FEW033 19/12 Q1009 RMK QFE756/1008 CLD:1CU
(10/16KM)


NOWCAST.SU ULLO 211600Z 27004MPS 9999 SCT046TCU 18/09 Q1007 NOSIG
RMK TURB: MOD FL50/FL70
AUTOTAF.ME ULLO 211300Z 2114/2123 27009G14MPS CAVOK TX20/2114Z TN12/2123Z
BECMG 2114/2115 SCT040TCU
BECMG 2115/2116 27004MPS
BECMG 2116/2117 NSC
 
Пушкин
SYNAR 26063 Санкт-Петербург 211500Z 27005G10MPS 9999 FEW033 19/12 Q1009 RMK QFE756/1008 CLD:1CU
(360/32KM)


NOWCAST.SU ULLP 211600Z 30005G13MPS 9999 SCT044TCU 19/09 Q1008 NOSIG
RMK TURB: MOD SFC/FL50
AUTOTAF.ME ULLP 211300Z 2114/2123 30005G13MPS 9999 SCT040TCU TX21/2114Z TN11/2123Z
BECMG 2116/2117 NSC
 
КАД-52
SYNAR 26063 Санкт-Петербург 211500Z 27005G10MPS 9999 FEW033 19/12 Q1009 RMK QFE756/1008 CLD:1CU
(310/16KM)


NOWCAST.SU ULLR 211600Z 27004MPS 9999 SCT046TCU 18/10 Q1007 NOSIG
RMK TURB: MOD FL50/FL70
AUTOTAF.ME ULLR 211300Z 2114/2123 27009G14MPS CAVOK TX20/2114Z TN12/2122Z
BECMG 2114/2115 SCT040TCU
BECMG 2115/2116 27004MPS
BECMG 2116/2117 NSC
 
Сиверский
SYNAR 26069 Белогорка 211500Z 30004MPS 9999 SCT010CB 20/09 Q1009 RMK QFE748/0998 CLD:4CB


NOWCAST.SU ULLS 211600Z 30005G13MPS 9999 FEW250 19/08 Q1008 NOSIG
RMK TURB: MOD SFC/FL50
AUTOTAF.ME ULLS 211300Z 2114/2123 29005G13MPS 9999 SCT040TCU TX21/2114Z TN11/2122Z
BECMG 2115/2116 NSC
 
Бычье Поле
SYNAR 22899 Лисий Нос 211500Z 26004MPS //// //// 18/14 Q1008 RMK QFE755/1007 CLD:NO_OBSERVATIONS
(90/15KM)


NOWCAST.SU ULLY 211600Z 27008MPS 9999 SKC 16/11 Q1007 NOSIG
RMK TURB: MOD FL30/FL70
AUTOTAF.ME ULLY 211300Z 2114/2123 27009MPS CAVOK TX17/2114Z TN15/2122Z
 
Яхт-клуб
SYNAR 26063 Санкт-Петербург 211500Z 27005G10MPS 9999 FEW033 19/12 Q1009 RMK QFE756/1008 CLD:1CU


NOWCAST.SU ULLZ 211600Z 28008MPS 9999 SKC 17/10 Q1007 NOSIG
RMK TURB: MOD FL40/FL70
AUTOTAF.ME ULLZ 211300Z 2114/2123 27010G15MPS CAVOK TX18/2114Z TN13/2123Z
BECMG 2117/2118 28005G10MPS
 
Ковдор
SYNAR 22217 Кандалакша 211500Z 35001MPS 9999 RESHRA OVC020CB 08/08 Q1003 RMK QFE750/1000 CLD:8CB
(120/86KM)


NOWCAST.SU ULMD 211600Z 35004MPS 9999 -RA OVC019 07/05 Q1004 NOSIG
AUTOTAF.ME ULMD 211300Z 2114/2123 35004MPS 5000 -RA BR OVC015 TX08/2114Z TN05/2121Z
FM211600 35004MPS 9999 -RA OVC015
BECMG 2116/2117 BKN025
BECMG 2122/2123 BKN015
 
Апатиты (Хибины)
SYNAR 22213 Апатиты 211500Z 17001MPS 9999 BKN024 09/05 Q1003 RMK QFE740/0986 CLD:7SCACCI
(310/14KM)


NOWCAST.SU ULMK 211600Z 35004MPS 9999 -RA BKN040 10/01 Q1002 NOSIG
RMK TURB: MOD FL30/FL40
AUTOTAF.ME ULMK 211300Z 2114/2123 VRB02MPS 9999 -RA BKN040 TX10/2114Z TN04/2122Z
BECMG 2118/2119 NSC
 
Ловозеро
SYNAR 22127 Ловозеро 211500Z 34005MPS 9999 OVC017CB 05/01 Q1004 RMK QFE738/0984 CLD:8CB


NOWCAST.SU ULML 211600Z 36009G14MPS 9999 -RA BKN041 05/00 Q1003 NOSIG
RMK TURB: MOD FL30/FL40
AUTOTAF.ME ULML 211300Z 2114/2123 01008G13MPS 9999 -RA BKN040 TX07/2114Z TN02/2122Z
BECMG 2120/2121 OVC015
BECMG 2121/2122 -RASN BR
BECMG 2122/2123 7000
 
Мурманск
METAR ULMM 211600Z 02004MPS 9999 BKN015 05/03 Q1006 R31/090070 NOSIG RMK QFE747


NOWCAST.SU ULMM 211600Z 02008G13MPS 9999 -RA BKN032 06/00 Q1006 NOSIG
RMK TURB: MOD SFC/FL30
AUTOTAF.ME ULMM 211300Z 2114/2123 03009G14MPS 9999 BKN040TCU TX07/2114Z TN04/2120Z
BECMG 2115/2116 -RA
FM212000 34005G12MPS 9999 BKN015 BKN020TCU
TAF ULMM 211351Z 2115/2215 01005G10MPS 6000 -SHRA BKN011CB
TEMPO 2115/2122 BKN007 BKN011CB
BECMG 2122/2124 31005G12MPS BKN016CB
TEMPO 2206/2215 33008G16MPS 3100 -SHRA BKN011CB=
Мурманск (Килпъявр)
SYNAR 22113 Мурманск 211500Z 01005G09MPS 9999 OVC015CB 05/01 Q1006 RMK QFE750/1000 CLD:8CB
(120/29KM)


NOWCAST.SU ULMW 211600Z 03008G13MPS 9999 BKN032TCU 05/00 Q1006 NOSIG
RMK TURB: MOD SFC/FL40
AUTOTAF.ME ULMW 211300Z 2114/2123 03009G14MPS 9999 BKN040TCU TX06/2114Z TN04/2119Z
BECMG 2116/2117 -RA
FM212000 35008MPS 9999 OVC015
 
Краснощелье
SYNAR 22235 Краснощелье 211500Z 36003G07MPS 9999 OVC010 04/01 Q1002 RMK QFE737/0983 CLD:8SC


NOWCAST.SU ULMX 211600Z 01011G16MPS 5000 -RA HZ BKN040 05/M01 Q1001 NOSIG
RMK TURB: MOD SFC/FL40
AUTOTAF.ME ULMX 211300Z 2114/2123 01012G17MPS 5000 HZ NSC TX07/2114Z TN03/2119Z
FM211600 01011G16MPS 5000 -RA HZ BKN040
FM211700 36011G16MPS 1200 RASN HZ BKN040
FM211800 36011G16MPS 9999 BKN025TCU
BECMG 2120/2121 BKN015 BKN020TCU
BECMG 2122/2123 OVC040
 
Валдай-Авиа
SYNAR 26289 Валдай 211500Z 26002MPS 9999 BKN020 20/09 Q1009 RMK QFE739/0985 CLD:6CUCI


TSAR ULNA 211600Z LAST HOUR TS OBS: 020/166KM, 030/149-171KM
NEAREST TS 30/149KM
NOWCAST.SU ULNA 211600Z 28003MPS 9999 BKN055TCU 19/09 Q1009 NOSIG
RMK TURB: MOD FL30/FL70
AUTOTAF.ME ULNA 211300Z 2114/2123 28004MPS CAVOK TX20/2114Z TN12/2123Z
 
Боровичи
SYNAR 26291 Боровичи 211500Z 28003MPS 9999 SCT020 22/11 Q1008 RMK QFE748/0997 CLD:5CUACCI


TSAR ULNB 211600Z LAST HOUR TS OBS: 020/85-124KM, 030/89-111KM
NEAREST TS 20/85KM
NOWCAST.SU ULNB 211600Z VRB02MPS 9999 FEW230 17/09 Q1007 NOSIG
RMK TURB: MOD FL30/FL70
AUTOTAF.ME ULNB 211300Z 2114/2123 VRB02MPS 9999 -SHRA SCT040CB TX19/2114Z TN11/2123Z
FM211500 VRB02MPS CAVOK
 
Новгород
SYNAR 26179 Великий Новгород 211500Z 33005MPS 4000 -SHRA BKN010CB 17/13 Q1010 RMK QFE755/1006 CLD:8CBAS


NOWCAST.SU ULNN 211600Z 29004MPS 9999 FEW270 21/10 Q1008 NOSIG
RMK TURB: MOD SFC/FL70
AUTOTAF.ME ULNN 211300Z 2114/2123 29004MPS CAVOK TX22/2114Z TN12/2122Z
 
Старая Русса
SYNAR 26275 Старая Русса 211500Z 26003MPS 9999 SCT010CB 22/11 Q1010 RMK QFE755/1006 CLD:3CB


NOWCAST.SU ULNR 211600Z 29003MPS 9999 BKN063 20/11 Q1008 NOSIG
RMK TURB: MOD FL30/FL70
AUTOTAF.ME ULNR 211300Z 2114/2123 27003MPS 9999 BKN040TCU TX21/2114Z TN12/2123Z
BECMG 2114/2115 NSC
 
Валдай
SYNAR 26289 Валдай 211500Z 26002MPS 9999 BKN020 20/09 Q1009 RMK QFE739/0985 CLD:6CUCI


TSAR ULNW 211600Z LAST HOUR TS OBS: 020/159-180KM, 030/142-164KM
NEAREST TS 30/142KM
NOWCAST.SU ULNW 211600Z 28003MPS 9999 BKN045TCU 19/09 Q1009 NOSIG
RMK TURB: MOD FL30/FL70
AUTOTAF.ME ULNW 211300Z 2114/2123 29004MPS CAVOK TX20/2114Z TN12/2123Z
BECMG 2114/2115 BKN040TCU
BECMG 2117/2118 NSC
 
Великие Луки
SYNAR 26477 Великие Луки 211500Z 29002MPS 9999 FEW033 22/12 Q1012 RMK QFE749/0999 CLD:2CU


NOWCAST.SU ULOL 211600Z 27004MPS 9999 SCT045TCU 21/11 Q1010 NOSIG
RMK TURB: MOD SFC/FL70
AUTOTAF.ME ULOL 211300Z 2114/2123 28005G11MPS 9999 SCT040TCU TX23/2114Z TN13/2123Z
BECMG 2116/2117 NSC
 
Псков (Кресты)
METAR ULOO 211600Z 29006MPS 9999 FEW049 22/11 Q1011 R19/090067 NOSIG RMK QFE754


NOWCAST.SU ULOO 211600Z 29005G12MPS 9999 SKC 21/10 Q1010 NOSIG
RMK TURB: MOD SFC/FL50
AUTOTAF.ME ULOO 211300Z 2114/2123 28005G11MPS CAVOK TX23/2114Z TN11/2123Z
BECMG 2116/2117 SCT040TCU
BECMG 2117/2118 NSC
TAF ULOO 211351Z 2115/2124 28003G08MPS 9999 SCT020=
Середка
SYNAR 26258 Псков 211500Z 27002MPS 9999 //// 23/11 Q1012 RMK QFE754/1006 CLD:NO_OBSERVATIONS
(170/37KM)


NOWCAST.SU ULOR 211600Z 30010G15MPS 9999 SCT062TCU 20/11 Q1010 NOSIG
RMK TURB: MOD SFC/FL50
AUTOTAF.ME ULOR 211300Z 2114/2123 29010G15MPS CAVOK TX21/2114Z TN13/2123Z
BECMG 2121/2122 31005MPS
 
Петрозаводск (Бесовец)
METAR ULPB 211600Z 26003MPS 240V300 CAVOK 16/09 Q1004 R19/CLRD70 NOSIG RMK QFE749/0999


NOWCAST.SU ULPB 211600Z 31004MPS 9999 -SHRA BKN060CB 16/07 Q1003 NOSIG
RMK TURB: MOD SFC/FL40
AUTOTAF.ME ULPB 211300Z 2114/2123 29004MPS 9999 -SHRA BKN040CB TX17/2114Z TN13/2121Z
FM211700 31004MPS 9999 -RA NSC
BECMG 2119/2120 BKN040
TAF ULPB 211351Z 2115/2124 28005G10MPS 8000 SCT020=
Кемь
SYNAR 22520 Кемь-Порт 211500Z 36002MPS 4000 SHRA OVC018CB 10/09 Q1001 RMK QFE750/1000 CLD:8CB


NOWCAST.SU ULPE 211600Z 03003MPS 3000 -RA BR OVC026 09/07 Q1002 NOSIG
AUTOTAF.ME ULPE 211300Z 2114/2123 03004MPS 2500 -RA BR BKN025 TX10/2114Z TN07/2123Z
FM211800 VRB02MPS 2500 BR BKN004
BECMG 2118/2119 5000
FM212000 34003MPS 8000 -RA BR BKN025
FM212100 34003MPS 9999 -RA BKN025
BECMG 2121/2122 BKN002
BECMG 2122/2123 -DZ
 
Калевала
SYNAR 22408 Калевала 211500Z 30003MPS 9999 BKN040CB 15/10 Q1003 RMK QFE741/0989 CLD:7CBAC


NOWCAST.SU ULPK 211600Z 33003MPS 9999 -SHRA OVC025CB 13/09 Q1002 NOSIG
AUTOTAF.ME ULPK 211300Z 2114/2123 30004MPS 9999 -SHRA BKN025CB TX14/2114Z TN09/2123Z
BECMG 2117/2118 OVC015CB
BECMG 2119/2120 VCSH
BECMG 2120/2121 -RA
FM212300 36003MPS 9999 -RA BKN025
 
Валаам
SYNAR 22805 Валаам Остров 211500Z 33002MPS 9999 SCT010CB 10/07 Q1007 RMK QFE753/1004 CLD:7CBACCI


NOWCAST.SU ULPL 211600Z 32006MPS 9999 BKN067 12/05 Q1005 NOSIG
RMK TURB: MOD SFC/FL70
AUTOTAF.ME ULPL 211300Z 2114/2123 30005MPS 9999 VCSH BKN060CB TX12/2114Z TN11/2118Z
FM211500 32006MPS CAVOK
BECMG 2117/2118 -RA
 
Костомукша
SYNAR 22408 Калевала 211500Z 30003MPS 9999 BKN040CB 15/10 Q1003 RMK QFE741/0989 CLD:7CBAC
(20/70KM)


NOWCAST.SU ULPM 211600Z 29005G13MPS 9999 -SHRA BKN038CB 13/10 Q1003 NOSIG
RMK TURB: MOD SFC/FL30
AUTOTAF.ME ULPM 211300Z 2114/2123 29005G12MPS 9999 -SHRA BKN040CB TX14/2114Z TN10/2122Z
BECMG 2118/2119 OVC015CB
BECMG 2121/2122 BKN002 BKN010CB
FM212300 02003MPS 9000 -SHRA BR BKN002 OVC010CB
 
Петрозаводск (Пески)
SYNAR 22820 Петрозаводск 211500Z 26003MPS CAVOK 15/08 Q1004 RMK QFE743/0991 CLD:7AC


NOWCAST.SU ULPP 211600Z 32005G13MPS 9999 -SHRA BKN044CB 16/07 Q1003 NOSIG
RMK TURB: MOD SFC/FL30
AUTOTAF.ME ULPP 211300Z 2114/2123 30005G13MPS 9999 -SHRA BKN040CB TX17/2114Z TN13/2120Z
FM211700 31005G13MPS CAVOK
BECMG 2122/2123 OVC040
 
Сегежа
SYNAR 22621 Сегежа 211500Z 32005G10MPS 6000 ///033 13/10 Q1002 RMK QFE741/0988 CLD:


NOWCAST.SU ULPS 211600Z VRB02MPS 9999 -SHRA OVC019CB 13/10 Q1001 NOSIG
AUTOTAF.ME ULPS 211300Z 2114/2123 VRB02MPS 9999 -SHRA OVC025CB TX14/2114Z TN09/2122Z
BECMG 2114/2115 OVC015CB
BECMG 2117/2118 OVC025CB
BECMG 2118/2119 -RA
FM212300 VRB02MPS 5000 -RA BR BKN025
 
Сортавала
SYNAR 22802 Сортавала 211500Z 30005MPS 9999 SCT033CB 15/07 Q1007 RMK QFE753/1004 CLD:7CBAC


NOWCAST.SU ULPW 211600Z 32005MPS 9999 BKN067 16/06 Q1005 NOSIG
RMK TURB: MOD SFC/FL70
AUTOTAF.ME ULPW 211300Z 2114/2123 31008MPS 9999 VCSH NSC TX17/2114Z TN13/2121Z
BECMG 2117/2118 32003MPS
 
Старая Слобода
SYNAR 22913 Лодейное Поле 211500Z 25002MPS 9999 SCT020CB 16/10 Q1006 RMK QFE752/1003 CLD:6CBACCI
(120/14KM)


TSAR ULSB 211600Z LAST HOUR TS OBS: 150/162KM, 160/175-179KM
NEAREST TS 150/162KM
NOWCAST.SU ULSB 211600Z 26004MPS 9999 -RA SCT030 16/08 Q1005 NOSIG
RMK TURB: MOD FL70/FL80
AUTOTAF.ME ULSB 211300Z 2114/2123 26005G13MPS 9999 -RA BKN040 TX17/2114Z TN12/2121Z
BECMG 2117/2118 VRB02MPS
BECMG 2118/2119 NSC
 
Сельцо
SYNAR 26069 Белогорка 211500Z 30004MPS 9999 SCT010CB 20/09 Q1009 RMK QFE748/0998 CLD:4CB
(130/45KM)


NOWCAST.SU ULSC 211600Z 29005G13MPS 9999 FEW240 18/07 Q1008 NOSIG
RMK TURB: MOD SFC/FL40
AUTOTAF.ME ULSC 211300Z 2114/2123 28009G15MPS CAVOK TX20/2114Z TN10/2123Z
BECMG 2116/2117 29004MPS
 
Местаново
SYNAR 26059 Кингисепп 211500Z 31004G11MPS 9999 FEW033 20/06 Q1010 RMK QFE755/1007 CLD:2SCCI
(240/46KM)


NOWCAST.SU ULSF 211600Z 29005G13MPS 9999 FEW240 18/06 Q1008 NOSIG
RMK TURB: MOD SFC/FL40
AUTOTAF.ME ULSF 211300Z 2114/2123 28009G15MPS CAVOK TX20/2114Z TN10/2123Z
BECMG 2116/2117 29004MPS
 
Гостилицы
SYNAR 22899 Лисий Нос 211500Z 26004MPS //// //// 18/14 Q1008 RMK QFE755/1007 CLD:NO_OBSERVATIONS
(30/38KM)


NOWCAST.SU ULSG 211600Z 29005G13MPS 9999 FEW240 18/08 Q1008 NOSIG
RMK TURB: MOD SFC/FL40
AUTOTAF.ME ULSG 211300Z 2114/2123 28009G15MPS CAVOK TX20/2114Z TN10/2123Z
BECMG 2116/2117 29004MPS
 
Санкт-Петербург (Геркулес гидро)
SYNAR 26063 Санкт-Петербург 211500Z 27005G10MPS 9999 FEW033 19/12 Q1009 RMK QFE756/1008 CLD:1CU


NOWCAST.SU ULSH 211600Z 28008MPS 9999 SKC 17/11 Q1007 NOSIG
RMK TURB: MOD FL40/FL70
AUTOTAF.ME ULSH 211300Z 2114/2123 27010G15MPS CAVOK TX18/2114Z TN14/2122Z
BECMG 2117/2118 28005G11MPS
 
Кусино
SYNAR 26080 Кириши 211500Z 27002MPS 4000 -SHRA BKN023CB 14/12 Q1008 RMK QFE753/1005 CLD:7CB
(70/13KM)


NOWCAST.SU ULSI 211600Z 28003MPS 9999 -RA BKN046 19/08 Q1006 NOSIG
RMK TURB: MOD SFC/FL70
AUTOTAF.ME ULSI 211300Z 2114/2123 28004MPS 9999 -RA BKN040 TX21/2114Z TN11/2123Z
FM211700 28003MPS CAVOK
 
Корпикюля
SYNAR 26069 Белогорка 211500Z 30004MPS 9999 SCT010CB 20/09 Q1009 RMK QFE748/0998 CLD:4CB
(200/29KM)


NOWCAST.SU ULSK 211600Z 30005G13MPS 9999 SCT044TCU 19/08 Q1008 NOSIG
RMK TURB: MOD SFC/FL50
AUTOTAF.ME ULSK 211300Z 2114/2123 30005G13MPS 9999 SCT040TCU TX21/2114Z TN11/2123Z
BECMG 2116/2117 NSC
 
Манушкино
SYNAR 26072 Шлиссельбург 211500Z 30002MPS 9999 SCT033 20/09 Q1008 RMK QFE754/1005 CLD:3CU
(60/13KM)


NOWCAST.SU ULSM 211600Z 27004MPS 9999 BKN048TCU 19/09 Q1006 NOSIG
RMK TURB: MOD SFC/FL70
AUTOTAF.ME ULSM 211300Z 2114/2123 27009G14MPS 9999 SCT025TCU TX20/2114Z TN12/2122Z
BECMG 2115/2116 27004MPS
BECMG 2117/2118 NSC
 
Аэродром Тихвин
SYNAR 26094 Тихвин 211500Z 28002MPS 9000 -SHRA SCT020CB 15/11 Q1008 RMK QFE750/1000 CLD:8CBAC


TSAR ULST 211600Z LAST HOUR TS OBS: 110/62KM, 120/70-79KM, 130/61-82KM, 140/75KM
NEAREST TS 130/61KM
NOWCAST.SU ULST 211600Z 32003MPS 9999 -RA BKN061 18/09 Q1006 NOSIG
RMK TURB: MOD SFC/FL70
AUTOTAF.ME ULST 211300Z 2114/2123 29004MPS 9999 -RA BKN040 TX21/2114Z TN11/2122Z
BECMG 2115/2116 NSC
FM211700 VRB02MPS 9999 -SHRA BKN040CB
FM212000 VRB02MPS 9999 -RA NSC
 
Куммолово
SYNAR 26059 Кингисепп 211500Z 31004G11MPS 9999 FEW033 20/06 Q1010 RMK QFE755/1007 CLD:2SCCI
(220/39KM)


NOWCAST.SU ULSU 211600Z 29005G13MPS 9999 FEW260 18/06 Q1009 NOSIG
RMK TURB: MOD SFC/FL50
AUTOTAF.ME ULSU 211300Z 2114/2123 29009G15MPS CAVOK TX20/2114Z TN11/2122Z
BECMG 2116/2117 29004MPS
 
Северный ветер
SYNAR 26072 Шлиссельбург 211500Z 30002MPS 9999 SCT033 20/09 Q1008 RMK QFE754/1005 CLD:3CU
(290/29KM)


NOWCAST.SU ULSW 211600Z 29003MPS 9999 BKN045TCU 18/10 Q1006 NOSIG
RMK TURB: MOD SFC/FL70
AUTOTAF.ME ULSW 211300Z 2114/2123 28005G12MPS 9999 SCT025TCU TX19/2114Z TN13/2121Z
BECMG 2116/2117 NSC
 
ТосноСпас
SYNAR 26078 Любань 211500Z 21001MPS //// //// 16/15 Q1008 RMK QFE752/1003 CLD:NO_OBSERVATIONS
(130/29KM)


NOWCAST.SU ULSX 211600Z 30005G13MPS 9999 SCT046TCU 19/09 Q1007 NOSIG
RMK TURB: MOD SFC/FL50
AUTOTAF.ME ULSX 211300Z 2114/2123 30005G13MPS CAVOK TX21/2114Z TN11/2122Z
BECMG 2114/2115 SCT040TCU
BECMG 2117/2118 NSC
 
Сиворицы-2
SYNAR 26069 Белогорка 211500Z 30004MPS 9999 SCT010CB 20/09 Q1009 RMK QFE748/0998 CLD:4CB
(150/17KM)


NOWCAST.SU ULSY 211600Z 30005G13MPS 9999 FEW250 19/08 Q1008 NOSIG
RMK TURB: MOD SFC/FL50
AUTOTAF.ME ULSY 211300Z 2114/2123 29005G13MPS 9999 SCT040TCU TX21/2114Z TN11/2122Z
BECMG 2115/2116 NSC
 
Озеро Красногвардейское
SYNAR 22897 Озерки 211500Z 27008MPS 9999 //// 18/12 Q1010 RMK QFE756/1008 CLD:NO_OBSERVATIONS
(240/15KM)


NOWCAST.SU ULSZ 211600Z 30004MPS 9999 VCSH SCT046CB 19/07 Q1007 NOSIG
RMK TURB: MOD SFC/FL70
AUTOTAF.ME ULSZ 211300Z 2114/2123 29005G12MPS 9999 VCSH BKN040CB TX19/2114Z TN11/2123Z
FM211700 30003MPS 9999 -RA NSC
BECMG 2121/2122 BKN040
 
Череповец
METAR ULWC 211600Z 27005MPS 9999 SCT033 20/08 Q1005 R21/010060 NOSIG RMK QFE744/0992


TSAR ULWC 211600Z LAST HOUR TS OBS: 310/104KM
NEAREST TS 310/104KM
NOWCAST.SU ULWC 211600Z 27004MPS 9999 BKN070TCU 18/07 Q1005 NOSIG
RMK TURB: MOD FL40/FL70
AUTOTAF.ME ULWC 211300Z 2114/2123 30003MPS CAVOK TX19/2114Z TN11/2123Z
BECMG 2116/2117 27009G15MPS
BECMG 2119/2120 27004MPS
BECMG 2120/2121 BKN040
TAF ULWC 211400Z 2115/2124 27003G09MPS 9999 BKN017
TEMPO 2115/2118 30006MPS=
Великий Устюг
SYNAR 22981 Великий Устюг 211500Z 24004MPS 9999 RESHRA SCT033CB 15/13 Q999 RMK QFE740/0987 CLD:6CBAC


NOWCAST.SU ULWU 211600Z 26004MPS 5000 -SHRA HZ BKN055CB 16/11 Q0999 NOSIG
RMK TURB: MOD SFC/FL30
AUTOTAF.ME ULWU 211300Z 2114/2123 27004MPS 5000 HZ NSC TX17/2114Z TN10/2122Z
FM211500 27004MPS 5000 -SHRA HZ BKN060CB
FM211700 26004MPS 9999 -SHRA BKN060CB
BECMG 2117/2118 VCSH
FM212000 25003MPS CAVOK
FM212300 VRB02MPS 2500 BR BKN004
 
Вологда
SYNAR 27037 Вологда 211500Z 29003MPS 9999 FEW020 19/07 Q1006 RMK QFE742/0990 CLD:2SC


NOWCAST.SU ULWW 211600Z 28004MPS 9999 -RA BKN065 18/08 Q1004 NOSIG
RMK TURB: MOD SFC/FL90
AUTOTAF.ME ULWW 211300Z 2114/2123 29005G13MPS CAVOK TX19/2114Z TN11/2123Z
BECMG 2114/2115 -RA
BECMG 2120/2121 OVC040
 
Брест
METAR UMBB 211200Z 25003MPS CAVOK 24/10 Q1018 NOSIG


NOWCAST.SU UMBB 211600Z VRB02MPS 9999 FEW340 24/13 Q1015 NOSIG
RMK TURB: MOD SFC/FL50
AUTOTAF.ME UMBB 211300Z 2114/2123 VRB02MPS CAVOK TX25/2114Z TN16/2123Z
TAF UMBB 211330Z 2112/2121 CNL=
 


NOSIG
 
Лида
SYNAR 26832 Лида 211500Z 32003MPS CAVOK 24/08 Q1016 RMK QFE748/0997 CLD:1CI


NOWCAST.SU UMDD 211600Z 33003MPS 9999 FEW330 21/11 Q1015 NOSIG
RMK TURB: MOD SFC/FL30
AUTOTAF.ME UMDD 211300Z 2114/2123 31004MPS CAVOK TX23/2114Z TN13/2122Z
 
Гомель
METAR UMGG 211600Z 30005MPS CAVOK 23/11 Q1015 NOSIG


NOWCAST.SU UMGG 211600Z 30004MPS 9999 -RA BKN039 22/13 Q1015 NOSIG
RMK TURB: MOD SFC/FL50
AUTOTAF.ME UMGG 211300Z 2114/2123 31004MPS 9999 -RA BKN040 TX23/2114Z TN14/2123Z
FM211700 29003MPS CAVOK
TAF UMGG 211101Z 2112/2212 28007MPS CAVOK TX25/2211Z TN13/2202Z
TEMPO 2112/2115 30007G12MPS
BECMG 2115/2117 29005MPS=
Витебск (Восточный)
METAR UMII 211600Z 28003G06MPS 9999 SCT040 21/12 Q1013 NOSIG


NOWCAST.SU UMII 211600Z 28004MPS 9999 BKN042TCU 20/13 Q1013 NOSIG
RMK TURB: MOD FL30/FL40
AUTOTAF.ME UMII 211300Z 2114/2123 28004MPS 9999 BKN040TCU TX21/2114Z TN12/2123Z
BECMG 2116/2117 NSC
TAF UMII 211400Z 2115/2124 29003G08MPS 9999 BKN020
TEMPO 2115/2124 27004G09MPS=
Орша
METAR UMIO 211230Z 31005G09MPS CAVOK 22/09 Q1014 NOSIG RMK QFE743/0991


NOWCAST.SU UMIO 211600Z 30004MPS 9999 BKN250 20/12 Q1014 NOSIG
RMK TURB: MOD SFC/FL30
AUTOTAF.ME UMIO 211300Z 2114/2123 30005G12MPS CAVOK TX21/2114Z TN13/2123Z
FM211500 30004MPS 9999 -RA SCT040
FM211600 30004MPS CAVOK
TAF UMIO 211556Z 2115/2124 CNL=
Калининград (Храброво)
METAR UMKK 211600Z 04003MPS 010V080 CAVOK 20/10 Q1016 R24/95D NOSIG RMK QFE761/1015


NOWCAST.SU UMKK 211600Z 05004MPS 9999 BKN084 17/11 Q1016 NOSIG
AUTOTAF.ME UMKK 211300Z 2114/2123 01003MPS CAVOK TX18/2114Z TN16/2120Z
BECMG 2117/2118 07005MPS
TAF UMKK 211355Z 2115/2215 01005G10MPS 9999 SCT040
BECMG 2115/2117 06003G08MPS
BECMG 2118/2120 10003G10MPS
TEMPO 2203/2215 12009G15MPS 2000 TSRA FEW010 BKN016CB=
МЛСП Д-6
SYNAR 26603 Нида 211500Z 30002MPS CAVOK 19/10 Q1017 RMK QFE762/1016 CLD:1CI
(80/23KM)


NOWCAST.SU UMKM 211600Z VRB02MPS 9999 FEW150 16/12 Q1016 NOSIG
AUTOTAF.ME UMKM 211300Z 2114/2123 VRB02MPS CAVOK TX16/2114Z TN16/2114Z
BECMG 2122/2123 10005MPS
 
Минск (Мачулищи)
SYNAR 26850 Минск 211500Z 27003MPS CAVOK 23/09 Q1016 RMK QFE741/0988 CLD:3CI
(20/22KM)


NOWCAST.SU UMLI 211600Z 29004MPS 9999 FEW240 20/12 Q1015 NOSIG
RMK TURB: MOD SFC/FL40
AUTOTAF.ME UMLI 211300Z 2114/2123 29005G10MPS CAVOK TX21/2114Z TN13/2123Z
 
Барановичи
SYNAR 26941 Барановичи 211500Z 28004MPS 9999 SCT020 24/11 Q1017 RMK QFE745/0993 CLD:3CU


NOWCAST.SU UMMA 211600Z VRB02MPS 9999 FEW320 22/13 Q1016 NOSIG
RMK TURB: MOD SFC/FL50
AUTOTAF.ME UMMA 211300Z 2114/2123 31003MPS 9999 SCT040TCU TX23/2114Z TN14/2122Z
BECMG 2114/2115 NSC
 
Гродно (Обухово)
METAR UMMG 211200Z 29005G08MPS 9999 FEW040 24/09 Q1017 NOSIG


NOWCAST.SU UMMG 211600Z VRB02MPS 9999 BKN320 23/12 Q1015 NOSIG
RMK TURB: MOD SFC/FL50
AUTOTAF.ME UMMG 211300Z 2114/2123 29004MPS CAVOK TX24/2114Z TN14/2122Z
TAF UMMG 211400Z 2114/2121 CNL=
Минск (Липки)
SYNAR 26850 Минск 211500Z 27003MPS CAVOK 23/09 Q1016 RMK QFE741/0988 CLD:3CI


NOWCAST.SU UMMI 211600Z 29004MPS 9999 FEW240 20/12 Q1015 NOSIG
RMK TURB: MOD SFC/FL40
AUTOTAF.ME UMMI 211300Z 2114/2123 29005G10MPS CAVOK TX21/2114Z TN13/2123Z
BECMG 2114/2115 -RA
 
Поставы (Озерки)
SYNAR 26645 Лынтупы 211500Z 28003MPS 9999 BKN047 23/12 Q1016 RMK QFE742/0990 CLD:6CUAC
(250/35KM)


NOWCAST.SU UMMK 211600Z 32004MPS 9999 BKN032TCU 21/13 Q1014 NOSIG
RMK TURB: MOD SFC/FL40
AUTOTAF.ME UMMK 211300Z 2114/2123 31005G11MPS 9999 BKN040TCU TX22/2114Z TN12/2123Z
BECMG 2118/2119 NSC
FM212300 VRB02MPS 1200 BR OVC004
 
Минск-1
SYNAR 26850 Минск 211500Z 27003MPS CAVOK 23/09 Q1016 RMK QFE741/0988 CLD:3CI
(40/15KM)


NOWCAST.SU UMMM 211600Z 29004MPS 9999 FEW240 20/12 Q1015 NOSIG
RMK TURB: MOD SFC/FL40
AUTOTAF.ME UMMM 211300Z 2114/2123 29005G10MPS CAVOK TX21/2114Z TN13/2123Z
BECMG 2114/2115 -RA
 
Минск-2
METAR UMMS 211600Z 30006G09MPS CAVOK 23/09 Q1015 NOSIG


NOWCAST.SU UMMS 211600Z 28004MPS 9999 FEW240 20/12 Q1015 NOSIG
RMK TURB: MOD SFC/FL40
AUTOTAF.ME UMMS 211300Z 2114/2123 29005MPS CAVOK TX21/2114Z TN13/2123Z
TAF UMMS 211100Z 2112/2212 27005G10MPS 9999 SCT030
TEMPO 2112/2116 28007G12MPS
BECMG 2116/2118 VRB02MPS
TEMPO 2121/2206 3000 BCFG BR=
Бобруйск (Носовка)
SYNAR 26961 Бобруйск 211500Z 30003MPS 9999 SCT020 24/12 Q1015 RMK QFE747/0996 CLD:3CU
(340/13KM)


NOWCAST.SU UMNB 211600Z 28004MPS 9999 BKN037TCU 21/13 Q1015 NOSIG
RMK TURB: MOD SFC/FL50
AUTOTAF.ME UMNB 211300Z 2114/2123 28005G10MPS 9999 BKN025TCU TX23/2114Z TN13/2123Z
BECMG 2119/2120 NSC
 
Гродно (Каролино)
SYNAR 26737 Варена 211500Z 28003MPS CAVOK 24/08 Q1016 RMK QFE752/1003 CLD:2CI
(40/87KM)


NOWCAST.SU UMNG 211600Z VRB02MPS 9999 BKN310 22/12 Q1015 NOSIG
RMK TURB: MOD SFC/FL50
AUTOTAF.ME UMNG 211300Z 2114/2123 29003MPS 9999 BKN040TCU TX23/2114Z TN14/2123Z
BECMG 2114/2115 NSC
 
Витебск (Куковячино)
SYNAR 26666 Витебск 211500Z 28002MPS 9999 FEW033 21/13 Q1014 RMK QFE744/0992 CLD:6SCCS
(80/18KM)


NOWCAST.SU UMNI 211600Z 28004MPS 9999 -RA BKN044 20/13 Q1013 NOSIG
RMK TURB: MOD SFC/FL40
AUTOTAF.ME UMNI 211300Z 2114/2123 28005G11MPS 9999 -RA BKN040 TX22/2114Z TN12/2123Z
FM211700 28003MPS CAVOK
 
Лунинец
SYNAR 33019 Пинск 211500Z 29002MPS CAVOK 25/11 Q1017 RMK QFE749/0999 CLD:5ACCI
(250/52KM)


NOWCAST.SU UMNL 211600Z 32003MPS 9999 SCT044TCU 23/13 Q1016 NOSIG
RMK TURB: MOD SFC/FL50
AUTOTAF.ME UMNL 211300Z 2114/2123 29003MPS 9999 SCT025TCU TX24/2114Z TN14/2123Z
BECMG 2117/2118 NSC
 
Могилев
METAR UMOO 211200Z 29007G11MPS 9999 FEW020 SCT/// 24/09 Q1016 NOSIG


NOWCAST.SU UMOO 211600Z 30005MPS 9999 FEW190 20/12 Q1014 NOSIG
RMK TURB: MOD SFC/FL50
AUTOTAF.ME UMOO 211300Z 2114/2123 30009G14MPS 9999 -RA SCT040 TX22/2114Z TN13/2123Z
FM211500 30005G11MPS CAVOK
BECMG 2116/2117 29004MPS
BECMG 2118/2119 BKN040
TAF UMOO 211230Z 2112/2121 CNL=
Хожево
SYNAR 26850 Минск 211500Z 27003MPS CAVOK 23/09 Q1016 RMK QFE741/0988 CLD:3CI
(120/63KM)


NOWCAST.SU UMOV 211600Z 28004MPS 9999 BKN027TCU 21/12 Q1015 NOSIG
RMK TURB: MOD SFC/FL50
AUTOTAF.ME UMOV 211300Z 2114/2123 29005MPS CAVOK TX22/2114Z TN13/2122Z
BECMG 2114/2115 SCT025TCU
BECMG 2116/2117 NSC
 
Абакан
METAR UNAA 211600Z 29001MPS CAVOK 19/12 Q1007 R02/CLRD65 NOSIG RMK QFE733


NOWCAST.SU UNAA 211600Z VRB02MPS 9999 BKN093 17/11 Q1008 NOSIG
AUTOTAF.ME UNAA 211300Z 2114/2123 12003MPS CAVOK TX20/2114Z TN13/2121Z
TAF UNAA 211355Z 2115/2215 12003G08MPS 9999 SCT040CB
TEMPO 2118/2124 TS=
Краснотуранск
SYNAR 29768 Лебяжье 211500Z 09003MPS //// //// 20/10 Q1008 RMK QFE733/0977 CLD:NO_OBSERVATIONS
(160/13KM)


NOWCAST.SU UNAT 211600Z VRB02MPS 9999 BKN069 16/10 Q1009 NOSIG
AUTOTAF.ME UNAT 211300Z 2114/2123 VRB02MPS CAVOK TX18/2114Z TN14/2120Z
 
Шушенское (Казанцево)
SYNAR 29869 Ермаковское 211500Z 00000MPS 9999 FEW033 18/13 Q1008 RMK QFE729/0972 CLD:3SCACCC
(110/27KM)


NOWCAST.SU UNAU 211600Z VRB02MPS 9999 BKN120 16/11 Q1008 NOSIG
RMK TURB: MOD FL50/FL60
AUTOTAF.ME UNAU 211300Z 2114/2123 VRB02MPS CAVOK TX19/2114Z TN13/2119Z
 
Барнаул (Имени Германа Титова)
METAR UNBB 211600Z 16005MPS CAVOK 22/11 Q1004 R24/CLRD66 NOSIG RMK QFE731


NOWCAST.SU UNBB 211600Z 16003MPS 9999 FEW120 20/15 Q1003 NOSIG
AUTOTAF.ME UNBB 211300Z 2114/2123 17004MPS CAVOK TX23/2114Z TN17/2120Z
FM211700 16003MPS 9999 VCSH BKN093CB
FM212000 VRB02MPS CAVOK
FM212300 VRB02MPS 9999 VCSH BKN120CB
TAF UNBB 211400Z 2115/2215 16003G08MPS 9999 SCT040CB
TEMPO 2207/2212 23008G13MPS -TSRA=
Аккем
SYNAR 36442 Кара-Тюрек 211500Z 12001MPS CAVOK 11/03 Q//// RMK CLD:SKC
(330/15KM)


NOWCAST.SU UNBC 211600Z 18003MPS 9999 FEW280 07/02 Q1024 NOSIG
AUTOTAF.ME UNBC 211300Z 2114/2123 VRB02MPS CAVOK TX09/2114Z TN07/2115Z
 
Горно-Алтайск
SYNAR 36052 Горно-Алтайск 211500Z 00000MPS CAVOK 20/16 Q1006 RMK QFE728/0971 CLD:SKC


NOWCAST.SU UNBG 211600Z VRB02MPS 9999 FEW360 17/15 Q1006 NOSIG
AUTOTAF.ME UNBG 211300Z 2114/2123 VRB02MPS CAVOK TX20/2114Z TN14/2120Z
 
Бия
SYNAR 29939 Бийск 211500Z 09001MPS CAVOK 22/13 Q1005 RMK QFE733/0978 CLD:SKC
(310/35KM)


NOWCAST.SU UNBI 211600Z VRB02MPS 9999 FEW380 19/14 Q1005 NOSIG
AUTOTAF.ME UNBI 211300Z 2114/2123 VRB02MPS CAVOK TX22/2114Z TN16/2120Z
 
Волчиха
SYNAR 36022 Волчиха 211500Z 13003MPS CAVOK 24/11 Q1002 RMK QFE733/0977 CLD:2CI


NOWCAST.SU UNBM 211600Z 15004MPS 9999 FEW320 22/14 Q1002 NOSIG
RMK TURB: MOD SFC/FL70
AUTOTAF.ME UNBM 211300Z 2114/2123 16004MPS CAVOK TX25/2114Z TN19/2120Z
FM212100 15003MPS 9999 VCSH BKN120CB
 
Онгудай
SYNAR 36237 Катанда 211500Z 35002MPS CAVOK 20/08 Q1010 RMK QFE675/0900 CLD:SKC
(180/64KM)


NOWCAST.SU UNBN 211600Z VRB02MPS 9999 FEW320 12/06 Q1022 NOSIG
AUTOTAF.ME UNBN 211300Z 2114/2123 VRB02MPS CAVOK TX15/2114Z TN09/2120Z
 
Усть-Кокса
SYNAR 36229 Усть-Кокса 211500Z 32002MPS CAVOK 20/08 Q1008 RMK CLD:SKC


NOWCAST.SU UNBU 211600Z VRB02MPS 9999 FEW320 12/09 Q1019 NOSIG
AUTOTAF.ME UNBU 211300Z 2114/2123 VRB02MPS CAVOK TX15/2114Z TN09/2120Z
 
ТурСиб
SYNAR 36058 Чемал 211500Z 12001MPS CAVOK 19/14 Q1006 RMK QFE717/0957 CLD:SKC
(160/21KM)


NOWCAST.SU UNBY 211600Z VRB02MPS 9999 FEW360 15/13 Q1009 NOSIG
AUTOTAF.ME UNBY 211300Z 2114/2123 VRB02MPS CAVOK TX19/2114Z TN12/2120Z
 
Новосибирск (Северный)
SYNAR 29638 Новосибирск 211500Z 15004MPS 9999 SCT033 21/15 Q1002 RMK QFE739/0986 CLD:5SCACCC
(170/22KM)


NOWCAST.SU UNCC 211600Z 17003MPS 9999 BKN058CB 19/16 Q1002 TEMPO VCSH TEMPO VCSH
AUTOTAF.ME UNCC 211300Z 2114/2123 17003MPS 9999 BKN095CB TX21/2114Z TN18/2118Z
TEMPO 2114/2115 VCTS
BECMG 2114/2115 -SHRA
TEMPO 2116/2117 VCTS
BECMG 2116/2117 NSW
TEMPO 2117/2118 5000 -TSRA
TEMPO 2118/2119 TS
BECMG 2118/2119 VCSH
FM212100 17004MPS CAVOK
 
Краснозерское
SYNAR 29813 Красноозерск 211500Z 14001MPS 9999 BKN020 25/19 Q999 RMK QFE735/0981 CLD:7SCAC


NOWCAST.SU UNCN 211600Z 19003MPS 9999 SCT120 23/16 Q1000 TEMPO FM1800 VCSH
RMK TURB: MOD FL110/FL120
AUTOTAF.ME UNCN 211300Z 2114/2123 18004MPS CAVOK TX26/2114Z TN18/2120Z
FM211800 VRB02MPS 9999 SCT080CB
TEMPO 2118/2119 VCTS
FM211900 VRB02MPS CAVOK
FM212200 19003MPS 9999 -RA OVC002
 
Карасук
SYNAR 36058 Чемал 211500Z 12001MPS CAVOK 19/14 Q1006 RMK QFE717/0957 CLD:SKC
(160/21KM)


NOWCAST.SU UNCX 211600Z VRB02MPS 9999 FEW360 15/13 Q1009 NOSIG
AUTOTAF.ME UNCX 211300Z 2114/2123 VRB02MPS CAVOK TX19/2114Z TN12/2120Z
 
Кемерово (Имени Алексея Леонова)
METAR UNEE 211600Z 13003MPS 9999 FEW046CB 15/15 Q1004 R23/290155 NOSIG RMK QFE731


NOWCAST.SU UNEE 211600Z 17003MPS 5000 -SHRA BR BKN014CB 16/14 Q1004 NOSIG
RMK TURB: MOD SFC/FL30
AUTOTAF.ME UNEE 211300Z 2114/2123 16004MPS 9999 -SHRA BKN015CB TX17/2114Z TN15/2117Z
FM211600 17003MPS 5000 -SHRA BR BKN015CB
FM211700 VRB02MPS 2500 -SHRA BR BKN004 BKN010CB
FM211800 VRB02MPS 1200 VCSH BR BKN004 BKN010CB
BECMG 2118/2119 BKN002 BKN010CB
BECMG 2120/2121 BKN004 BKN010CB
FM212200 14003MPS 9999 VCSH BKN092CB
TAF UNEE 211400Z 2115/2215 14003G08MPS 8000 BKN040CB TX29/2208Z TN15/2121Z
TEMPO 2115/2212 17008G16MPS -TSRA BKN016CB=
Тура МВЛ
SYNAR 24507 Тура 211500Z 13002MPS 9999 BKN020CB 11/06 Q1064 RMK QFE740/0987 CLD:7CB
(60/11KM)


NOWCAST.SU UNHT 211600Z 18003MPS 9999 BKN040 08/01 Q1010 NOSIG
RMK TURB: MOD FL40/FL50
AUTOTAF.ME UNHT 211300Z 2114/2123 21003MPS CAVOK TX10/2114Z TN05/2119Z
BECMG 2115/2116 BKN040
BECMG 2118/2119 HZ
FM212000 VRB02MPS CAVOK
FM212100 VRB02MPS 9000 HZ BKN015
FM212200 VRB02MPS 5000 HZ NSC
BECMG 2122/2123 2500
 
Байкит
SYNAR 23891 Байкит 211500Z 00000MPS 9999 BKN033 09/08 Q1009 RMK QFE735/0980 CLD:5SC


NOWCAST.SU UNIB 211600Z VRB02MPS 9000 BR BKN060 08/06 Q1009 NOSIG
RMK TURB: MOD FL70/FL90
AUTOTAF.ME UNIB 211300Z 2114/2123 VRB02MPS 9999 VCSH BKN060CB TX10/2114Z TN07/2117Z
FM211600 VRB02MPS 9000 BR NSC
BECMG 2116/2117 -RA BR
BECMG 2117/2118 7000
FM212100 VRB02MPS 9999 OVC040
 
Эконда
 


NOWCAST.SU UNIH 211600Z 24008MPS 9999 BKN018 08/02 Q1009 NOSIG
AUTOTAF.ME UNIH 211300Z 2114/2123 22008G13MPS 9999 BKN040TCU TX11/2114Z TN06/2118Z
BECMG 2115/2116 BKN015
FM211800 22003MPS 5000 -RA HZ BKN015
BECMG 2118/2119 -RA BR
FM212000 21003MPS 9999 -RA BKN025
FM212300 23005MPS CAVOK
 
Енисейск
SYNAR 29263 Енисейск 211500Z 11001MPS 9999 BKN020CB 16/08 Q1007 RMK QFE748/0997 CLD:8CBAC


NOWCAST.SU UNII 211600Z VRB02MPS 9999 -RA BKN060 14/08 Q1006 NOSIG
RMK TURB: MOD FL50/FL60
AUTOTAF.ME UNII 211300Z 2114/2123 VRB02MPS CAVOK TX15/2114Z TN11/2121Z
BECMG 2114/2115 -RA
FM211700 VRB02MPS 7000 -RA HZ NSC
FM211800 VRB02MPS 5000 HZ OVC040
FM211900 VRB02MPS 2500 RA BR OVC040
BECMG 2119/2120 -RA BR
FM212200 08003MPS 5000 -RA BR OVC015
BECMG 2122/2123 9000
 
Мотыгино
SYNAR 29276 Мотыгино 211500Z 12001MPS //// //// 15/06 Q1010 RMK QFE742/0989 CLD:NO_OBSERVATIONS


NOWCAST.SU UNIM 211600Z 13003MPS 9999 SCT080 12/05 Q1009 NOSIG
AUTOTAF.ME UNIM 211300Z 2114/2123 VRB02MPS CAVOK TX14/2114Z TN12/2116Z
BECMG 2119/2120 HZ
BECMG 2120/2121 7000
BECMG 2121/2122 5000
FM212300 VRB02MPS 2500 -RA HZ NSC
 
Подкаменная Тунгуска
SYNAR 23884 Бор 211500Z 17002MPS 9999 FEW033 17/06 Q1005 RMK QFE748/0998 CLD:5SCCS


NOWCAST.SU UNIP 211600Z VRB02MPS 9999 -SHRA BKN027CB 12/08 Q1005 NOSIG
AUTOTAF.ME UNIP 211300Z 2114/2123 20003MPS 9999 -SHRA BKN060CB TX15/2114Z TN10/2118Z
BECMG 2121/2122 BKN015
BECMG 2122/2123 NSC
 
Ярцево
SYNAR 23987 Ярцево 211500Z 11003MPS 9999 OVC020CB 15/10 Q1007 RMK QFE749/0999 CLD:8CB


NOWCAST.SU UNIQ 211600Z 13003MPS 9999 BKN044 12/08 Q1005 NOSIG
AUTOTAF.ME UNIQ 211300Z 2114/2123 15004MPS 9999 BKN040 TX13/2114Z TN12/2115Z
BECMG 2116/2117 OVC015
BECMG 2118/2119 -RA
BECMG 2120/2121 OVC025
FM212300 VRB02MPS 9999 -RA BKN015
 
Северо-Енисейск
SYNAR 23986 Северо-Енисейский 211500Z 20001MPS 9999 FEW020CB 11/04 Q1008 RMK QFE711/0948 CLD:6CBACCI


NOWCAST.SU UNIS 211600Z VRB02MPS 9999 -RA OVC055 11/05 Q1008 NOSIG
RMK TURB: MOD FL50/FL60
AUTOTAF.ME UNIS 211300Z 2114/2123 24003MPS 9999 -RA BKN040 TX13/2114Z TN09/2120Z
BECMG 2114/2115 NSC
BECMG 2117/2118 BKN040
BECMG 2118/2119 -RA
FM212100 VRB02MPS 9999 -RA OVC015
FM212200 VRB02MPS 9999 -RA NSC
FM212300 VRB02MPS 9999 -RA BKN040
 
Тура-Горный
SYNAR 24507 Тура 211500Z 13002MPS 9999 BKN020CB 11/06 Q1064 RMK QFE740/0987 CLD:7CB


NOWCAST.SU UNIT 211600Z 16004MPS 9999 BKN026TCU 07/02 Q1010 NOSIG
RMK TURB: MOD FL50/FL60
AUTOTAF.ME UNIT 211300Z 2114/2123 19004MPS 9999 BKN040TCU TX10/2114Z TN05/2119Z
BECMG 2119/2120 NSC
FM212200 VRB02MPS 8000 HZ BKN040
BECMG 2122/2123 5000
 
Ванавара
SYNAR 24908 Ванавара 211500Z 18001MPS CAVOK 10/07 Q1013 RMK QFE736/0982 CLD:SKC


NOWCAST.SU UNIW 211600Z VRB02MPS 9999 SKC 09/05 Q1013 NOSIG
RMK TURB: MOD FL70/FL90
AUTOTAF.ME UNIW 211300Z 2114/2123 VRB02MPS CAVOK TX12/2114Z TN07/2119Z
BECMG 2114/2115 -RA
 
Осиновый Мыс
SYNAR 29282 Богучаны 211500Z 35001MPS 9999 FEW020CB 12/07 Q1011 RMK QFE746/0995 CLD:2CBCI
(20/97KM)


NOWCAST.SU UNJS 211600Z VRB02MPS 9999 BKN290 10/04 Q1011 NOSIG
RMK TURB: MOD FL50/FL60
AUTOTAF.ME UNJS 211300Z 2114/2123 VRB02MPS CAVOK TX13/2114Z TN09/2118Z
 
Богучаны
SYNAR 29282 Богучаны 211500Z 35001MPS 9999 FEW020CB 12/07 Q1011 RMK QFE746/0995 CLD:2CBCI


NOWCAST.SU UNKB 211600Z VRB02MPS 9999 BKN300 10/04 Q1011 NOSIG
RMK TURB: MOD FL40/FL70
AUTOTAF.ME UNKB 211300Z 2114/2123 VRB02MPS CAVOK TX13/2114Z TN09/2118Z
 
Кодинск
SYNAR 29199 Кодинск 211500Z 02001MPS //// //// 05/05 Q1013 RMK QFE736/0982 CLD:NO_OBSERVATIONS
(20/16KM)


NOWCAST.SU UNKI 211600Z VRB02MPS 9999 SKC 10/04 Q1012 NOSIG
RMK TURB: MOD FL40/FL70
AUTOTAF.ME UNKI 211300Z 2114/2123 VRB02MPS CAVOK TX13/2114Z TN07/2120Z
 
Красноярск (Северный)
SYNAR 29571 Минино 211500Z 00000MPS 9999 BKN066 18/09 Q1008 RMK QFE735/0980 CLD:7ACCI
(220/22KM)


NOWCAST.SU UNKK 211600Z VRB02MPS 9999 OVC080 14/10 Q1008 NOSIG
AUTOTAF.ME UNKK 211300Z 2114/2123 13003MPS CAVOK TX17/2114Z TN13/2118Z
BECMG 2122/2123 -RA
 
Красноярск (Емельяново)
METAR UNKL 211600Z 00000MPS CAVOK 14/11 Q1007 R29/CLRD65 NOSIG RMK QFE730


NOWCAST.SU UNKL 211600Z VRB02MPS 9999 BKN080 13/08 Q1008 NOSIG
RMK TURB: MOD FL40/FL50
AUTOTAF.ME UNKL 211300Z 2114/2123 VRB02MPS CAVOK TX16/2114Z TN13/2116Z
BECMG 2120/2121 BKN040
BECMG 2122/2123 -RA
TAF UNKL 211353Z 2115/2215 16003G08MPS 9999 SCT020CB
BECMG 2200/2203 -TSRA
BECMG 2204/2208 NSW
TEMPO 2208/2212 23005G12MPS -TSRA=
Красноярск (Черемшанка)
SYNAR 29571 Минино 211500Z 00000MPS 9999 BKN066 18/09 Q1008 RMK QFE735/0980 CLD:7ACCI
(140/16KM)


NOWCAST.SU UNKM 211600Z VRB02MPS 9999 BKN085 14/09 Q1008 NOSIG
RMK TURB: MOD FL40/FL50
AUTOTAF.ME UNKM 211300Z 2114/2123 VRB02MPS CAVOK TX16/2114Z TN13/2119Z
BECMG 2121/2122 BKN040
BECMG 2122/2123 -RA
 
Канск (Восточный)
SYNAR 29581 Канск 211500Z 10001MPS CAVOK 13/09 Q1010 RMK QFE739/0985 CLD:6ACCI


NOWCAST.SU UNKN 211600Z 10003MPS 9999 FEW200 13/07 Q1010 NOSIG
RMK TURB: MOD FL40/FL90
AUTOTAF.ME UNKN 211300Z 2114/2123 08003MPS CAVOK TX15/2114Z TN11/2119Z
 
Шарыпово
SYNAR 29558 Шарыпово 211500Z 00000MPS 9999 RESHRA BKN020CB 16/12 Q1008 RMK QFE727/0969 CLD:8CBAC


NOWCAST.SU UNKO 211600Z VRB02MPS 4000 -RA HZ BKN045 16/12 Q1006 NOSIG
RMK TURB: MOD FL70/FL80
AUTOTAF.ME UNKO 211300Z 2114/2123 VRB02MPS 9999 -RA BKN040 TX16/2114Z TN15/2118Z
FM211500 VRB02MPS CAVOK
FM211600 VRB02MPS 5000 -RA HZ BKN040
FM211700 VRB02MPS CAVOK
FM211800 VRB02MPS 9999 VCSH OVC060CB
TEMPO 2121/2122 VCTS
BECMG 2121/2122 VCSH
 
Красноярск (Бобровый Лог)
SYNAR 29570 Красноярск 211500Z 00000MPS 9999 BKN020 17/11 Q1008 RMK QFE731/0975 CLD:8CUACCS


NOWCAST.SU UNKP 211600Z VRB02MPS 9999 OVC085 14/09 Q1008 NOSIG
AUTOTAF.ME UNKP 211300Z 2114/2123 13003MPS CAVOK TX16/2114Z TN12/2119Z
BECMG 2122/2123 -RA
 
Ачинск
SYNAR 29467 Ачинск 211500Z 16001MPS 9999 BKN020 19/10 Q1007 RMK QFE732/0976 CLD:7SC


NOWCAST.SU UNKS 211600Z 21003MPS 9999 BKN020 17/11 Q1006 NOSIG
AUTOTAF.ME UNKS 211300Z 2114/2123 21003MPS CAVOK TX18/2114Z TN15/2119Z
BECMG 2114/2115 OVC040
BECMG 2120/2121 -RA
FM212200 21004MPS 9999 -SHRA OVC040CB
FM212300 21003MPS 2500 -SHRA BR BKN004 BKN010CB
 
Вознесенка
SYNAR 29570 Красноярск 211500Z 00000MPS 9999 BKN020 17/11 Q1008 RMK QFE731/0975 CLD:8CUACCS
(270/31KM)


NOWCAST.SU UNKW 211600Z VRB02MPS 9999 BKN085 14/09 Q1009 NOSIG
RMK TURB: MOD FL70/FL80
AUTOTAF.ME UNKW 211300Z 2114/2123 13003MPS CAVOK TX16/2114Z TN12/2119Z
 
Кызыл
SYNAR 36096 Кызыл 211500Z 11002MPS CAVOK 21/03 Q1011 RMK QFE702/0936 CLD:2CI


NOWCAST.SU UNKY 211600Z VRB02MPS 9999 BKN095 15/04 Q1012 NOSIG
RMK TURB: MOD FL70/FL80
AUTOTAF.ME UNKY 211300Z 2114/2123 VRB02MPS CAVOK TX19/2114Z TN11/2120Z
 
Колпашево
SYNAR 29231 Колпашево 211500Z 12001MPS 9999 BKN010CB 16/14 Q1002 RMK QFE744/0992 CLD:8CBAC


NOWCAST.SU UNLL 211600Z VRB02MPS 7000 -SHRA BR BKN006 OVC010CB 14/14 Q1001 NOSIG
AUTOTAF.ME UNLL 211300Z 2114/2123 VRB02MPS 9999 -SHRA BKN015CB TX14/2114Z TN13/2119Z
FM211600 VRB02MPS 7000 -SHRA BR BKN008 OVC010CB
FM211700 VRB02MPS 1200 BR OVC008
FM211800 VRB02MPS 1200 VCSH BR BKN004 BKN010CB
BECMG 2118/2119 BR
FM212000 VRB02MPS 1200 VCSH BR BKN004 BKN010CB
BECMG 2120/2121 BKN008 BKN010CB
BECMG 2121/2122 BKN004 BKN010CB
FM212300 09003MPS 5000 BR OVC008
 
Парабель
SYNAR 29128 Парабель 211500Z 00000MPS 9999 RESHRA OVC020CB 16/15 Q1001 RMK QFE745/0994 CLD:8CB


NOWCAST.SU UNLP 211600Z VRB02MPS 1000 SHRA BR BKN003 BKN010CB 15/14 Q1001 NOSIG
AUTOTAF.ME UNLP 211300Z 2114/2123 VRB02MPS 1200 SHRA BR BKN004 BKN010CB TX15/2114Z TN13/2120Z
BECMG 2116/2117 DZ BR
FM211800 VRB02MPS 1200 BR OVC008
BECMG 2118/2119 OVC002
BECMG 2120/2121 OVC008
FM212300 08003MPS 0500 FG VV004
 
Новосибирск (Ельцовка)
SYNAR 29638 Новосибирск 211500Z 15004MPS 9999 SCT033 21/15 Q1002 RMK QFE739/0986 CLD:5SCACCC
(190/22KM)


NOWCAST.SU UNNE 211600Z 17003MPS 9999 BKN057CB 19/16 Q1002 TEMPO VCSH TEMPO VCSH
AUTOTAF.ME UNNE 211300Z 2114/2123 17003MPS 9999 BKN094CB TX21/2114Z TN18/2118Z
TEMPO 2114/2115 VCTS
BECMG 2114/2115 -SHRA
TEMPO 2116/2117 VCTS
BECMG 2116/2117 NSW
TEMPO 2117/2118 5000 -TSRA
TEMPO 2118/2119 TS
BECMG 2118/2119 VCSH
FM212100 17004MPS CAVOK
 
Новосибирск (Городской Аэропорт)
SYNAR 29638 Новосибирск 211500Z 15004MPS 9999 SCT033 21/15 Q1002 RMK QFE739/0986 CLD:5SCACCC
(170/22KM)


NOWCAST.SU UNNG 211600Z 17003MPS 9999 BKN058CB 19/16 Q1002 TEMPO VCSH TEMPO VCSH
AUTOTAF.ME UNNG 211300Z 2114/2123 17003MPS 9999 BKN095CB TX21/2114Z TN18/2118Z
TEMPO 2114/2115 VCTS
BECMG 2114/2115 -SHRA
TEMPO 2116/2117 VCTS
BECMG 2116/2117 NSW
TEMPO 2117/2118 5000 -TSRA
TEMPO 2118/2119 TS
BECMG 2118/2119 VCSH
FM212100 17004MPS CAVOK
 
Мочище
SYNAR 29631 Колывань 211500Z 14001MPS 9999 FEW050 20/14 Q1001 RMK QFE738/0984 CLD:5SCACCC
(300/31KM)


NOWCAST.SU UNNM 211600Z 17003MPS 9999 BKN056CB 19/16 Q1002 TEMPO VCSH TEMPO VCSH
AUTOTAF.ME UNNM 211300Z 2114/2123 17003MPS 9999 BKN093CB TX20/2114Z TN17/2118Z
TEMPO 2114/2115 VCTS
BECMG 2114/2115 -SHRA
TEMPO 2116/2117 VCTS
BECMG 2116/2117 NSW
TEMPO 2117/2118 5000 -TSRA
TEMPO 2118/2119 TS
FM211900 19004MPS 9999 VCSH BKN002 BKN010CB
FM212100 17004MPS CAVOK
 
Северное
SYNAR 29418 Северное 211500Z 00000MPS 9999 RETS SCT010CB 17/16 Q999 RMK QFE738/0984 CLD:7CBACCI


NOWCAST.SU UNNS 211600Z VRB02MPS 9999 SCT018CB 20/19 Q0998 TEMPO 1000 -SHRA TEMPO TL1700 1000 -SHRA
AUTOTAF.ME UNNS 211300Z 2114/2123 VRB02MPS 9999 SCT025CB TX21/2114Z TN17/2120Z
TEMPO 2114/2116 1000 VCTS
FM211600 VRB02MPS 9999 SCT015CB
TEMPO 2116/2117 1000 -TSGRRA
FM211700 VRB02MPS 9999 -SHRA SCT120CB
FM211900 VRB02MPS 5000 -SHRA BR BKN008 SCT010CB
TEMPO 2119/2120 2000 +SHRA
FM212000 VRB02MPS 2500 BKN004 BKN010CB
TEMPO 2120/2121 1500 -TSRA
TEMPO 2121/2122 2000 -TSRA
FM212200 VRB02MPS 5000 -SHRA BR BKN008 BKN010CB
TEMPO 2122/2123 3000 SHRA
FM212300 VRB02MPS 9000 BKN015CB
 
Новосибирск (Толмачёво)
METAR UNNT 211600Z 15004MPS CAVOK 20/15 Q1001 R25/090070 R16/////// NOSIG RMK QFE741/0988


NOWCAST.SU UNNT 211600Z 16004MPS 9999 BKN078CB 20/17 Q1001 TEMPO -SHRA TEMPO TL1700 -SHRA
AUTOTAF.ME UNNT 211300Z 2114/2123 17003MPS 9999 BKN080CB TX22/2114Z TN17/2121Z
TEMPO 2114/2117 -TSRA
BECMG 2116/2117 -SHRA
BECMG 2117/2118 VCSH
TEMPO 2119/2120 VCTS
BECMG 2119/2120 NSW
TEMPO 2120/2121 -TSRA
FM212100 17004MPS 9999 -SHRA BKN090CB
FM212300 VRB02MPS CAVOK
TAF UNNT 211400Z 2115/2215 16003G08MPS 8000 BKN040CB TX29/2209Z TN16/2123Z
PROB40 TEMPO 2115/2203 -TSRA
TEMPO 2205/2215 -TSRA=
Усть-Ишим
SYNAR 28382 Усть-Ишим 211500Z 05002MPS 9999 BKN010 18/17 Q998 RMK QFE743/0990 CLD:8SCAS


NOWCAST.SU UNOI 211600Z 04003MPS 3000 -SHRA BR BKN005 BKN010CB 19/17 Q0997 NOSIG
AUTOTAF.ME UNOI 211300Z 2114/2123 04003MPS 9999 BKN040CB TX19/2114Z TN17/2118Z
TEMPO 2114/2116 VCTS
FM211600 04003MPS 2500 -SHRA BR BKN004 BKN010CB
BECMG 2117/2118 VCSH BR
FM212000 VRB02MPS 9000 VCSH BR BKN008CB
FM212100 VRB02MPS 2500 VCSH BR BKN004 BKN010CB
BECMG 2121/2122 -DZ BR
 
Омск (Калачево)
SYNAR 28698 Омск 211500Z 16004MPS 9999 SCT020CB 21/17 Q997 RMK QFE736/0982 CLD:8CBACCI
(10/29KM)


NOWCAST.SU UNOL 211600Z 17004MPS 5000 BKN183CB 18/17 Q0997 TEMPO VCSH TEMPO VCSH
AUTOTAF.ME UNOL 211300Z 2114/2123 17003MPS 5000 BR NSC TX20/2114Z TN17/2118Z
FM211600 17004MPS 5000 BKN190CB
TEMPO 2116/2117 VCTS
FM211700 18004MPS 9999 BKN160CB
TEMPO 2117/2118 -TSRA
TEMPO 2118/2119 TS
BECMG 2118/2119 BKN002 BKN010CB
TEMPO 2119/2121 VCTS
FM212100 27003MPS 5000 VCSH BR BKN160CB
FM212200 VRB02MPS 8000 BR NSC
FM212300 VRB02MPS 9999 BKN008CB
 
Омск Центральный
METAR UNOO 211600Z 17003MPS 9999 SCT033CB BKN040 20/16 Q0996 R07/250155 NOSIG RMK QFE739


NOWCAST.SU UNOO 211600Z 17004MPS 9999 BKN183CB 18/17 Q0997 TEMPO VCSH TEMPO VCSH
AUTOTAF.ME UNOO 211300Z 2114/2123 17003MPS 5000 BR NSC TX20/2114Z TN17/2118Z
FM211600 17004MPS 9999 BKN190CB
TEMPO 2116/2117 VCTS
BECMG 2116/2117 NSW
TEMPO 2117/2118 -TSRA
TEMPO 2118/2119 TS
TEMPO 2119/2121 VCTS
BECMG 2120/2121 VCSH BR
FM212200 VRB02MPS CAVOK
FM212300 VRB02MPS 9999 BKN008CB
TAF UNOO 211350Z 2115/2215 22003MPS 9999 SCT010 BKN033CB
TEMPO 2115/2121 VRB16MPS 1000 TSRA SQ BKN005 BKN030CB
TEMPO 2121/2201 0500 -TSRA FG BKN003 BKN030CB
TEMPO 2201/2215 25006G16MPS 2100 -TSRA SCT006 BKN030CB=
Омск (Северный)
SYNAR 28698 Омск 211500Z 16004MPS 9999 SCT020CB 21/17 Q997 RMK QFE736/0982 CLD:8CBACCI
(300/12KM)


NOWCAST.SU UNOS 211600Z 17004MPS 9999 BKN183CB 18/17 Q0997 TEMPO VCSH TEMPO VCSH
AUTOTAF.ME UNOS 211300Z 2114/2123 17003MPS 5000 BR NSC TX20/2114Z TN17/2118Z
FM211600 17004MPS 9999 BKN190CB
TEMPO 2116/2117 VCTS
BECMG 2116/2117 NSW
TEMPO 2117/2118 -TSRA
TEMPO 2118/2119 TS
TEMPO 2119/2122 VCTS
FM212200 VRB02MPS CAVOK
FM212300 VRB02MPS 9999 BKN008CB
 
Тара
SYNAR 28493 Тара 211500Z 23001MPS 9999 RETS SCT020CB 19/18 Q996 RMK QFE740/0987 CLD:7CBAC


NOWCAST.SU UNOT 211600Z 05003MPS 9999 BKN013CB 20/19 Q0997 TEMPO 1000 -SHRA TEMPO TL1800 1000 -SHRA
AUTOTAF.ME UNOT 211300Z 2114/2123 VRB02MPS 9999 BKN025CB TX22/2114Z TN16/2121Z
TEMPO 2114/2117 1000 -TSGRRA
BECMG 2115/2116 BKN015CB
FM211700 05003MPS 5000 BKN160CB
TEMPO 2117/2118 -TSRA
FM211800 04003MPS 2500 VCSH BR BKN004 BKN010CB
BECMG 2118/2119 1200
BECMG 2121/2122 SHRA BR
FM212300 VRB02MPS 2500 SHRA BR BKN004 BKN010CB
 
Омск (Поповка)
SYNAR 28698 Омск 211500Z 16004MPS 9999 SCT020CB 21/17 Q997 RMK QFE736/0982 CLD:8CBACCI
(50/25KM)


NOWCAST.SU UNOY 211600Z VRB02MPS 9999 SCT058CB 20/18 Q0997 TEMPO -SHRA TEMPO -SHRA
AUTOTAF.ME UNOY 211300Z 2114/2123 VRB02MPS 5000 SCT040CB TX22/2114Z TN17/2121Z
TEMPO 2114/2115 3000 -TSGRRA
TEMPO 2115/2116 -TSGRRA
BECMG 2115/2116 9999
TEMPO 2116/2118 -TSRA
BECMG 2116/2117 SCT015CB
BECMG 2117/2118 2500
TEMPO 2118/2120 1000 -TSGRRA
FM211900 VRB02MPS 8000 BKN002 BKN010CB
FM212000 VRB02MPS 5000 BKN002 BKN010CB
TEMPO 2120/2121 TS
FM212100 VRB02MPS 5000 BR NSC
FM212200 26003MPS 5000 BR OVC002
FM212300 26003MPS 9999 OVC002
 
Красноярск (Кузнецово)
SYNAR 29570 Красноярск 211500Z 00000MPS 9999 BKN020 17/11 Q1008 RMK QFE731/0975 CLD:8CUACCS
(300/18KM)


NOWCAST.SU UNQK 211600Z VRB02MPS 9999 OVC080 14/09 Q1008 NOSIG
AUTOTAF.ME UNQK 211300Z 2114/2123 13003MPS CAVOK TX16/2114Z TN13/2117Z
BECMG 2122/2123 -RA
 
Манский
SYNAR 29578 Шалинское 211500Z 14001MPS CAVOK 16/08 Q1009 RMK QFE721/0961 CLD:7ACCI


NOWCAST.SU UNQM 211600Z VRB02MPS 9999 BKN070 13/09 Q1009 NOSIG
RMK TURB: MOD FL70/FL90
AUTOTAF.ME UNQM 211300Z 2114/2123 12003MPS CAVOK TX16/2114Z TN11/2119Z
 
Назарово
SYNAR 29561 Назарово 211500Z 28001MPS 9999 BKN020 18/12 Q1007 RMK QFE732/0976 CLD:8CUAC
(300/12KM)


NOWCAST.SU UNQN 211600Z VRB02MPS 9999 OVC045 17/11 Q1007 NOSIG
AUTOTAF.ME UNQN 211300Z 2114/2123 VRB02MPS CAVOK TX18/2114Z TN15/2119Z
BECMG 2115/2116 OVC040
BECMG 2118/2119 -RA
BECMG 2119/2120 -RA BR
FM212100 VRB02MPS 5000 -RA BR OVC040
FM212200 VRB02MPS 9000 -RA BR BKN025
FM212300 VRB02MPS 9999 -SHRA BKN025CB
 
Красноярск (Солнечный)
SYNAR 29571 Минино 211500Z 00000MPS 9999 BKN066 18/09 Q1008 RMK QFE735/0980 CLD:7ACCI
(250/13KM)


NOWCAST.SU UNQS 211600Z VRB02MPS 9999 OVC080 14/09 Q1008 NOSIG
AUTOTAF.ME UNQS 211300Z 2114/2123 13003MPS CAVOK TX17/2114Z TN12/2118Z
BECMG 2122/2123 -RA
 
Тасеево
SYNAR 29379 Тасеево 211500Z 00000MPS CAVOK 15/07 Q1010 RMK QFE742/0990 CLD:8CI
(280/21KM)


NOWCAST.SU UNQT 211600Z VRB02MPS 9999 SCT080 13/08 Q1009 NOSIG
RMK TURB: MOD FL70/FL80
AUTOTAF.ME UNQT 211300Z 2114/2123 13003MPS CAVOK TX15/2114Z TN12/2119Z
 
Долгий Мост
SYNAR 29485 Абан 211500Z 10001MPS //// SCT020CB 13/08 Q1011 RMK QFE736/0981 CLD:5CBCS
(260/48KM)


NOWCAST.SU UNQX 211600Z VRB02MPS 9999 BKN270 12/05 Q1011 NOSIG
RMK TURB: MOD FL40/FL50
AUTOTAF.ME UNQX 211300Z 2114/2123 VRB02MPS CAVOK TX14/2114Z TN10/2119Z
 
Барабинск
SYNAR 29612 Барабинск 211500Z 13002MPS CAVOK 23/19 Q999 RMK QFE738/0984 CLD:3CI


NOWCAST.SU UNRR 211600Z VRB02MPS 9999 BKN042CB 21/18 Q0998 TEMPO 3000 -SHRA TEMPO TL1700 3000 -SHRA
AUTOTAF.ME UNRR 211300Z 2114/2123 23003MPS 9999 BKN040CB TX23/2114Z TN17/2120Z
TEMPO 2114/2115 3000 VCTS
BECMG 2114/2115 -TSGRRA
TEMPO 2115/2116 3000 SHRA
BECMG 2115/2116 NSW
TEMPO 2116/2117 3000 -TSGRRA
FM211700 VRB02MPS CAVOK
 
Игол (Центральный)
SYNAR 29203 Новый Васюган 211500Z 09001MPS 9999 BKN014CB 18/16 Q999 RMK QFE741/0989 CLD:8CBAC
(0/93KM)


NOWCAST.SU UNSG 211600Z 05003MPS 3000 BKN005 BKN010CB 18/18 Q0998 TEMPO 2000 -SHRA TEMPO 2000 -SHRA
AUTOTAF.ME UNSG 211300Z 2114/2123 05003MPS 2500 -SHRA BR BKN004 BKN010CB TX20/2114Z TN17/2118Z
TEMPO 2114/2115 2000 SHRA
BECMG 2114/2115 NSW
TEMPO 2115/2117 2000 -TSRA
BECMG 2116/2117 -SHRA BR
TEMPO 2117/2118 2000 +SHRA
BECMG 2117/2118 VCSH BR
TEMPO 2118/2121 2000 SHRA
FM211900 07003MPS 2500 -SHRA BR BKN004 BKN010CB
FM212100 VRB02MPS 0500 +SHRA FG BKN004 OVC010CB
 
Шингинская
SYNAR 29313 Пудино 211500Z 34001MPS 9999 TSRA OVC020CB 20/18 Q999 RMK QFE740/0987 CLD:8CB
(150/100KM)


NOWCAST.SU UNSI 211600Z VRB02MPS 9999 -RA BKN043 16/16 Q0999 NOSIG
AUTOTAF.ME UNSI 211300Z 2114/2123 VRB02MPS 9999 -SHRA BKN015CB TX17/2114Z TN16/2116Z
TEMPO 2115/2116 VCTS
FM211600 VRB02MPS 9999 -RA BKN040
FM212000 07003MPS 9999 -RA BKN015
FM212100 08003MPS 9999 VCSH BKN040CB
FM212200 08003MPS 9000 -DZ BR OVC004
BECMG 2122/2123 BR
 
Стрежевой
SYNAR 23955 Александровское 211500Z 12001MPS 9999 FEW010CB 19/13 Q1001 RMK QFE746/0994 CLD:5CBCI
(160/33KM)


NOWCAST.SU UNSS 211600Z VRB02MPS 9999 FEW290 17/12 Q1001 NOSIG
AUTOTAF.ME UNSS 211300Z 2114/2123 VRB02MPS CAVOK TX20/2114Z TN12/2120Z
BECMG 2118/2119 BR
BECMG 2119/2120 2500
FM212100 VRB02MPS 0200 FG VV002
FM212200 VRB02MPS 2500 BR NSC
BECMG 2122/2123 7000
 
Бакчар
SYNAR 29328 Бакчар 211500Z 13002MPS 9999 BKN020CB 18/14 Q1001 RMK QFE740/0987 CLD:8CBAC


NOWCAST.SU UNTB 211600Z VRB02MPS 2000 BKN005 BKN010CB 17/17 Q1000 TEMPO SHRA TEMPO SHRA
AUTOTAF.ME UNTB 211300Z 2114/2123 VRB02MPS 2500 -SHRA BR BKN004 BKN010CB TX18/2114Z TN16/2118Z
TEMPO 2114/2115 2000 SHRA
FM211500 VRB02MPS 1200 SHRA FG BKN004 OVC010CB
FM211600 VRB02MPS 2500 BKN004 BKN010CB
TEMPO 2116/2117 TSRA
FM211700 VRB02MPS 9999 -SHRA BKN008CB
TEMPO 2117/2118 2000 +SHRA
BECMG 2117/2118 NSW
TEMPO 2118/2119 2000 -TSRA
FM211900 VRB02MPS 9000 BR NSC
FM212000 VRB02MPS 2500 BKN004 BKN010CB
TEMPO 2120/2121 TSRA
BECMG 2120/2121 SHRA BR
BECMG 2121/2122 NSW
TEMPO 2122/2123 -TSRA
FM212300 VRB02MPS 5000 SCT008CB
 
Березкино
SYNAR 29430 Томск 211500Z 14001MPS 9999 BKN010 16/14 Q1002 RMK QFE739/0986 CLD:7SCAC
(90/14KM)


NOWCAST.SU UNTR 211600Z 19003MPS 9999 -SHRA BKN016CB 17/16 Q1002 TEMPO FM1800 VCSH
AUTOTAF.ME UNTR 211300Z 2114/2123 17004MPS 9999 -SHRA BKN015CB TX17/2114Z TN16/2117Z
FM211800 VRB02MPS 9999 BKN040CB
TEMPO 2118/2119 VCTS
FM211900 VRB02MPS 1200 BKN004 BKN010CB
TEMPO 2119/2122 TSRA
BECMG 2120/2121 2500
FM212200 14003MPS 2500 BKN002 BKN010CB
TEMPO 2122/2124 -TSRA
BECMG 2122/2123 5000
 
Томск (Богашёво)
METAR UNTT 211600Z 21004MPS 9999 FEW029 16/13 Q1003 R21/290250 NOSIG RMK QFE737


NOWCAST.SU UNTT 211600Z 18004MPS 9999 -SHRA BR BKN009 BKN010CB 16/16 Q1002 TEMPO 5000 SHRA TEMPO TL1700 5000 SHRA
AUTOTAF.ME UNTT 211300Z 2114/2123 17004MPS 9999 -SHRA BKN008 OVC010CB TX16/2114Z TN16/2114Z
BECMG 2114/2115 -SHRA BR
TEMPO 2115/2117 5000 SHRA
FM211700 16003MPS 9999 -SHRA SCT025CB
BECMG 2117/2118 SCT015CB
FM212000 VRB02MPS 9999 BKN040CB
TEMPO 2120/2124 5000 -TSRA
BECMG 2121/2122 BKN002 BKN010CB
TAF UNTT 211400Z 2115/2124 17003MPS 8000 -SHRA BKN016CB
TEMPO 2115/2118 20005G14MPS 3000 -TSRA
TEMPO 2118/2124 0600 -TSRA FG BKN002 BKN016CB=
Таштагол
SYNAR 29946 Кондома 211500Z 00000MPS CAVOK 16/13 Q1007 RMK QFE723/0964 CLD:SKC
(280/38KM)


NOWCAST.SU UNWI 211600Z VRB02MPS 9999 FEW110 15/12 Q1009 NOSIG
AUTOTAF.ME UNWI 211300Z 2114/2123 VRB02MPS CAVOK TX18/2114Z TN12/2120Z
 
Новокузнецк (Спиченково)
METAR UNWW 211600Z 11001MPS 9999 BKN031CB 17/13 Q1006 R19/09//55 NOSIG RMK QFE728


NOWCAST.SU UNWW 211600Z VRB02MPS 9999 VCSH BKN090CB 17/12 Q1005 NOSIG
AUTOTAF.ME UNWW 211300Z 2114/2123 VRB02MPS CAVOK TX19/2114Z TN14/2120Z
FM211600 VRB02MPS 9999 VCSH BKN090CB
FM211900 VRB02MPS CAVOK
TAF UNWW 211400Z 2115/2215 15003G08MPS 8000 BKN040CB TX30/2209Z TN13/2122Z
TEMPO 2115/2118 20005G10MPS -TSRA
PROB40 TEMPO 2209/2215 -TSRA=
Диксон
SYNAR 20674 Остров Диксон 211500Z 01007MPS CAVOK 02/01 Q1001 RMK QFE745/0993 CLD:6CI


NOWCAST.SU UODD 211600Z 02005MPS 5000 BR BKN042 01/M01 Q1000 NOSIG
AUTOTAF.ME UODD 211300Z 2114/2123 02004MPS CAVOK TX01/2114Z TN00/2120Z
BECMG 2114/2115 SCT040
FM211600 02005MPS 5000 BR BKN040
FM211800 01004MPS 2500 BR BKN008
BECMG 2118/2119 OVC002
 
Нагурское
SYNAR 20046 Остров Хейса 211500Z 07006MPS 9999 OVC045 01/M00 Q1018 RMK QFE761/1014 CLD:8SC
(90/191KM)


NOWCAST.SU UODN 211600Z 05003MPS 3000 BR OVC005 00/M01 Q1017 NOSIG
AUTOTAF.ME UODN 211300Z 2114/2123 04003MPS 2500 BR BKN004 TX00/2114Z TN00/2114Z
FM211500 05003MPS CAVOK
FM211600 05003MPS 2500 BR OVC004
FM212100 03003MPS CAVOK
 
Остров Средний
SYNAR 20087 Остров Голомянный 211500Z 04008MPS CAVOK 01/M00 Q1009 RMK QFE756/1008 CLD:2AC


NOWCAST.SU UODS 211600Z 04004MPS 3000 BR OVC005 01/M01 Q1007 NOSIG
AUTOTAF.ME UODS 211300Z 2114/2123 04004MPS 2500 BR OVC004 TX01/2114Z TN00/2117Z
 
Хатанга
SYNAR 20891 Хатанга 211500Z 19004MPS CAVOK 07/01 Q1007 RMK QFE752/1003 CLD:5ACCI


NOWCAST.SU UOHH 211600Z VRB02MPS 9999 -RA BKN048 07/01 Q1005 NOSIG
RMK TURB: MOD SFC/FL40
AUTOTAF.ME UOHH 211300Z 2114/2123 24004MPS 9999 -RA NSC TX09/2122Z TN07/2116Z
BECMG 2115/2116 BKN040
BECMG 2118/2119 NSC
BECMG 2120/2121 HZ
FM212300 22003MPS 9999 SCT040TCU
 
Новая
SYNAR 20891 Хатанга 211500Z 19004MPS CAVOK 07/01 Q1007 RMK QFE752/1003 CLD:5ACCI
(60/50KM)


NOWCAST.SU UOHN 211600Z VRB02MPS 9999 -RA BKN043 07/01 Q1005 NOSIG
RMK TURB: MOD SFC/FL30
AUTOTAF.ME UOHN 211300Z 2114/2123 29003MPS 9999 -RA BKN040 TX08/2114Z TN06/2118Z
BECMG 2119/2120 -RA
 
Светлогорск
SYNAR 23376 Светлогорск 211500Z 17002MPS //// //// 10/03 Q1005 RMK QFE744/0992 CLD:NO_OBSERVATIONS
(0/12KM)


NOWCAST.SU UOIG 211600Z VRB02MPS 9999 OVC018 08/03 Q1004 NOSIG
AUTOTAF.ME UOIG 211300Z 2114/2123 VRB02MPS 5000 HZ BKN025TCU TX08/2114Z TN07/2118Z
FM211500 VRB02MPS 9999 OVC015
BECMG 2116/2117 -RA
 
Хантайское озеро
 


NOWCAST.SU UOIH 211600Z VRB02MPS 0500 FG SKC 03/01 Q1004 NOSIG
AUTOTAF.ME UOIH 211300Z 2114/2123 14003MPS 8000 HZ OVC040 TX04/2114Z TN02/2118Z
FM211500 VRB02MPS 0500 FG VV040
BECMG 2115/2116 NSC
BECMG 2116/2117 +DZ FG
BECMG 2120/2121 DZ FG
 
Игарка
SYNAR 23274 Игарка 211500Z 21001MPS 9999 BKN050 09/04 Q1005 RMK QFE750/1001 CLD:7SCAC


NOWCAST.SU UOII 211600Z VRB02MPS 7000 HZ OVC014 07/03 Q1004 NOSIG
AUTOTAF.ME UOII 211300Z 2114/2123 VRB02MPS 9000 HZ BKN015 BKN020TCU TX08/2114Z TN05/2119Z
BECMG 2116/2117 5000
FM211800 VRB02MPS 5000 BR BKN025
BECMG 2118/2119 BKN015
FM212000 VRB02MPS 9000 BR BKN008
FM212200 VRB02MPS 9000 BR BKN025
FM212300 VRB02MPS 5000 HZ BKN040
 
Снежногорск
SYNAR 23179 Снежногорск 211500Z 17001MPS 9999 OVC020CB 07/01 Q1005 RMK QFE745/0993 CLD:8CB


NOWCAST.SU UOIS 211600Z VRB02MPS 9999 OVC044 06/03 Q1004 NOSIG
AUTOTAF.ME UOIS 211300Z 2114/2123 19003MPS 9999 BKN040 TX07/2114Z TN04/2121Z
BECMG 2114/2115 OVC015
BECMG 2115/2116 OVC040
BECMG 2116/2117 OVC008
FM211800 VRB02MPS 1200 BR BKN004
FM212000 VRB02MPS 0500 FG BKN004
FM212100 VRB02MPS 1200 BR BKN004
FM212300 VRB02MPS 9999 BKN015
 
Дудинка
SYNAR 23078 Норильск 211500Z 23003MPS 9999 OVC020 06/02 Q1005 RMK QFE747/0996 CLD:8SC
(90/84KM)


NOWCAST.SU UOOD 211600Z VRB02MPS 9999 -RA OVC032 05/01 Q1003 NOSIG
RMK TURB: MOD FL40/FL50
AUTOTAF.ME UOOD 211300Z 2114/2123 27003MPS 9999 -RA OVC040 TX06/2114Z TN04/2118Z
 
Ванкор
SYNAR 23274 Игарка 211500Z 21001MPS 9999 BKN050 09/04 Q1005 RMK QFE750/1001 CLD:7SCAC
(110/129KM)


NOWCAST.SU UOOG 211600Z VRB02MPS 9999 BKN029TCU 07/03 Q1004 NOSIG
RMK TURB: MOD FL50/FL60
AUTOTAF.ME UOOG 211300Z 2114/2123 VRB02MPS 9999 BKN040TCU TX09/2114Z TN05/2119Z
FM211700 VRB02MPS 5000 HZ BKN025
FM211800 VRB02MPS 9999 BKN025
BECMG 2119/2120 BKN015
BECMG 2120/2121 BKN040
BECMG 2121/2122 NSC
 
Северо-Соленое
SYNAR 20978 Караул 211500Z 21007G10MPS 9999 FEW020 03/00 Q1003 RMK QFE749/0999 CLD:8SCAC
(30/120KM)


NOWCAST.SU UOOI 211600Z VRB02MPS 9999 -RA BKN061 02/M01 Q1004 NOSIG
AUTOTAF.ME UOOI 211300Z 2114/2123 VRB02MPS CAVOK TX03/2114Z TNM01/2119Z
FM211500 VRB02MPS 9999 -RA BKN025
BECMG 2115/2116 NSC
FM211700 VRB02MPS 9999 BKN025
BECMG 2120/2121 NSC
BECMG 2122/2123 BKN040
 
Южно-Соленое
SYNAR 20978 Караул 211500Z 21007G10MPS 9999 FEW020 03/00 Q1003 RMK QFE749/0999 CLD:8SCAC
(30/127KM)


NOWCAST.SU UOOJ 211600Z VRB02MPS 9999 -RA BKN025 02/00 Q1004 NOSIG
AUTOTAF.ME UOOJ 211300Z 2114/2123 VRB02MPS CAVOK TX03/2114Z TNM01/2119Z
FM211500 VRB02MPS 9999 -RA BKN025
BECMG 2117/2118 NSC
BECMG 2120/2121 BKN040
 
Факел
SYNAR 20978 Караул 211500Z 21007G10MPS 9999 FEW020 03/00 Q1003 RMK QFE749/0999 CLD:8SCAC
(330/98KM)


NOWCAST.SU UOOK 211600Z 30003MPS 9999 BKN023 05/00 Q1003 NOSIG
AUTOTAF.ME UOOK 211300Z 2114/2123 29003MPS 9999 BKN025 TX06/2114Z TN03/2119Z
BECMG 2117/2118 NSC
BECMG 2119/2120 BKN040
 
Пелятка Норильская
SYNAR 20978 Караул 211500Z 21007G10MPS 9999 FEW020 03/00 Q1003 RMK QFE749/0999 CLD:8SCAC
(40/73KM)


NOWCAST.SU UOOL 211600Z 27004MPS 9999 BKN050 02/M01 Q1004 NOSIG
AUTOTAF.ME UOOL 211300Z 2114/2123 27004MPS CAVOK TX03/2114Z TN00/2120Z
BECMG 2117/2118 BKN040
 
Мессояха
SYNAR 20978 Караул 211500Z 21007G10MPS 9999 FEW020 03/00 Q1003 RMK QFE749/0999 CLD:8SCAC
(10/109KM)


NOWCAST.SU UOOM 211600Z 29003MPS 9999 BKN030 03/00 Q1004 NOSIG
AUTOTAF.ME UOOM 211300Z 2114/2123 28003MPS CAVOK TX05/2114Z TN01/2118Z
BECMG 2114/2115 BKN025
BECMG 2116/2117 NSC
BECMG 2117/2118 BKN025
FM211900 28003MPS CAVOK
 
Волочанка
SYNAR 20982 Волочанка 211500Z 22005MPS 9999 -RA OVC020 04/03 Q1004 RMK QFE749/0999 CLD:8SC


NOWCAST.SU UOON 211600Z 21004MPS 9999 -RA OVC032 05/01 Q1003 NOSIG
RMK TURB: MOD SFC/FL30
AUTOTAF.ME UOON 211300Z 2114/2123 22005G13MPS 9999 -RA OVC025 TX05/2114Z TN04/2119Z
FM211500 21004MPS 5000 -RA HZ OVC025
FM211600 21004MPS 9999 -RA OVC025
BECMG 2116/2117 -RA HZ
FM212100 20005G13MPS 9999 -RA BKN015
BECMG 2122/2123 -RA BR
 
Норильск (Алыкель)
METAR UOOO 211600Z 19003MPS 9999 -RA BKN031 04/03 Q1002 R19/29//60 NOSIG RMK QFE736/0981


NOWCAST.SU UOOO 211600Z 23003MPS 9999 -RA OVC026 07/01 Q1003 NOSIG
RMK TURB: MOD SFC/FL40
AUTOTAF.ME UOOO 211300Z 2114/2123 22004MPS 9999 -RA OVC025 TX07/2114Z TN05/2118Z
FM211800 23003MPS 9999 BKN015 BKN020TCU
BECMG 2119/2120 -RA
BECMG 2121/2122 BKN025
TAF UOOO 211349Z 2115/2215 23005G12MPS 6000 -SHRA BKN017CB
BECMG 2116/2120 18003G08MPS
BECMG 2201/2205 23006G15MPS=
Усть-Порт
SYNAR 20978 Караул 211500Z 21007G10MPS 9999 FEW020 03/00 Q1003 RMK QFE749/0999 CLD:8SCAC
(310/66KM)


NOWCAST.SU UOOP 211600Z 30003MPS 9999 BKN021 03/00 Q1003 NOSIG
AUTOTAF.ME UOOP 211300Z 2114/2123 29003MPS 9999 BKN025 TX04/2114Z TN02/2119Z
BECMG 2117/2118 NSC
BECMG 2119/2120 BKN040
 
Караул
SYNAR 20978 Караул 211500Z 21007G10MPS 9999 FEW020 03/00 Q1003 RMK QFE749/0999 CLD:8SCAC


NOWCAST.SU UOOR 211600Z 27004MPS 9999 OVC009 01/00 Q1003 NOSIG
AUTOTAF.ME UOOR 211300Z 2114/2123 27004MPS 9999 OVC040 TX02/2114Z TN01/2116Z
BECMG 2115/2116 OVC008
FM211700 26005G10MPS 9000 BR OVC004
FM211800 26005G10MPS 5000 BR OVC008
BECMG 2118/2119 9000
FM212000 26005G11MPS 9999 BKN004
BECMG 2122/2123 BKN015
 
Усть-Тарея
 


NOWCAST.SU UOOU 211600Z 03004MPS 1000 DZ BR BKN003 04/02 Q0994 NOSIG
AUTOTAF.ME UOOU 211300Z 2114/2123 03005MPS 1200 RA BR BKN004 TX05/2114Z TN01/2123Z
BECMG 2114/2115 DZ BR
FM211800 03005MPS 0500 DZ FG BKN004
FM211900 02005MPS 1200 DZ BR OVC004
BECMG 2119/2120 BR
BECMG 2121/2122 OVC002
 
Валек
SYNAR 23078 Норильск 211500Z 23003MPS 9999 OVC020 06/02 Q1005 RMK QFE747/0996 CLD:8SC


NOWCAST.SU UOOW 211600Z VRB02MPS 5000 -RA BR BKN013 03/01 Q1003 NOSIG
RMK TURB: MOD SFC/FL30
AUTOTAF.ME UOOW 211300Z 2114/2123 22003MPS 9999 -RA OVC015 TX03/2114Z TN02/2118Z
FM211500 VRB02MPS 5000 -RA BR BKN015
 
Туруханск
SYNAR 23472 Туруханск 211500Z 15002MPS 9999 BKN010CB 09/04 Q1004 RMK QFE749/0999 CLD:6CB


NOWCAST.SU UOTT 211600Z VRB02MPS 9999 -RA BKN027 07/05 Q1003 NOSIG
RMK TURB: MOD FL40/FL50
AUTOTAF.ME UOTT 211300Z 2114/2123 20003MPS 9999 -RA BKN025 TX09/2114Z TN05/2119Z
FM211900 12003MPS 2500 BR OVC004
FM212000 11003MPS 0500 FG VV004
FM212200 13003MPS 9999 BKN040
BECMG 2122/2123 BKN015
 
Севастополь (Бельбек)
SYNAR 33998 Ай-Петри 211500Z 32003MPS 9999 FEW010 18/06 Q//// RMK CLD:2
(120/47KM)


NOWCAST.SU URFB 211600Z 33005MPS 9999 SKC 22/15 Q1016 NOSIG
AUTOTAF.ME URFB 211300Z 2114/2123 32006MPS CAVOK TX23/2114Z TN18/2123Z
BECMG 2119/2120 VRB02MPS
 
Симферополь
SYNAR 33946 Симферополь 211500Z 31003MPS CAVOK 27/10 Q1016 RMK QFE746/0994 CLD:1CI


NOWCAST.SU URFF 211600Z 01004MPS 9999 SKC 23/10 Q1016 NOSIG
RMK TURB: MOD SFC/FL50
AUTOTAF.ME URFF 211300Z 2114/2123 36005MPS CAVOK TX26/2114Z TN16/2121Z
BECMG 2119/2120 VRB02MPS
 
Саки
SYNAR 33946 Симферополь 211500Z 31003MPS CAVOK 27/10 Q1016 RMK QFE746/0994 CLD:1CI
(100/29KM)


NOWCAST.SU URFI 211600Z 33005MPS 9999 SKC 23/15 Q1016 NOSIG
RMK TURB: MOD FL20/FL50
AUTOTAF.ME URFI 211300Z 2114/2123 30005MPS CAVOK TX24/2114Z TN19/2123Z
BECMG 2119/2120 01004MPS
 
Симферополь (Заводское)
SYNAR 33946 Симферополь 211500Z 31003MPS CAVOK 27/10 Q1016 RMK QFE746/0994 CLD:1CI
(330/14KM)


NOWCAST.SU URFW 211600Z 01004MPS 9999 SKC 23/10 Q1016 NOSIG
RMK TURB: MOD SFC/FL50
AUTOTAF.ME URFW 211300Z 2114/2123 36005MPS CAVOK TX25/2114Z TN15/2122Z
BECMG 2119/2120 VRB02MPS
 
Анапа (Витязево)
METAR URKA 211600Z 01005MPS CAVOK 24/11 Q1014 R03/010070 NOSIG RMK QFE757/1009


NOWCAST.SU URKA 211600Z 35004MPS 9999 FEW290 23/11 Q1015 NOSIG
RMK TURB: MOD SFC/FL30
AUTOTAF.ME URKA 211300Z 2114/2123 35008G13MPS CAVOK TX25/2114Z TN18/2122Z
BECMG 2116/2117 VRB02MPS
TAF URKA 211346Z 2115/2215 01003G08MPS 9999 SCT030CB
TEMPO 2115/2119 34006G13MPS
BECMG 2119/2121 08003G08MPS
BECMG 2206/2207 02003G08MPS
TEMPO 2207/2215 35006G12MPS=
 


NOSIG
 
Геленджик
SYNAR 37001 Анапа 211500Z 36003MPS CAVOK 25/12 Q1015 RMK QFE758/1011 CLD:SKC
(300/67KM)


NOWCAST.SU URKG 211600Z 35008G13MPS 9999 SKC 24/12 Q1014 NOSIG
RMK TURB: MOD SFC/FL30
AUTOTAF.ME URKG 211300Z 2114/2123 34008G13MPS CAVOK TX25/2114Z TN21/2121Z
 
Краснодар (Пашковский)
METAR URKK 211600Z 30005MPS 270V350 CAVOK 25/11 Q1014 R23L/CLRD70 NOSIG RMK QFE757


NOWCAST.SU URKK 211600Z 32005MPS 9999 SKC 26/08 Q1014 NOSIG
RMK TURB: MOD SFC/FL50
AUTOTAF.ME URKK 211300Z 2114/2123 33009G14MPS CAVOK TX28/2114Z TN18/2123Z
BECMG 2116/2117 31004MPS
TAF URKK 211347Z 2115/2215 30006G11MPS 9999 SCT030CB
TEMPO 2115/2118 32006G12MPS
BECMG 2118/2120 30003G08MPS
TEMPO 2206/2212 32006G12MPS=
Майкоп
SYNAR 37021 Майкоп 211500Z 27002MPS CAVOK 26/08 Q1014 RMK QFE741/0988 CLD:1CI


NOWCAST.SU URKM 211600Z 31003MPS 9999 SKC 23/07 Q1015 NOSIG
RMK TURB: MOD FL30/FL50
AUTOTAF.ME URKM 211300Z 2114/2123 31004MPS CAVOK TX26/2114Z TN15/2122Z
 
Геленджик Бухта
SYNAR 37001 Анапа 211500Z 36003MPS CAVOK 25/12 Q1015 RMK QFE758/1011 CLD:SKC
(300/69KM)


NOWCAST.SU URKN 211600Z 35007MPS 9999 SKC 24/11 Q1014 NOSIG
RMK TURB: MOD SFC/FL30
AUTOTAF.ME URKN 211300Z 2114/2123 34008G13MPS CAVOK TX26/2114Z TN20/2122Z
 
Армавир (Центральный)
SYNAR 37031 Армавир 211500Z 28005G10MPS CAVOK 26/08 Q1013 RMK QFE745/0993 CLD:1CI


NOWCAST.SU URKR 211600Z 32009MPS 9999 FEW300 25/06 Q1013 NOSIG
RMK TURB: MOD FL30/FL70
AUTOTAF.ME URKR 211300Z 2114/2123 31010G15MPS CAVOK TX27/2114Z TN15/2123Z
BECMG 2116/2117 31004MPS
 
Энем-АС
SYNAR 37018 Туапсе 211500Z 34002MPS 9999 FEW033 28/08 Q1013 RMK QFE754/1005 CLD:2CUCI
(170/95KM)


NOWCAST.SU URKS 211600Z 32005MPS 9999 SKC 26/07 Q1014 NOSIG
RMK TURB: MOD SFC/FL50
AUTOTAF.ME URKS 211300Z 2114/2123 33009G14MPS CAVOK TX28/2114Z TN18/2123Z
BECMG 2116/2117 31004MPS
 
Тихорецк
SYNAR 34838 Тихорецк 211500Z 28004MPS CAVOK 26/06 Q1013 RMK QFE752/1003 CLD:SKC


NOWCAST.SU URKT 211600Z 32009G14MPS 9999 SKC 26/05 Q1012 NOSIG
RMK TURB: MOD SFC/FL70
AUTOTAF.ME URKT 211300Z 2114/2123 32011G16MPS CAVOK TX28/2114Z TN17/2123Z
BECMG 2116/2117 32005MPS
 
Краснодар (Белевцы)
SYNAR 34838 Тихорецк 211500Z 28004MPS CAVOK 26/06 Q1013 RMK QFE752/1003 CLD:SKC
(50/102KM)


NOWCAST.SU URKY 211600Z 32005MPS 9999 SKC 26/07 Q1014 NOSIG
RMK TURB: MOD SFC/FL50
AUTOTAF.ME URKY 211300Z 2114/2123 33009G14MPS CAVOK TX28/2114Z TN18/2122Z
BECMG 2116/2117 31004MPS
 
Новотитаровская (Азимут)
SYNAR 34824 Приморско-Ахтарск 211500Z 32004MPS CAVOK 26/13 Q1014 RMK QFE760/1013 CLD:SKC
(330/105KM)


NOWCAST.SU URKZ 211600Z 31009G14MPS 9999 SKC 26/08 Q1013 NOSIG
RMK TURB: MOD SFC/FL50
AUTOTAF.ME URKZ 211300Z 2114/2123 32010G15MPS CAVOK TX28/2114Z TN17/2123Z
BECMG 2116/2117 30005G11MPS
 
Ессентуки
SYNAR 37054 Минеральные Воды 211500Z 26003MPS CAVOK 27/05 Q1012 RMK QFE731/0975 CLD:SKC
(50/28KM)


TSAR URME 211600Z LAST HOUR TS OBS: 140/191KM
NEAREST TS 140/191KM
NOWCAST.SU URME 211600Z 28005G13MPS 9999 SKC 21/07 Q1016 NOSIG
RMK TURB: MOD FL50/FL70
AUTOTAF.ME URME 211300Z 2114/2123 29009G14MPS 9999 VCSH SCT080CB TX23/2114Z TN16/2121Z
FM211500 29009G14MPS CAVOK
BECMG 2116/2117 26004MPS
 
Грозный (Северный)
METAR URMG 211600Z 25003MPS CAVOK 25/18 Q1010 R26/090070 NOSIG RMK QFE743/0991


TSAR URMG 211600Z LAST HOUR TS OBS: 120/129-141KM, 130/105-156KM, 140/124-192KM, 150/85-145KM, 160/79-132KM, 170/50-128KM, 180/49-99KM, 190/75-100KM, 200/52-104KM, 210/88-148KM, 220/98-167KM, 230/69-149KM, 240/94-133KM
NEAREST TS 180/49KM
NOWCAST.SU URMG 211600Z 25005G11MPS 9999 VCSH BKN050CB 23/17 Q1012 NOSIG
AUTOTAF.ME URMG 211300Z 2114/2123 28004MPS 9999 -RA NSC TX24/2114Z TN19/2123Z
FM211600 25005G11MPS 9999 VCSH BKN060CB
FM212000 23007G13MPS CAVOK
BECMG 2120/2121 VCSH
TAF URMG 211400Z 2115/2124 26003G08MPS 9999 BKN030
TEMPO 2115/2124 30007G18MPS 6000 -TSRA BKN016 BKN030CB=
Кисловодск
SYNAR 37126 Шаджатмаз 211500Z 33006MPS CAVOK 10/09 Q//// RMK CLD:8ACCI
(170/25KM)


TSAR URMK 211600Z LAST HOUR TS OBS: 150/178-194KM, 160/167-172KM, 170/162KM, 180/161KM
NEAREST TS 180/161KM
NOWCAST.SU URMK 211600Z 25005G13MPS 9999 SKC 17/07 Q1018 NOSIG
RMK TURB: MOD FL70/FL90
AUTOTAF.ME URMK 211300Z 2114/2123 27009MPS CAVOK TX19/2114Z TN12/2122Z
BECMG 2116/2117 23004MPS
 
Махачкала (Уйташ)
METAR URML 211600Z 35004MPS 9999 NSC 27/14 Q1009 R32/01//70 NOSIG RMK QFE757/1009


TSAR URML 211600Z LAST HOUR TS OBS: 120/66-79KM, 130/53-94KM, 140/82-111KM, 150/73-102KM, 160/66-89KM, 190/88KM, 200/65-93KM, 210/42-101KM, 220/81KM, 230/52-104KM, 240/64-131KM, 250/91-121KM, 260/39-85KM, 270/116KM
NEAREST TS 260/39KM
NOWCAST.SU URML 211600Z VRB02MPS 9999 VCSH BKN066CB 27/17 Q1010 TEMPO FM1700 VCTS
RMK TURB: MOD FL40/FL70
AUTOTAF.ME URML 211300Z 2114/2123 33003MPS 9999 BKN040CB TX28/2114Z TN21/2121Z
TEMPO 2114/2115 -TSGRRA
TEMPO 2115/2116 VCTS
BECMG 2115/2116 VCSH
TEMPO 2117/2118 VCTS
BECMG 2117/2118 VCSH
BECMG 2118/2119 -SHRA
FM212100 20005MPS 9999 -SHRA SCT060CB
TAF URML 211400Z 2115/2124 32005G13MPS 9999 SCT040CB
PROB40 TEMPO 2115/2118 VRB10G18MPS 3500 -TSRA BKN033CB
BECMG 2118/2119 25003G08MPS=
Минеральные Воды
METAR URMM 211600Z 30008MPS 9999 NSC 25/08 Q1012 R29/090070 NOSIG RMK QFE731/0975


TSAR URMM 211600Z LAST HOUR TS OBS: 140/183-203KM, 150/194KM
NEAREST TS 140/183KM
NOWCAST.SU URMM 211600Z 28005G13MPS 9999 SKC 22/07 Q1016 NOSIG
RMK TURB: MOD FL50/FL70
AUTOTAF.ME URMM 211300Z 2114/2123 29009G14MPS 9999 VCSH SCT093CB TX23/2114Z TN16/2123Z
FM211500 29009G14MPS CAVOK
BECMG 2116/2117 26004MPS
TAF URMM 211400Z 2115/2215 29006G13MPS 9999 SCT055 TX29/2212Z TN15/2203Z
TEMPO 2118/2205 27003G08MPS
TEMPO 2205/2215 32007G15MPS=
Нальчик
METAR URMN 211600Z 27002MPS 9999 FEW/// BKN075 24/16 Q1011 R24/010070 NOSIG RMK QFE722


TSAR URMN 211600Z LAST HOUR TS OBS: 120/120-134KM, 130/95-164KM, 140/113-152KM, 150/104-164KM, 160/120-149KM, 170/113-165KM, 180/113-163KM, 190/115-167KM, 200/118KM, 210/131-161KM, 220/140KM
NEAREST TS 130/95KM
NOWCAST.SU URMN 211600Z 22003MPS 9999 -SHRA BKN030CB 20/15 Q1017 NOSIG
RMK TURB: MOD FL70/FL80
AUTOTAF.ME URMN 211300Z 2114/2123 VRB02MPS 9999 BKN040CB TX21/2114Z TN13/2123Z
TEMPO 2114/2115 3000 -TSRA
BECMG 2114/2115 -SHRA
BECMG 2117/2118 VCSH
FM212100 22003MPS CAVOK
TAF URMN 211400Z 2115/2124 24003G08MPS 9999 BKN030CB
TEMPO 2115/2118 VRB06G14MPS 6000 -TSRA BKN020CB=
Владикавказ (Беслан)
METAR URMO 211600Z 28003MPS 9999 BKN065 21/18 Q1013 R27/010070 TEMPO 0500 +TSRA BKN002 BKN030CB RMK QFE715/0953


TSAR URMO 211600Z LAST HOUR TS OBS: 110/76-129KM, 120/101-141KM, 130/49-157KM, 140/37-106KM, 150/88KM, 160/30-82KM, 170/54-79KM, 180/104KM, 190/29-106KM, 200/57-169KM, 210/87-184KM, 220/104-193KM, 230/115-156KM, 240/140KM
NEAREST TS 190/29KM
NOWCAST.SU URMO 211600Z VRB02MPS 5000 -TSRA BR BKN035CB 18/16 Q1019 NOSIG
AUTOTAF.ME URMO 211300Z 2114/2123 VRB02MPS 5000 BKN025CB TX20/2114Z TN15/2123Z
TEMPO 2114/2116 -TSRA
BECMG 2114/2115 2500
FM211600 VRB02MPS 5000 -SHRA BR BKN040CB
FM211700 20003MPS 9999 -SHRA BKN040CB
BECMG 2118/2119 VCSH
FM212100 19003MPS CAVOK
TAF URMO 211400Z 2115/2124 22003G08MPS 9999 BKN030CB
TEMPO 2115/2124 VRB08G18MPS 6000 -TSRA BKN016 BKN030CB=
Магас
SYNAR 37218 Назрань 211500Z 25002MPS CAVOK 21/17 Q1015 RMK QFE702/0936 CLD:8AC
(210/23KM)


TSAR URMS 211600Z LAST HOUR TS OBS: 120/80-120KM, 130/68-165KM, 140/56-154KM, 150/76-106KM, 160/70-99KM, 170/42-94KM, 180/92KM, 190/43-120KM, 200/70-100KM, 210/48-166KM, 220/58-184KM, 230/137-166KM
NEAREST TS 170/42KM
NOWCAST.SU URMS 211600Z 24003MPS 5000 -SHRA HZ BKN055CB 21/17 Q1013 NOSIG
AUTOTAF.ME URMS 211300Z 2114/2123 25003MPS 5000 -SHRA HZ OVC040CB TX22/2114Z TN17/2122Z
BECMG 2114/2115 2500
BECMG 2115/2116 5000
FM211700 23004MPS 9999 -SHRA BKN060CB
BECMG 2117/2118 VCSH
FM212100 23004MPS CAVOK
 
Ставрополь (Шпаковское)
METAR URMT 211600Z 31007MPS CAVOK 22/05 Q1013 R25/010070 NOSIG RMK QFE721


NOWCAST.SU URMT 211600Z 30009MPS 9999 FEW280 22/06 Q1014 NOSIG
RMK TURB: MOD FL40/FL90
AUTOTAF.ME URMT 211300Z 2114/2123 30010G15MPS CAVOK TX24/2114Z TN15/2123Z
BECMG 2116/2117 30004MPS
TAF URMT 211400Z 2115/2124 29006G13MPS 9999 SCT030
TEMPO 2115/2121 31009G16MPS=
Грачевка
SYNAR 34949 Ставрополь 211500Z 30008G11MPS CAVOK 23/05 Q1013 RMK QFE719/0959 CLD:SKC
(250/29KM)


NOWCAST.SU URMX 211600Z 30009MPS 9999 SKC 23/06 Q1012 NOSIG
RMK TURB: MOD FL30/FL90
AUTOTAF.ME URMX 211300Z 2114/2123 30010MPS CAVOK TX25/2114Z TN17/2123Z
BECMG 2116/2117 29004MPS
 
Казачья
SYNAR 34949 Ставрополь 211500Z 30008G11MPS CAVOK 23/05 Q1013 RMK QFE719/0959 CLD:SKC
(60/38KM)


NOWCAST.SU URMZ 211600Z 31008MPS 9999 FEW320 23/06 Q1013 NOSIG
RMK TURB: MOD FL30/FL70
AUTOTAF.ME URMZ 211300Z 2114/2123 30010G15MPS CAVOK TX25/2114Z TN15/2123Z
BECMG 2114/2115 -RA
BECMG 2116/2117 31004MPS
 
Шахты
SYNAR 34644 Константиновск 211500Z 30007G14MPS 0500 SCT020 25/05 Q1009 RMK QFE751/1001 CLD:3CU
(100/63KM)


NOWCAST.SU URRH 211600Z 32011G16MPS 9999 SKC 25/06 Q1010 NOSIG
RMK TURB: MOD SFC/FL70
AUTOTAF.ME URRH 211300Z 2114/2123 32013G18MPS CAVOK TX26/2114Z TN18/2122Z
BECMG 2118/2119 31005G13MPS
 
Миллерово
SYNAR 34438 Миллерово 211500Z 31006G13MPS 9999 BKN020 24/08 Q1009 RMK QFE742/0990 CLD:6CU


NOWCAST.SU URRI 211600Z 33012G18MPS 9999 -RA BKN059 22/08 Q1010 NOSIG
RMK TURB: MOD SFC/FL50
AUTOTAF.ME URRI 211300Z 2114/2123 32013G18MPS 9999 -RA DRDU BKN040 TX23/2114Z TN17/2122Z
FM211500 32013G18MPS 9999 -RA NSC
BECMG 2116/2117 -RA DRDU
 
Ростов-на-Дону (Платов)
METAR URRP 211600Z 32007MPS CAVOK 25/08 Q1010 R23/CLRD70 NOSIG RMK QFE750/1000


NOWCAST.SU URRP 211600Z 32011G16MPS 9999 SKC 25/07 Q1011 NOSIG
RMK TURB: MOD SFC/FL50
AUTOTAF.ME URRP 211300Z 2114/2123 32013G18MPS CAVOK TX27/2114Z TN17/2123Z
BECMG 2118/2119 31005G13MPS
TAF URRP 211355Z 2115/2215 31008G17MPS 9999 SCT016 SCT030CB TX29/2212Z TN15/2202Z
TEMPO 2115/2118 33011G18MPS 6000 -SHRA FEW011 BKN020CB
BECMG 2118/2119 32006G14MPS
TEMPO 2119/2215 33008G16MPS=
Волгодонск
SYNAR 34646 Цимлянск 211500Z 30006G12MPS 9999 BKN033 24/07 Q1008 RMK QFE750/1000 CLD:6CUAC


NOWCAST.SU URRQ 211600Z 33010G16MPS 9999 SKC 24/07 Q1009 NOSIG
RMK TURB: MOD SFC/FL70
AUTOTAF.ME URRQ 211300Z 2114/2123 32012G18MPS 9999 DRDU NSC TX25/2114Z TN18/2123Z
BECMG 2116/2117 SCT040TCU
BECMG 2117/2118 NSC
BECMG 2121/2122 30005G13MPS
 
Ростов-на-Дону
SYNAR 34720 Таганрог 211500Z 29098MPS //// FEW001 27/11 Q1012 RMK QFE756/1008 CLD:1
(260/70KM)


NOWCAST.SU URRR 211600Z 32011G16MPS 9999 SKC 25/07 Q1011 NOSIG
RMK TURB: MOD SFC/FL50
AUTOTAF.ME URRR 211300Z 2114/2123 32013G18MPS CAVOK TX27/2114Z TN17/2123Z
BECMG 2118/2119 31005G13MPS
 
Таганрог (Южный)
SYNAR 34720 Таганрог 211500Z 29098MPS //// FEW001 27/11 Q1012 RMK QFE756/1008 CLD:1


NOWCAST.SU URRT 211600Z 34010G15MPS 9999 SKC 26/11 Q1012 NOSIG
RMK TURB: MOD SFC/FL50
AUTOTAF.ME URRT 211300Z 2114/2123 32011G16MPS CAVOK TX27/2114Z TN21/2122Z
BECMG 2116/2117 SCT040TCU
FM212000 35005G10MPS CAVOK
 
Лазаревское
SYNAR 37018 Туапсе 211500Z 34002MPS 9999 FEW033 28/08 Q1013 RMK QFE754/1005 CLD:2CUCI
(310/30KM)


NOWCAST.SU URSA 211600Z 03003MPS 9999 SKC 23/08 Q1016 NOSIG
RMK TURB: MOD FL50/FL60
AUTOTAF.ME URSA 211300Z 2114/2123 35003MPS CAVOK TX26/2114Z TN17/2122Z
 
Сочи
METAR URSS 211600Z 25003MPS 9999 NSC 25/18 Q1011 WS ALL RWY R02/010070 R06/010070 NOSIG RMK R06/29003G06MPS QFE757


NOWCAST.SU URSS 211600Z VRB02MPS 9999 SKC 23/16 Q1014 NOSIG
AUTOTAF.ME URSS 211300Z 2114/2123 VRB02MPS 9999 VCSH BKN025CB TX25/2114Z TN19/2121Z
TEMPO 2114/2115 3000 SHRA
TEMPO 2115/2116 5000 SHRA
FM211600 VRB02MPS CAVOK
FM211900 08003MPS 9999 VCSH SCT060CB
TEMPO 2119/2121 5000 SHRA
FM212300 VRB02MPS CAVOK
TAF URSS 211355Z 2115/2215 28006G11MPS 9999 FEW040
BECMG 2117/2118 05003G08MPS NSC
BECMG 2204/2206 15003G08MPS FEW025
BECMG 2209/2210 18004G09MPS SCT030TCU=
Вертолетчик
SYNAR 37171 Сочи (Адлер) 211500Z 28005MPS CAVOK 27/18 Q1012 RMK QFE757/1009 CLD:1CI
(160/30KM)


NOWCAST.SU URSW 211600Z VRB02MPS 9999 SKC 23/15 Q1014 NOSIG
AUTOTAF.ME URSW 211300Z 2114/2123 VRB02MPS 9999 VCSH BKN025CB TX25/2114Z TN18/2123Z
TEMPO 2114/2116 5000 SHRA
FM211600 VRB02MPS CAVOK
FM211900 08003MPS 9999 VCSH SCT060CB
TEMPO 2119/2121 5000 SHRA
FM212300 VRB02MPS CAVOK
 
Астрахань
METAR URWA 211600Z 31008MPS CAVOK 25/07 Q1006 R27/010070 NOSIG RMK QFE756/1008


NOWCAST.SU URWA 211600Z 30011G16MPS 9999 BKN083TCU 26/07 Q1006 NOSIG
RMK TURB: MOD SFC/FL90
AUTOTAF.ME URWA 211300Z 2114/2123 28012G17MPS CAVOK TX28/2114Z TN20/2121Z
BECMG 2122/2123 BKN040TCU
TAF URWA 211400Z 2115/2124 27007G14MPS 9999 SCT030
TEMPO 2115/2121 30008G14MPS=
Элиста
METAR URWI 211600Z AUTO 31010MPS 9999 // ///091/// 24/05 Q1008


NOWCAST.SU URWI 211600Z 30011G17MPS 9999 -RA BKN060 24/05 Q1008 NOSIG
RMK TURB: MOD SFC/FL90
AUTOTAF.ME URWI 211300Z 2114/2123 30014G19MPS 8000 -RA DRDU NSC TX26/2114Z TN18/2123Z
BECMG 2114/2115 -RA
FM211700 30009G15MPS 9999 DRDU NSC
FM211800 28004MPS CAVOK
BECMG 2120/2121 27009G16MPS
TAF AMD URWI 211556Z 2115/2124 CNL=
Камышин
SYNAR 34363 Камышин 211500Z 28004MPS 9999 VCSH SCT020CB 19/12 Q998 RMK QFE738/0984 CLD:6CBACCI


TSAR URWK 211600Z LAST HOUR TS OBS: 030/118KM, 040/101-134KM, 050/96-130KM, 060/84-118KM, 070/96-109KM, 080/77-91KM
NEAREST TS 80/77KM
NOWCAST.SU URWK 211600Z 01004MPS 9999 -SHRA BKN020CB 17/11 Q0998 NOSIG
AUTOTAF.ME URWK 211300Z 2114/2123 VRB02MPS 9999 -SHRA OVC025CB TX18/2114Z TN16/2118Z
FM211700 01003MPS 9999 VCSH BKN015CB
FM211900 VRB02MPS 9999 BKN025
BECMG 2120/2121 NSC
FM212300 31004MPS 9999 -RA SCT040
 
МЛСК им. В.Филановского
SYNAR 34984 Лагань 211500Z 26007G11MPS CAVOK 28/04 Q1007 RMK QFE757/1010 CLD:SKC
(300/99KM)


NOWCAST.SU URWO 211600Z 29009G14MPS 9999 SKC 27/15 Q1008 NOSIG
RMK TURB: MOD FL20/FL70
AUTOTAF.ME URWO 211300Z 2114/2123 29005G12MPS CAVOK TX27/2114Z TN25/2121Z
BECMG 2116/2117 28010G15MPS
 
Волгоград (Гумрак)
METAR URWW 211600Z 28015G20MPS 5000 -SHRA SCT013 BKN026CB 15/13 Q1001 RESHRA R23/290055 TEMPO 0500 +TSRA BKN002 BKN020CB


NOWCAST.SU URWW 211600Z 30015G20MPS 9000 -SHRA BR BKN011CB 15/14 Q1001 NOSIG
RMK TURB: MOD SFC/FL30
AUTOTAF.ME URWW 211300Z 2114/2123 28015G20MPS 5000 OVC015CB TX16/2119Z TN15/2114Z
TEMPO 2114/2116 VRB25G30MPS VCTS
BECMG 2114/2115 2500
FM211600 30015G20MPS 9000 -SHRA BR BKN008CB
FM211700 31016G22MPS 2500 -SHRA BR BKN015CB
BECMG 2117/2118 5000
BECMG 2118/2119 9000
FM212000 31016G22MPS 9999 -SHRA BKN015CB
FM212200 32015G21MPS 9999 -SHRA OVC008CB
FM212300 32014G20MPS 8000 -RA BR OVC004
TAF URWW 211353Z 2115/2124 27012G22MPS 6000 -SHRA BKN011 BKN020CB
TEMPO 2115/2124 30014G27MPS 3200 -TSRAGR BKN005 BKN020CB=
Челябинск (Баландино)
METAR USCC 211600Z 26002MPS 9999 FEW040 23/14 Q1000 R27/000060 NOSIG RMK QFE730


TSAR USCC 211600Z LAST HOUR TS OBS: 290/91KM, 300/98KM
NEAREST TS 290/91KM
NOWCAST.SU USCC 211600Z VRB02MPS 9999 VCSH BKN180CB 22/15 Q0999 NOSIG
RMK TURB: MOD FL90/FL100
AUTOTAF.ME USCC 211300Z 2114/2123 VRB02MPS 9999 VCSH BKN060CB TX24/2114Z TN17/2123Z
FM211700 VRB02MPS CAVOK
TAF USCC 211355Z 2115/2215 30003G10MPS 9999 BKN030
BECMG 2118/2120 23003G08MPS=
Устиново
SYNAR 28736 Учалы 211500Z 31002MPS 9999 BKN033CB 23/14 Q1003 RMK QFE707/0943 CLD:6CBAC
(210/66KM)


TSAR USCD 211600Z LAST HOUR TS OBS: 010/74KM, 330/62KM, 340/57-98KM, 350/76-95KM, 360/74-93KM
NEAREST TS 340/57KM
NOWCAST.SU USCD 211600Z VRB02MPS 9999 BKN068CB 19/16 Q1002 TEMPO VCTS TEMPO TL1700 VCTS
AUTOTAF.ME USCD 211300Z 2114/2123 30003MPS 9999 BKN080CB TX22/2114Z TN15/2123Z
TEMPO 2114/2117 VCTS
FM211700 VRB02MPS CAVOK
FM211800 VRB02MPS 9999 VCSH BKN080CB
TEMPO 2119/2120 5000 SHRA
TEMPO 2121/2122 VCTS
BECMG 2121/2122 -SHRA
 
Челябинск (Шагол)
SYNAR 28645 Челябинск 211500Z 29001MPS 9999 SCT010CB 26/11 Q1000 RMK QFE729/0972 CLD:3CB
(180/12KM)


TSAR USCG 211600Z LAST HOUR TS OBS: 290/80-92KM, 300/89-99KM
NEAREST TS 290/80KM
NOWCAST.SU USCG 211600Z VRB02MPS 9999 VCSH BKN180CB 22/15 Q0999 NOSIG
RMK TURB: MOD FL90/FL100
AUTOTAF.ME USCG 211300Z 2114/2123 VRB02MPS 9999 VCSH BKN060CB TX24/2114Z TN17/2122Z
FM211700 VRB02MPS CAVOK
 
Магнитогорск
METAR USCM 211600Z 29004MPS 9999 SCT040CB 23/14 Q1002 R36/090060 NOSIG RMK QFE714


NOWCAST.SU USCM 211600Z 27003MPS 9999 BKN060CB 22/16 Q1003 TEMPO TL1800 -SHRA
RMK TURB: MOD FL40/FL50
AUTOTAF.ME USCM 211300Z 2114/2123 29004MPS 9999 BKN040CB TX24/2114Z TN17/2123Z
TEMPO 2114/2115 VRB11G16MPS VCTS
TEMPO 2115/2116 VCTS
BECMG 2115/2116 NSW
TEMPO 2116/2118 -TSRA
BECMG 2117/2118 VCSH
TEMPO 2119/2121 TS
TEMPO 2121/2123 VCTS
TAF AMD USCM 211548Z 2115/2124 25003G08MPS 9999 BKN030
TEMPO 2115/2124 27010G18MPS -TSRA BKN016CB=
Сабетта
METAR USDA 211600Z AUTO 29004MPS 0700 0600W R22/0600D // VV003 01/01 Q1003 RMK QFE751/1002


NOWCAST.SU USDA 211600Z VRB02MPS 1000 BR OVC003 02/02 Q1003 NOSIG
AUTOTAF.ME USDA 211300Z 2114/2123 VRB02MPS 0500 FG NSC TX03/2114Z TN01/2119Z
FM211600 VRB02MPS 1200 BR OVC004
FM212200 VRB02MPS 0500 FG VV004
BECMG 2122/2123 OVC008
TAF AMD USDA 211504Z 2115/2124 CNL=
Бованенково
SYNAR 20967 Сеяха 211500Z 22003MPS 9999 OVC050 04/01 Q1004 RMK QFE751/1002 CLD:8SC
(90/158KM)


NOWCAST.SU USDB 211600Z 05003MPS 9999 FEW290 04/01 Q1003 NOSIG
AUTOTAF.ME USDB 211300Z 2114/2123 VRB02MPS 9999 BKN015 TX05/2114Z TN03/2118Z
BECMG 2115/2116 NSC
 
Салехард
SYNAR 23330 Салехард 211500Z 03003MPS 9999 -RA BKN013 09/07 Q1000 RMK QFE748/0998 CLD:8STAS


NOWCAST.SU USDD 211600Z 07005MPS 3000 -RA HZ OVC025 08/04 Q1000 NOSIG
AUTOTAF.ME USDD 211300Z 2114/2123 08005MPS 2500 -RA HZ BKN040 TX09/2114Z TN06/2118Z
FM211700 06005MPS 2500 -RA BR OVC015
BECMG 2117/2118 OVC004
 
Сеяха-1
SYNAR 20967 Сеяха 211500Z 22003MPS 9999 OVC050 04/01 Q1004 RMK QFE751/1002 CLD:8SC


NOWCAST.SU USDE 211600Z 19004MPS 9999 BKN015 01/M01 Q1004 NOSIG
AUTOTAF.ME USDE 211300Z 2114/2123 18004MPS 9999 BKN015 TX02/2114Z TN00/2118Z
BECMG 2117/2118 BKN040
BECMG 2121/2122 OVC002
FM212300 21003MPS 1200 BR OVC002
 
Гыда
SYNAR 20871 Сопочная Карга 211500Z 29008MPS 4000 BR OVC006 01/00 Q998 RMK QFE748/0997 CLD:8ST
(50/184KM)


NOWCAST.SU USDG 211600Z 24004MPS 0500 FG VV004 01/00 Q1002 NOSIG
AUTOTAF.ME USDG 211300Z 2114/2123 24004MPS 0500 FG VV008 TX01/2114Z TN01/2114Z
BECMG 2115/2116 OVC004
 
Харасавей
SYNAR 20864 Тамбей 211500Z 31005MPS //// //// 01/01 Q1003 RMK QFE751/1002 CLD:NO_OBSERVATIONS
(80/176KM)


NOWCAST.SU USDH 211600Z 02003MPS 9999 BKN020 02/00 Q1004 NOSIG
AUTOTAF.ME USDH 211300Z 2114/2123 01003MPS 9999 BKN025 TX02/2114Z TN01/2117Z
BECMG 2116/2117 BR
BECMG 2121/2122 BKN015
BECMG 2122/2123 OVC008
 
Антипаюта
SYNAR 23058 Антипаюта 211500Z 18002MPS CAVOK 04/02 Q1005 RMK QFE753/1004 CLD:SKC


NOWCAST.SU USDI 211600Z VRB02MPS 9999 SKC 00/M02 Q1005 NOSIG
AUTOTAF.ME USDI 211300Z 2114/2123 VRB02MPS CAVOK TX01/2114Z TNM01/2118Z
BECMG 2118/2119 OVC002
FM212000 VRB02MPS 1200 BR OVC002
FM212100 VRB02MPS CAVOK
 
Мыс Каменный
SYNAR 23242 Новый Порт 211500Z 36004MPS CAVOK 03/M00 Q1004 RMK QFE752/1002 CLD:2ACCI
(200/92KM)


NOWCAST.SU USDK 211600Z VRB02MPS 9999 BKN015 00/M02 Q1004 NOSIG
AUTOTAF.ME USDK 211300Z 2114/2123 VRB02MPS CAVOK TX01/2114Z TNM01/2117Z
BECMG 2115/2116 BKN015
BECMG 2116/2117 BKN025
FM211900 VRB02MPS 1200 BR OVC004
FM212000 VRB02MPS CAVOK
 
Лабытнанги
SYNAR 23330 Салехард 211500Z 03003MPS 9999 -RA BKN013 09/07 Q1000 RMK QFE748/0998 CLD:8STAS
(150/19KM)


NOWCAST.SU USDL 211600Z 07005MPS 3000 -RA HZ OVC025 08/04 Q1000 NOSIG
AUTOTAF.ME USDL 211300Z 2114/2123 08005MPS 2500 -RA HZ BKN040 TX09/2114Z TN06/2118Z
FM211700 06005MPS 2500 -RA BR OVC008
BECMG 2117/2118 OVC015
BECMG 2118/2119 OVC004
 
Утренний
 


NOWCAST.SU USDM 211600Z 25003MPS 1000 BR BKN003 01/01 Q1003 NOSIG
AUTOTAF.ME USDM 211300Z 2114/2123 25003MPS 0500 FG VV004 TX02/2114Z TN01/2115Z
FM211600 25003MPS 1200 BR BKN004
FM212100 27003MPS 0500 FG BKN004
FM212200 27003MPS 1200 BR BKN004
 
Толька
SYNAR 23662 Толька 211500Z 34002MPS CAVOK 13/07 Q1002 RMK QFE748/0998 CLD:2CI


NOWCAST.SU USDO 211600Z 35004MPS 9999 -RA SCT060 12/05 Q1002 NOSIG
RMK TURB: MOD FL70/FL80
AUTOTAF.ME USDO 211300Z 2114/2123 34003MPS 9999 -RA NSC TX15/2114Z TN06/2120Z
BECMG 2116/2117 SCT040
BECMG 2118/2119 NSC
 
Красноселькуп
SYNAR 23465 Красноселькуп 211500Z 33002MPS 9999 BKN033 08/02 Q1003 RMK QFE750/1000 CLD:6SC


NOWCAST.SU USDP 211600Z 32005MPS 9999 -RA BKN047 07/04 Q1003 NOSIG
AUTOTAF.ME USDP 211300Z 2114/2123 32005MPS 9999 -RA BKN040 TX09/2114Z TN03/2120Z
BECMG 2114/2115 BKN015
BECMG 2115/2116 BKN040
FM211700 32005MPS 2500 -RA BR OVC004
FM211800 32005MPS 1200 BR BKN004
BECMG 2118/2119 BKN002
FM212100 34004MPS 1200 BR OVC004
FM212300 33004MPS 9999 BKN015
 
Яр-Сале
SYNAR 23345 Ныда 211500Z 04004MPS CAVOK 08/03 Q1002 RMK QFE751/1001 CLD:6ACCI
(110/96KM)


NOWCAST.SU USDR 211600Z 08004MPS 9999 BKN116 06/01 Q1003 NOSIG
AUTOTAF.ME USDR 211300Z 2114/2123 08004MPS CAVOK TX07/2114Z TN05/2117Z
FM212000 10003MPS 7000 HZ NSC
FM212100 11003MPS 5000 HZ OVC040
 
Тарко-Сале
SYNAR 23552 Тарко-Сале 211500Z 35001MPS CAVOK 12/02 Q1003 RMK QFE750/1000 CLD:6CI


NOWCAST.SU USDS 211600Z 05003MPS 9999 BKN240 10/02 Q1003 NOSIG
AUTOTAF.ME USDS 211300Z 2114/2123 02004MPS CAVOK TX12/2114Z TN07/2119Z
BECMG 2117/2118 SCT040
BECMG 2118/2119 NSC
 
Тазовский
SYNAR 23256 Тазовский 211500Z 32002MPS 9999 FEW033 07/02 Q1005 RMK QFE750/1001 CLD:7SCAC


NOWCAST.SU USDT 211600Z VRB02MPS 9999 SKC 05/01 Q1004 NOSIG
AUTOTAF.ME USDT 211300Z 2114/2123 36003MPS CAVOK TX06/2114Z TN02/2120Z
BECMG 2116/2117 BKN040
BECMG 2118/2119 OVC002
FM212000 VRB02MPS 1200 BR OVC002
BECMG 2120/2121 OVC004
FM212200 VRB02MPS 9000 BR BKN025
 
Уренгой
SYNAR 23453 Уренгой 211500Z 07002MPS 9999 FEW033 08/03 Q1004 RMK QFE750/1001 CLD:5SCACCI


NOWCAST.SU USDU 211600Z 08003MPS 9999 SKC 08/02 Q1004 NOSIG
RMK TURB: MOD FL40/FL50
AUTOTAF.ME USDU 211300Z 2114/2123 04003MPS 9999 -RA FEW025 TX10/2114Z TN03/2120Z
FM211600 08003MPS CAVOK
BECMG 2120/2121 BKN025
BECMG 2121/2122 NSC
 
Новый Порт
SYNAR 23242 Новый Порт 211500Z 36004MPS CAVOK 03/M00 Q1004 RMK QFE752/1002 CLD:2ACCI


NOWCAST.SU USDW 211600Z 05004MPS 9999 OVC290 01/M01 Q1003 NOSIG
AUTOTAF.ME USDW 211300Z 2114/2123 04004MPS CAVOK TX01/2114Z TN00/2118Z
BECMG 2114/2115 BKN015
BECMG 2115/2116 NSC
 
Березово
SYNAR 23631 Березово 211500Z 10002MPS 9999 FEW030CB 21/16 Q997 RMK QFE744/0993 CLD:7CBACCI


NOWCAST.SU USHB 211600Z VRB02MPS 9999 -SHRA BKN020CB 18/13 Q0997 NOSIG
AUTOTAF.ME USHB 211300Z 2114/2123 VRB02MPS 9999 -SHRA BKN025CB TX20/2114Z TN15/2121Z
BECMG 2116/2117 -RA
FM211800 12003MPS CAVOK
BECMG 2119/2120 BKN040
 
Ханты-Мансийск
METAR USHH 211600Z 05002MPS CAVOK 21/09 Q0999 R06/010060 NOSIG


NOWCAST.SU USHH 211600Z 14003MPS 9999 BKN061 21/13 Q0999 NOSIG
RMK TURB: MOD FL30/FL70
AUTOTAF.ME USHH 211300Z 2114/2123 12003MPS 9999 BKN040TCU TX23/2114Z TN16/2120Z
BECMG 2114/2115 NSC
BECMG 2116/2117 BKN040
BECMG 2117/2118 NSC
TAF USHH 211341Z 2115/2215 06003G08MPS 9999 SCT030
BECMG 2123/2201 14003G10MPS=
Игрим
SYNAR 23631 Березово 211500Z 10002MPS 9999 FEW030CB 21/16 Q997 RMK QFE744/0993 CLD:7CBACCI
(20/85KM)


NOWCAST.SU USHI 211600Z 15003MPS 9999 BKN044 21/13 Q0996 NOSIG
RMK TURB: MOD FL30/FL50
AUTOTAF.ME USHI 211300Z 2114/2123 VRB02MPS 9999 BKN040 TX22/2114Z TN17/2122Z
BECMG 2118/2119 NSC
BECMG 2122/2123 BKN040
 
Междуреченский
SYNAR 28064 Леуши 211500Z 16001MPS 9999 BKN020 21/16 Q999 RMK QFE742/0990 CLD:8SCCI
(300/11KM)


NOWCAST.SU USHM 211600Z VRB02MPS 9999 FEW360 20/17 Q0999 NOSIG
AUTOTAF.ME USHM 211300Z 2114/2123 VRB02MPS CAVOK TX21/2114Z TN15/2121Z
FM212100 VRB02MPS 5000 BR NSC
 
Нягань
SYNAR 23823 Вонъеган 211500Z 21002MPS 9999 SCT020CB 24/11 Q998 RMK QFE738/0984 CLD:8CBCI
(240/41KM)


NOWCAST.SU USHN 211600Z VRB02MPS 9999 BKN057 21/13 Q0998 NOSIG
RMK TURB: MOD FL40/FL70
AUTOTAF.ME USHN 211300Z 2114/2123 VRB02MPS 9999 BKN040TCU TX23/2114Z TN16/2120Z
BECMG 2114/2115 NSC
 
Горноправдинск
SYNAR 23939 Алтай 211500Z 13001MPS CAVOK 24/12 Q998 RMK QFE745/0994 CLD:2CI
(300/59KM)


NOWCAST.SU USHP 211600Z VRB02MPS 9999 FEW360 20/13 Q0999 NOSIG
AUTOTAF.ME USHP 211300Z 2114/2123 VRB02MPS 9999 BKN040TCU TX22/2114Z TN15/2120Z
BECMG 2115/2116 NSC
 
Белоярский
SYNAR 23734 Октябрьское 211500Z 13002MPS CAVOK 23/11 Q997 RMK QFE741/0988 CLD:8CI
(190/141KM)


NOWCAST.SU USHQ 211600Z 14003MPS 9999 BKN044 20/10 Q0998 NOSIG
AUTOTAF.ME USHQ 211300Z 2114/2123 VRB02MPS 9999 BKN040 TX21/2114Z TN16/2121Z
FM211700 15003MPS 9999 -RA NSC
BECMG 2118/2119 -RA
 
Советский
SYNAR 23823 Вонъеган 211500Z 21002MPS 9999 SCT020CB 24/11 Q998 RMK QFE738/0984 CLD:8CBCI
(40/98KM)


NOWCAST.SU USHS 211600Z VRB02MPS 9999 BKN058 22/14 Q0997 NOSIG
RMK TURB: MOD FL30/FL70
AUTOTAF.ME USHS 211300Z 2114/2123 VRB02MPS 9999 BKN040TCU TX24/2114Z TN17/2121Z
BECMG 2114/2115 NSC
 
Урай
SYNAR 23929 Шаим 211500Z 09001MPS 9999 SCT020CB 23/14 Q998 RMK QFE744/0992 CLD:6CBAC
(310/41KM)


NOWCAST.SU USHU 211600Z VRB02MPS 9999 FEW360 21/16 Q0998 NOSIG
RMK TURB: MOD FL30/FL40
AUTOTAF.ME USHU 211300Z 2114/2123 VRB02MPS CAVOK TX23/2114Z TN16/2119Z
FM212000 VRB02MPS 2500 BR OVC004
 
Няксимволь
SYNAR 23724 Няксимволь 211500Z 14003MPS CAVOK 23/16 Q995 RMK QFE741/0988 CLD:6AC


NOWCAST.SU USHW 211600Z 17003MPS 9999 VCSH BKN055CB 22/16 Q0995 NOSIG
AUTOTAF.ME USHW 211300Z 2114/2123 16003MPS CAVOK TX23/2114Z TN17/2123Z
FM211600 17003MPS 9999 VCSH BKN060CB
BECMG 2117/2118 -SHRA
BECMG 2118/2119 OVC015CB
TEMPO 2120/2122 5000 SHRA
BECMG 2120/2121 BKN008CB
FM212200 VRB02MPS 5000 -SHRA BR BKN002 BKN010CB
FM212300 VRB02MPS 9999 -SHRA BKN008CB
 
Ижевск
SYNAR 28411 Ижевск 211500Z 33001MPS 9999 SCT020 23/18 Q999 RMK QFE735/0980 CLD:7SCAC


TSAR USII 211600Z LAST HOUR TS OBS: 050/103KM, 060/82-92KM, 070/74-85KM, 080/70-81KM, 100/70-82KM, 140/136KM, 150/151-168KM, 180/108-127KM, 190/109-128KM, 210/182KM
NEAREST TS 80/70KM
NOWCAST.SU USII 211600Z 33004MPS 9999 SCT280 21/19 Q0999 NOSIG
AUTOTAF.ME USII 211300Z 2114/2123 31003MPS CAVOK TX23/2114Z TN16/2122Z
FM211500 33003MPS 9999 BKN025CB
TEMPO 2115/2116 2000 -TSRA
FM211600 33004MPS CAVOK
FM212100 33003MPS 9999 VCSH BKN040CB
BECMG 2122/2123 NSC
 
Киров (Победилово)
SYNAR 27199 Киров 211500Z 29002G05MPS 9999 FEW010 21/10 Q1001 RMK QFE736/0982 CLD:3SCAC
(60/20KM)


NOWCAST.SU USKK 211600Z 31003MPS 9999 SKC 18/11 Q1000 NOSIG
AUTOTAF.ME USKK 211300Z 2114/2123 31004MPS 9999 -RA BKN040 TX20/2114Z TN12/2122Z
FM211500 32004MPS CAVOK
BECMG 2117/2118 BKN040
BECMG 2119/2120 NSC
FM212300 VRB02MPS 5000 BR NSC
 
Котельнич
SYNAR 27283 Котельнич 211500Z 31004MPS 9999 FEW020 21/10 Q1002 RMK QFE740/0986 CLD:2CU


NOWCAST.SU USKO 211600Z 29003MPS 9999 SKC 18/12 Q1001 NOSIG
RMK TURB: MOD FL30/FL40
AUTOTAF.ME USKO 211300Z 2114/2123 VRB02MPS 9999 -RA BKN040 TX20/2114Z TN11/2123Z
FM211500 VRB02MPS CAVOK
 
КС Лонг-Юганская
SYNAR 23445 Надым 211500Z 09003MPS CAVOK 15/06 Q1001 RMK QFE748/0998 CLD:7AC
(40/112KM)


NOWCAST.SU USML 211600Z 12004MPS 9999 BKN044 15/08 Q1001 NOSIG
AUTOTAF.ME USML 211300Z 2114/2123 11004MPS 9999 BKN025TCU TX16/2114Z TN14/2118Z
BECMG 2114/2115 NSC
BECMG 2115/2116 BKN040
BECMG 2120/2121 -RA
 
Надым
SYNAR 23445 Надым 211500Z 09003MPS CAVOK 15/06 Q1001 RMK QFE748/0998 CLD:7AC


NOWCAST.SU USMM 211600Z VRB02MPS 9999 OVC045 14/03 Q1001 NOSIG
RMK TURB: MOD SFC/FL40
AUTOTAF.ME USMM 211300Z 2114/2123 VRB02MPS CAVOK TX15/2114Z TN11/2123Z
BECMG 2115/2116 OVC040
BECMG 2119/2120 13005MPS
BECMG 2121/2122 -RA
FM212300 13005MPS 8000 -RA HZ OVC040
 
Ямбург
SYNAR 23058 Антипаюта 211500Z 18002MPS CAVOK 04/02 Q1005 RMK QFE753/1004 CLD:SKC
(30/141KM)


NOWCAST.SU USMQ 211600Z 10003MPS 9999 BKN021 03/00 Q1004 NOSIG
RMK TURB: MOD SFC/FL30
AUTOTAF.ME USMQ 211300Z 2114/2123 VRB02MPS CAVOK TX04/2114Z TNM01/2120Z
BECMG 2115/2116 BKN025
BECMG 2118/2119 OVC002
BECMG 2120/2121 BKN025
FM212200 13003MPS CAVOK
 
Новый Уренгой
SYNAR 23358 Новый Уренгой 211500Z 10002MPS 9999 FEW033 10/01 Q1004 RMK QFE747/0996 CLD:8SCACCI
(70/12KM)


NOWCAST.SU USMU 211600Z VRB02MPS 9999 BKN250 10/00 Q1003 NOSIG
RMK TURB: MOD SFC/FL40
AUTOTAF.ME USMU 211300Z 2114/2123 VRB02MPS CAVOK TX11/2114Z TN06/2121Z
 
Нижневартовск
METAR USNN 211600Z 06002MPS CAVOK 16/12 Q1000 R21/0///65 NOSIG RMK QFE745


NOWCAST.SU USNN 211600Z VRB02MPS 9999 FEW320 19/09 Q1000 NOSIG
RMK TURB: MOD FL40/FL70
AUTOTAF.ME USNN 211300Z 2114/2123 VRB02MPS CAVOK TX21/2114Z TN13/2121Z
TAF USNN 211350Z 2115/2215 13003G08MPS 9999 SCT040=
Радужный
SYNAR 23758 Радужный 211500Z 04001MPS CAVOK 19/02 Q1001 RMK QFE744/0993 CLD:5CI


NOWCAST.SU USNR 211600Z VRB02MPS 9999 FEW100 17/04 Q1001 NOSIG
RMK TURB: MOD FL30/FL40
AUTOTAF.ME USNR 211300Z 2114/2123 VRB02MPS CAVOK TX20/2114Z TN11/2120Z
 
Пермь (Бахаревка)
SYNAR 28224 Пермь 211500Z 24001MPS 6000 TSRA OVC020CB 18/17 Q999 RMK QFE734/0978 CLD:8CB
(80/29KM)


TSAR USPB 211600Z LAST HOUR TS OBS: 060/34KM, 070/44-65KM, 080/76KM, 090/29-74KM, 100/18KM, 110/56-67KM, 120/46-75KM, 130/36-66KM, 140/28-123KM, 150/73-156KM, 160/84-165KM, 170/61-159KM, 180/60-156KM, 190/62-120KM, 200/43-150KM, 210/48-161KM, 220/55-144KM, 230/64-115KM, 240/73KM
NEAREST TS 100/18KM
NOWCAST.SU USPB 211600Z 27003MPS 9999 BKN025CB 22/18 Q0997 TEMPO 2000 -TSGRRA TEMPO TL1800 2000 -TSGRRA
AUTOTAF.ME USPB 211300Z 2114/2123 23003MPS 9999 BKN040CB TX25/2114Z TN15/2123Z
TEMPO 2114/2116 5000 -TSGRRA
TEMPO 2116/2117 2000 -TSGRRA
TEMPO 2117/2118 VCTS
BECMG 2117/2118 -RA
FM211900 31003MPS 5000 -SHRA BR BKN008 BKN010CB
FM212000 VRB02MPS 2500 VCSH BR BKN004 BKN010CB
BECMG 2121/2122 BR
 
Пермь (Большое Савино)
METAR USPP 211600Z VRB01MPS 9999 -SHRA BKN050CB 18/17 Q0998 R21/290350 TEMPO VRB23MPS 0500 +TSRA SQ BKN011CB RMK QFE738


TSAR USPP 211600Z LAST HOUR TS OBS: 060/44KM, 070/55-76KM, 080/87KM, 090/28-84KM, 100/75KM, 110/43-64KM, 120/33-82KM, 130/54-84KM, 140/76-142KM, 150/85-158KM, 160/59-164KM, 170/56-154KM, 180/75-152KM, 190/36-114KM, 200/40-142KM, 210/63-158KM, 220/46-141KM, 230/53-113KM
NEAREST TS 90/28KM
NOWCAST.SU USPP 211600Z 27003MPS 9999 BKN025CB 22/19 Q0997 TEMPO 2000 -TSGRRA TEMPO TL1800 2000 -TSGRRA
AUTOTAF.ME USPP 211300Z 2114/2123 23003MPS 9999 BKN040CB TX24/2114Z TN15/2123Z
TEMPO 2114/2116 5000 -TSGRRA
TEMPO 2116/2117 2000 -TSGRRA
TEMPO 2117/2118 VCTS
BECMG 2117/2118 -RA
FM211900 31003MPS 5000 -SHRA BR BKN008CB
FM212000 VRB02MPS 2500 VCSH BR BKN004 BKN010CB
FM212100 VRB02MPS 9999 VCSH NSC
FM212200 VRB02MPS 2500 BR BKN004
TAF USPP 211355Z 2115/2215 30003G15MPS 8000 -SHRA BKN016CB
TEMPO 2115/2121 0600 +TSRAGR BKN004 BKN011CB
BECMG 2204/2206 9999 NSW BKN040=
Березники
SYNAR 23914 Чердынь 211500Z 26003MPS 9999 RESHRA OVC010CB 18/17 Q997 RMK QFE729/0972 CLD:8CB
(350/93KM)


TSAR USPT 211600Z LAST HOUR TS OBS: 170/166-168KM, 180/165-165KM
NEAREST TS 180/165KM
NOWCAST.SU USPT 211600Z 27003MPS 5000 BKN026CB 20/18 Q0996 TEMPO TS TEMPO TL1800 TS
AUTOTAF.ME USPT 211300Z 2114/2123 23003MPS 9999 BKN040CB TX23/2114Z TN13/2123Z
TEMPO 2114/2116 -TSGRRA
FM211600 27003MPS 5000 BKN025CB
TEMPO 2116/2117 TS
FM211700 30003MPS 2500 BKN015CB
TEMPO 2117/2118 VCTS
FM211800 32003MPS 2500 -SHRA BR BKN025CB
BECMG 2118/2119 5000
FM212000 32003MPS 2500 VCSH BR BKN004 BKN010CB
BECMG 2120/2121 BR
 
Когалым
SYNAR 23748 Когалым 211500Z 07002MPS CAVOK 21/04 Q1001 RMK QFE744/0992 CLD:2CI


NOWCAST.SU USRK 211600Z 05004MPS 9999 BKN078 17/06 Q1001 NOSIG
RMK TURB: MOD FL30/FL40
AUTOTAF.ME USRK 211300Z 2114/2123 05004MPS CAVOK TX20/2114Z TN13/2120Z
 
Нефтеюганск
SYNAR 23849 Сургут 211500Z 11004MPS CAVOK 21/07 Q1001 RMK QFE744/0993 CLD:3CI
(60/48KM)


NOWCAST.SU USRN 211600Z 09004MPS 9999 FEW320 19/10 Q1000 NOSIG
RMK TURB: MOD FL50/FL60
AUTOTAF.ME USRN 211300Z 2114/2123 07004MPS CAVOK TX21/2114Z TN14/2120Z
 
Ноябрьск
SYNAR 23657 Ноябрьск 211500Z 35002MPS CAVOK 19/07 Q1001 RMK QFE739/0985 CLD:6ACCI


NOWCAST.SU USRO 211600Z VRB02MPS 9999 FEW230 16/07 Q1002 NOSIG
AUTOTAF.ME USRO 211300Z 2114/2123 35004MPS CAVOK TX18/2114Z TN12/2120Z
 
Сургут
METAR USRR 211600Z 12002MPS 050V150 CAVOK 19/10 Q1000 R07/CLRD60 NOSIG RMK QFE745


NOWCAST.SU USRR 211600Z VRB02MPS 9999 FEW300 19/09 Q1000 NOSIG
RMK TURB: MOD FL30/FL50
AUTOTAF.ME USRR 211300Z 2114/2123 VRB02MPS CAVOK TX21/2114Z TN14/2119Z
TAF USRR 211355Z 2115/2215 08003G12MPS 9999 SCT020
BECMG 2117/2119 14003G08MPS=
Североуральск
SYNAR 23921 Ивдель 211500Z 15002MPS 9999 FEW033 22/17 Q996 RMK QFE739/0985 CLD:7SCACCI
(30/47KM)


NOWCAST.SU USSE 211600Z 15003MPS 9999 BKN310 21/17 Q0997 NOSIG
AUTOTAF.ME USSE 211300Z 2114/2123 14003MPS CAVOK TX23/2114Z TN17/2119Z
FM211700 VRB02MPS 9999 VCSH BKN040CB
FM211800 VRB02MPS 5000 VCSH BR BKN040CB
FM212000 VRB02MPS 5000 -SHRA BR BKN015CB
BECMG 2121/2122 BKN025CB
FM212300 VRB02MPS 9999 -SHRA BKN040CB
 
Грань
SYNAR 28240 Нижний Тагил 211500Z 25002MPS 9999 FEW020 25/15 Q998 RMK QFE725/0967 CLD:2CU
(350/17KM)


NOWCAST.SU USSG 211600Z VRB02MPS 9999 -SHRA BKN053CB 21/16 Q0999 NOSIG
RMK TURB: MOD FL50/FL60
AUTOTAF.ME USSG 211300Z 2114/2123 VRB02MPS 9999 -SHRA SCT060CB TX24/2114Z TN16/2123Z
FM211700 VRB02MPS CAVOK
FM211800 VRB02MPS 9999 VCSH BKN060CB
FM211900 VRB02MPS CAVOK
 
Ивдель
SYNAR 23921 Ивдель 211500Z 15002MPS 9999 FEW033 22/17 Q996 RMK QFE739/0985 CLD:7SCACCI


NOWCAST.SU USSI 211600Z 16003MPS 9999 BKN045 21/17 Q0996 NOSIG
AUTOTAF.ME USSI 211300Z 2114/2123 VRB02MPS CAVOK TX23/2114Z TN17/2120Z
FM211500 15003MPS 9999 VCSH BKN040CB
FM211700 VRB02MPS 9999 VCSH BKN040CB
BECMG 2119/2120 BKN015CB
BECMG 2120/2121 -SHRA
BECMG 2121/2122 BKN002 BKN010CB
 
Екатеринбург (Арамиль)
SYNAR 28440 Екатеринбург 211500Z 28003MPS 9999 FEW020 26/12 Q1000 RMK QFE724/0966 CLD:3CUCS
(330/17KM)


TSAR USSK 211600Z LAST HOUR TS OBS: 200/120-165KM, 210/125-170KM
NEAREST TS 200/120KM
NOWCAST.SU USSK 211600Z VRB02MPS 9999 FEW130 21/16 Q0999 NOSIG
RMK TURB: MOD FL50/FL70
AUTOTAF.ME USSK 211300Z 2114/2123 VRB02MPS CAVOK TX23/2114Z TN17/2119Z
FM212000 VRB02MPS 9999 SCT120CB
TEMPO 2120/2121 VCTS
FM212100 VRB02MPS CAVOK
 
Алапаевск
SYNAR 28144 Верхотурье 211500Z 14002MPS CAVOK 23/16 Q998 RMK QFE737/0983 CLD:1CI
(330/125KM)


NOWCAST.SU USSQ 211600Z VRB02MPS 9999 -SHRA BKN076CB 20/18 Q0998 NOSIG
AUTOTAF.ME USSQ 211300Z 2114/2123 VRB02MPS 9999 BKN040CB TX22/2114Z TN16/2123Z
TEMPO 2114/2115 VRB08G13MPS VCTS
BECMG 2114/2115 -SHRA
FM211800 VRB02MPS CAVOK
 
Екатеринбург (Кольцово)
METAR USSS 211600Z 27003MPS CAVOK 24/15 Q0999 R26L/010060 NOSIG RMK QFE729/0972


TSAR USSS 211600Z LAST HOUR TS OBS: 200/125-170KM, 210/129-175KM
NEAREST TS 200/125KM
NOWCAST.SU USSS 211600Z VRB02MPS 9999 FEW130 21/16 Q0999 NOSIG
RMK TURB: MOD FL50/FL70
AUTOTAF.ME USSS 211300Z 2114/2123 VRB02MPS CAVOK TX23/2114Z TN17/2119Z
FM212000 VRB02MPS 9999 SCT120CB
TEMPO 2120/2121 VCTS
FM212100 VRB02MPS CAVOK
TAF AMD USSS 211448Z 2115/2215 30003G13MPS 8000 BKN016CB
TEMPO 2115/2215 -TSRAGR
BECMG 2210/2213 10003G12MPS=
Тавда
SYNAR 28158 Таборы 211500Z 00000MPS 9999 FEW010CB 20/18 Q999 RMK QFE743/0991 CLD:7CBACCI
(320/64KM)


NOWCAST.SU USSW 211600Z VRB02MPS 9999 FEW300 20/17 Q0998 NOSIG
AUTOTAF.ME USSW 211300Z 2114/2123 VRB02MPS 9999 -RA BKN040 TX21/2114Z TN15/2121Z
FM211600 VRB02MPS CAVOK
FM212000 VRB02MPS 5000 BR NSC
FM212100 VRB02MPS CAVOK
FM212300 VRB02MPS 9000 BR BKN015
 
Сосьва
SYNAR 28049 Гари 211500Z 12004MPS CAVOK 22/17 Q998 RMK QFE737/0983 CLD:5AC
(50/39KM)


NOWCAST.SU USSX 211600Z VRB02MPS 9999 SKC 21/19 Q0998 NOSIG
AUTOTAF.ME USSX 211300Z 2114/2123 VRB02MPS 9999 -SHRA SCT096CB TX22/2114Z TN17/2119Z
FM211500 VRB02MPS CAVOK
 
Уват
SYNAR 28172 Уват 211500Z 00000MPS 9999 FEW020 21/16 Q998 RMK QFE745/0993 CLD:4SCCI


NOWCAST.SU USTA 211600Z VRB02MPS 9999 FEW260 19/16 Q0999 NOSIG
AUTOTAF.ME USTA 211300Z 2114/2123 VRB02MPS CAVOK TX20/2114Z TN15/2121Z
BECMG 2117/2118 BKN015
FM212000 VRB02MPS 5000 BR BKN015
BECMG 2121/2122 BKN002
 
Тобольск (Ремезов)
SYNAR 28275 Тобольск 211500Z 07003MPS 9999 OVC020CB 18/16 Q998 RMK QFE744/0992 CLD:8CB
(330/12KM)


NOWCAST.SU USTJ 211600Z VRB02MPS 9999 -RA BKN021 18/16 Q0998 NOSIG
AUTOTAF.ME USTJ 211300Z 2114/2123 VRB02MPS 9999 -RA BKN025 TX19/2114Z TN15/2120Z
FM211700 VRB02MPS CAVOK
BECMG 2117/2118 BKN015
FM211900 VRB02MPS 5000 BR BKN015
FM212100 VRB02MPS 2500 BR BKN004
 
Тюмень (Плеханово)
SYNAR 28367 Тюмень 211500Z 35002MPS 9999 SCT020 20/18 Q998 RMK QFE739/0986 CLD:8CUACCI


NOWCAST.SU USTL 211600Z VRB02MPS 9999 -RA OVC022 19/17 Q0999 NOSIG
AUTOTAF.ME USTL 211300Z 2114/2123 VRB02MPS 9999 -RA BKN025 TX21/2114Z TN15/2122Z
FM211700 VRB02MPS CAVOK
FM212000 VRB02MPS 2500 BR OVC004
 
Тобольск
SYNAR 28275 Тобольск 211500Z 07003MPS 9999 OVC020CB 18/16 Q998 RMK QFE744/0992 CLD:8CB


NOWCAST.SU USTO 211600Z VRB02MPS 9999 -RA BKN027 18/16 Q0998 NOSIG
AUTOTAF.ME USTO 211300Z 2114/2123 VRB02MPS 9999 -RA BKN025 TX19/2114Z TN15/2119Z
FM211700 VRB02MPS CAVOK
FM211800 VRB02MPS 5000 BR BKN025
BECMG 2118/2119 OVC015
BECMG 2121/2122 BKN002
 
Тюмень (Рощино)
METAR USTR 211600Z 36002MPS 9999 SCT053CB 19/19 Q0998 R30/190060 R21/190060 TEMPO 2100 -SHRA BR BKN007 BKN016CB


NOWCAST.SU USTR 211600Z VRB02MPS 9999 -RA OVC020 19/17 Q0999 NOSIG
AUTOTAF.ME USTR 211300Z 2114/2123 VRB02MPS 9999 -RA BKN025 TX21/2114Z TN15/2122Z
FM211700 VRB02MPS CAVOK
FM212000 VRB02MPS 2500 BR OVC004
TAF USTR 211330Z 2115/2215 36005G12MPS 9999 BKN007 BKN020CB
TEMPO 2115/2118 VRB15MPS 1500 TSRAGR SQ VV004
FM211800 VRB01MPS 1000 BR BKN005 SCT020CB
TEMPO 2118/2203 0200 -SHRA FG VV001
FM220400 23003G08MPS 9999 SCT010 BKN016CB
TEMPO 2204/2212 -SHRA=
Курган
SYNAR 28661 Курган 211500Z 01001MPS 9999 -SHRA BKN020CB 20/18 Q998 RMK QFE742/0989 CLD:8CBACCI


TSAR USUU 211600Z LAST HOUR TS OBS: 100/51KM, 110/52KM, 120/60-70KM, 130/51-81KM, 140/65-73KM
NEAREST TS 100/51KM
NOWCAST.SU USUU 211600Z VRB02MPS 9999 -SHRA BKN043CB 20/18 Q0998 NOSIG
AUTOTAF.ME USUU 211300Z 2114/2123 34003MPS 9999 -SHRA BKN025CB TX21/2114Z TN17/2120Z
FM211700 VRB02MPS CAVOK
BECMG 2121/2122 BKN040
 
Ashgabat
METAR UTAA 211600Z 26006KT 9999 FEW050CB SCT050 BKN100 32/10 Q1005 R88/CLRD70 NOSIG


TSAR UTAA 211600Z LAST HOUR TS OBS: 310/19KM, 320/50KM, 340/41-72KM, 350/67KM
NEAREST TS 310/19KM
NOWCAST.SU UTAA 211600Z 27018KT 9999 -TSRA SCT186CB 31/14 Q1006 NOSIG
RMK TURB: MOD FL70/FL120
AUTOTAF.ME UTAA 211300Z 2114/2123 28018KT 9999 -SHRA SCT190CB TX34/2114Z TN28/2123Z
FM211800 27010KT 9999 VCSH OVC100CB
BECMG 2119/2120 23004KT
TAF UTAA 211045Z 2112/2212 33012G22KT 6000 SCT050CB BKN040
TEMPO 2112/2116 VRB34KT 2000 DS -TSRA
BECMG 2116/2118 27014KT
BECMG 2203/2205 32014G24KT 4000 DRDU
TEMPO 2205/2212 VRB28KT -TSRA BKN020=
Turkmenbashi
METAR UTAK 211600Z 35016KT CAVOK 29/12 Q1008 R34L/CLRD70 NOSIG


NOWCAST.SU UTAK 211600Z 33014KT 9999 FEW270 28/15 Q1007 NOSIG
AUTOTAF.ME UTAK 211300Z 2114/2123 33016KT 9999 BKN110CB TX29/2114Z TN22/2123Z
TEMPO 2114/2115 VCTS
BECMG 2114/2115 VCSH
FM211600 33014KT CAVOK
BECMG 2119/2120 34010KT
TAF UTAK 211030Z 2112/2212 35016G26KT 9999 SCT030 BKN100
TEMPO 2112/2115 27018KT SCT023 SCT040CB BKN100
TEMPO 2115/2118 6000 SCT015 BKN100
TEMPO 2118/2123 2500 BR BKN004 BKN100
TEMPO 2123/2203 0800 FG VV001
BECMG 2203/2204 9999 NSW BKN030 BKN100
TEMPO 2204/2208 4000 -SHRA SCT013 SCT040CB BKN100=
Mary
METAR UTAM 211600Z 31010KT 6000 SCT100 36/16 Q1001 R88/CLRD70 NOSIG


NOWCAST.SU UTAM 211600Z 33010G20KT 9999 BKN300 33/04 Q1002 NOSIG
RMK TURB: MOD FL30/FL120
AUTOTAF.ME UTAM 211300Z 2114/2123 33016KT CAVOK TX37/2114Z TN26/2123Z
BECMG 2114/2115 33010G26KT
TAF UTAM 211035Z 2112/2212 35016KT 5000 SCT050
TEMPO 2112/2120 32016G26KT 3000 DRDU SCT050CB
TEMPO 2200/2206 VRB04KT 3000 HZ FU
TEMPO 2206/2212 33016G26KT 3000 DRDU SCT050CB=
Dashoguz
METAR UTAT 211600Z 33006KT 270V010 CAVOK 34/11 Q1002 R26/CLRD70 NOSIG


TSAR UTAT 211600Z LAST HOUR TS OBS: 010/82KM, 020/60-84KM, 030/90KM, 160/74KM, 170/98-123KM, 180/96-121KM, 230/141-170KM, 240/125-138KM, 270/119KM, 290/122KM, 300/131KM, 310/143KM
NEAREST TS 20/60KM
NOWCAST.SU UTAT 211600Z 01006KT 9999 SCT130 32/16 Q1003 TEMPO FM1700 VCTS
RMK TURB: MOD FL50/FL110
AUTOTAF.ME UTAT 211300Z 2114/2123 07006KT CAVOK TX36/2114Z TN26/2123Z
BECMG 2115/2116 01006KT
FM211700 33010KT 9999 BKN190CB
TEMPO 2117/2123 VCTS
BECMG 2117/2118 32012KT
BECMG 2120/2121 05008KT
TAF UTAT 211048Z 2112/2212 27012G22KT 6000 SCT030CB BKN100
TEMPO 2112/2118 VRB24G34KT 0700 TSRA DS VV003
TEMPO 2118/2124 33018G28KT 2000 TSRA BLDU=
Dushanbe
METAR UTDD 211600Z VRB02MPS 9000 FEW066CB 25/15 Q1007 R09/CLRD// NOSIG RMK QFE687/0916


NOWCAST.SU UTDD 211600Z 06003MPS 9999 VCSH BKN097CB 22/13 Q1010 NOSIG
RMK TURB: MOD FL110/FL120
AUTOTAF.ME UTDD 211300Z 2114/2123 VRB02MPS 9999 VCSH BKN096CB TX24/2114Z TN18/2122Z
FM212100 07004MPS CAVOK
TAF UTDD 211100Z 2112/2212 VRB02MPS 8000 SCT060CB BKN100
TEMPO 2112/2122 28008G13MPS -TSRA
PROB40 TEMPO 2122/2205 3100 TS HZ
TEMPO 2205/2212 VRB08G13MPS -TSRA=
METAR UTDK 211600Z 03004MPS 9999 SCT056CB SCT130 26/13 Q1006 R01/09//70 RMK QFE697/0930


NOSIG
TAF UTDK 211501Z 2116/2204 03005MPS 8000 SCT050CB BKN100
TEMPO 2116/2122 VRB08MPS 3100 -TSRA HZ=
Khudzhand
METAR UTDL 211600Z 21003MPS 9999 FEW066CB SCT086 30/10 Q1004 R26/CLRD70 NOSIG RMK QFE715/0954


NOWCAST.SU UTDL 211600Z 16004MPS 9999 FEW140 25/13 Q1010 NOSIG
RMK TURB: MOD FL70/FL150
AUTOTAF.ME UTDL 211300Z 2114/2123 17005MPS CAVOK TX26/2114Z TN22/2123Z
FM211500 17004MPS 9999 -SHRA BKN100CB
FM211600 16004MPS CAVOK
TAF UTDL 211100Z 2112/2212 24005MPS 9999 FEW060CB SCT080
TEMPO 2112/2115 VRB08MPS -TSRA SCT050CB
BECMG 2115/2116 08007MPS
PROB40 TEMPO 2116/2212 VRB06MPS -TSRA=
Namangan
METAR UTFN 211600Z 07006KT 9999 FEW050CB 29/15 Q1004 R28/CLRD70 NOSIG


NOWCAST.SU UTFN 211600Z 22010G22KT 9999 VCSH BKN128CB 30/12 Q1003 NOSIG
RMK TURB: MOD FL90/FL120
AUTOTAF.ME UTFN 211300Z 2114/2123 22016KT 9999 VCSH BKN110CB TX33/2114Z TN24/2122Z
BECMG 2115/2116 22010G22KT
BECMG 2116/2117 24004KT
FM211900 02006KT CAVOK
TAF UTFN 211100Z 2112/2212 34010KT 9999 NSC TX37/2111Z TN28/2200Z
TEMPO 2112/2122 24012G22KT -TSRA SCT050CB=
Nukus Karakalpak
METAR UTNN 211600Z 25008KT CAVOK 32/12 Q1003 R33/CLRD60 NOSIG


TSAR UTNN 211600Z LAST HOUR TS OBS: 080/24KM, 090/39-55KM, 120/46KM, 160/154KM, 210/172-181KM, 220/171-190KM, 230/125-153KM, 240/138KM, 250/112-126KM, 260/104-119KM, 270/101-116KM
NEAREST TS 80/24KM
NOWCAST.SU UTNN 211600Z 35010KT 9999 FEW140 32/13 Q1004 TEMPO FM1700 VCTS
RMK TURB: MOD FL90/FL120
AUTOTAF.ME UTNN 211300Z 2114/2123 33012KT CAVOK TX35/2114Z TN25/2123Z
FM211700 02006KT 9999 BKN170CB
TEMPO 2117/2118 VCTS
BECMG 2117/2118 VCSH
TEMPO 2119/2120 VCTS
FM212000 04006KT CAVOK
FM212200 01006KT 9999 SCT130CB
TEMPO 2122/2124 VCTS
TAF UTNN 211100Z 2112/2212 31008G18KT CAVOK TX37/2212Z TN24/2201Z
TEMPO 2118/2203 VRB04KT=
Urgench
METAR UTNU 211600Z 23004KT CAVOK 32/13 Q1002 R31/CLRD70 NOSIG


TSAR UTNU 211600Z LAST HOUR TS OBS: 200/109KM, 210/86-116KM, 220/65-95KM, 330/88-118KM, 340/111KM, 350/106KM
NEAREST TS 220/65KM
NOWCAST.SU UTNU 211600Z 34008KT 9999 VCSH SCT142CB 34/12 Q1002 NOSIG
RMK TURB: MOD FL40/FL120
AUTOTAF.ME UTNU 211300Z 2114/2123 33006KT 9999 VCSH SCT120CB TX37/2114Z TN27/2122Z
FM211700 33010KT CAVOK
FM212000 36008KT 9999 VCSH BKN120CB
FM212100 04008KT 9999 BKN120CB
TEMPO 2121/2124 VCTS
TAF UTNU 211100Z 2112/2212 VRB04KT 9999 SCT040 BKN100 TX38/2211Z TN23/2201Z
TEMPO 2112/2120 30010KT SCT030CB OVC100
PROB40 TEMPO 2112/2122 VRB14G24KT 3000 -TSRA -DS BKN020CB=
Navoi
METAR UTSA 211600Z 04004KT 9999 NSC 34/04 Q1003 R25/CLRD70 NOSIG


NOWCAST.SU UTSA 211600Z 02008KT 9999 SKC 32/02 Q1002 NOSIG
RMK TURB: MOD FL40/FL120
AUTOTAF.ME UTSA 211300Z 2114/2123 35010KT CAVOK TX36/2114Z TN25/2123Z
BECMG 2114/2115 HZ
TAF UTSA 211101Z 2112/2212 VRB03KT 7000 NSC TX40/2211Z TN23/2200Z
TEMPO 2112/2123 01014KT 3000 -TSRA BKN050CB=
Bukhara
METAR UTSB 211600Z 25002KT CAVOK 32/12 Q1002 R01/CLRD70 NOSIG


NOWCAST.SU UTSB 211600Z 01008KT 9999 SKC 34/05 Q1001 NOSIG
RMK TURB: MOD FL30/FL150
AUTOTAF.ME UTSB 211300Z 2114/2123 36008KT CAVOK TX37/2114Z TN26/2123Z
TAF UTSB 211100Z 2112/2212 VRB03KT 7000 FEW033 TX40/2211Z TN25/2200Z
TEMPO 2112/2123 VRB16G26KT 3000 -TSRA -DS BKN050CB=
Karshi Khanabad
METAR UTSK 211600Z 00000KT 9999 FEW050CB 28/13 Q1002 R16/CLRD70


NOWCAST.SU UTSK 211600Z 36006KT 9999 VCSH SCT100CB 30/08 Q1002 NOSIG
RMK TURB: MOD FL40/FL150
AUTOTAF.ME UTSK 211300Z 2114/2123 35008KT 9999 VCSH BKN100CB TX34/2114Z TN23/2123Z
FM211700 36008KT CAVOK
BECMG 2119/2120 06006KT
TAF UTSK 211501Z 2116/2201 VRB04KT 7000 FEW050CB SCT100
TEMPO 2116/2201 27010G20KT TS SCT050CB BKN100=
Samarkand
METAR UTSS 211600Z 15010KT 9999 NSC 29/12 Q1005 R09/CLRD70 NOSIG


NOWCAST.SU UTSS 211600Z VRB02KT 9999 FEW320 26/12 Q1009 NOSIG
RMK TURB: MOD FL70/FL150
AUTOTAF.ME UTSS 211300Z 2114/2123 VRB02KT CAVOK TX29/2114Z TN21/2122Z
TAF UTSS 211100Z 2112/2212 14010G20KT 7000 FEW060CB SCT100 TX35/2210Z TN22/2200Z
TEMPO 2112/2118 VRB16G26KT 3000 -TSRA DU SCT050CB=
Termez
METAR UTST 211600Z 00000KT 9999 FEW066CB 32/11 Q1002 R25/CLRD70 NOSIG


NOWCAST.SU UTST 211600Z 04006KT 9999 FEW130 33/12 Q1001 NOSIG
RMK TURB: MOD FL70/FL120
AUTOTAF.ME UTST 211300Z 2114/2123 03008KT 9999 VCSH SCT120CB TX36/2114Z TN26/2123Z
FM211500 04008KT CAVOK
BECMG 2117/2118 VRB02KT
FM212200 10004KT 9999 VCSH BKN140CB
TAF UTST 211100Z 2112/2212 28012G22KT 5000 HZ SCT060CB BKN100 TX39/2211Z TN24/2201Z
TEMPO 2112/2123 VRB20G30KT 1500 TSRA SQ DS BKN050CB BKN100=
Tashkent-vostoch
SYNAR 38457 Ташкент 211500Z 23001MPS 9999 BKN020CB 32/15 Q1001 RMK QFE710/0946 CLD:7CBCI
(240/11KM)


NOWCAST.SU UTTP 211600Z 02010G22KT 9999 SCT110 26/14 Q1005 NOSIG
RMK TURB: MOD FL90/FL120
AUTOTAF.ME UTTP 211300Z 2114/2123 36010G22KT 9999 BKN110CB TX30/2114Z TN21/2122Z
TEMPO 2114/2115 VCTS
FM211500 01014G26KT CAVOK
BECMG 2117/2118 07008KT
 
Taskent Yuzni
METAR UTTT 211600Z 25006KT 210V270 CAVOK 33/12 Q1003 R08R/CLRD70 NOSIG


NOWCAST.SU UTTT 211600Z 02010G22KT 9999 SCT110 26/13 Q1005 NOSIG
RMK TURB: MOD FL90/FL120
AUTOTAF.ME UTTT 211300Z 2114/2123 36010G22KT 9999 BKN110CB TX31/2114Z TN21/2122Z
TEMPO 2114/2115 VCTS
FM211500 01014G26KT CAVOK
BECMG 2117/2118 07008KT
TAF COR UTTT 211100Z 2112/2212 22010KT 7000 FEW060CB SCT100 TX38/2211Z TN23/2200Z
TEMPO 2112/2118 32014G24KT SCT060CB
PROB40 TEMPO 2112/2118 TS SCT050CB=
Ржев (Компрессорная)
SYNAR 26499 Старица 211500Z 32004MPS 9999 FEW020 21/08 Q1010 RMK QFE741/0988 CLD:2CU
(60/50KM)


NOWCAST.SU UUAK 211600Z VRB02MPS 9999 -RA BKN058 19/10 Q1010 NOSIG
RMK TURB: MOD FL40/FL90
AUTOTAF.ME UUAK 211300Z 2114/2123 31004MPS 9999 -RA BKN040 TX21/2114Z TN12/2123Z
BECMG 2114/2115 NSC
 
Охотактив
SYNAR 27333 Кострома 211500Z 30002MPS 9999 FEW020 20/09 Q1007 RMK QFE743/0991 CLD:3CUCI
(270/11KM)


NOWCAST.SU UUAO 211600Z 29004MPS 5000 HZ SKC 17/11 Q1006 NOSIG
RMK TURB: MOD FL30/FL40
AUTOTAF.ME UUAO 211300Z 2114/2123 30004MPS 5000 -RA HZ NSC TX18/2114Z TN11/2122Z
BECMG 2114/2115 HZ
FM211700 28003MPS CAVOK
 
Кострома (Сокеркино)
SYNAR 27333 Кострома 211500Z 30002MPS 9999 FEW020 20/09 Q1007 RMK QFE743/0991 CLD:3CUCI
(240/16KM)


NOWCAST.SU UUBA 211600Z VRB02MPS 3000 HZ SKC 17/11 Q1006 NOSIG
RMK TURB: MOD FL70/FL80
AUTOTAF.ME UUBA 211300Z 2114/2123 32003MPS 2500 -RA HZ NSC TX18/2114Z TN11/2122Z
BECMG 2114/2115 HZ
BECMG 2116/2117 5000
FM211800 VRB02MPS CAVOK
 
Москва (Быково)
SYNAR 27612 Москва (ВДНХ) 211500Z 30002MPS 9999 SCT033 21/08 Q1010 RMK QFE743/0991 CLD:4CUCI
(310/36KM)


NOWCAST.SU UUBB 211600Z 32004MPS 9999 BKN056 19/12 Q1009 NOSIG
RMK TURB: MOD SFC/FL70
AUTOTAF.ME UUBB 211300Z 2114/2123 32005G13MPS CAVOK TX19/2114Z TN13/2123Z
 
Калуга (Грабцево)
METAR UUBC 211600Z 32005MPS CAVOK 21/12 Q1010 R31/CLRD60 NOSIG RMK QFE741/0988


NOWCAST.SU UUBC 211600Z 29004MPS 9999 BKN250 19/13 Q1011 NOSIG
RMK TURB: MOD FL40/FL70
AUTOTAF.ME UUBC 211300Z 2114/2123 30004MPS 9999 -RA NSC TX20/2114Z TN13/2122Z
TAF UUBC 211341Z 2115/2124 30003G08MPS 9999 SCT030=
Рязань (Дягилево)
SYNAR 27730 Рязань 211500Z 32003MPS 9999 BKN020 21/09 Q1009 RMK QFE742/0990 CLD:6CU


NOWCAST.SU UUBD 211600Z 33009MPS 9999 SKC 18/12 Q1009 NOSIG
RMK TURB: MOD FL70/FL80
AUTOTAF.ME UUBD 211300Z 2114/2123 33011G16MPS 9999 -RA NSC TX20/2114Z TN13/2122Z
BECMG 2116/2117 33004MPS
 
Сасово
SYNAR 27745 Сасово 211500Z 34004MPS 9999 FEW050 21/12 Q1006 RMK QFE744/0992 CLD:5CUCI


NOWCAST.SU UUBG 211600Z 35009G14MPS 9999 -RA FEW060 19/11 Q1007 NOSIG
RMK TURB: MOD SFC/FL70
AUTOTAF.ME UUBG 211300Z 2114/2123 34010G15MPS 9999 -RA NSC TX21/2114Z TN12/2123Z
BECMG 2114/2115 FEW040
BECMG 2115/2116 NSC
BECMG 2116/2117 35005G13MPS
 
Иваново (Южный)
SYNAR 27347 Иваново 211500Z 32004MPS 9999 SCT033 20/10 Q1007 RMK QFE744/0992 CLD:3CU


NOWCAST.SU UUBI 211600Z 29004MPS 9999 SKC 17/10 Q1007 NOSIG
RMK TURB: MOD FL50/FL90
AUTOTAF.ME UUBI 211300Z 2114/2123 30004MPS 9999 -RA NSC TX19/2114Z TN11/2123Z
FM211500 29004MPS 5000 -RA HZ NSC
FM211600 29004MPS CAVOK
 
Рыбинск (Староселье)
SYNAR 27225 Рыбинск 211500Z 31002MPS CAVOK 20/09 Q1008 RMK QFE746/0995 CLD:3AC
(270/15KM)


NOWCAST.SU UUBK 211600Z VRB02MPS 5000 HZ SKC 17/10 Q1007 NOSIG
RMK TURB: MOD FL40/FL70
AUTOTAF.ME UUBK 211300Z 2114/2123 VRB02MPS 5000 -RA HZ BKN040 TX18/2114Z TN11/2122Z
BECMG 2114/2115 NSC
BECMG 2115/2116 HZ
FM211700 VRB02MPS 9999 -RA NSC
 
Владимир (Семязино)
SYNAR 27532 Владимир 211500Z 32003MPS 9999 SCT033 20/10 Q1008 RMK QFE740/0987 CLD:4SC


NOWCAST.SU UUBL 211600Z 31004MPS 5000 HZ SKC 17/11 Q1008 NOSIG
RMK TURB: MOD FL70/FL80
AUTOTAF.ME UUBL 211300Z 2114/2123 32005G13MPS 5000 -RA HZ NSC TX19/2114Z TN11/2123Z
BECMG 2114/2115 2500
FM211600 31004MPS 5000 HZ NSC
FM211700 31003MPS CAVOK
BECMG 2122/2123 OVC002
 
Мячково
SYNAR 27612 Москва (ВДНХ) 211500Z 30002MPS 9999 SCT033 21/08 Q1010 RMK QFE743/0991 CLD:4CUCI
(320/38KM)


NOWCAST.SU UUBM 211600Z 32004MPS 9999 SKC 19/12 Q1009 NOSIG
RMK TURB: MOD SFC/FL70
AUTOTAF.ME UUBM 211300Z 2114/2123 32005G13MPS CAVOK TX19/2114Z TN13/2122Z
 
Тверь (Змеево)
SYNAR 27402 Тверь 211500Z 26001MPS 9999 BKN033CB 20/11 Q1010 RMK QFE744/0992 CLD:7CBAC


NOWCAST.SU UUBN 211600Z 29004MPS 9999 BKN060 18/09 Q1009 NOSIG
RMK TURB: MOD FL50/FL60
AUTOTAF.ME UUBN 211300Z 2114/2123 29005G13MPS CAVOK TX20/2114Z TN14/2121Z
 
Брянск
METAR UUBP 200930Z 33003MPS 280V020 CAVOK 25/10 Q1015 R34/////// NOSIG RMK QFE743/0991


NOWCAST.SU UUBP 211600Z 30004MPS 9999 OVC270 19/11 Q1014 NOSIG
RMK TURB: MOD FL30/FL40
AUTOTAF.ME UUBP 211300Z 2114/2123 30009G14MPS CAVOK TX21/2114Z TN12/2123Z
BECMG 2115/2116 30004MPS
TAF UUBP 121357Z 1215/1224 CNL=
Шарья
SYNAR 27271 Шарья 211500Z 32002MPS 9999 BKN020CB 17/09 Q1004 RMK QFE742/0989 CLD:8CBACCI


NOWCAST.SU UUBQ 211600Z 30004MPS 9999 -RA BKN050 18/10 Q1003 NOSIG
RMK TURB: MOD SFC/FL40
AUTOTAF.ME UUBQ 211300Z 2114/2123 30005G12MPS 9999 -RA BKN040 TX20/2114Z TN10/2123Z
BECMG 2115/2116 NSC
 
Рязань (Турлатово)
SYNAR 27730 Рязань 211500Z 32003MPS 9999 BKN020 21/09 Q1009 RMK QFE742/0990 CLD:6CU
(310/13KM)


NOWCAST.SU UUBR 211600Z 32009G14MPS 9999 SKC 18/12 Q1008 NOSIG
RMK TURB: MOD FL70/FL80
AUTOTAF.ME UUBR 211300Z 2114/2123 32011G16MPS 9999 -RA NSC TX20/2114Z TN12/2123Z
BECMG 2116/2117 33005G11MPS
 
Смоленск (Южный)
SYNAR 26781 Смоленск 211500Z 28001MPS CAVOK 21/10 Q1014 RMK QFE738/0985 CLD:6CI


NOWCAST.SU UUBS 211600Z 28004MPS 9999 BKN230 19/13 Q1013 NOSIG
RMK TURB: MOD FL30/FL50
AUTOTAF.ME UUBS 211300Z 2114/2123 28005G11MPS CAVOK TX20/2114Z TN13/2123Z
 
 


NOSIG
 
Раменское (Жуковский)
METAR UUBW 211600Z 30005MPS CAVOK 22/09 Q1008 R30/010060 NOSIG RMK QFE746


NOWCAST.SU UUBW 211600Z 32004MPS 9999 BKN056 19/12 Q1009 NOSIG
RMK TURB: MOD SFC/FL70
AUTOTAF.ME UUBW 211300Z 2114/2123 32005G13MPS CAVOK TX19/2114Z TN13/2122Z
TAF UUBW 211355Z 2115/2215 29003G08MPS 9999 SCT030 TX21/2212Z TN11/2201Z
TEMPO 2115/2117 30008G15MPS
TEMPO 2206/2215 33008G13MPS=
Ярославль (Левцово)
SYNAR 27333 Кострома 211500Z 30002MPS 9999 FEW020 20/09 Q1007 RMK QFE743/0991 CLD:3CUCI
(90/44KM)


NOWCAST.SU UUBX 211600Z 27004MPS 3000 HZ SKC 17/11 Q1007 NOSIG
RMK TURB: MOD FL40/FL90
AUTOTAF.ME UUBX 211300Z 2114/2123 28004MPS 2500 VCSH HZ BKN060CB TX18/2114Z TN11/2123Z
FM211500 28004MPS 2500 HZ NSC
FM211700 27003MPS 5000 -RA HZ NSC
FM211800 26003MPS CAVOK
FM212300 VRB02MPS 0500 FG VV004
 
Листвянка
SYNAR 27730 Рязань 211500Z 32003MPS 9999 BKN020 21/09 Q1009 RMK QFE742/0990 CLD:6CU
(310/21KM)


NOWCAST.SU UUBZ 211600Z 32009G14MPS 9999 SKC 18/12 Q1008 NOSIG
RMK TURB: MOD FL70/FL80
AUTOTAF.ME UUBZ 211300Z 2114/2123 32011G16MPS 9999 -RA NSC TX20/2114Z TN12/2123Z
BECMG 2116/2117 33005G11MPS
 
Белоомут
SYNAR 27625 Коломна 211500Z 33002MPS 9999 BKN020 22/10 Q1009 RMK QFE746/0995 CLD:6SC
(300/41KM)


NOWCAST.SU UUCB 211600Z 32004MPS 9999 SKC 18/12 Q1008 NOSIG
RMK TURB: MOD SFC/FL30
AUTOTAF.ME UUCB 211300Z 2114/2123 32009G14MPS 9999 -RA NSC TX20/2114Z TN13/2121Z
BECMG 2115/2116 32004MPS
 
Дорожный
SYNAR 27417 Клин 211500Z 27002MPS 9999 SCT020 22/09 Q1009 RMK QFE742/0989 CLD:3CU


NOWCAST.SU UUCD 211600Z 29003MPS 9999 SKC 18/11 Q1009 NOSIG
RMK TURB: MOD FL70/FL80
AUTOTAF.ME UUCD 211300Z 2114/2123 29004MPS 9999 -RA NSC TX19/2114Z TN12/2121Z
 
Хоругвино
SYNAR 27619 Москва (Тушино) 211500Z 27001MPS 9999 SCT020 22/08 Q1010 RMK QFE742/0989 CLD:4SC
(150/33KM)


NOWCAST.SU UUCH 211600Z VRB02MPS 9999 SKC 18/11 Q1010 NOSIG
RMK TURB: MOD FL30/FL90
AUTOTAF.ME UUCH 211300Z 2114/2123 32004MPS 9999 -RA NSC TX19/2114Z TN13/2122Z
 
Ильясово
SYNAR 27625 Коломна 211500Z 33002MPS 9999 BKN020 22/10 Q1009 RMK QFE746/0995 CLD:6SC
(350/23KM)


NOWCAST.SU UUCI 211600Z 33005G12MPS 9999 SKC 18/12 Q1009 NOSIG
RMK TURB: MOD FL50/FL60
AUTOTAF.ME UUCI 211300Z 2114/2123 32009G14MPS 9999 -RA NSC TX20/2114Z TN12/2122Z
BECMG 2116/2117 33003MPS
 
Кузнечково
SYNAR 27417 Клин 211500Z 27002MPS 9999 SCT020 22/09 Q1009 RMK QFE742/0989 CLD:3CU
(40/19KM)


NOWCAST.SU UUCJ 211600Z VRB02MPS 9999 BKN056 18/10 Q1010 NOSIG
RMK TURB: MOD FL30/FL40
AUTOTAF.ME UUCJ 211300Z 2114/2123 33003MPS CAVOK TX19/2114Z TN13/2121Z
 
Горка
SYNAR 27518 Подмосковная 211500Z 32003MPS 9999 BKN020 22/09 Q1010 RMK QFE742/0989 CLD:6SCCI
(100/13KM)


NOWCAST.SU UUCK 211600Z VRB02MPS 9999 SKC 19/12 Q1010 NOSIG
RMK TURB: MOD FL40/FL70
AUTOTAF.ME UUCK 211300Z 2114/2123 34004MPS CAVOK TX20/2114Z TN13/2122Z
 
Нудоль
SYNAR 27511 Ново-Йерусалим 211500Z 31003MPS 9999 SCT020CB 21/08 Q1010 RMK QFE742/0990 CLD:6CBCS
(140/27KM)


NOWCAST.SU UUCN 211600Z VRB02MPS 9999 BKN058 18/11 Q1010 NOSIG
RMK TURB: MOD FL30/FL40
AUTOTAF.ME UUCN 211300Z 2114/2123 33003MPS CAVOK TX19/2114Z TN12/2123Z
 
Павлово
SYNAR 27518 Подмосковная 211500Z 32003MPS 9999 BKN020 22/09 Q1010 RMK QFE742/0989 CLD:6SCCI
(160/12KM)


NOWCAST.SU UUCO 211600Z VRB02MPS 9999 SKC 18/12 Q1010 NOSIG
RMK TURB: MOD FL30/FL90
AUTOTAF.ME UUCO 211300Z 2114/2123 32004MPS 9999 -RA NSC TX19/2114Z TN13/2121Z
 
Янино
SYNAR 27625 Коломна 211500Z 33002MPS 9999 BKN020 22/10 Q1009 RMK QFE746/0995 CLD:6SC
(260/45KM)


NOWCAST.SU UUCQ 211600Z 32004MPS 9999 SKC 18/12 Q1008 NOSIG
RMK TURB: MOD SFC/FL30
AUTOTAF.ME UUCQ 211300Z 2114/2123 32009G14MPS 9999 -RA NSC TX20/2114Z TN13/2121Z
BECMG 2115/2116 32004MPS
 
Торбеево
SYNAR 27627 Кашира 211500Z 33004MPS 9999 SCT020 21/08 Q1010 RMK QFE737/0983 CLD:3SC
(150/31KM)


NOWCAST.SU UUCT 211600Z 34004MPS 9999 SKC 19/12 Q1010 NOSIG
RMK TURB: MOD SFC/FL30
AUTOTAF.ME UUCT 211300Z 2114/2123 34009G14MPS 9999 SCT040TCU TX20/2114Z TN13/2123Z
BECMG 2114/2115 NSC
BECMG 2115/2116 34004MPS
 
Гринвуд
SYNAR 27619 Москва (Тушино) 211500Z 27001MPS 9999 SCT020 22/08 Q1010 RMK QFE742/0989 CLD:4SC


NOWCAST.SU UUCU 211600Z VRB02MPS 9999 SKC 18/11 Q1010 NOSIG
RMK TURB: MOD FL70/FL90
AUTOTAF.ME UUCU 211300Z 2114/2123 31003MPS CAVOK TX19/2114Z TN12/2123Z
 
Вихрево
SYNAR 27612 Москва (ВДНХ) 211500Z 30002MPS 9999 SCT033 21/08 Q1010 RMK QFE743/0991 CLD:4CUCI
(220/57KM)


NOWCAST.SU UUCW 211600Z 31003MPS 9999 SKC 18/11 Q1009 NOSIG
AUTOTAF.ME UUCW 211300Z 2114/2123 31004MPS CAVOK TX19/2114Z TN12/2122Z
 
Университет Сбербанка
SYNAR 27511 Ново-Йерусалим 211500Z 31003MPS 9999 SCT020CB 21/08 Q1010 RMK QFE742/0990 CLD:6CBCS
(300/13KM)


NOWCAST.SU UUCX 211600Z VRB02MPS 9999 SKC 18/11 Q1010 NOSIG
RMK TURB: MOD FL30/FL90
AUTOTAF.ME UUCX 211300Z 2114/2123 32004MPS 9999 -RA NSC TX19/2114Z TN13/2121Z
 
Дубна
SYNAR 27417 Клин 211500Z 27002MPS 9999 SCT020 22/09 Q1009 RMK QFE742/0989 CLD:3CU
(210/44KM)


NOWCAST.SU UUDB 211600Z 29003MPS 9999 SKC 19/10 Q1009 NOSIG
RMK TURB: MOD FL70/FL80
AUTOTAF.ME UUDB 211300Z 2114/2123 29004MPS 9999 -RA NSC TX19/2114Z TN13/2121Z
 
Сонино
SYNAR 27710 Алексин 211500Z 30002MPS 9999 FEW033 22/10 Q1011 RMK QFE740/0987 CLD:2CU
(230/24KM)


NOWCAST.SU UUDC 211600Z 31005G11MPS 9999 SKC 19/13 Q1010 NOSIG
RMK TURB: MOD FL30/FL50
AUTOTAF.ME UUDC 211300Z 2114/2123 30010G15MPS 9999 -RA NSC TX20/2114Z TN13/2122Z
BECMG 2115/2116 31005G11MPS
FM211700 32003MPS 9999 VCSH BKN040CB
FM212000 VRB02MPS CAVOK
 
Москва (Домодедово)
METAR UUDD 211600Z 31006MPS CAVOK 21/09 Q1009 R32L/CLRD60 NOSIG


NOWCAST.SU UUDD 211600Z 32004MPS 9999 SKC 19/12 Q1009 NOSIG
RMK TURB: MOD SFC/FL70
AUTOTAF.ME UUDD 211400Z 2115/2124 32005G12MPS CAVOK TX19/2115Z TN13/2122Z
TAF UUDD 211354Z 2115/2221 31008G14MPS 9999 SCT030 TX22/2212Z TN11/2201Z
BECMG 2117/2119 29003MPS
TEMPO 2208/2215 31008G13MPS=
Большое Грызлово
SYNAR 27627 Кашира 211500Z 33004MPS 9999 SCT020 21/08 Q1010 RMK QFE737/0983 CLD:3SC
(80/33KM)


NOWCAST.SU UUDG 211600Z 01003MPS 9999 BKN044 19/12 Q1010 NOSIG
RMK TURB: MOD FL30/FL70
AUTOTAF.ME UUDG 211300Z 2114/2123 34004MPS 9999 BKN025TCU TX21/2114Z TN13/2123Z
BECMG 2116/2117 NSC
 
Ярославль (Туношна)
METAR UUDL 211600Z 32004MPS CAVOK 19/09 Q1007 R23/010060 NOSIG RMK QFE747


NOWCAST.SU UUDL 211600Z 27004MPS 3000 HZ SKC 17/11 Q1007 NOSIG
RMK TURB: MOD FL40/FL90
AUTOTAF.ME UUDL 211300Z 2114/2123 28004MPS 2500 VCSH HZ BKN060CB TX18/2114Z TN11/2123Z
FM211500 28004MPS 2500 HZ NSC
FM211700 27003MPS 5000 -RA HZ NSC
FM211800 26003MPS CAVOK
FM212300 VRB02MPS 1200 BR OVC004
TAF UUDL 211400Z 2115/2215 30005G10MPS 9999 BKN040 TX21/2213Z TN11/2201Z
BECMG 2117/2119 24003MPS=
Новинки
SYNAR 27627 Кашира 211500Z 33004MPS 9999 SCT020 21/08 Q1010 RMK QFE737/0983 CLD:3SC
(120/36KM)


NOWCAST.SU UUDN 211600Z 01003MPS 9999 BKN043 19/12 Q1010 NOSIG
RMK TURB: MOD FL30/FL70
AUTOTAF.ME UUDN 211300Z 2114/2123 34004MPS 9999 BKN025TCU TX21/2114Z TN13/2123Z
BECMG 2116/2117 NSC
 
Пахомово
SYNAR 27710 Алексин 211500Z 30002MPS 9999 FEW033 22/10 Q1011 RMK QFE740/0987 CLD:2CU
(250/35KM)


NOWCAST.SU UUDP 211600Z 31005G11MPS 9999 SKC 19/13 Q1010 NOSIG
RMK TURB: MOD FL30/FL50
AUTOTAF.ME UUDP 211300Z 2114/2123 30010G15MPS 9999 -RA NSC TX20/2114Z TN13/2122Z
BECMG 2115/2116 31005G11MPS
FM211700 32003MPS 9999 VCSH BKN040CB
FM212000 VRB02MPS CAVOK
 
Хелипорт Реутов
SYNAR 27612 Москва (ВДНХ) 211500Z 30002MPS 9999 SCT033 21/08 Q1010 RMK QFE743/0991 CLD:4CUCI
(290/15KM)


NOWCAST.SU UUDR 211600Z 31003MPS 9999 SKC 18/12 Q1009 NOSIG
AUTOTAF.ME UUDR 211300Z 2114/2123 31004MPS CAVOK TX19/2114Z TN13/2122Z
 
Чулпаново
SYNAR 27614 Михайловское 211500Z 00000MPS 9999 BKN033 22/11 Q1010 RMK QFE740/0987 CLD:5CU
(290/31KM)


NOWCAST.SU UUDU 211600Z 33004MPS 9999 SKC 19/12 Q1010 NOSIG
RMK TURB: MOD SFC/FL40
AUTOTAF.ME UUDU 211300Z 2114/2123 34005G13MPS CAVOK TX20/2114Z TN13/2123Z
BECMG 2118/2119 VRB02MPS
 
Взлетная
SYNAR 27614 Михайловское 211500Z 00000MPS 9999 BKN033 22/11 Q1010 RMK QFE740/0987 CLD:5CU
(280/37KM)


NOWCAST.SU UUDW 211600Z 33004MPS 9999 SKC 19/12 Q1010 NOSIG
RMK TURB: MOD SFC/FL40
AUTOTAF.ME UUDW 211300Z 2114/2123 34005G13MPS CAVOK TX20/2114Z TN13/2123Z
BECMG 2118/2119 VRB02MPS
 
Киверичи (Запад)
SYNAR 27217 Бежецк 211500Z 25002MPS 9999 BKN020 19/10 Q1008 RMK QFE743/0991 CLD:7SCACCI
(10/45KM)


NOWCAST.SU UUEC 211600Z 28004MPS 9999 -RA BKN055 19/09 Q1008 NOSIG
RMK TURB: MOD FL40/FL50
AUTOTAF.ME UUEC 211300Z 2114/2123 29004MPS 9999 -RA BKN040 TX20/2114Z TN12/2122Z
BECMG 2114/2115 NSC
BECMG 2121/2122 BKN040
 
Москва (Шереметьево)
METAR UUEE 211600Z 28007MPS CAVOK 21/08 Q1009 R24L/CLRD62 R24C/CLRD62 NOSIG


NOWCAST.SU UUEE 211600Z VRB02MPS 9999 SKC 18/11 Q1010 NOSIG
RMK TURB: MOD FL70/FL90
AUTOTAF.ME UUEE 211300Z 2114/2123 31003MPS CAVOK TX18/2114Z TN13/2122Z
TAF UUEE 211350Z 2115/2215 29006MPS 9999 SCT040 TX21/2212Z TN11/2201Z
TEMPO 2115/2118 32011G16MPS
TEMPO 2207/2212 34010G15MPS=
 


NOSIG
 
Кимры (Борки)
SYNAR 27316 Кашин 211500Z 31001MPS 9999 BKN020CB 19/09 Q1008 RMK QFE743/0991 CLD:6CBAC
(10/61KM)


NOWCAST.SU UUEI 211600Z VRB02MPS 9999 SKC 18/10 Q1008 NOSIG
RMK TURB: MOD FL70/FL90
AUTOTAF.ME UUEI 211300Z 2114/2123 31003MPS 9999 -RA NSC TX19/2114Z TN12/2122Z
FM211700 VRB02MPS 9999 -RA BKN040
BECMG 2119/2120 NSC
 
Волен (Хелипорт)
SYNAR 27417 Клин 211500Z 27002MPS 9999 SCT020 22/09 Q1009 RMK QFE742/0989 CLD:3CU
(280/45KM)


NOWCAST.SU UUEJ 211600Z VRB02MPS 9999 -RA BKN055 18/11 Q1009 NOSIG
RMK TURB: MOD FL30/FL70
AUTOTAF.ME UUEJ 211300Z 2114/2123 29004MPS 9999 -RA BKN025 TX19/2114Z TN11/2123Z
BECMG 2115/2116 NSC
 
Конаково
SYNAR 27417 Клин 211500Z 27002MPS 9999 SCT020 22/09 Q1009 RMK QFE742/0989 CLD:3CU
(190/33KM)


NOWCAST.SU UUEL 211600Z 29003MPS 9999 SKC 19/10 Q1009 NOSIG
RMK TURB: MOD FL70/FL80
AUTOTAF.ME UUEL 211300Z 2114/2123 29004MPS 9999 -RA NSC TX19/2114Z TN13/2121Z
 
Тверь (Мигалово)
SYNAR 27402 Тверь 211500Z 26001MPS 9999 BKN033CB 20/11 Q1010 RMK QFE744/0992 CLD:7CBAC


NOWCAST.SU UUEM 211600Z 29004MPS 9999 BKN060 18/10 Q1009 NOSIG
RMK TURB: MOD FL50/FL60
AUTOTAF.ME UUEM 211300Z 2114/2123 29005G13MPS CAVOK TX20/2114Z TN13/2122Z
 
Завидово (Русь)
SYNAR 27417 Клин 211500Z 27002MPS 9999 SCT020 22/09 Q1009 RMK QFE742/0989 CLD:3CU
(120/36KM)


NOWCAST.SU UUEP 211600Z 31003MPS 9999 FEW320 19/11 Q1009 NOSIG
RMK TURB: MOD FL50/FL90
AUTOTAF.ME UUEP 211300Z 2114/2123 30004MPS 9999 SCT040TCU TX20/2114Z TN13/2122Z
BECMG 2114/2115 NSC
 
Гурбан
SYNAR 27619 Москва (Тушино) 211500Z 27001MPS 9999 SCT020 22/08 Q1010 RMK QFE742/0989 CLD:4SC
(190/34KM)


NOWCAST.SU UUEQ 211600Z VRB02MPS 9999 SKC 18/11 Q1010 NOSIG
RMK TURB: MOD FL70/FL90
AUTOTAF.ME UUEQ 211300Z 2114/2123 31003MPS CAVOK TX19/2114Z TN12/2123Z
 
Талдом (Юркино)
SYNAR 27316 Кашин 211500Z 31001MPS 9999 BKN020CB 19/09 Q1008 RMK QFE743/0991 CLD:6CBAC
(360/66KM)


NOWCAST.SU UUET 211600Z VRB02MPS 9999 -RA BKN059 19/11 Q1009 NOSIG
RMK TURB: MOD FL30/FL70
AUTOTAF.ME UUET 211300Z 2114/2123 29004MPS 9999 -RA BKN025 TX20/2114Z TN11/2123Z
BECMG 2115/2116 NSC
 
Залесье
SYNAR 27401 Торжок 211500Z 32002MPS 9999 SCT020 21/10 Q1010 RMK QFE741/0989 CLD:6CUCI
(350/29KM)


NOWCAST.SU UUEX 211600Z 30003MPS 9999 SKC 19/10 Q1009 NOSIG
RMK TURB: MOD FL40/FL90
AUTOTAF.ME UUEX 211300Z 2114/2123 30003MPS CAVOK TX20/2114Z TN14/2120Z
 
Юрьевское (Волжанка)
SYNAR 27402 Тверь 211500Z 26001MPS 9999 BKN033CB 20/11 Q1010 RMK QFE744/0992 CLD:7CBAC
(290/27KM)


NOWCAST.SU UUEY 211600Z 26003MPS 9999 BKN045 18/10 Q1009 NOSIG
RMK TURB: MOD FL30/FL50
AUTOTAF.ME UUEY 211300Z 2114/2123 26003MPS 9999 BKN040TCU TX19/2114Z TN13/2121Z
BECMG 2116/2117 NSC
 
Хатенки
SYNAR 27707 Сухиничи 211500Z 30003MPS 9999 FEW033 22/10 Q1012 RMK QFE737/0983 CLD:3CUCI
(270/25KM)


NOWCAST.SU UUFH 211600Z 29005G13MPS 9999 -RA BKN065 19/13 Q1012 NOSIG
AUTOTAF.ME UUFH 211300Z 2114/2123 29009G14MPS 9999 -RA BKN040 TX20/2114Z TN13/2122Z
BECMG 2115/2116 NSC
BECMG 2117/2118 29004MPS
 
Михеево
SYNAR 27606 Малоярославец 211500Z 32003MPS 9999 BKN010 21/11 Q1010 RMK QFE740/0986 CLD:6SC
(70/40KM)


NOWCAST.SU UUFM 211600Z 29003MPS 9999 FEW260 19/12 Q1010 NOSIG
RMK TURB: MOD FL30/FL70
AUTOTAF.ME UUFM 211300Z 2114/2123 30004MPS 9999 -RA NSC TX21/2114Z TN13/2122Z
 
Недельное
SYNAR 27606 Малоярославец 211500Z 32003MPS 9999 BKN010 21/11 Q1010 RMK QFE740/0986 CLD:6SC
(330/24KM)


NOWCAST.SU UUFN 211600Z 30003MPS 9999 BKN040TCU 19/12 Q1010 NOSIG
RMK TURB: MOD FL30/FL70
AUTOTAF.ME UUFN 211300Z 2114/2123 30005G12MPS 9999 SCT040TCU TX21/2114Z TN14/2121Z
BECMG 2119/2120 NSC
 
Калуга (Орешково)
SYNAR 27717 Суворов 211500Z 30005MPS 9999 BKN033 22/11 Q1011 RMK QFE738/0985 CLD:6CU
(140/48KM)


NOWCAST.SU UUFO 211600Z 29003MPS 9999 BKN230 19/13 Q1011 NOSIG
RMK TURB: MOD FL40/FL70
AUTOTAF.ME UUFO 211300Z 2114/2123 30004MPS 9999 -RA BKN025 TX21/2114Z TN13/2123Z
BECMG 2114/2115 NSC
BECMG 2118/2119 BKN040
FM212000 28004MPS 9999 VCSH BKN040CB
FM212300 29003MPS CAVOK
 
Стародуб
SYNAR 26997 Трубчевск 211500Z 30004MPS CAVOK 22/09 Q1014 RMK QFE744/0993 CLD:1CI
(90/65KM)


NOWCAST.SU UUFS 211600Z 29004MPS 9999 -RA BKN044 20/13 Q1014 NOSIG
RMK TURB: MOD SFC/FL50
AUTOTAF.ME UUFS 211300Z 2114/2123 30005G12MPS 9999 -RA BKN040 TX22/2114Z TN13/2123Z
FM211700 28003MPS CAVOK
BECMG 2120/2121 VRB02MPS
 
Иваньково
SYNAR 27627 Кашира 211500Z 33004MPS 9999 SCT020 21/08 Q1010 RMK QFE737/0983 CLD:3SC
(50/18KM)


NOWCAST.SU UUGI 211600Z 34003MPS 9999 -RA BKN041 19/13 Q1010 NOSIG
RMK TURB: MOD FL40/FL70
AUTOTAF.ME UUGI 211300Z 2114/2123 32005G12MPS 9999 -RA BKN040 TX20/2114Z TN14/2122Z
FM211700 VRB02MPS 9999 -SHRA BKN040CB
BECMG 2117/2118 VCSH
FM212000 VRB02MPS CAVOK
 
Макариха ДНС
SYNAR 23215 Хорей-Вер 211500Z 10005MPS 9999 -RA OVC049 09/08 Q990 RMK QFE736/0981 CLD:8NS
(350/83KM)


NOWCAST.SU UUHH 211600Z 14008G14MPS 2000 RA BR OVC005 13/12 Q0990 NOSIG
AUTOTAF.ME UUHH 211300Z 2114/2123 13009G15MPS 2500 RA BR OVC004 TX13/2114Z TN13/2114Z
BECMG 2116/2117 1200
FM211900 19005MPS 2500 RA BR BKN004
FM212000 20005MPS 2500 -SHRA BR BKN004 BKN010CB
FM212100 20005G11MPS 8000 -RA BR OVC008
FM212200 20005G11MPS 9000 VCSH BR BKN008 BKN010CB
BECMG 2122/2123 BR
 
Уса-38
SYNAR 23410 Усинск 211500Z 21003MPS //// //// 14/13 Q990 RMK QFE735/0980 CLD:NO_OBSERVATIONS


NOWCAST.SU UUHM 211600Z 20005G10MPS 2400 -SHRA BR BKN005 BKN010CB 15/14 Q0990 NOSIG
AUTOTAF.ME UUHM 211300Z 2114/2123 17007G12MPS 5000 -SHRA BR BKN004 OVC010CB TX16/2114Z TN12/2121Z
BECMG 2114/2115 BKN008 BKN010CB
FM211600 20005G10MPS 2500 -SHRA BR BKN004 BKN010CB
FM211700 19007MPS 5000 -SHRA BR BKN008 BKN010CB
FM212000 19005G11MPS 9999 -SHRA BKN008 BKN010CB
BECMG 2120/2121 VCSH
BECMG 2122/2123 BKN015
 
Дарьино
SYNAR 27523 Павловский Посад 211500Z 29003MPS 9999 BKN020 22/09 Q1009 RMK QFE744/0992 CLD:6CUAC
(180/63KM)


NOWCAST.SU UUID 211600Z 28003MPS 9999 -RA BKN097 17/11 Q1009 NOSIG
AUTOTAF.ME UUID 211300Z 2114/2123 31003MPS 9999 -RA BKN040 TX18/2114Z TN11/2122Z
BECMG 2115/2116 NSC
BECMG 2122/2123 OVC002
 
Плес (Спасское)
SYNAR 27333 Кострома 211500Z 30002MPS 9999 FEW020 20/09 Q1007 RMK QFE743/0991 CLD:3CUCI
(310/53KM)


NOWCAST.SU UUIE 211600Z 31004MPS 9999 SKC 17/11 Q1006 NOSIG
RMK TURB: MOD FL30/FL70
AUTOTAF.ME UUIE 211300Z 2114/2123 31005G13MPS 9999 -RA NSC TX18/2114Z TN11/2122Z
 
Аэродром Доброград
SYNAR 27532 Владимир 211500Z 32003MPS 9999 SCT033 20/10 Q1008 RMK QFE740/0987 CLD:4SC
(260/56KM)


NOWCAST.SU UUIG 211600Z 31004MPS 5000 HZ SKC 18/10 Q1007 NOSIG
RMK TURB: MOD FL70/FL80
AUTOTAF.ME UUIG 211300Z 2114/2123 31005G13MPS 5000 -RA HZ NSC TX20/2114Z TN10/2123Z
BECMG 2114/2115 2500
FM211600 31004MPS 5000 HZ NSC
FM211700 30003MPS CAVOK
BECMG 2121/2122 OVC002
 
Палех
SYNAR 27347 Иваново 211500Z 32004MPS 9999 SCT033 20/10 Q1007 RMK QFE744/0992 CLD:3CU
(290/56KM)


NOWCAST.SU UUIH 211600Z 31004MPS 9999 -RA BKN043 18/11 Q1006 NOSIG
RMK TURB: MOD SFC/FL50
AUTOTAF.ME UUIH 211300Z 2114/2123 31009G14MPS 9999 -RA BKN040 TX19/2114Z TN10/2123Z
BECMG 2115/2116 31004MPS
FM211700 29003MPS CAVOK
 
Мордыш
SYNAR 27532 Владимир 211500Z 32003MPS 9999 SCT033 20/10 Q1008 RMK QFE740/0987 CLD:4SC
(220/26KM)


NOWCAST.SU UUIM 211600Z 30004MPS 5000 HZ SKC 18/12 Q1007 NOSIG
RMK TURB: MOD FL70/FL80
AUTOTAF.ME UUIM 211300Z 2114/2123 31005G13MPS 5000 -RA HZ NSC TX19/2114Z TN11/2122Z
BECMG 2115/2116 HZ
FM211700 29003MPS CAVOK
FM212200 28003MPS 1200 BR OVC002
FM212300 28003MPS 9999 OVC002
 
Небылое
SYNAR 27532 Владимир 211500Z 32003MPS 9999 SCT033 20/10 Q1008 RMK QFE740/0987 CLD:4SC
(140/40KM)


NOWCAST.SU UUIN 211600Z 29004MPS 9999 SKC 17/12 Q1008 NOSIG
RMK TURB: MOD FL70/FL80
AUTOTAF.ME UUIN 211300Z 2114/2123 30005G13MPS 9999 -RA NSC TX18/2114Z TN12/2121Z
FM211500 29005G13MPS 5000 -RA HZ NSC
FM211600 29004MPS CAVOK
 
Павловское
SYNAR 27532 Владимир 211500Z 32003MPS 9999 SCT033 20/10 Q1008 RMK QFE740/0987 CLD:4SC
(200/23KM)


NOWCAST.SU UUIP 211600Z 30004MPS 5000 HZ SKC 17/12 Q1007 NOSIG
RMK TURB: MOD FL70/FL80
AUTOTAF.ME UUIP 211300Z 2114/2123 31005G13MPS 5000 -RA HZ NSC TX19/2114Z TN11/2123Z
BECMG 2115/2116 HZ
FM211700 29003MPS CAVOK
BECMG 2121/2122 OVC002
 
Сновицы
SYNAR 27532 Владимир 211500Z 32003MPS 9999 SCT033 20/10 Q1008 RMK QFE740/0987 CLD:4SC


NOWCAST.SU UUIS 211600Z 31004MPS 5000 HZ SKC 17/12 Q1008 NOSIG
RMK TURB: MOD FL70/FL80
AUTOTAF.ME UUIS 211300Z 2114/2123 32005G13MPS 5000 -RA HZ NSC TX19/2114Z TN11/2123Z
BECMG 2114/2115 2500
FM211600 31004MPS 5000 HZ NSC
FM211700 31003MPS CAVOK
BECMG 2121/2122 OVC002
 
Почаевский проезд
SYNAR 27532 Владимир 211500Z 32003MPS 9999 SCT033 20/10 Q1008 RMK QFE740/0987 CLD:4SC


NOWCAST.SU UUIX 211600Z 31004MPS 5000 HZ SKC 17/11 Q1008 NOSIG
RMK TURB: MOD FL70/FL80
AUTOTAF.ME UUIX 211300Z 2114/2123 32005G13MPS 5000 -RA HZ NSC TX19/2114Z TN11/2123Z
BECMG 2114/2115 2500
FM211600 31004MPS 5000 HZ NSC
FM211700 31003MPS CAVOK
FM212300 VRB02MPS 0500 FG VV004
 
Шилово (Крутицы)
SYNAR 27745 Сасово 211500Z 34004MPS 9999 FEW050 21/12 Q1006 RMK QFE744/0992 CLD:5CUCI
(80/76KM)


NOWCAST.SU UUJK 211600Z 33005G13MPS 9999 SKC 20/11 Q1007 NOSIG
RMK TURB: MOD SFC/FL70
AUTOTAF.ME UUJK 211300Z 2114/2123 33009G14MPS 9999 -RA BKN040 TX21/2114Z TN13/2123Z
FM211600 33005G13MPS CAVOK
BECMG 2116/2117 33004MPS
 
Кубинка
SYNAR 27611 Наро-Фоминск 211500Z 31003MPS 9999 FEW020 22/09 Q1010 RMK QFE740/0987 CLD:4SCCI
(170/26KM)


NOWCAST.SU UUMB 211600Z VRB02MPS 9999 BKN058 19/11 Q1010 NOSIG
RMK TURB: MOD FL70/FL90
AUTOTAF.ME UUMB 211300Z 2114/2123 34004MPS 9999 BKN025TCU TX21/2114Z TN13/2123Z
BECMG 2115/2116 NSC
 
Черноголовка
SYNAR 27523 Павловский Посад 211500Z 29003MPS 9999 BKN020 22/09 Q1009 RMK QFE744/0992 CLD:6CUAC
(140/36KM)


NOWCAST.SU UUMC 211600Z 31003MPS 9999 SKC 17/11 Q1009 NOSIG
RMK TURB: MOD FL40/FL50
AUTOTAF.ME UUMC 211300Z 2114/2123 31004MPS 9999 -RA NSC TX19/2114Z TN12/2123Z
 
Сельниково
SYNAR 27625 Коломна 211500Z 33002MPS 9999 BKN020 22/10 Q1009 RMK QFE746/0995 CLD:6SC
(270/26KM)


NOWCAST.SU UUMD 211600Z 33005G12MPS 9999 SKC 18/12 Q1009 NOSIG
RMK TURB: MOD FL50/FL60
AUTOTAF.ME UUMD 211300Z 2114/2123 32009G14MPS CAVOK TX20/2114Z TN12/2123Z
BECMG 2116/2117 33003MPS
 
Северка
SYNAR 27625 Коломна 211500Z 33002MPS 9999 BKN020 22/10 Q1009 RMK QFE746/0995 CLD:6SC


NOWCAST.SU UUML 211600Z 34005G12MPS 9999 SKC 18/12 Q1009 NOSIG
RMK TURB: MOD FL50/FL60
AUTOTAF.ME UUML 211300Z 2114/2123 34010G15MPS 9999 -RA NSC TX20/2114Z TN13/2122Z
BECMG 2115/2116 34005G12MPS
 
КС-18 Мышкин
SYNAR 27225 Рыбинск 211500Z 31002MPS CAVOK 20/09 Q1008 RMK QFE746/0995 CLD:3AC
(30/34KM)


NOWCAST.SU UUMN 211600Z 26003MPS 5000 -RA HZ BKN055 18/10 Q1007 NOSIG
RMK TURB: MOD FL50/FL70
AUTOTAF.ME UUMN 211300Z 2114/2123 27003MPS 5000 -RA HZ BKN040 TX19/2114Z TN12/2121Z
BECMG 2115/2116 NSC
FM211700 VRB02MPS 9999 -SHRA BKN060CB
FM211800 VRB02MPS CAVOK
BECMG 2122/2123 BKN040
 
Москва (Остафьево)
METAR UUMO 180600Z 19002MPS 140V290 9999 BKN/// 20/18 Q1007 R07/290050 NOSIG RMK QFE741/0988


NOWCAST.SU UUMO 211600Z 33004MPS 9999 SKC 19/11 Q1010 NOSIG
RMK TURB: MOD SFC/FL40
AUTOTAF.ME UUMO 211300Z 2114/2123 34005G13MPS CAVOK TX20/2114Z TN13/2123Z
BECMG 2118/2119 VRB02MPS
TAF AMD UUMO 180558Z 1806/1815 CNL=
Буньково
SYNAR 27511 Ново-Йерусалим 211500Z 31003MPS 9999 SCT020CB 21/08 Q1010 RMK QFE742/0990 CLD:6CBCS


NOWCAST.SU UUMR 211600Z VRB02MPS 9999 SKC 18/11 Q1010 NOSIG
RMK TURB: MOD FL30/FL90
AUTOTAF.ME UUMR 211300Z 2114/2123 32004MPS 9999 -RA NSC TX19/2114Z TN13/2121Z
 
Чкаловский
SYNAR 27612 Москва (ВДНХ) 211500Z 30002MPS 9999 SCT033 21/08 Q1010 RMK QFE743/0991 CLD:4CUCI
(260/28KM)


NOWCAST.SU UUMU 211600Z 31003MPS 9999 SKC 18/12 Q1009 NOSIG
AUTOTAF.ME UUMU 211300Z 2114/2123 31004MPS CAVOK TX19/2114Z TN12/2123Z
 
Воскресенск
SYNAR 27625 Коломна 211500Z 33002MPS 9999 BKN020 22/10 Q1009 RMK QFE746/0995 CLD:6SC
(160/22KM)


NOWCAST.SU UUMV 211600Z 32004MPS 9999 SKC 18/12 Q1009 NOSIG
RMK TURB: MOD SFC/FL70
AUTOTAF.ME UUMV 211300Z 2114/2123 31009G14MPS CAVOK TX20/2114Z TN12/2123Z
BECMG 2115/2116 32004MPS
 
Аэродром Ватулино
SYNAR 27509 Можайск 211500Z 29003MPS 9999 FEW020 21/11 Q1011 RMK QFE741/0988 CLD:4CUCI
(210/18KM)


NOWCAST.SU UUMW 211600Z VRB02MPS 9999 -RA BKN058 19/12 Q1010 NOSIG
RMK TURB: MOD FL40/FL90
AUTOTAF.ME UUMW 211300Z 2114/2123 32004MPS 9999 -RA BKN040 TX21/2114Z TN14/2122Z
BECMG 2115/2116 NSC
 
Благовещенье
SYNAR 27612 Москва (ВДНХ) 211500Z 30002MPS 9999 SCT033 21/08 Q1010 RMK QFE743/0991 CLD:4CUCI
(210/63KM)


NOWCAST.SU UUMX 211600Z 30003MPS 9999 SKC 17/11 Q1009 NOSIG
RMK TURB: MOD FL70/FL80
AUTOTAF.ME UUMX 211300Z 2114/2123 30004MPS 9999 -RA BKN040 TX19/2114Z TN11/2123Z
BECMG 2114/2115 NSC
 
Озеры
SYNAR 27627 Кашира 211500Z 33004MPS 9999 SCT020 21/08 Q1010 RMK QFE737/0983 CLD:3SC
(270/31KM)


NOWCAST.SU UUMY 211600Z 34005G12MPS 9999 SKC 18/12 Q1009 NOSIG
RMK TURB: MOD FL50/FL60
AUTOTAF.ME UUMY 211300Z 2114/2123 34010G15MPS 9999 -RA NSC TX20/2114Z TN13/2122Z
FM211600 34005G12MPS CAVOK
 
Белгород
METAR UUOB 211600Z 30008MPS 9999 SCT049 22/12 Q1013 R11/010070 NOSIG


NOWCAST.SU UUOB 211600Z 32005G13MPS 9999 FEW270 21/13 Q1014 NOSIG
RMK TURB: MOD SFC/FL40
AUTOTAF.ME UUOB 211300Z 2114/2123 32010G15MPS 9999 -RA BKN040 TX23/2114Z TN14/2123Z
FM211500 32009G14MPS CAVOK
BECMG 2115/2116 32005G13MPS
BECMG 2116/2117 -RA
TAF UUOB 211355Z 2115/2124 30005G10MPS 9999 BKN020=
Воронеж (Придача)
SYNAR 34123 Воронеж 211500Z 33007G13MPS 9999 BKN033 21/10 Q1010 RMK QFE744/0992 CLD:5CU


NOWCAST.SU UUOD 211600Z 33010G17MPS 9999 -RA BKN044 20/12 Q1010 NOSIG
RMK TURB: MOD SFC/FL50
AUTOTAF.ME UUOD 211300Z 2114/2123 33012G18MPS 9999 -RA BKN040 TX21/2114Z TN15/2123Z
FM211700 33009G16MPS CAVOK
BECMG 2117/2118 33005G13MPS
 
Курск (Восточный)
METAR UUOK 211600Z 33007MPS 9999 SCT049 22/12 Q1012 R30/090060 NOSIG RMK QFE740/0987


NOWCAST.SU UUOK 211600Z 31009G14MPS 9999 -RA BKN058 20/13 Q1013 NOSIG
RMK TURB: MOD SFC/FL40
AUTOTAF.ME UUOK 211300Z 2114/2123 31010G15MPS 9999 -RA BKN040 TX21/2114Z TN13/2123Z
BECMG 2115/2116 NSC
FM211800 31005G13MPS CAVOK
BECMG 2118/2119 BKN040
BECMG 2119/2120 NSC
TAF UUOK 211341Z 2115/2124 32003G08MPS 9999 SCT030=
Липецк
METAR UUOL 211600Z AUTO 33005MPS 9999 NCD 20/10 Q1009


NOWCAST.SU UUOL 211600Z 32009G16MPS 9999 -RA BKN042 19/12 Q1009 NOSIG
RMK TURB: MOD SFC/FL40
AUTOTAF.ME UUOL 211300Z 2114/2123 32011G17MPS 9999 -RA BKN040 TX21/2114Z TN15/2123Z
BECMG 2116/2117 32005G13MPS
BECMG 2118/2119 NSC
TAF UUOL 211400Z 2115/2124 33005G10MPS 9999 BKN030=
Воронеж (Чертовицкое)
METAR UUOO 211600Z 33009MPS CAVOK 21/10 Q1009 R30/010070 NOSIG RMK QFE743


NOWCAST.SU UUOO 211600Z 32010G16MPS 5000 HZ SKC 19/12 Q1010 NOSIG
RMK TURB: MOD SFC/FL40
AUTOTAF.ME UUOO 211300Z 2114/2123 32012G17MPS 5000 HZ NSC TX21/2114Z TN15/2123Z
FM211700 32005G13MPS 9999 -RA BKN040
BECMG 2118/2119 NSC
TAF UUOO 211400Z 2115/2124 31003G08MPS 9999 SCT040
TEMPO 2115/2116 31011G16MPS=
Орел (Южный)
SYNAR 27906 Орел 211500Z 31001MPS 9999 BKN020 23/12 Q1012 RMK QFE741/0988 CLD:5CU


NOWCAST.SU UUOR 211600Z 30005G13MPS 9999 -RA BKN042 20/13 Q1012 NOSIG
RMK TURB: MOD SFC/FL30
AUTOTAF.ME UUOR 211300Z 2114/2123 30009G14MPS 9999 -RA BKN040 TX22/2114Z TN13/2122Z
FM211700 30005G13MPS CAVOK
BECMG 2117/2118 30004MPS
BECMG 2121/2122 BKN040
 
Старый Оскол
SYNAR 34110 Богородицкое 211500Z 32003MPS 9999 SCT033 23/11 Q1012 RMK QFE738/0985 CLD:3CU
(240/34KM)


NOWCAST.SU UUOS 211600Z 32009G15MPS 9999 -RA BKN028 21/13 Q1012 NOSIG
RMK TURB: MOD SFC/FL50
AUTOTAF.ME UUOS 211300Z 2114/2123 32011G16MPS 9999 -RA BKN040 TX21/2114Z TN15/2123Z
FM211800 32005G13MPS CAVOK
 
Тамбов (Донское)
SYNAR 27947 Тамбов 211500Z 32008G11MPS 9999 BKN050 22/08 Q1007 RMK QFE743/0991 CLD:5CU


NOWCAST.SU UUOT 211600Z 33010G16MPS 9999 -RA BKN027 20/11 Q1007 NOSIG
RMK TURB: MOD SFC/FL40
AUTOTAF.ME UUOT 211300Z 2114/2123 33011G16MPS 9999 -RA BKN040 TX21/2114Z TN14/2123Z
FM211700 33010G16MPS CAVOK
BECMG 2118/2119 33005G13MPS
 
Усмань (Чистоозерская)
SYNAR 34123 Воронеж 211500Z 33007G13MPS 9999 BKN033 21/10 Q1010 RMK QFE744/0992 CLD:5CU
(220/49KM)


NOWCAST.SU UUOU 211600Z 32009G16MPS 5000 -RA HZ BKN027 19/12 Q1009 NOSIG
RMK TURB: MOD SFC/FL40
AUTOTAF.ME UUOU 211300Z 2114/2123 33010G17MPS 5000 -RA HZ BKN040 TX21/2114Z TN15/2122Z
FM211700 32004MPS 9999 -RA BKN040
FM211800 32004MPS CAVOK
 
Валуйки
SYNAR 34321 Валуйки 211500Z 32005G10MPS 9999 FEW033 24/08 Q1011 RMK QFE748/0997 CLD:2CUCI


NOWCAST.SU UUOW 211600Z 32009G14MPS 9999 -RA BKN032 21/12 Q1012 NOSIG
RMK TURB: MOD SFC/FL50
AUTOTAF.ME UUOW 211300Z 2114/2123 32012G17MPS 9999 -RA BKN040 TX22/2114Z TN16/2123Z
BECMG 2116/2117 31005G12MPS
BECMG 2118/2119 NSC
 
Воронеж (Солнечная)
SYNAR 34123 Воронеж 211500Z 33007G13MPS 9999 BKN033 21/10 Q1010 RMK QFE744/0992 CLD:5CU


NOWCAST.SU UUOZ 211600Z 32010G16MPS 5000 HZ SKC 20/12 Q1010 NOSIG
RMK TURB: MOD SFC/FL40
AUTOTAF.ME UUOZ 211300Z 2114/2123 32012G17MPS 5000 HZ NSC TX21/2114Z TN15/2123Z
FM211700 32005G13MPS 9999 -RA BKN040
BECMG 2118/2119 NSC
 
Гаврилов Ям (Агат)
SYNAR 27329 Ростов Великий 211500Z 34002MPS 9999 FEW020 21/09 Q1007 RMK QFE746/0995 CLD:2SCCI
(240/28KM)


NOWCAST.SU UUQA 211600Z 27004MPS 3000 VCSH HZ BKN096 17/12 Q1007 NOSIG
RMK TURB: MOD FL40/FL90
AUTOTAF.ME UUQA 211300Z 2114/2123 28004MPS 2500 VCSH HZ BKN060CB TX18/2114Z TN10/2123Z
FM211500 28004MPS 2500 HZ NSC
BECMG 2115/2116 VCSH HZ
FM211700 27003MPS 5000 -RA HZ NSC
FM211800 26003MPS CAVOK
FM212200 26003MPS 2500 BR OVC004
 
Ярославль (Любим)
SYNAR 27329 Ростов Великий 211500Z 34002MPS 9999 FEW020 21/09 Q1007 RMK QFE746/0995 CLD:2SCCI
(210/54KM)


NOWCAST.SU UUQL 211600Z 27004MPS 3000 HZ SKC 17/11 Q1007 NOSIG
RMK TURB: MOD FL40/FL90
AUTOTAF.ME UUQL 211300Z 2114/2123 28004MPS 2500 VCSH HZ BKN060CB TX18/2114Z TN11/2123Z
FM211500 28004MPS 2500 HZ NSC
FM211700 27003MPS 5000 -RA HZ NSC
FM211800 26003MPS CAVOK
FM212300 VRB02MPS 2500 BR OVC004
 
Попов Луг
SYNAR 27329 Ростов Великий 211500Z 34002MPS 9999 FEW020 21/09 Q1007 RMK QFE746/0995 CLD:2SCCI
(40/66KM)


NOWCAST.SU UUQP 211600Z 28003MPS 9999 SKC 17/11 Q1009 NOSIG
AUTOTAF.ME UUQP 211300Z 2114/2123 31003MPS 9999 -RA BKN040 TX18/2114Z TN12/2123Z
FM211600 28003MPS CAVOK
 
Рыбинск-Аксон
SYNAR 27225 Рыбинск 211500Z 31002MPS CAVOK 20/09 Q1008 RMK QFE746/0995 CLD:3AC


NOWCAST.SU UUQR 211600Z VRB02MPS 5000 HZ SKC 18/10 Q1007 NOSIG
RMK TURB: MOD FL40/FL70
AUTOTAF.ME UUQR 211300Z 2114/2123 VRB02MPS 5000 -RA HZ BKN040 TX19/2114Z TN12/2121Z
BECMG 2114/2115 NSC
BECMG 2115/2116 HZ
FM211700 VRB02MPS 9999 -RA NSC
 
Лось
SYNAR 27316 Кашин 211500Z 31001MPS 9999 BKN020CB 19/09 Q1008 RMK QFE743/0991 CLD:6CBAC
(320/73KM)


NOWCAST.SU UUQX 211600Z 29003MPS 5000 -RA HZ BKN043 18/11 Q1008 NOSIG
RMK TURB: MOD FL30/FL40
AUTOTAF.ME UUQX 211300Z 2114/2123 30004MPS 5000 -RA HZ NSC TX19/2114Z TN12/2123Z
BECMG 2114/2115 HZ
FM211600 29003MPS 5000 -RA HZ BKN040
FM211700 VRB02MPS 9999 -RA NSC
 
Строгановка
SYNAR 23215 Хорей-Вер 211500Z 10005MPS 9999 -RA OVC049 09/08 Q990 RMK QFE736/0981 CLD:8NS
(40/81KM)


NOWCAST.SU UURA 211600Z 20004MPS 3000 -SHRA BR BKN010CB 14/13 Q0989 NOSIG
AUTOTAF.ME UURA 211300Z 2114/2123 15004MPS 2500 -SHRA BR BKN004 BKN010CB TX14/2114Z TN12/2121Z
BECMG 2115/2116 BKN008CB
FM211700 20004MPS 9999 -SHRA BKN015CB
BECMG 2117/2118 BKN025CB
FM212000 20004MPS CAVOK
BECMG 2122/2123 BKN025
 
Сандивей ДНС
SYNAR 23215 Хорей-Вер 211500Z 10005MPS 9999 -RA OVC049 09/08 Q990 RMK QFE736/0981 CLD:8NS
(350/52KM)


NOWCAST.SU UURD 211600Z 13008G15MPS 4000 -RA BR OVC016 11/11 Q0990 NOSIG
AUTOTAF.ME UURD 211300Z 2114/2123 12009G16MPS 2500 -RA BR OVC015 TX13/2121Z TN11/2114Z
BECMG 2114/2115 5000
FM211800 15006G11MPS 2500 -RA BR OVC008
BECMG 2118/2119 5000
FM212000 18006G11MPS 9000 -RA BR BKN008
BECMG 2120/2121 -RA
FM212200 19005G11MPS CAVOK
 
Кипиево
SYNAR 23503 Ижма 211500Z 22003MPS 9999 SCT020CB 18/11 Q990 RMK QFE738/0985 CLD:3CB
(200/80KM)


NOWCAST.SU UURK 211600Z 23003MPS 9999 SKC 16/12 Q0990 NOSIG
RMK TURB: MOD SFC/FL40
AUTOTAF.ME UURK 211300Z 2114/2123 24004MPS CAVOK TX17/2114Z TN12/2121Z
FM212000 19003MPS 2500 BR OVC004
FM212100 20004MPS 9999 BKN025
FM212200 21004MPS 9999 -DZ BKN002
BECMG 2122/2123 -RA
 
Приуральское
SYNAR 23518 Усть-Щугор 211500Z 26006MPS 2000 SHRA OVC012CB 14/13 Q993 RMK QFE737/0983 CLD:8CB
(190/53KM)


NOWCAST.SU UURP 211600Z VRB02MPS 1000 SHRA BR BKN003 BKN010CB 15/15 Q0993 NOSIG
AUTOTAF.ME UURP 211300Z 2114/2123 20003MPS 2500 -SHRA BR BKN004 OVC010CB TX16/2114Z TN12/2121Z
FM211500 22003MPS 1200 SHRA BR BKN004 OVC010CB
FM211800 VRB02MPS 9999 -SHRA BKN008CB
FM212000 VRB02MPS 1200 SHRA BR BKN004 BKN010CB
BECMG 2121/2122 VCSH BR
BECMG 2122/2123 BR
 
Аржаники
SYNAR 27507 Гагарин 211500Z 29003MPS 9999 FEW033 22/08 Q1011 RMK QFE741/0988 CLD:2CU
(180/44KM)


NOWCAST.SU UUSA 211600Z VRB02MPS 9999 -RA BKN057 19/11 Q1010 NOSIG
RMK TURB: MOD FL40/FL90
AUTOTAF.ME UUSA 211300Z 2114/2123 30004MPS 9999 -RA BKN040 TX21/2114Z TN13/2123Z
BECMG 2115/2116 NSC
 
Горовидка
SYNAR 26695 Вязьма 211500Z 31003MPS 9999 SCT033 21/09 Q1012 RMK QFE736/0982 CLD:6CUACCI
(200/14KM)


NOWCAST.SU UUSG 211600Z 28005G13MPS 9999 -RA BKN066 19/12 Q1011 NOSIG
RMK TURB: MOD FL50/FL90
AUTOTAF.ME UUSG 211300Z 2114/2123 28005G13MPS 9999 -RA BKN040 TX20/2114Z TN14/2121Z
BECMG 2115/2116 NSC
 
Кирилловка
SYNAR 27402 Тверь 211500Z 26001MPS 9999 BKN033CB 20/11 Q1010 RMK QFE744/0992 CLD:7CBAC
(350/34KM)


NOWCAST.SU UUTA 211600Z 31003MPS 9999 FEW320 19/10 Q1009 NOSIG
RMK TURB: MOD FL50/FL90
AUTOTAF.ME UUTA 211300Z 2114/2123 30004MPS 9999 SCT040TCU TX20/2114Z TN13/2121Z
BECMG 2114/2115 NSC
 
Адмиральская Бухта
SYNAR 27402 Тверь 211500Z 26001MPS 9999 BKN033CB 20/11 Q1010 RMK QFE744/0992 CLD:7CBAC
(290/22KM)


NOWCAST.SU UUTB 211600Z 29004MPS 9999 BKN060 18/10 Q1009 NOSIG
RMK TURB: MOD FL50/FL60
AUTOTAF.ME UUTB 211300Z 2114/2123 29005G13MPS CAVOK TX20/2114Z TN13/2122Z
 
Серебряный Бор
SYNAR 27417 Клин 211500Z 27002MPS 9999 SCT020 22/09 Q1009 RMK QFE742/0989 CLD:3CU
(30/28KM)


NOWCAST.SU UUTF 211600Z VRB02MPS 9999 BKN057 18/11 Q1010 NOSIG
RMK TURB: MOD FL30/FL40
AUTOTAF.ME UUTF 211300Z 2114/2123 33003MPS CAVOK TX19/2114Z TN12/2123Z
 
Большая Волга
SYNAR 27417 Клин 211500Z 27002MPS 9999 SCT020 22/09 Q1009 RMK QFE742/0989 CLD:3CU
(210/47KM)


NOWCAST.SU UUTG 211600Z 29003MPS 9999 SKC 19/10 Q1009 NOSIG
RMK TURB: MOD FL70/FL80
AUTOTAF.ME UUTG 211300Z 2114/2123 29004MPS 9999 -RA NSC TX19/2114Z TN13/2121Z
 
Вараксино
SYNAR 26499 Старица 211500Z 32004MPS 9999 FEW020 21/08 Q1010 RMK QFE741/0988 CLD:2CU
(40/66KM)


NOWCAST.SU UUTH 211600Z 29004MPS 9999 -RA BKN058 19/12 Q1010 NOSIG
RMK TURB: MOD FL40/FL70
AUTOTAF.ME UUTH 211300Z 2114/2123 29004MPS 9999 -RA BKN040 TX21/2114Z TN13/2123Z
BECMG 2115/2116 NSC
 
Завидово (Треуголка)
SYNAR 27417 Клин 211500Z 27002MPS 9999 SCT020 22/09 Q1009 RMK QFE742/0989 CLD:3CU
(150/29KM)


NOWCAST.SU UUTJ 211600Z 30003MPS 9999 -RA BKN096 19/10 Q1009 NOSIG
RMK TURB: MOD FL50/FL70
AUTOTAF.ME UUTJ 211300Z 2114/2123 30004MPS CAVOK TX20/2114Z TN13/2122Z
BECMG 2114/2115 -RA
 
Калязин
SYNAR 27316 Кашин 211500Z 31001MPS 9999 BKN020CB 19/09 Q1008 RMK QFE743/0991 CLD:6CBAC
(300/21KM)


NOWCAST.SU UUTK 211600Z 28004MPS 9999 -RA BKN096 19/10 Q1008 NOSIG
RMK TURB: MOD FL50/FL70
AUTOTAF.ME UUTK 211300Z 2114/2123 29004MPS CAVOK TX19/2114Z TN13/2123Z
FM211500 29004MPS 5000 -RA HZ BKN040
FM211600 28004MPS 9999 -RA NSC
 
Александровская Слобода
SYNAR 27402 Тверь 211500Z 26001MPS 9999 BKN033CB 20/11 Q1010 RMK QFE744/0992 CLD:7CBAC
(280/48KM)


NOWCAST.SU UUTL 211600Z 26003MPS 9999 BKN045 18/10 Q1009 NOSIG
RMK TURB: MOD FL30/FL50
AUTOTAF.ME UUTL 211300Z 2114/2123 26003MPS 9999 BKN040TCU TX19/2114Z TN12/2122Z
BECMG 2116/2117 NSC
 
Орловка
SYNAR 26499 Старица 211500Z 32004MPS 9999 FEW020 21/08 Q1010 RMK QFE741/0988 CLD:2CU
(350/38KM)


NOWCAST.SU UUTO 211600Z VRB02MPS 9999 -RA BKN058 19/12 Q1010 NOSIG
RMK TURB: MOD FL40/FL90
AUTOTAF.ME UUTO 211300Z 2114/2123 30004MPS 9999 -RA BKN040 TX21/2114Z TN13/2123Z
BECMG 2114/2115 NSC
 
Поповка
SYNAR 27316 Кашин 211500Z 31001MPS 9999 BKN020CB 19/09 Q1008 RMK QFE743/0991 CLD:6CBAC
(290/19KM)


NOWCAST.SU UUTP 211600Z 28005G12MPS 9999 -RA BKN038 19/11 Q1008 NOSIG
RMK TURB: MOD SFC/FL90
AUTOTAF.ME UUTP 211300Z 2114/2123 28005G12MPS 9999 -RA BKN040 TX19/2114Z TN13/2122Z
FM211500 28005G12MPS 5000 -RA HZ BKN040
FM211600 28005G12MPS 9999 -RA BKN040
FM211700 28004MPS 9999 -SHRA BKN040CB
BECMG 2117/2118 VCSH
FM212000 28003MPS CAVOK
 
Свердловка
SYNAR 27417 Клин 211500Z 27002MPS 9999 SCT020 22/09 Q1009 RMK QFE742/0989 CLD:3CU
(160/32KM)


NOWCAST.SU UUTQ 211600Z 30003MPS 9999 -RA BKN096 19/10 Q1009 NOSIG
RMK TURB: MOD FL50/FL70
AUTOTAF.ME UUTQ 211300Z 2114/2123 30004MPS CAVOK TX20/2114Z TN13/2121Z
BECMG 2114/2115 -RA
 
Старица
SYNAR 26499 Старица 211500Z 32004MPS 9999 FEW020 21/08 Q1010 RMK QFE741/0988 CLD:2CU


NOWCAST.SU UUTS 211600Z 32003MPS 9999 FEW320 19/11 Q1010 NOSIG
RMK TURB: MOD FL40/FL90
AUTOTAF.ME UUTS 211300Z 2114/2123 34004MPS 9999 -RA NSC TX20/2114Z TN13/2123Z
 
Волжская 7
SYNAR 27417 Клин 211500Z 27002MPS 9999 SCT020 22/09 Q1009 RMK QFE742/0989 CLD:3CU
(160/32KM)


NOWCAST.SU UUTV 211600Z 30003MPS 9999 -RA BKN096 19/10 Q1009 NOSIG
RMK TURB: MOD FL50/FL70
AUTOTAF.ME UUTV 211300Z 2114/2123 30004MPS CAVOK TX20/2114Z TN13/2121Z
BECMG 2114/2115 -RA
 
Волга Кантри Клаб
SYNAR 26499 Старица 211500Z 32004MPS 9999 FEW020 21/08 Q1010 RMK QFE741/0988 CLD:2CU
(30/34KM)


NOWCAST.SU UUTW 211600Z 29003MPS 9999 -RA SCT060 19/12 Q1010 NOSIG
RMK TURB: MOD FL30/FL90
AUTOTAF.ME UUTW 211300Z 2114/2123 29004MPS 9999 -RA SCT040 TX21/2114Z TN13/2122Z
BECMG 2114/2115 NSC
 
Завидово (Большое)
SYNAR 27417 Клин 211500Z 27002MPS 9999 SCT020 22/09 Q1009 RMK QFE742/0989 CLD:3CU
(150/25KM)


NOWCAST.SU UUTZ 211600Z 30003MPS 9999 -RA BKN096 19/10 Q1009 NOSIG
RMK TURB: MOD FL50/FL70
AUTOTAF.ME UUTZ 211300Z 2114/2123 30004MPS CAVOK TX20/2114Z TN13/2121Z
BECMG 2114/2115 -RA
 
Москва (Кремль)
SYNAR 27612 Москва (ВДНХ) 211500Z 30002MPS 9999 SCT033 21/08 Q1010 RMK QFE743/0991 CLD:4CUCI


NOWCAST.SU UUUC 211600Z 33004MPS 9999 SKC 19/12 Q1010 NOSIG
RMK TURB: MOD SFC/FL40
AUTOTAF.ME UUUC 211300Z 2114/2123 34005G13MPS CAVOK TX20/2114Z TN14/2123Z
BECMG 2118/2119 VRB02MPS
 
ГКБ №15
SYNAR 27612 Москва (ВДНХ) 211500Z 30002MPS 9999 SCT033 21/08 Q1010 RMK QFE743/0991 CLD:4CUCI
(310/17KM)


NOWCAST.SU UUUN 211600Z 32004MPS 9999 SKC 19/12 Q1009 NOSIG
RMK TURB: MOD SFC/FL70
AUTOTAF.ME UUUN 211300Z 2114/2123 32005G13MPS CAVOK TX19/2114Z TN13/2123Z
 
 


NOSIG
 
Хелипорт-Москва
SYNAR 27619 Москва (Тушино) 211500Z 27001MPS 9999 SCT020 22/08 Q1010 RMK QFE742/0989 CLD:4SC


NOWCAST.SU UUUZ 211600Z VRB02MPS 9999 SKC 18/11 Q1010 NOSIG
RMK TURB: MOD FL70/FL90
AUTOTAF.ME UUUZ 211300Z 2114/2123 31003MPS CAVOK TX19/2114Z TN12/2123Z
 
Ермолино
SYNAR 27611 Наро-Фоминск 211500Z 31003MPS 9999 FEW020 22/09 Q1010 RMK QFE740/0987 CLD:4SCCI
(20/18KM)


NOWCAST.SU UUWE 211600Z 30003MPS 9999 BKN042 19/13 Q1010 NOSIG
RMK TURB: MOD FL30/FL70
AUTOTAF.ME UUWE 211300Z 2114/2123 30005G12MPS 9999 SCT040TCU TX21/2114Z TN13/2122Z
BECMG 2119/2120 NSC
 
Аэроград Можайский
SYNAR 27509 Можайск 211500Z 29003MPS 9999 FEW020 21/11 Q1011 RMK QFE741/0988 CLD:4CUCI
(280/13KM)


NOWCAST.SU UUWH 211600Z VRB02MPS 9999 -RA BKN058 19/12 Q1010 NOSIG
RMK TURB: MOD FL40/FL90
AUTOTAF.ME UUWH 211300Z 2114/2123 32004MPS 9999 -RA BKN040 TX21/2114Z TN13/2123Z
BECMG 2115/2116 NSC
 
Кудиново
SYNAR 27606 Малоярославец 211500Z 32003MPS 9999 BKN010 21/11 Q1010 RMK QFE740/0986 CLD:6SC
(90/15KM)


NOWCAST.SU UUWK 211600Z 29003MPS 9999 FEW260 19/12 Q1010 NOSIG
RMK TURB: MOD FL30/FL70
AUTOTAF.ME UUWK 211300Z 2114/2123 30004MPS 9999 -RA NSC TX21/2114Z TN13/2122Z
 
Лужки
SYNAR 27614 Михайловское 211500Z 00000MPS 9999 BKN033 22/11 Q1010 RMK QFE740/0987 CLD:5CU


NOWCAST.SU UUWL 211600Z VRB02MPS 9999 SKC 19/12 Q1010 NOSIG
RMK TURB: MOD FL40/FL70
AUTOTAF.ME UUWL 211300Z 2114/2123 34004MPS CAVOK TX20/2114Z TN12/2123Z
 
Народное Небо
SYNAR 27509 Можайск 211500Z 29003MPS 9999 FEW020 21/11 Q1011 RMK QFE741/0988 CLD:4CUCI
(300/12KM)


NOWCAST.SU UUWN 211600Z VRB02MPS 9999 -RA BKN058 19/12 Q1010 NOSIG
RMK TURB: MOD FL40/FL90
AUTOTAF.ME UUWN 211300Z 2114/2123 32004MPS 9999 -RA BKN040 TX21/2114Z TN13/2123Z
BECMG 2115/2116 NSC
 
ГБУ Областной аэропорт Протасово
SYNAR 27730 Рязань 211500Z 32003MPS 9999 BKN020 21/09 Q1009 RMK QFE742/0990 CLD:6CU
(320/21KM)


NOWCAST.SU UUWP 211600Z 32009G14MPS 9999 SKC 18/12 Q1008 NOSIG
RMK TURB: MOD FL70/FL80
AUTOTAF.ME UUWP 211300Z 2114/2123 32011G16MPS 9999 -RA NSC TX20/2114Z TN12/2123Z
BECMG 2116/2117 33005G11MPS
 
Шишкин Лес
SYNAR 27614 Михайловское 211500Z 00000MPS 9999 BKN033 22/11 Q1010 RMK QFE740/0987 CLD:5CU


NOWCAST.SU UUWQ 211600Z VRB02MPS 9999 SKC 19/11 Q1010 NOSIG
RMK TURB: MOD FL40/FL70
AUTOTAF.ME UUWQ 211300Z 2114/2123 34004MPS CAVOK TX20/2114Z TN12/2123Z
 
Аэросоюз-Ясенево
SYNAR 27515 Немчиновка 211500Z 33002MPS //// //// 22/09 Q1012 RMK QFE741/0988 CLD:NO_OBSERVATIONS
(320/14KM)


NOWCAST.SU UUWR 211600Z 33004MPS 9999 SKC 19/12 Q1010 NOSIG
RMK TURB: MOD SFC/FL40
AUTOTAF.ME UUWR 211300Z 2114/2123 34005G13MPS CAVOK TX20/2114Z TN13/2123Z
BECMG 2118/2119 VRB02MPS
 
Москва (Внуково)
METAR UUWW 211600Z 31005MPS CAVOK 21/09 Q1009 R24/000070 NOSIG


NOWCAST.SU UUWW 211600Z 33004MPS 9999 SKC 19/12 Q1010 NOSIG
RMK TURB: MOD SFC/FL40
AUTOTAF.ME UUWW 211300Z 2114/2123 34005G13MPS CAVOK TX20/2114Z TN13/2123Z
BECMG 2118/2119 VRB02MPS
TAF UUWW 211353Z 2115/2215 30006MPS 9999 SCT020 TX22/2212Z TN11/2201Z
TEMPO 2115/2117 31008G15MPS
TEMPO 2209/2215 31009G15MPS=
Аносино-2
SYNAR 27511 Ново-Йерусалим 211500Z 31003MPS 9999 SCT020CB 21/08 Q1010 RMK QFE742/0990 CLD:6CBCS
(310/13KM)


NOWCAST.SU UUWY 211600Z VRB02MPS 9999 SKC 18/11 Q1010 NOSIG
RMK TURB: MOD FL30/FL90
AUTOTAF.ME UUWY 211300Z 2114/2123 32004MPS 9999 -RA NSC TX19/2114Z TN12/2123Z
 
Знаменское
SYNAR 27518 Подмосковная 211500Z 32003MPS 9999 BKN020 22/09 Q1010 RMK QFE742/0989 CLD:6SCCI


NOWCAST.SU UUWZ 211600Z VRB02MPS 9999 SKC 18/12 Q1010 NOSIG
RMK TURB: MOD FL40/FL70
AUTOTAF.ME UUWZ 211300Z 2114/2123 34004MPS CAVOK TX20/2114Z TN13/2123Z
 
ПЭК Ущелье
SYNAR 23518 Усть-Щугор 211500Z 26006MPS 2000 SHRA OVC012CB 14/13 Q993 RMK QFE737/0983 CLD:8CB
(270/70KM)


NOWCAST.SU UUXE 211600Z 11003MPS 0200 SHRA FG VV035CB 08/08 Q0994 NOSIG
AUTOTAF.ME UUXE 211300Z 2114/2123 11004MPS 0200 SHRA FG VV040CB TX09/2114Z TN07/2118Z
BECMG 2117/2118 OVC015CB
BECMG 2118/2119 BKN040CB
BECMG 2119/2120 BKN015CB
FM212100 VRB02MPS 0200 RA FG BKN025
FM212200 VRB02MPS 0200 RA FG BKN002
 
Черпаю (ДНС)
SYNAR 23324 Петрунь 211500Z 09003MPS 9999 RESHRA FEW020CB 15/11 Q992 RMK QFE738/0984 CLD:7CBAC
(170/114KM)


NOWCAST.SU UUXZ 211600Z 12006G14MPS 4000 -RA BR BKN005 05/05 Q0993 NOSIG
RMK TURB: MOD SFC/FL30
AUTOTAF.ME UUXZ 211300Z 2114/2123 12006G13MPS 9000 -RA BR NSC TX07/2123Z TN05/2114Z
FM211600 12006G14MPS 5000 -RA BR BKN004
FM211700 12006G14MPS 9999 -RA OVC015
BECMG 2119/2120 -RA BR
FM212100 15005G11MPS 2500 -RA BR OVC004
BECMG 2121/2122 OVC002
 
Ухта
SYNAR 23606 Ухта 211500Z 23003MPS 9999 BKN040 17/11 Q993 RMK QFE732/0977 CLD:6CUCI


NOWCAST.SU UUYH 211600Z 25003MPS 9999 SKC 17/12 Q0994 NOSIG
RMK TURB: MOD SFC/FL40
AUTOTAF.ME UUYH 211300Z 2114/2123 26004MPS 9999 -RA BKN040 TX18/2114Z TN12/2122Z
BECMG 2115/2116 NSC
 
Инта
SYNAR 23324 Петрунь 211500Z 09003MPS 9999 RESHRA FEW020CB 15/11 Q992 RMK QFE738/0984 CLD:7CBAC
(40/51KM)


NOWCAST.SU UUYI 211600Z 15005G11MPS 8000 -RA BR OVC035 15/12 Q0992 NOSIG
AUTOTAF.ME UUYI 211300Z 2114/2123 12005MPS 9999 BKN025 TX15/2114Z TN12/2122Z
BECMG 2115/2116 -RA BR
FM211700 18005G13MPS 9999 -RA OVC025
FM211800 19008G15MPS 5000 -RA BR OVC008
FM212000 20004MPS 9999 -RA BKN008
 
Вуктыл
SYNAR 23518 Усть-Щугор 211500Z 26006MPS 2000 SHRA OVC012CB 14/13 Q993 RMK QFE737/0983 CLD:8CB
(20/52KM)


NOWCAST.SU UUYK 211600Z VRB02MPS 5000 -SHRA BR BKN023CB 15/15 Q0993 NOSIG
AUTOTAF.ME UUYK 211300Z 2114/2123 VRB02MPS 2500 -SHRA BR OVC025CB TX18/2114Z TN12/2123Z
BECMG 2115/2116 5000
FM211700 VRB02MPS 9999 -SHRA BKN015CB
BECMG 2117/2118 -RA
FM211900 17003MPS 9999 BKN008
BECMG 2119/2120 BKN025
 
Емва
SYNAR 23701 Весляна 211500Z 23004MPS 9999 BKN020CB 18/11 Q994 RMK QFE736/0982 CLD:6CBAC
(360/42KM)


NOWCAST.SU UUYM 211600Z 25004MPS 9999 SKC 17/12 Q0995 NOSIG
RMK TURB: MOD SFC/FL40
AUTOTAF.ME UUYM 211300Z 2114/2123 26004MPS 9999 BKN040TCU TX18/2114Z TN11/2123Z
BECMG 2115/2116 NSC
FM212200 24003MPS 2500 BR BKN004
 
Печора
SYNAR 23418 Печора 211500Z 28003MPS 9999 RESHRA BKN010CB 14/13 Q991 RMK QFE738/0984 CLD:8CBAC


NOWCAST.SU UUYP 211600Z 21003MPS 5000 -SHRA BR BKN020CB 15/15 Q0992 NOSIG
AUTOTAF.ME UUYP 211300Z 2114/2123 21003MPS 2500 SHRA BR BKN004 BKN010CB TX17/2114Z TN12/2120Z
FM211500 22003MPS 2500 -SHRA BR BKN025CB
BECMG 2115/2116 5000
FM211700 19003MPS 2500 SHRA BR BKN004 BKN010CB
BECMG 2117/2118 RA BR
BECMG 2118/2119 BR
FM212300 19003MPS 9999 BKN040
 
Троицко-Печорск
SYNAR 23711 Троицко-Печорское 211500Z 22001MPS 4000 BR SCT010CB 14/13 Q995 RMK QFE734/0978 CLD:8CBAS


NOWCAST.SU UUYR 211600Z VRB02MPS 9999 SKC 15/14 Q0995 NOSIG
RMK TURB: MOD FL30/FL40
AUTOTAF.ME UUYR 211300Z 2114/2123 27003MPS 5000 -SHRA BR BKN015CB TX17/2114Z TN12/2120Z
FM211500 VRB02MPS 9999 -SHRA BKN015CB
FM211600 VRB02MPS CAVOK
FM211700 VRB02MPS 9999 -RA BKN008
FM211800 VRB02MPS 1200 RA BR BKN004
FM211900 VRB02MPS CAVOK
FM212000 VRB02MPS 9999 -RA BKN040
BECMG 2122/2123 NSC
 
Усинск
SYNAR 23410 Усинск 211500Z 21003MPS //// //// 14/13 Q990 RMK QFE735/0980 CLD:NO_OBSERVATIONS


NOWCAST.SU UUYS 211600Z 20005G10MPS 3000 -SHRA BR BKN006 BKN010CB 15/14 Q0990 NOSIG
AUTOTAF.ME UUYS 211300Z 2114/2123 17007G12MPS 2500 -SHRA BR BKN004 OVC010CB TX16/2114Z TN12/2121Z
BECMG 2115/2116 BKN008 BKN010CB
BECMG 2116/2117 5000
BECMG 2120/2121 VCSH BR
FM212200 19005G11MPS 5000 BR BKN008
FM212300 19008G13MPS 5000 BR BKN015
 
Усть-Кулом
SYNAR 23803 Усть-Кулом 211500Z 24002MPS 9999 FEW033 18/11 Q997 RMK QFE735/0980 CLD:3CUCI


NOWCAST.SU UUYT 211600Z 28003MPS 9999 -RA BKN040 17/12 Q0997 NOSIG
RMK TURB: MOD FL30/FL50
AUTOTAF.ME UUYT 211300Z 2114/2123 29004MPS 9999 -RA BKN025 TX18/2114Z TN11/2123Z
FM211700 VRB02MPS CAVOK
 
Ижма
SYNAR 23503 Ижма 211500Z 22003MPS 9999 SCT020CB 18/11 Q990 RMK QFE738/0985 CLD:3CB


NOWCAST.SU UUYV 211600Z 23004MPS 9999 BKN039 17/12 Q0991 NOSIG
RMK TURB: MOD SFC/FL40
AUTOTAF.ME UUYV 211300Z 2114/2123 24005G12MPS 9999 -RA BKN040 TX17/2114Z TN12/2123Z
FM211700 21003MPS 9999 -SHRA BKN040CB
BECMG 2118/2119 -RA
FM212200 21004MPS 9999 -DZ BKN002
 
Воркута
SYNAR 23226 Воркута 211500Z 11002MPS CAVOK 09/08 Q997 RMK QFE732/0976 CLD:8AC


NOWCAST.SU UUYW 211600Z 11003MPS 9999 -RA OVC080 07/05 Q0997 NOSIG
AUTOTAF.ME UUYW 211300Z 2114/2123 13003MPS 9999 OVC015 TX08/2114Z TN06/2117Z
FM211500 12003MPS 8000 BR NSC
BECMG 2115/2116 -RA
BECMG 2116/2117 BKN025
FM212100 12003MPS 8000 -RA BR BKN015
BECMG 2121/2122 5000
 
Усть-Цильма
SYNAR 23405 Усть-Цильма 211500Z 21003MPS 9999 RESHRA FEW020CB 16/12 Q989 RMK QFE734/0979 CLD:6CBAC


NOWCAST.SU UUYX 211600Z 23004MPS 9999 -RA BKN028 15/11 Q0989 NOSIG
RMK TURB: MOD SFC/FL30
AUTOTAF.ME UUYX 211300Z 2114/2123 24005G13MPS 9999 -SHRA BKN040CB TX16/2114Z TN09/2123Z
BECMG 2115/2116 -RA
FM212000 22005G13MPS 9999 VCSH BKN015CB
BECMG 2120/2121 -SHRA
BECMG 2122/2123 BKN025CB
 
Сыктывкар
METAR UUYY 211600Z 24003MPS 9999 SCT040CB 18/12 Q0997 R18/29//51 NOSIG RMK QFE739/0986


NOWCAST.SU UUYY 211600Z 26003MPS 9999 SKC 17/11 Q0997 NOSIG
RMK TURB: MOD SFC/FL40
AUTOTAF.ME UUYY 211300Z 2114/2123 27004MPS 9999 BKN040TCU TX19/2114Z TN11/2123Z
BECMG 2115/2116 NSC
BECMG 2120/2121 BKN040
FM212300 23003MPS 2500 BR OVC004
TAF UUYY 211400Z 2115/2215 26003G12MPS 9999 BKN020CB
TEMPO 2115/2118 24007G16MPS 6000 -TSRA FEW005 BKN016CB
TEMPO 2118/2202 0300 -SHRA FG FEW003 BKN016CB
TEMPO 2202/2209 6000 -SHRA BKN016CB
TEMPO 2209/2215 6000 -TSRA BKN016CB=
Большое Болдино
SYNAR 27665 Лукоянов 211500Z 34004G07MPS 9999 FEW033 21/10 Q1005 RMK QFE734/0979 CLD:8CUCI
(270/52KM)


NOWCAST.SU UWGB 211600Z 34005G13MPS 9999 -RA BKN057 19/12 Q1004 NOSIG
RMK TURB: MOD SFC/FL30
AUTOTAF.ME UWGB 211300Z 2114/2123 35005G12MPS 9999 -RA BKN040 TX20/2114Z TN13/2123Z
BECMG 2115/2116 NSC
BECMG 2122/2123 SCT040
 
Нижний Новгород (Стригино)
METAR UWGG 211600Z 33004MPS CAVOK 20/10 Q1005 R36R/090070 NOSIG


NOWCAST.SU UWGG 211600Z 34005G13MPS 9999 SKC 18/11 Q1006 NOSIG
RMK TURB: MOD SFC/FL50
AUTOTAF.ME UWGG 211300Z 2114/2123 33009G14MPS 9999 -RA BKN040 TX20/2114Z TN12/2123Z
FM211600 34005G13MPS CAVOK
BECMG 2116/2117 33004MPS
TAF UWGG 211351Z 2115/2215 33003G09MPS 9999 SCT030 TX21/2215Z TN12/2201Z
TEMPO 2115/2118 32008G13MPS=
Бабино
SYNAR 27459 Нижний Новгород 211500Z 34003G08MPS CAVOK 20/09 Q1005 RMK QFE739/0986 CLD:2AC
(80/26KM)


NOWCAST.SU UWGI 211600Z 32005G12MPS 9999 SKC 18/11 Q1006 NOSIG
RMK TURB: MOD SFC/FL50
AUTOTAF.ME UWGI 211300Z 2114/2123 33009G14MPS 9999 -RA NSC TX20/2114Z TN11/2123Z
BECMG 2114/2115 BKN040
FM211600 32005G12MPS CAVOK
BECMG 2116/2117 32004MPS
 
Охлопково
SYNAR 27459 Нижний Новгород 211500Z 34003G08MPS CAVOK 20/09 Q1005 RMK QFE739/0986 CLD:2AC
(80/57KM)


NOWCAST.SU UWGO 211600Z 32005G12MPS 9999 SKC 18/11 Q1006 NOSIG
RMK TURB: MOD SFC/FL70
AUTOTAF.ME UWGO 211300Z 2114/2123 33009G14MPS 9999 -RA NSC TX20/2114Z TN11/2122Z
BECMG 2116/2117 31004MPS
 
Вознесенское
SYNAR 27752 Темников 211500Z 34004G07MPS 9999 BKN020 22/09 Q1006 RMK QFE742/0989 CLD:6SCCI
(140/40KM)


NOWCAST.SU UWGV 211600Z 35004MPS 9999 -RA BKN039 20/11 Q1006 NOSIG
RMK TURB: MOD SFC/FL70
AUTOTAF.ME UWGV 211300Z 2114/2123 35005G12MPS 9999 -RA BKN040 TX21/2114Z TN12/2123Z
FM211700 35004MPS CAVOK
 
Бугульма
SYNAR 28711 Бугульма 211500Z 12002MPS 9999 BKN040CB 24/16 Q1001 RMK QFE723/0965 CLD:8CBACCI


TSAR UWKB 211600Z LAST HOUR TS OBS: 010/120-139KM, 020/124-142KM, 060/78KM, 070/46-69KM, 080/81KM, 090/30-79KM, 100/18KM, 110/60-71KM, 120/49-81KM, 130/39-71KM, 140/31-161KM, 150/55-179KM, 170/112-154KM, 180/88-153KM, 190/67-154KM, 200/69-119KM, 210/74-104KM, 220/63-87KM, 230/72-128KM, 240/50-103KM, 250/61-84KM, 260/96KM, 270/43-92KM, 280/94KM, 290/100KM, 300/78KM, 310/59-89KM, 320/50-81KM, 330/66-99KM
NEAREST TS 100/18KM
NOWCAST.SU UWKB 211600Z 20003MPS 9999 FEW290 23/17 Q1001 TEMPO -TSRA
AUTOTAF.ME UWKB 211300Z 2114/2123 18004MPS CAVOK TX26/2114Z TN17/2122Z
FM211700 28004MPS 9999 -SHRA BKN140CB
BECMG 2117/2118 30007G14MPS
BECMG 2119/2120 VCSH
BECMG 2120/2121 VRB02MPS
FM212300 VRB02MPS 9999 -SHRA BKN080CB
 
Казань
METAR UWKD 211600Z 35005MPS CAVOK 21/13 Q1002 R29/70D NOSIG RMK QFE740/0987


TSAR UWKD 211600Z LAST HOUR TS OBS: 140/114-139KM, 150/101-175KM, 160/92-165KM, 170/89-157KM, 180/67-154KM, 190/69-157KM, 200/137KM
NEAREST TS 180/67KM
NOWCAST.SU UWKD 211600Z 34005MPS 9999 FEW120 21/15 Q1001 NOSIG
RMK TURB: MOD SFC/FL30
AUTOTAF.ME UWKD 211300Z 2114/2123 33007MPS 9999 -SHRA BKN025CB TX23/2114Z TN17/2121Z
TEMPO 2114/2116 5000 SHRA
FM211600 34005MPS CAVOK
FM211700 33004MPS 9999 -RA BKN025
BECMG 2118/2119 VRB02MPS
BECMG 2119/2120 NSC
TAF UWKD 211400Z 2115/2215 35005G12MPS 9999 BKN020 TX23/2212Z TN16/2201Z
TEMPO 2115/2121 VRB20MPS 0700 +TSRAGR SQ SCT006 BKN030CB
TEMPO 2121/2206 VRB18MPS 3100 -TSRA SQ BKN011 BKN030CB=
Нижнекамск (Бегишево)
METAR UWKE 211600Z 24003MPS 9999 SCT043CB 24/17 Q0999 R21/090070 NOSIG RMK QFE733/0978


TSAR UWKE 211600Z LAST HOUR TS OBS: 070/81-92KM, 080/75-87KM, 130/121KM, 140/129-136KM, 150/122-172KM, 160/46KM, 170/21-64KM, 180/44-149KM, 190/45-152KM, 200/66-159KM, 210/23-176KM, 220/78-159KM, 230/126KM
NEAREST TS 170/21KM
NOWCAST.SU UWKE 211600Z 28004MPS 6000 SCT021CB 21/19 Q1000 TEMPO 1000 VCTS TEMPO 1000 VCTS
AUTOTAF.ME UWKE 211300Z 2114/2123 29004MPS CAVOK TX25/2114Z TN17/2121Z
BECMG 2114/2115 HZ
FM211600 28004MPS 5000 SCT025CB
TEMPO 2116/2117 1000 VCTS
FM211700 26005MPS 2500 BKN015CB
TEMPO 2117/2118 2000 -TSGRRA
BECMG 2117/2118 BKN004 BKN010CB
TEMPO 2118/2119 -TSRA
FM211900 28004MPS 9000 -SHRA BR BKN008 BKN010CB
BECMG 2119/2120 -SHRA
FM212100 35005MPS 9999 -SHRA BKN015CB
FM212300 01003MPS 9999 -SHRA OVC025CB
TAF UWKE 211351Z 2115/2215 27003G09MPS 9999 SCT040
TEMPO 2115/2118 VRB14MPS 3100 -TSRA BKN011CB
BECMG 2118/2119 34003G09MPS
TEMPO 2118/2206 2100 -TSRA BKN016CB
BECMG 2206/2207 01003G09MPS
TEMPO 2206/2215 6000 -SHRA BKN016CB=
Балтаси
SYNAR 27593 Арск 211500Z 33003MPS 9999 SCT020 22/13 Q1001 RMK QFE737/0983 CLD:6SCAC
(210/38KM)


TSAR UWKF 211600Z LAST HOUR TS OBS: 150/169KM, 200/163KM, 210/168KM
NEAREST TS 200/163KM
NOWCAST.SU UWKF 211600Z 32004MPS 9999 SKC 20/13 Q1001 NOSIG
RMK TURB: MOD FL30/FL40
AUTOTAF.ME UWKF 211300Z 2114/2123 33008G13MPS 9999 VCSH BKN025CB TX23/2114Z TN15/2122Z
BECMG 2114/2115 -RA
FM211600 32004MPS CAVOK
BECMG 2116/2117 32003MPS
BECMG 2120/2121 BKN040
FM212200 34003MPS CAVOK
 
Казань (Борисоглебское)
SYNAR 27595 Казань 211500Z 35003MPS CAVOK 22/14 Q1002 RMK QFE740/0987 CLD:7ACCI
(160/16KM)


TSAR UWKG 211600Z LAST HOUR TS OBS: 140/143-150KM, 150/131-186KM, 160/122-175KM, 170/97-164KM, 180/96-161KM, 190/139-163KM
NEAREST TS 180/96KM
NOWCAST.SU UWKG 211600Z 34003MPS 9999 -RA SCT027 20/13 Q1002 NOSIG
RMK TURB: MOD FL30/FL40
AUTOTAF.ME UWKG 211300Z 2114/2123 34005MPS 9999 -RA BKN040 TX22/2114Z TN16/2121Z
FM211700 VRB02MPS CAVOK
BECMG 2117/2118 BKN040
BECMG 2118/2119 NSC
 
Йошкар-Ола
SYNAR 27485 Йошкар-Ола 211500Z 33004G07MPS 9999 FEW020 22/11 Q1003 RMK QFE741/0988 CLD:6CUCI
(220/11KM)


NOWCAST.SU UWKJ 211600Z 34003MPS 9999 SKC 20/12 Q1002 NOSIG
AUTOTAF.ME UWKJ 211300Z 2114/2123 33003MPS CAVOK TX22/2114Z TN14/2122Z
FM211700 VRB02MPS 9999 -RA SCT040
BECMG 2118/2119 NSC
 
Елабуга (Северный)
SYNAR 28506 Елабуга 211500Z 00000MPS 9999 SCT020 26/14 Q999 RMK QFE741/0988 CLD:6CUCI


TSAR UWKL 211600Z LAST HOUR TS OBS: 080/71-83KM, 100/72-84KM, 140/138KM, 150/144-174KM, 160/164KM, 170/70-89KM, 180/46-153KM, 190/47-157KM, 200/73-164KM, 210/100-175KM, 220/138KM
NEAREST TS 180/46KM
NOWCAST.SU UWKL 211600Z 30004MPS 9999 -SHRA BKN025CB 21/18 Q1000 TEMPO 2000 SHRA TEMPO 2000 TSRA
AUTOTAF.ME UWKL 211300Z 2114/2123 28004MPS 9999 -TSRA BKN040CB TX25/2114Z TN17/2122Z
TEMPO 2114/2115 VRB08G13MPS
BECMG 2114/2115 NSW
TEMPO 2115/2116 -TSRA
BECMG 2115/2116 -SHRA
TEMPO 2116/2117 2000 SHRA
TEMPO 2117/2118 2000 VCTS
BECMG 2117/2118 -SHRA
TEMPO 2118/2119 5000 SHRA
FM212000 32003MPS 9999 -SHRA SCT008CB
FM212100 32003MPS 9999 -SHRA OVC090CB
FM212200 34003MPS 9999 -SHRA BKN002 BKN010CB
 
Мензелинск
SYNAR 28517 Мензелинск 211500Z 00000MPS 9999 SCT020CB 25/19 Q999 RMK QFE739/0986 CLD:7CBACCI


TSAR UWKP 211600Z LAST HOUR TS OBS: 040/20KM, 060/29KM, 100/14-25KM, 150/94-137KM, 160/108-173KM, 170/104-170KM, 180/122-166KM, 200/156-180KM, 210/93-186KM, 220/77-107KM, 230/93-115KM, 240/70-80KM
NEAREST TS 100/14KM
NOWCAST.SU UWKP 211600Z VRB02MPS 9999 SCT310 22/19 Q0999 TEMPO FM1800 -TSRA
AUTOTAF.ME UWKP 211300Z 2114/2123 25003MPS CAVOK TX25/2114Z TN17/2123Z
FM211700 VRB02MPS 9999 -SHRA SCT060CB
BECMG 2117/2118 NSW
TEMPO 2118/2119 -TSRA
BECMG 2118/2119 -SHRA
BECMG 2119/2120 BKN008CB
TEMPO 2120/2121 3000 SHRA
FM212100 34004MPS CAVOK
FM212300 36003MPS 9999 -SHRA BKN015CB
 
Куралово
SYNAR 27595 Казань 211500Z 35003MPS CAVOK 22/14 Q1002 RMK QFE740/0987 CLD:7ACCI
(70/27KM)


TSAR UWKQ 211600Z LAST HOUR TS OBS: 130/129KM, 140/113-145KM, 150/101-181KM, 160/77-170KM, 170/73-159KM, 180/113-157KM
NEAREST TS 170/73KM
NOWCAST.SU UWKQ 211600Z 33004MPS 9999 BKN270 20/14 Q1002 NOSIG
RMK TURB: MOD FL30/FL40
AUTOTAF.ME UWKQ 211300Z 2114/2123 32007MPS 9999 -SHRA BKN025CB TX22/2114Z TN17/2122Z
FM211600 33004MPS CAVOK
FM211700 32003MPS 9999 -RA BKN025
FM211800 VRB02MPS 9999 BKN025
BECMG 2119/2120 NSC
 
Сарманово
SYNAR 28612 Муслюмово 211500Z 27002MPS 9999 RETS BKN020CB 24/17 Q999 RMK QFE742/0990 CLD:7CBACCI
(80/40KM)


TSAR UWKR 211600Z LAST HOUR TS OBS: 030/80KM, 040/65-87KM, 050/74KM, 110/86KM, 120/95-105KM, 130/75-117KM, 140/91-140KM, 150/84-134KM, 160/78-123KM, 170/158KM, 180/136-157KM, 190/118-162KM, 200/76-141KM, 210/33-181KM, 220/40-145KM, 230/49-114KM, 240/19-102KM, 250/30-82KM, 260/41-53KM, 290/42KM, 300/31KM
NEAREST TS 240/19KM
NOWCAST.SU UWKR 211600Z 27004MPS 7000 -TSRA HZ SCT115CB 22/18 Q1000 TEMPO FM1700 VCTS
AUTOTAF.ME UWKR 211300Z 2114/2123 27004MPS 9000 HZ NSC TX26/2114Z TN16/2123Z
BECMG 2114/2115 5000
FM211600 27004MPS 7000 -SHRA HZ SCT120CB
FM211700 25004MPS 9999 SCT040CB
TEMPO 2117/2118 VCTS
BECMG 2117/2118 NSW
TEMPO 2118/2119 -TSRA
FM211900 27003MPS 9999 BKN008CB
TEMPO 2119/2120 2000 VCTS
BECMG 2119/2120 -SHRA
TEMPO 2120/2121 5000 SHRA
FM212100 34005MPS 9999 -SHRA BKN008 BKN010CB
FM212200 35004MPS 9999 -SHRA BKN080CB
 
Чебоксары
METAR UWKS 211600Z 35003MPS 9999 SCT026 21/11 Q1003 R06/090060 NOSIG RMK QFE737


NOWCAST.SU UWKS 211600Z 01003MPS 9999 -RA BKN057 20/13 Q1002 NOSIG
RMK TURB: MOD SFC/FL50
AUTOTAF.ME UWKS 211300Z 2114/2123 01003MPS 9999 -RA BKN040 TX22/2114Z TN14/2123Z
BECMG 2115/2116 NSC
BECMG 2116/2117 BKN040
BECMG 2119/2120 NSC
TAF UWKS 211342Z 2115/2124 34005G12MPS 9999 SCT040 TX21/2115Z TN15/2123Z=
Казань (Юдино)
SYNAR 27595 Казань 211500Z 35003MPS CAVOK 22/14 Q1002 RMK QFE740/0987 CLD:7ACCI
(140/18KM)


TSAR UWKW 211600Z LAST HOUR TS OBS: 140/146KM, 150/133-183KM, 160/123-172KM, 170/97-165KM, 180/96-160KM, 190/161KM
NEAREST TS 180/96KM
NOWCAST.SU UWKW 211600Z 34003MPS 9999 -RA SCT027 20/13 Q1002 NOSIG
RMK TURB: MOD FL30/FL40
AUTOTAF.ME UWKW 211300Z 2114/2123 34005MPS 9999 -RA BKN040 TX22/2114Z TN16/2122Z
FM211700 VRB02MPS CAVOK
BECMG 2117/2118 BKN040
BECMG 2118/2119 NSC
 
Ульяновск (Баратаевка)
METAR UWLL 211600Z 35008G13MPS 9999 BKN040CB 18/16 Q1001 R02/290150 NOSIG RMK QFE739/0985


TSAR UWLL 211600Z LAST HOUR TS OBS: 030/99KM, 040/82-106KM, 050/59-100KM, 060/36-111KM, 070/47-101KM, 080/71-95KM, 090/56-93KM, 100/32-44KM, 140/32KM, 160/26-71KM, 170/47-69KM, 180/69KM, 190/47KM
NEAREST TS 160/26KM
NOWCAST.SU UWLL 211600Z 35004MPS 9999 -TSRA BKN026CB 19/16 Q1003 NOSIG
RMK TURB: MOD SFC/FL30
AUTOTAF.ME UWLL 211300Z 2114/2123 35009G14MPS 9999 BKN025CB TX21/2114Z TN16/2122Z
TEMPO 2114/2115 VCTS
BECMG 2114/2115 -SHRA
BECMG 2115/2116 35004MPS
BECMG 2118/2119 -RA
FM212100 01004MPS 8000 -RA BR BKN040
FM212200 36004MPS 9999 -RA NSC
TAF UWLL 211353Z 2115/2215 36006G12MPS 9999 BKN020 TX20/2212Z TN14/2203Z
TEMPO 2115/2118 VRB25MPS 0400 +TSRA SQ BKN005 BKN016CB
TEMPO 2118/2212 33011G17MPS 1000 TSRA BKN004 BKN011CB=
Новоселки
SYNAR 27799 Димитровград 211500Z 01003MPS 9999 TSRA OVC029CB 26/26 Q1000 RMK QFE743/0991 CLD:8CB
(350/36KM)


TSAR UWLN 211600Z LAST HOUR TS OBS: 010/36-102KM, 020/60-109KM, 030/16-121KM, 040/48-137KM, 050/25-123KM, 060/67-110KM, 070/35-101KM, 080/59-96KM, 090/83-95KM, 100/33-70KM, 110/21-99KM, 250/85-97KM, 270/80-92KM, 280/81-93KM, 300/65-76KM, 310/55-87KM, 320/46-78KM, 330/39-96KM, 340/59-128KM, 350/36-124KM, 360/57-100KM
NEAREST TS 30/16KM
NOWCAST.SU UWLN 211600Z 32003MPS 3000 -TSRA BR BKN011CB 19/18 Q1000 NOSIG
AUTOTAF.ME UWLN 211300Z 2114/2123 29004MPS 9000 BKN025CB TX23/2114Z TN17/2122Z
TEMPO 2114/2115 2000 -TSGRRA
FM211500 28004MPS 5000 -SHRA BKN015CB
FM211600 32003MPS 2500 -SHRA BR BKN008CB
BECMG 2116/2117 SHRA BR
BECMG 2117/2118 02007G14MPS
FM211900 03007G12MPS 2500 -SHRA BR BKN002 BKN010CB
BECMG 2119/2120 5000
FM212100 03003MPS 9999 -SHRA BKN015CB
FM212200 02003MPS 9999 VCSH OVC015CB
FM212300 02003MPS 9999 OVC015CB
 
Солдатская Ташла
SYNAR 27785 Ульяновск 211500Z 34003MPS 4000 TSRA BKN033CB 18/16 Q1003 RMK QFE740/0987 CLD:6CB
(350/29KM)


TSAR UWLS 211600Z LAST HOUR TS OBS: 020/120KM, 030/3-126KM, 040/59-124KM, 050/35-110KM, 060/45-99KM, 070/68-91KM, 080/14KM, 140/23KM, 160/43KM, 180/19-41KM, 200/42KM, 210/21KM
NEAREST TS 30/3KM
NOWCAST.SU UWLS 211600Z 34004MPS 5000 -TSRA BR BKN017CB 18/17 Q1002 NOSIG
AUTOTAF.ME UWLS 211300Z 2114/2123 VRB02MPS 1200 BKN025CB TX20/2114Z TN15/2123Z
TEMPO 2114/2115 TSRA
FM211500 32003MPS 5000 -SHRA BR BKN015CB
BECMG 2116/2117 36008G14MPS
FM211900 01008G14MPS 9999 -SHRA BKN002 BKN010CB
BECMG 2119/2120 VCSH
FM212100 04003MPS 9999 -RA BKN015
 
Ульяновск (Восточный)
METAR UWLW 211600Z 30004MPS 280V350 9999 -TSRA BKN030CB 19/18 Q1002 R20/290150 TEMPO 36018MPS 1000 TSRA RMK QFE746/0994


TSAR UWLW 211600Z LAST HOUR TS OBS: 010/25KM, 020/49-73KM, 030/55KM, 040/31-63KM, 050/39-72KM, 060/49-103KM, 070/7-95KM, 080/19KM, 090/31-92KM, 100/82-95KM, 110/47-101KM, 120/36-111KM, 130/101KM, 140/27KM, 160/20KM, 190/86KM, 200/20-89KM, 210/69-94KM, 220/51-75KM, 290/6KM
NEAREST TS 290/6KM
NOWCAST.SU UWLW 211600Z VRB02MPS 7000 OVC022CB 21/18 Q1002 TEMPO -TSRA TEMPO TL1700 -TSRA
AUTOTAF.ME UWLW 211300Z 2114/2123 34003MPS 9999 BKN025CB TX23/2114Z TN17/2122Z
TEMPO 2114/2115 5000 -TSGRRA
BECMG 2114/2115 7000
TEMPO 2115/2116 VRB08G13MPS -TSRA
TEMPO 2116/2117 -TSRA
FM211700 VRB02MPS 9999 -SHRA BKN015CB
BECMG 2118/2119 SCT140CB
BECMG 2120/2121 -RA
TAF UWLW 211349Z 2115/2215 36006G12MPS 9999 BKN030 TX22/2212Z TN15/2202Z
TEMPO 2115/2120 33015G22MPS 0800 +TSRA BKN016CB
TEMPO 2120/2206 3100 -TSRA BKN016CB=
Зилаир
SYNAR 35026 Зилаир 211500Z 25003MPS 9999 FEW020 24/12 Q1003 RMK QFE706/0942 CLD:3CUCI


NOWCAST.SU UWOI 211600Z VRB02MPS 9999 BKN260 21/15 Q1004 NOSIG
AUTOTAF.ME UWOI 211300Z 2114/2123 VRB02MPS 9999 SCT180CB TX23/2114Z TN15/2122Z
TEMPO 2114/2116 VCTS
FM211600 VRB02MPS CAVOK
FM212000 VRB02MPS 9999 VCSH SCT060CB
FM212100 VRB02MPS CAVOK
FM212200 VRB02MPS 9999 VCSH BKN060CB
 
Оренбург
METAR UWOO 211600Z 10004MPS CAVOK 26/15 Q1000 R26/60D NOSIG RMK QFE740/0986


TSAR UWOO 211600Z LAST HOUR TS OBS: 330/184-190KM, 340/179KM
NEAREST TS 340/179KM
NOWCAST.SU UWOO 211600Z 13003MPS 9999 FEW300 26/15 Q1001 NOSIG
RMK TURB: MOD FL50/FL70
AUTOTAF.ME UWOO 211300Z 2114/2123 VRB02MPS CAVOK TX28/2114Z TN19/2123Z
FM211800 15004MPS 9999 VCSH BKN080CB
BECMG 2119/2120 -SHRA
TAF UWOO 211358Z 2115/2215 18003G08MPS 9999 SCT030 TX29/2211Z TN18/2201Z
TEMPO 2115/2206 22005G14MPS -TSRA BKN020CB
TEMPO 2206/2215 16007G16MPS -TSRA BKN020CB=
Первомайский
SYNAR 35008 Первомайский 211500Z 24001MPS 9999 RESHRA BKN020CB 22/17 Q1000 RMK QFE744/0992 CLD:7CBAC


TSAR UWOP 211600Z LAST HOUR TS OBS: 020/164-169KM, 030/175-182KM
NEAREST TS 20/164KM
NOWCAST.SU UWOP 211600Z VRB02MPS 9999 -SHRA OVC079CB 23/17 Q1000 NOSIG
AUTOTAF.ME UWOP 211300Z 2114/2123 VRB02MPS 9999 -SHRA BKN080CB TX27/2114Z TN16/2123Z
BECMG 2116/2117 VCSH
FM211900 VRB02MPS CAVOK
FM212100 19003MPS 9999 -RA BKN025
FM212200 19003MPS CAVOK
 
Орск
METAR UWOR 211600Z 29002MPS CAVOK 24/10 Q1003 R25/CLRD65 NOSIG RMK QFE729/0972


NOWCAST.SU UWOR 211600Z VRB02MPS 9999 FEW320 24/12 Q1004 NOSIG
RMK TURB: MOD SFC/FL50
AUTOTAF.ME UWOR 211300Z 2114/2123 31003MPS CAVOK TX26/2114Z TN18/2122Z
FM212100 18003MPS 9999 VCSH BKN080CB
TAF UWOR 211352Z 2115/2124 28003G10MPS 9999 SCT030 TX25/2115Z TN18/2123Z
TEMPO 2115/2121 26005G13MPS
TEMPO 2121/2124 18003G10MPS BKN020CB=
Бузулук
SYNAR 28909 Бузулук 211500Z 20004MPS 9999 TSRA BKN024CB 25/18 Q1001 RMK QFE743/0991 CLD:7CB


TSAR UWOX 211600Z LAST HOUR TS OBS: 010/74-140KM, 020/54-172KM, 030/60-184KM, 040/67-92KM, 050/76KM, 070/100KM, 080/83-96KM, 100/97KM, 110/102KM, 310/133KM, 320/116-149KM, 330/129-184KM, 340/148-172KM, 350/117-161KM, 360/72-158KM
NEAREST TS 20/54KM
NOWCAST.SU UWOX 211600Z 29004MPS 9999 -SHRA BKN024CB 23/17 Q1001 TEMPO 5000 SHRA TEMPO 5000 TSRA
AUTOTAF.ME UWOX 211300Z 2114/2123 26004MPS 9999 SCT040CB TX27/2114Z TN18/2121Z
TEMPO 2114/2115 VRB08G13MPS 3000 -TSRA
TEMPO 2115/2116 3000 -TSRA
BECMG 2115/2116 -SHRA
TEMPO 2116/2118 5000 SHRA
TEMPO 2118/2119 VCTS
TEMPO 2119/2120 5000 VCTS
BECMG 2119/2120 BKN015CB
TEMPO 2120/2121 3000 TS
TEMPO 2121/2124 3000 VCTS
BECMG 2121/2122 BKN002 BKN010CB
 
Кушкуль (Сакмара)
SYNAR 35121 Оренбург 211500Z 13003MPS 9999 FEW033 30/11 Q1001 RMK QFE740/0987 CLD:5CUCC
(190/26KM)


TSAR UWOY 211600Z LAST HOUR TS OBS: 310/112-125KM, 320/141KM, 330/170KM, 340/160-164KM
NEAREST TS 310/112KM
NOWCAST.SU UWOY 211600Z 14003MPS 9999 FEW340 26/14 Q1001 NOSIG
RMK TURB: MOD FL40/FL70
AUTOTAF.ME UWOY 211300Z 2114/2123 13003MPS CAVOK TX29/2114Z TN19/2123Z
 
Пенза (Терновка)
SYNAR 27962 Пенза 211500Z 03003MPS 9999 BKN020CB 19/15 Q1002 RMK QFE736/0981 CLD:8CBAC


NOWCAST.SU UWPP 211600Z 01010G18MPS 2800 -SHRA BR BKN013CB 16/15 Q1002 NOSIG
RMK TURB: MOD SFC/FL30
AUTOTAF.ME UWPP 211300Z 2114/2123 01012G18MPS 2500 -SHRA BR SCT015CB TX18/2114Z TN14/2123Z
FM211800 36010G18MPS 2500 -RA BR BKN025
BECMG 2118/2119 5000
FM212000 36010G18MPS 9999 -RA DRDU BKN040
BECMG 2120/2121 DRDU
FM212300 35010G18MPS 5000 -RA BR OVC025
 
Саранск
METAR UWPS 211600Z 02008G13MPS 9999 SCT030CB 19/11 Q1003 R02/190060 NOSIG RMK QFE733


NOWCAST.SU UWPS 211600Z 01010G15MPS 9999 OVC070 19/12 Q1004 NOSIG
RMK TURB: MOD SFC/FL50
AUTOTAF.ME UWPS 211300Z 2114/2123 01010G15MPS CAVOK TX20/2114Z TN15/2123Z
BECMG 2114/2115 BKN040TCU
BECMG 2115/2116 NSC
FM212000 35011G17MPS 9999 DRDU BKN040
BECMG 2122/2123 NSC
TAF UWPS 211352Z 2115/2124 36005G12MPS 8000 -SHRA BKN028CB TX20/2115Z TN14/2124Z
TEMPO 2115/2120 01008G16MPS -TSRA=
Балаково (Малая Быковка)
SYNAR 34186 Ершов 211500Z 21006G10MPS 9999 SCT033 25/08 Q998 RMK QFE738/0984 CLD:5CUCI
(140/66KM)


TSAR UWSB 211600Z LAST HOUR TS OBS: 200/156-177KM, 210/137-188KM, 220/127-152KM
NEAREST TS 220/127KM
NOWCAST.SU UWSB 211600Z VRB02MPS 9999 SCT044TCU 22/13 Q0999 NOSIG
RMK TURB: MOD SFC/FL50
AUTOTAF.ME UWSB 211300Z 2114/2123 24003MPS 9999 VCSH BKN025CB TX23/2115Z TN16/2121Z
BECMG 2116/2117 NSC
 
Саратов (Гагарин)
METAR UWSG 211600Z 18003MPS 9999 SCT050TCU 24/13 Q0997 R08/CLRD70 NOSIG RMK QFE745/0994


TSAR UWSG 211600Z LAST HOUR TS OBS: 160/89-155KM, 170/86-151KM, 180/84-105KM
NEAREST TS 180/84KM
NOWCAST.SU UWSG 211600Z VRB02MPS 9999 SKC 21/12 Q0999 NOSIG
RMK TURB: MOD SFC/FL70
AUTOTAF.ME UWSG 211300Z 2114/2123 VRB02MPS CAVOK TX22/2114Z TN17/2121Z
FM211500 VRB02MPS 9999 VCSH SCT060CB
FM211600 VRB02MPS CAVOK
FM212100 31003MPS 9999 VCSH BKN025CB
TEMPO 2121/2122 5000 SHRA
BECMG 2121/2122 BKN015CB
FM212300 34005MPS 9999 -SHRA BKN015CB
TAF UWSG 211359Z 2115/2124 36003G09MPS 9999 BKN020CB TX24/2115Z TN16/2124Z
TEMPO 2115/2124 29010G18MPS 1000 TSRAGR FEW003 BKN016CB=
Красный Кут
SYNAR 34273 Красный Кут 211500Z 19003MPS 9999 SCT033 23/10 Q999 RMK QFE744/0992 CLD:3SC


TSAR UWSK 211600Z LAST HOUR TS OBS: 190/43-65KM, 200/23-93KM, 210/48-74KM, 220/56KM, 230/31KM, 240/42KM, 250/54KM, 270/23-49KM
NEAREST TS 200/23KM
NOWCAST.SU UWSK 211600Z 18003MPS 9999 -TSRA BKN043 21/09 Q0999 NOSIG
RMK TURB: MOD SFC/FL40
AUTOTAF.ME UWSK 211300Z 2114/2123 20005MPS 9999 -RA BKN040 TX23/2114Z TN16/2119Z
FM211700 17003MPS CAVOK
BECMG 2118/2119 BKN025
BECMG 2120/2121 VRB02MPS
BECMG 2122/2123 NSC
 
Пугачев
SYNAR 34098 Пугачев 211500Z 10001MPS 9999 BKN025CB 22/17 Q999 RMK QFE745/0994 CLD:6CBAC


NOWCAST.SU UWSP 211600Z 26003MPS 9999 SKC 21/15 Q0999 NOSIG
RMK TURB: MOD SFC/FL50
AUTOTAF.ME UWSP 211300Z 2114/2123 24004MPS 5000 HZ NSC TX22/2114Z TN16/2122Z
FM211500 25004MPS 9999 -RA BKN040
FM211600 26003MPS CAVOK
BECMG 2120/2121 BR
BECMG 2121/2122 5000
FM212300 VRB02MPS 2500 BR BKN004
 
Саратов (Центральный)
SYNAR 34178 Саратов (ЮВ) 211500Z 08001MPS 9999 BKN026CB 25/07 Q998 RMK QFE736/0982 CLD:6CBAC


TSAR UWSS 211600Z LAST HOUR TS OBS: 150/78-122KM, 160/73-158KM, 170/69-155KM
NEAREST TS 170/69KM
NOWCAST.SU UWSS 211600Z VRB02MPS 9999 SKC 21/12 Q0999 NOSIG
RMK TURB: MOD SFC/FL70
AUTOTAF.ME UWSS 211300Z 2114/2123 VRB02MPS CAVOK TX22/2114Z TN17/2121Z
FM211500 VRB02MPS 9999 VCSH SCT060CB
FM211600 VRB02MPS CAVOK
FM211700 VRB02MPS 9999 -RA SCT025
FM211800 VRB02MPS CAVOK
FM212100 31003MPS 9999 VCSH BKN015CB
TEMPO 2121/2122 5000 SHRA
FM212300 34005MPS 9999 -SHRA BKN015CB
 
Балашов (Репное)
SYNAR 34152 Балашов 211500Z 34003MPS 4000 SHRA OVC017CB 15/15 Q1003 RMK QFE738/0984 CLD:8CB


NOWCAST.SU UWSW 211600Z 35012G20MPS 3000 -SHRA BR OVC030CB 17/13 Q1003 NOSIG
RMK TURB: MOD SFC/FL30
AUTOTAF.ME UWSW 211300Z 2114/2123 35012G20MPS 2500 -SHRA BR OVC025CB TX17/2115Z TN14/2123Z
FM211700 35013G21MPS 9999 -RA OVC040
BECMG 2117/2118 BKN015
FM211900 34012G20MPS 9999 BKN025
BECMG 2119/2120 NSC
BECMG 2120/2121 -RA
 
Караишево
SYNAR 27595 Казань 211500Z 35003MPS CAVOK 22/14 Q1002 RMK QFE740/0987 CLD:7ACCI
(340/23KM)


TSAR UWTK 211600Z LAST HOUR TS OBS: 130/115-124KM, 140/99-156KM, 150/93-192KM, 160/88-181KM, 170/82-170KM, 180/60-146KM, 190/62-148KM, 200/130-178KM
NEAREST TS 180/60KM
NOWCAST.SU UWTK 211600Z 34005MPS 9999 FEW120 21/15 Q1001 NOSIG
RMK TURB: MOD SFC/FL30
AUTOTAF.ME UWTK 211300Z 2114/2123 33007MPS 9999 -SHRA BKN025CB TX23/2114Z TN17/2122Z
TEMPO 2114/2116 5000 SHRA
FM211600 34005MPS CAVOK
FM211700 33004MPS 9999 -RA BKN025
FM211900 VRB02MPS CAVOK
 
Альметьевск (Пойма)
SYNAR 28711 Бугульма 211500Z 12002MPS 9999 BKN040CB 24/16 Q1001 RMK QFE723/0965 CLD:8CBACCI
(130/52KM)


TSAR UWTP 211600Z LAST HOUR TS OBS: 020/25KM, 030/121KM, 040/106-128KM, 050/9KM, 100/81-93KM, 110/88-99KM, 120/67-109KM, 130/90-122KM, 140/81-105KM, 160/106-175KM, 170/103-169KM, 180/80-166KM, 190/37-124KM, 200/62-134KM, 210/41-171KM, 220/47-153KM, 230/56-121KM, 240/66-108KM, 250/56-98KM, 260/68-92KM, 280/30-54KM, 290/18KM, 310/38KM, 320/8-30KM, 340/51KM, 350/25-48KM
NEAREST TS 320/8KM
NOWCAST.SU UWTP 211600Z VRB02MPS 9999 SCT310 22/19 Q1000 TEMPO -TSRA
AUTOTAF.ME UWTP 211300Z 2114/2123 VRB02MPS 9999 BKN040CB TX26/2114Z TN17/2121Z
TEMPO 2114/2115 3000 -TSGRRA
TEMPO 2115/2116 3000 -TSRA
FM211600 VRB02MPS CAVOK
FM211700 25005MPS 9999 -SHRA BKN170CB
FM212100 VRB02MPS 9999 -RA BKN015
FM212300 VRB02MPS 5000 VCSH BR BKN008CB
 
Казань (Автодром)
SYNAR 27595 Казань 211500Z 35003MPS CAVOK 22/14 Q1002 RMK QFE740/0987 CLD:7ACCI
(190/16KM)


TSAR UWTX 211600Z LAST HOUR TS OBS: 140/146KM, 150/133-183KM, 160/124-177KM, 170/119-166KM, 180/97-162KM, 190/98-165KM
NEAREST TS 180/97KM
NOWCAST.SU UWTX 211600Z 33005MPS 9999 -RA FEW027 20/14 Q1002 NOSIG
AUTOTAF.ME UWTX 211300Z 2114/2123 32007MPS 9999 -RA BKN040 TX22/2114Z TN16/2122Z
FM211700 33004MPS CAVOK
 
Белорецк
SYNAR 28831 Белорецк 211500Z 29001MPS 9999 SCT033 24/13 Q1004 RMK QFE705/0941 CLD:5SCAC


TSAR UWUB 211600Z LAST HOUR TS OBS: 030/174-180KM
NEAREST TS 30/174KM
NOWCAST.SU UWUB 211600Z VRB02MPS 9999 SCT063CB 19/15 Q1004 TEMPO VCSH TEMPO TL1800 VCSH
AUTOTAF.ME UWUB 211300Z 2114/2123 26003MPS 9999 SCT060CB TX21/2114Z TN14/2123Z
TEMPO 2114/2117 VCTS
TEMPO 2117/2118 TS
BECMG 2117/2118 VCSH
TEMPO 2119/2120 VCTS
BECMG 2119/2120 VCSH
BECMG 2122/2123 VCSH BR
 
Нефтекамск
SYNAR 28419 Янаул 211500Z 27003MPS 9999 BKN020CB 26/17 Q999 RMK QFE740/0987 CLD:6CBACCI
(60/38KM)


TSAR UWUF 211600Z LAST HOUR TS OBS: 010/70-150KM, 020/73-180KM, 030/78-185KM, 040/85-137KM, 070/80-91KM, 080/75-87KM, 100/87KM, 110/69KM, 120/58-88KM, 130/48-100KM, 140/39-114KM, 150/54-77KM, 160/71KM, 190/127-169KM, 200/151-179KM, 210/184KM, 230/72KM, 240/62-82KM, 250/73KM
NEAREST TS 140/39KM
NOWCAST.SU UWUF 211600Z VRB02MPS 9999 FEW160 23/19 Q0999 NOSIG
RMK TURB: MOD FL30/FL40
AUTOTAF.ME UWUF 211300Z 2114/2123 24003MPS 9999 BKN040CB TX26/2114Z TN17/2122Z
TEMPO 2114/2115 VRB11G16MPS -TSRA
TEMPO 2115/2116 2000 -TSRA
FM211600 VRB02MPS CAVOK
FM211700 28003MPS 9999 -SHRA SCT160CB
FM212000 32003MPS 2500 -SHRA BR BKN004 BKN010CB
BECMG 2120/2121 SHRA BR
BECMG 2121/2122 -SHRA BR
FM212300 VRB02MPS 9999 -SHRA BKN080CB
 
Октябрьский
SYNAR 28711 Бугульма 211500Z 12002MPS 9999 BKN040CB 24/16 Q1001 RMK QFE723/0965 CLD:8CBACCI
(300/43KM)


TSAR UWUK 211600Z LAST HOUR TS OBS: 010/21-41KM, 020/45-69KM, 030/165-181KM, 040/26-150KM, 060/35-46KM, 090/29KM, 100/17KM, 110/5KM, 130/37KM, 140/29KM, 150/97-146KM, 160/117-141KM, 170/24-152KM, 190/90-134KM, 200/24-142KM, 210/73-129KM, 220/87-120KM, 230/63-105KM, 240/82-115KM, 250/8-104KM, 260/20-97KM, 270/81-94KM, 280/84-96KM, 300/112KM, 310/93-123KM, 320/28-140KM, 340/21KM, 360/139-158KM
NEAREST TS 110/5KM
NOWCAST.SU UWUK 211600Z 23003MPS 9999 FEW300 24/18 Q1000 TEMPO FM1700 VCTS
AUTOTAF.ME UWUK 211300Z 2114/2123 21003MPS CAVOK TX27/2114Z TN16/2123Z
FM211700 27004MPS 9999 BKN190CB
TEMPO 2117/2121 VCTS
BECMG 2117/2118 28005G11MPS
FM212100 VRB02MPS 9999 VCSH BKN080CB
FM212300 VRB02MPS 5000 VCSH BR BKN008CB
 
Уфа (Максимовка)
SYNAR 28722 Уфа 211500Z 18001MPS 9999 BKN033 27/16 Q1000 RMK QFE740/0987 CLD:6SCAC
(240/25KM)


TSAR UWUM 211600Z LAST HOUR TS OBS: 010/155-157KM, 310/116KM, 320/76-144KM, 330/69-137KM, 340/103-125KM, 350/136-158KM, 360/153-154KM
NEAREST TS 330/69KM
NOWCAST.SU UWUM 211600Z VRB02MPS 9999 BKN097CB 24/19 Q1000 TEMPO TL1700 -TSRA
RMK TURB: MOD FL30/FL40
AUTOTAF.ME UWUM 211300Z 2114/2123 VRB02MPS 9999 BKN040CB TX26/2114Z TN18/2122Z
TEMPO 2114/2116 1500 -TSGRRA
TEMPO 2116/2117 -TSRA
BECMG 2116/2117 -SHRA
FM211800 VRB02MPS 2500 VCSH SCT097CB
BECMG 2118/2119 8000
TEMPO 2120/2121 VCTS
FM212100 VRB02MPS CAVOK
FM212300 VRB02MPS 9999 -SHRA BKN120CB
 
Первушино
SYNAR 28624 Кушнаренково 211500Z 24002MPS 9999 SCT020CB 27/15 Q1000 RMK QFE741/0988 CLD:8CBACCI
(300/29KM)


TSAR UWUO 211600Z LAST HOUR TS OBS: 010/137-158KM, 020/143-169KM, 030/174KM, 310/84KM, 320/76-98KM, 330/45-113KM, 340/40-103KM, 350/59-135KM, 360/115-154KM
NEAREST TS 340/40KM
NOWCAST.SU UWUO 211600Z VRB02MPS 9999 BKN097CB 24/20 Q1000 TEMPO TL1700 -TSRA
RMK TURB: MOD FL30/FL40
AUTOTAF.ME UWUO 211300Z 2114/2123 VRB02MPS 9999 BKN015CB TX26/2114Z TN17/2123Z
TEMPO 2114/2115 VRB11G16MPS -TSRA
BECMG 2114/2115 SCT040CB
TEMPO 2115/2116 1500 -TSGRRA
TEMPO 2116/2117 -TSRA
BECMG 2116/2117 -SHRA
BECMG 2117/2118 2500
FM211900 VRB02MPS 8000 VCSH SCT120CB
TEMPO 2120/2121 VCTS
FM212100 VRB02MPS CAVOK
FM212200 VRB02MPS 5000 BR NSC
FM212300 VRB02MPS 9999 -SHRA BKN120CB
 
Стерлитамак
SYNAR 28825 Стерлитамак 211500Z 21002MPS CAVOK 28/14 Q1001 RMK QFE738/0985 CLD:5AC
(70/16KM)


TSAR UWUS 211600Z LAST HOUR TS OBS: 250/95KM, 270/91KM
NEAREST TS 270/91KM
NOWCAST.SU UWUS 211600Z VRB02MPS 9999 BKN046CB 23/18 Q1001 TEMPO TL1800 3000 -TSGRRA
RMK TURB: MOD FL40/FL50
AUTOTAF.ME UWUS 211300Z 2114/2123 VRB02MPS 9999 BKN040CB TX25/2114Z TN18/2122Z
TEMPO 2114/2115 5000 -TSGRRA
BECMG 2114/2115 5000
TEMPO 2115/2116 -TSGRRA
BECMG 2115/2116 9999
TEMPO 2116/2117 3000 -TSGRRA
TEMPO 2117/2118 VCTS
BECMG 2117/2118 VCSH
TEMPO 2119/2121 TS
FM212100 VRB02MPS 9999 BKN060CB
TEMPO 2121/2123 -TSRA
FM212300 VRB02MPS 9999 -SHRA BKN060CB
 
Уфа
METAR UWUU 211600Z 21003MPS 180V240 9999 SCT040CB 24/17 Q1000 R14R/0///60 TEMPO VRB23MPS 1000 TSRAGR SQ BKN006CB


TSAR UWUU 211600Z LAST HOUR TS OBS: 210/172KM, 220/155KM, 330/121-144KM, 340/93-160KM, 350/90-149KM, 360/164KM
NEAREST TS 350/90KM
NOWCAST.SU UWUU 211600Z 23003MPS 9999 BKN116CB 23/19 Q1000 TEMPO -SHRA TEMPO -TSRA
AUTOTAF.ME UWUU 211300Z 2114/2123 24004MPS 9999 BKN096CB TX25/2114Z TN18/2121Z
TEMPO 2114/2115 -TSRA
BECMG 2114/2115 5000
TEMPO 2115/2116 1500 -TSGRRA
BECMG 2115/2116 9999
TEMPO 2116/2117 -TSRA
TEMPO 2117/2119 VCTS
BECMG 2118/2119 NSW
TEMPO 2119/2120 5000 -TSGRRA
TEMPO 2120/2121 -TSRA
FM212100 VRB02MPS 5000 SCT015CB
TEMPO 2121/2122 1000 -TSRA
FM212200 VRB02MPS 9000 -SHRA BR SCT008CB
TEMPO 2122/2123 1500 +SHRA
FM212300 VRB02MPS 9999 -SHRA SCT008CB
TAF UWUU 211356Z 2115/2215 21005G12MPS 9999 BKN030 SCT040CB TX29/2115Z TN18/2201Z
TEMPO 2115/2121 18008G20MPS 6000 -TSRAGR BKN016CB
TEMPO 2121/2212 16003G24MPS 6000 -TSRAGR BKN016CB
TEMPO 2212/2215 01003G23MPS 6000 -TSRAGR BKN016CB=
Старосубхангулово (Бурзян)
SYNAR 35026 Зилаир 211500Z 25003MPS 9999 FEW020 24/12 Q1003 RMK QFE706/0942 CLD:3CUCI
(180/97KM)


NOWCAST.SU UWUW 211600Z VRB02MPS 9999 -SHRA BKN049CB 20/15 Q1004 TEMPO FM1700 VCSH
AUTOTAF.ME UWUW 211300Z 2114/2123 27003MPS 9999 BKN180CB TX22/2114Z TN14/2123Z
TEMPO 2114/2115 VCTS
BECMG 2114/2115 NSW
TEMPO 2115/2116 5000 -TSGRRA
BECMG 2115/2116 -SHRA
TEMPO 2117/2118 VCTS
BECMG 2117/2118 VCSH
FM211900 VRB02MPS CAVOK
FM212000 VRB02MPS 2500 VCSH BR BKN004 BKN010CB
 
Бугуруслан (Главный)
SYNAR 28806 Бугуруслан 211500Z 21004MPS 9999 TSRA BKN025CB 25/15 Q1000 RMK QFE741/0989 CLD:7CBAC


TSAR UWWB 211600Z LAST HOUR TS OBS: 010/26-47KM, 020/50-119KM, 030/31-178KM, 040/87-144KM, 050/5-127KM, 080/17-42KM, 110/45KM, 120/34KM, 130/57-124KM, 140/24-155KM, 150/148KM, 160/42KM, 170/18-39KM, 210/19KM, 270/84-96KM, 280/21KM, 290/9-99KM, 300/85-106KM, 310/42-130KM, 320/33-146KM, 330/76-163KM, 340/27-169KM, 350/48-157KM, 360/154KM
NEAREST TS 50/5KM
NOWCAST.SU UWWB 211600Z 11003MPS 9999 -TSRA BKN060CB 22/18 Q1000 TEMPO FM1700 VCTS
AUTOTAF.ME UWWB 211300Z 2114/2123 13005MPS 9999 -SHRA BKN060CB TX25/2114Z TN17/2123Z
FM211700 VRB02MPS 9999 BKN060CB
TEMPO 2117/2118 VCTS
FM211800 VRB02MPS 9999 BKN015CB
TEMPO 2118/2121 2000 -TSRA
TEMPO 2121/2122 2000 TS
FM212200 VRB02MPS 9999 BKN008CB
TEMPO 2122/2124 3000 -TSRA
BECMG 2122/2123 5000
 
Самара (Безымянка)
SYNAR 28904 Самара (Безымянка) 211500Z 22005MPS 9999 BKN016 26/14 Q997 RMK QFE744/0992 CLD:7SCAC


TSAR UWWG 211600Z LAST HOUR TS OBS: 010/73-159KM, 020/77-170KM, 030/57-182KM, 040/65-146KM, 050/74KM, 320/139-147KM, 330/126-182KM, 340/73-170KM, 350/70-159KM, 360/70-156KM
NEAREST TS 30/57KM
NOWCAST.SU UWWG 211600Z VRB02MPS 9999 VCSH SCT080CB 21/18 Q1000 TEMPO FM1700 5000 TSRA
AUTOTAF.ME UWWG 211300Z 2114/2123 VRB02MPS 9999 VCSH BKN080CB TX24/2114Z TN18/2122Z
BECMG 2116/2117 -SHRA
TEMPO 2117/2118 5000 SHRA
BECMG 2117/2118 VCSH
BECMG 2118/2119 OVC015CB
FM212000 VRB02MPS 9999 -SHRA BKN025CB
TEMPO 2120/2121 5000 SHRA
FM212100 VRB02MPS 9000 -SHRA BR OVC015CB
FM212200 VRB02MPS 9999 -SHRA BKN015CB
TEMPO 2122/2124 5000 SHRA
 
Красный Яр
SYNAR 28900 Самара (ОГМС) 211500Z 27004MPS 9999 -SHRA BKN010CB 21/17 Q1000 RMK QFE737/0983 CLD:8CBAC
(210/32KM)


TSAR UWWQ 211600Z LAST HOUR TS OBS: 010/60-149KM, 020/40-177KM, 030/45-186KM, 040/52-133KM, 050/62-118KM, 060/29-72KM, 070/40-51KM, 310/119KM, 320/102-134KM, 330/46-188KM, 340/40-182KM, 350/61-150KM, 360/38-145KM
NEAREST TS 60/29KM
NOWCAST.SU UWWQ 211600Z 29005G12MPS 9999 BKN021CB 22/17 Q1001 TEMPO TL1700 VRB11G16MPS 3000 VCTS
RMK TURB: MOD SFC/FL30
AUTOTAF.ME UWWQ 211300Z 2114/2123 26009G15MPS 9999 -RA NSC TX25/2114Z TN17/2123Z
FM211500 28009G14MPS 9999 BKN025CB
TEMPO 2115/2116 VRB14G19MPS VCTS
TEMPO 2116/2117 VRB11G16MPS 3000 VCTS
FM211700 32003MPS 9999 -SHRA BKN080CB
FM212100 06003MPS 5000 -SHRA BR BKN015CB
TEMPO 2121/2124 3000 SHRA
BECMG 2121/2122 VCSH BR
FM212300 VRB02MPS 9999 -SHRA BKN015CB
 
Самара (Смышляевка)
SYNAR 28904 Самара (Безымянка) 211500Z 22005MPS 9999 BKN016 26/14 Q997 RMK QFE744/0992 CLD:7SCAC


TSAR UWWS 211600Z LAST HOUR TS OBS: 010/70-159KM, 020/73-167KM, 030/54-178KM, 040/61-142KM, 050/70KM, 320/139-163KM, 330/125-182KM, 340/72-170KM, 350/69-157KM, 360/68-154KM
NEAREST TS 30/54KM
NOWCAST.SU UWWS 211600Z VRB02MPS 9999 VCSH SCT080CB 21/18 Q1000 TEMPO FM1700 5000 TSRA
AUTOTAF.ME UWWS 211300Z 2114/2123 VRB02MPS 9999 VCSH BKN080CB TX24/2114Z TN18/2122Z
BECMG 2116/2117 -SHRA
TEMPO 2117/2118 5000 SHRA
BECMG 2117/2118 VCSH
BECMG 2118/2119 OVC015CB
FM212000 VRB02MPS 9999 -SHRA BKN025CB
TEMPO 2120/2121 5000 SHRA
FM212100 VRB02MPS 9000 -SHRA BR OVC015CB
FM212200 VRB02MPS 9999 -SHRA BKN015CB
TEMPO 2122/2124 5000 SHRA
 
Самара (Кряж)
SYNAR 28904 Самара (Безымянка) 211500Z 22005MPS 9999 BKN016 26/14 Q997 RMK QFE744/0992 CLD:7SCAC
(60/14KM)


TSAR UWWV 211600Z LAST HOUR TS OBS: 010/83-150KM, 020/89-157KM, 030/95-175KM, 040/76-157KM, 050/94-118KM, 320/155KM, 330/141-172KM, 340/131-160KM, 350/105-149KM, 360/82-146KM
NEAREST TS 40/76KM
NOWCAST.SU UWWV 211600Z VRB02MPS 9999 -SHRA SCT033CB 21/18 Q1000 NOSIG
AUTOTAF.ME UWWV 211300Z 2114/2123 24004MPS 9999 -SHRA BKN040CB TX24/2114Z TN18/2122Z
BECMG 2117/2118 VCSH
FM211900 08003MPS 9999 BKN015CB
TEMPO 2119/2121 VCTS
FM212100 VRB02MPS 9999 -SHRA BKN025CB
BECMG 2121/2122 BKN015CB
TEMPO 2122/2123 5000 SHRA
BECMG 2122/2123 BKN025CB
 
Самара (Курумоч)
METAR UWWW 211600Z 29004MPS 250V310 9999 SCT033CB 20/17 Q1000 R33/CLRD63 NOSIG RMK QFE739/0986


TSAR UWWW 211600Z LAST HOUR TS OBS: 010/39-149KM, 020/43-184KM, 030/67-166KM, 040/49-155KM, 050/58-123KM, 060/78-89KM, 070/46-58KM, 080/70KM, 310/125KM, 320/107-139KM, 330/93-161KM, 340/63-180KM, 350/40-149KM, 360/60-146KM
NEAREST TS 10/39KM
NOWCAST.SU UWWW 211600Z 30005G10MPS 9999 -SHRA BKN023CB 20/18 Q1001 NOSIG
AUTOTAF.ME UWWW 211300Z 2114/2123 27003MPS 9999 -RA NSC TX23/2114Z TN17/2122Z
FM211500 29009MPS 5000 BR NSC
FM211600 30005G10MPS 9999 -SHRA BKN025CB
BECMG 2116/2117 VRB02MPS
BECMG 2117/2118 BKN015CB
BECMG 2118/2119 BKN002 BKN010CB
FM212100 VRB02MPS 9999 BKN008 BKN010CB
TEMPO 2121/2123 5000 VCTS
FM212300 VRB02MPS 5000 -SHRA BR BKN008 BKN010CB
TAF UWWW 211357Z 2115/2215 35006G12MPS 9999 BKN016 TX26/2115Z TN17/2201Z
TEMPO 2115/2208 VRB20MPS 0500 +TSRA SQ BKN003 BKN010CB
TEMPO 2208/2215 04009G16MPS 2000 TSRA BKN016CB=
Бугуруслан (Северный)
SYNAR 28806 Бугуруслан 211500Z 21004MPS 9999 TSRA BKN025CB 25/15 Q1000 RMK QFE741/0989 CLD:7CBAC
(150/12KM)


TSAR UWWZ 211600Z LAST HOUR TS OBS: 010/37KM, 020/110KM, 030/17-171KM, 040/98-154KM, 050/82-124KM, 060/26-112KM, 070/37KM, 100/35-47KM, 110/23KM, 120/55KM, 130/12-135KM, 140/36-167KM, 150/60-160KM, 160/30-54KM, 170/51KM, 190/29KM, 200/8KM, 240/18KM, 270/79-91KM, 280/67-92KM, 290/97KM, 300/32-107KM, 310/22-119KM, 320/46-151KM, 330/64-144KM, 340/39-157KM, 350/15-166KM, 360/143-162KM
NEAREST TS 200/8KM
NOWCAST.SU UWWZ 211600Z 11003MPS 9999 -TSRA BKN056CB 21/19 Q1000 TEMPO FM1700 VCTS
AUTOTAF.ME UWWZ 211300Z 2114/2123 13005MPS 9999 -SHRA BKN060CB TX24/2114Z TN17/2123Z
FM211700 VRB02MPS 9999 BKN060CB
TEMPO 2117/2118 VCTS
FM211800 VRB02MPS 9999 SCT015CB
TEMPO 2118/2121 -TSRA
TEMPO 2121/2122 TS
BECMG 2121/2122 NSW
TEMPO 2122/2124 -TSRA
BECMG 2122/2123 5000
 

Таблица обновляется в 12 и 42 минуты каждого часа круглосуточно.

Цвет рамки ячеек таблицы означает класс метеоусловий (высота нижней границы облаков* х видимость):
зелёный - VFR (выше 900х8000);
голубой - MVFR (ниже 900х8000, но не ниже 300х5000);
красный - IFR (ниже 300х5000, но не ниже 150х2000);
пурпурный - LIFR (ниже 150х2000, но не ниже 90х800);
фиолетовый - VLIFR (ниже 90х800).

*ВНГО - высота нижней границы самого нижнего слоя облаков, закрывающего более половины небосвода (BKN или OVC).